ENHM 231250Z 32023KT 9999 -RA SCT015 BKN025 03/01 Q0975 W09/S5 UUOK 231230Z 35005MPS 9999 OVC022 M01/M05 Q1015 R30/CLRD65 NOSIG RMK QFE743/0991 KIWI 231253Z AUTO 28003KT 10SM CLR M01/M06 A3000 RMK AO2 SLP158 T10061061 KJMR 231240Z AUTO 00000KT 10SM CLR M10/M11 A2995 RMK AO2 KIXA 231250Z AUTO 02004KT 10SM CLR 00/M01 A3018 RMK AO2 KJMS 231256Z AUTO 17007KT 10SM FEW075 M06/M07 A2985 RMK AO2 SLP130 T10561067 UUOO 231230Z 35005G10MPS 4400 -SN OVC011 M03/M04 Q1012 R30/590839 NOSIG RMK QFE746 KIXD 231253Z 21010KT 10SM CLR 01/M06 A3007 RMK AO2 SLP190 T00111056 ENHV 230950Z 20006KT 9999 FEW015 M05/M08 Q1021 KM63 231258Z AUTO 02008KT 8SM CLR 07/M05 A3025 RMK AO2 SLP209 WND DATA ESTMD T00681053 PPIZ 231256Z AUTO 27026G31KT 5SM UP OVC031 M03/M06 A2927 RMK AO2 PK WND 26031/1254 SLP915 P0000 T10281056 FZRANO TSNO KIYA 231255Z AUTO 35003KT 10SM CLR 01/01 A3017 RMK AO2 T00060005 FDSK 231200Z 20010KT 9999 BKN030 20/18 Q1020 NOSIG ENKB 231250Z VRB02KT 9999 SCT062 BKN086 06/03 Q0972 RMK WIND 745FT 31006KT KJNX 231255Z AUTO 02004KT 10SM CLR 02/M01 A3018 RMK AO2 KM75 231255Z AUTO 00000KT 10SM CLR 07/04 A2973 RMK A01 VLPS 231200Z 36019KT 9999 SCT020 FEW050 SCT200 25/21 Q1011 NOSIG ENLA 231250Z AUTO 25039KT 9999NDV FEW027/// 07/02 Q0981 W///S5 KJOT 231255Z AUTO 19007KT 10SM BKN070 BKN080 OVC110 01/M05 A3005 RMK AO2 T00091046 FDST 231200Z AUTO 20007KT //// // ////// 16/16 Q1020 KJQF 231250Z 00000KT 10SM CLR 03/M03 A3018 ENLE 231250Z 23040KT 9999 SCT040 08/02 Q0984 W09/S5 LBGO 231230Z AUTO 35004KT 290V050 9999 FEW004/// 14/06 Q1020 NOSIG KIZG 231254Z AUTO 16003KT 10SM CLR M03/M06 A2998 RMK AO2 SLP160 T10281056 ENKR 231250Z 16005KT 9999 FEW002 M20/M22 Q1022 RMK WIND 731FT 12009KT KJRB 231256Z AUTO 26007KT 230V290 10SM CLR 02/M05 RMK AO2 SLPNO T00171050 FZRANO $ KM91 231255Z AUTO 00000KT 6SM BR CLR M04/M05 A3015 RMK A01 ENLK 231250Z 11026G41KT 080V150 9999 SHSN SCT025 BKN035 02/M06 Q0988 KN03 231255Z AUTO 00000KT 7SM SCT019 OVC030 M02/M04 A3010 RMK AO2 VLSK 231200Z 09004KT 2000 BR SCT020 BKN093 21/16 Q1016 NOSIG ENMH 231250Z 17012KT CAVOK M08/M11 Q1021 KLAA 231253Z AUTO 10SM CLR 03/M02 A3020 RMK AO2 SLP225 T00281022 $ FDUS 231200Z AUTO 11008KT //// // ////// 17/16 Q1021 ENNA 231250Z 19013KT 9999 FEW004 M12/M15 Q1019 RMK WIND 1800FT 16037KT ENML 231250Z 24006KT 9999 -RA FEW015 SCT040 BKN062 04/03 Q0972 ENNE 231250Z 13020KT 9999 OVC012 06/04 Q0973 W///S6 KLAF 231254Z 21004KT 10SM FEW065 OVC085 M01/M04 A3012 RMK AO2 SLP205 T10061044 ENMS 231250Z VRB05G15KT 9999 -SN SCT029 BKN040 01/M04 Q0982 RMK WIND 412FT VRB08G18KT KLBB 231253Z 32005KT 10SM FEW250 03/M02 A3017 RMK AO2 SLP212 T00331022 ENOA 231250Z 31013KT 9999 -RA BKN015 04/01 Q0974 W///S5 KLAL 231250Z 13006KT 10SM SCT007 SCT110 21/21 A2990 KJSL 231300Z AUTO 36011G24KT 10SM BKN039 A3002 RMK A01 KJTC 231255Z AUTO 21006KT 10SM CLR M01/M06 A3042 RMK AO2 KLAM 231255Z AUTO 33006KT 10SM CLR 09/M01 A3039 RMK AO2 T00881015 ENNM 231250Z 08021KT 9999 FEW025 BKN040 06/02 Q0975 KLAN 231253Z 21008KT 10SM OVC047 M01/M07 A3007 RMK AO2 SLP194 T10111067 KLBE 231250Z 23005KT 10SM SKC M07/M08 A3017 KJSO 231315Z AUTO 00000KT 10SM CLR 03/M02 A3020 RMK AO2 T00401020 KLBF 231253Z AUTO 30004KT 10SM CLR M02/M02 A3008 RMK AO2 SLP202 T10171022 ENNO 231250Z 12009KT 080V180 9999 VCSH SCT018 BKN032 09/07 Q0979 LATI 231250Z 33005KT 290V360 CAVOK 17/05 Q1021 NOSIG KLAR 231253Z AUTO 25009KT 10SM CLR 04/01 A3027 RMK AO2 SLP215 T00440011 VMMC 231230Z 34013KT 9999 FEW025 SCT040 17/08 Q1021 NOSIG KLAS 231256Z 21004KT 10SM FEW250 14/03 A3018 RMK AO2 SLP206 T01390028 KJST 231254Z AUTO 28004KT 10SM FEW019 M04/M08 A3007 RMK AO2 SLP213 T10441083 KLBL 231256Z AUTO 31010KT 10SM CLR 06/01 A3015 RMK AO2 SLP213 T00610011 ENOL 231250Z 10005KT 9999 FEW020 07/02 Q0972 NOSIG KJSV 231255Z AUTO 05003KT 7SM CLR M02/M05 A3020 RMK AO2 KLAW 231253Z AUTO 00000KT 10SM CLR M01/M03 A3015 RMK AO2 SLP216 T10111033 KLBO 231255Z AUTO 22005KT 10SM CLR 01/M07 A3010 RMK AO2 KLAX 231253Z 05005KT 10SM CLR 21/04 A3000 RMK AO2 SLP156 T02110044 KLCG 231255Z AUTO 00000KT 10SM CLR M03/M05 A3001 RMK AO2 T10351046 KLCH 231253Z 01004KT 10SM CLR 03/01 A3018 RMK AO2 SLP227 T00330006 KLCI 231256Z AUTO 29009KT 10SM CLR M04/M09 A3002 RMK AO2 SLP185 T10391094 FZRANO KN38 231255Z AUTO 00000KT 10SM OVC021 M04/M08 A3007 RMK AO2 ENQA 231250Z AUTO 29014KT 280V350 9999NDV -RA SCT011/// BKN026/// OVC036/// 05/02 Q0974 RERA W06/S6 KLBT 231254Z AUTO 03008KT 10SM CLR 06/00 A3014 RMK AO2 SLP205 T00560000 KLCK 231255Z AUTO 00000KT 10SM CLR M05/M06 A3017 RMK AO2 T10491056 ENQC 231250Z AUTO 25011KT 9999NDV -RA BKN013/// OVC025/// 04/02 Q0974 RERA W///S6 ENOV 231250Z VRB02KT 9999 RA VCFG FEW/// SCT007 BKN034 03/02 Q0973 RMK WIND 2175FT 23006KT KLBX 231253Z AUTO 35004KT 10SM CLR 05/03 A3019 RMK AO2 SLP224 T00500028 KLCQ 231255Z AUTO 05006KT 7SM -RA BKN006 OVC010 15/15 A2997 RMK AO2 P0017 VLVT 231230Z 06008KT 4000 BR BKN050 26/18 Q1014 NOSIG KKLS 231256Z AUTO 00000KT 3SM RA BR OVC004 14/14 A2988 RMK AO2 CIG 003V009 SLP124 P0003 T01440139 KLDJ 231255Z AUTO 00000KT 10SM CLR M01/M07 A3015 RMK AO2 T10091068 KLEB 231253Z 35003KT 10SM CLR M04/M08 A3006 RMK AO2 SLP188 T10441083 ENRA 231250Z 07026G36KT 6000 -SN BLSN VV017 M01/M05 Q0987 KJVL 231245Z 21005KT 10SM SCT50 M01/M06 A2998 RMK FIRST KLDM 231255Z AUTO 22009KT 10SM BKN043 OVC050 02/M04 A2998 RMK AO2 T00231045 KLEE 231257Z 16005KT 3SM RA BR BKN011 OVC020 21/20 A2990 RMK AO2 P0000 T02060200 KJWG 231255Z AUTO 22005KT 10SM CLR 05/M03 A3011 RMK AO2 T00451035 ENQR 231250Z AUTO 27020KT 9999NDV BKN033/// BKN057/// 04/01 Q0973 W///S5 KN60 231252Z AUTO 00000KT M03/M03 A2977 RMK AO1 SLP105 T10281028 UUWW 231230Z 35006MPS 9999 OVC015 M03/M07 Q1018 R01/190040 NOSIG ENSB 231250Z 12013KT 9999 -SN FEW025 BKN040 M05/M09 Q1034 NOSIG RMK WIND 1400FT 10020KT UWGG 231230Z 33005MPS 9999 OVC011 M03/M05 Q1012 R36L/590336 TEMPO 33006G13MPS RMK QFE752 ENRM 231250Z 11017KT 9999 FEW035 BKN048 06/02 Q0974 ENSD 231250Z 19003KT 160V260 9999 SCT005 BKN036 03/03 Q0973 RMK WIND 1138FT 27005KT KJVW 231255Z AUTO 00000KT 4SM BR M03/M03 A3017 RMK AO2 KJWN 231255Z AUTO 00000KT 6SM BR CLR M04/M05 A3016 RMK A01 LCEN 231250Z 34010KT 310V010 9999 SCT030 18/05 Q1018 NOSIG ENSE 231250Z AUTO 30015KT 9999NDV -SHRA FEW022/// BKN041/// BKN051/// 04/00 Q0974 W///S5 ENSF 231250Z AUTO 28020KT 9999NDV FEW033/// 06/M02 Q0974 W///S5 ENRO 231250Z VRB07KT 9999 BKN015 05/03 Q0976 ENSG 231250Z VRB04KT 9999 FEW/// SCT030 BKN040 01/01 Q0972 RMK WIND 3806FT 20023KT KLFI 231156Z AUTO 33006KT 10SM CLR 02/M02 A3016 RMK AO2 SLP220 70010 T00211021 10046 20017 53002 ENSH 231250Z 07029KT 9999 FEW035 BKN055 M00/M07 Q0990 RMK WIND 150FT 06042G70KT KJXI 231255Z AUTO 10SM CLR M01/M02 A3020 RMK AO2 T10101016 KLGA 231251Z 33009KT 10SM FEW250 02/M06 A3012 RMK AO2 SLP197 T00171061 ENRS 230750Z 09037G47KT 9999 -SHSN VV025 02/M02 Q0988 KLFK 231253Z AUTO 00000KT 9SM CLR 01/00 A3021 RMK AO2 SLP229 T00060000 KLGB 231253Z AUTO 00000KT 10SM CLR 18/06 A3000 RMK AO2 SLP157 T01780056 ENSK 231250Z 09020G30KT 9999 VCSH SCT030 BKN055 01/M07 Q0992 KLGC 231255Z AUTO 00000KT 10SM CLR 02/01 A3006 RMK AO2 T00200007 ENSL 231250Z 27019KT 9999 BKN015 06/03 Q0976 W07/S5 ENTC 231250Z VRB07KT CAVOK M01/M14 Q1004 BECMG 17020G30KT RMK WIND 2600FT 14027KT KLGD 231256Z AUTO 16010KT 10SM SCT090 BKN120 14/08 A2999 RMK AO2 SLP291 T01390083 LBPD 231230Z AUTO VRB02KT 9999 NCD 17/05 Q1019 NOSIG KLEW 231256Z AUTO 30010KT 10SM CLR M02/M08 A2999 RMK AO2 SLP173 T10171083 FZRANO KJXN 231256Z 20007KT 9SM OVC070 M01/M07 A3007 RMK AO2 SLP195 T10061072 KLEX 231254Z AUTO 12005KT 10SM CLR M06/M09 A3015 RMK AO2 SLP220 T10561089 KJYG 231255Z AUTO 29008KT 10SM CLR M03/M06 A2997 RMK AO2 KJWY 231255Z AUTO 00000KT 10SM CLR 01/M02 A3021 RMK AO2 T00091018 ENSO 231250Z 15009KT 120V180 9999 FEW001 SCT004 BKN008 08/07 Q0973 ENRY 231250Z 18024G39KT 7000 -RA OVC007 09/07 Q0983 TEMPO 4000 RADZ BKN012 ENSR 231020Z 14030KT CAVOK M06/M13 Q1014 WIND 1119FT 12033KT ENSS 231250Z 14012KT 9999 FEW014 SCT022 M03/M04 Q1023 RMK WIND 500FT 14014KT KLFT 231253Z AUTO 35005KT 10SM CLR 02/M01 A3017 RMK AO2 SLP216 T00221006 KLHB 231255Z AUTO 00000KT 10SM CLR M01/M02 A3023 RMK AO2 T10131017 ENST 231250Z VRB22G41KT 9999 VCSH SCT015 BKN030 02/M04 Q0976 RMK WIND 300FT 10047G62KT KJYL 231255Z AUTO 07005KT 10SM DZ OVC075 09/06 A3007 RMK AO2 T00930061 KJYM 231254Z AUTO 20005KT 10SM OVC070 M01/M06 A3007 RMK AO2 UUYY 231230Z VRB01MPS 7000 -SN OVC006 M02/M02 Q1009 R01/39//31 NOSIG RMK QFE748/0997 EPCE 231230Z 17010KT 9999 FEW239 09/04 Q1005 RMK 091 071 2/2 = KJYO 231255Z AUTO 31005KT 10SM CLR M02/M03 A3021 RMK AO2 ENTO 231250Z 19026G36KT 5000 -RA OVC004 08/08 Q0983 ENUG 231250Z AUTO 13028G40KT 090V160 9999NDV FEW019/// M02/M09 Q1013 W07/S4 KJZI 231255Z AUTO 36007KT 10SM CLR 10/06 A3006 RMK AO2 KJYR 231255Z AUTO 36003KT 10SM CLR 03/02 A3004 RMK AO2 EPDA 231230Z 19016KT 9999 BKN251 11/05 Q1003 RMK 107 066 6/6 = ENVA 231250Z VRB02G14KT 9999 FEW030 SCT045 11/04 Q0974 WS R09 TEMPO 16020G30KT RMK WIND 670FT 16015G29KT FGBT 231200Z 32013KT 290V360 9999 TS SCT010 FEW020CB BKN100 27/26 Q1010 KLGU 231251Z AUTO 00000KT 10SM CLR 01/00 A3029 RMK AO2 SLP254 T00110000 KLIC 231255Z AUTO 34006KT 10SM CLR M01/M02 A3024 RMK AO2 SLP244 T10111022 KLHM 231255Z AUTO 00000KT 3SM CLR 07/07 A3011 RMK AO1 ENVD 231250Z 02005KT 6000 VCFZFG VV005 M06/M06 Q1022 ARCTIC SEASMOKE S EPDE 231230Z 14008KT 9999 FEW020 BKN200 08/04 Q1014 RMK 077 078 5/1= KJZP 231255Z AUTO 14005KT 10SM CLR 08/M03 A3010 RMK AO2 T00791030 PNO KLHQ 231253Z AUTO 00000KT 7SM CLR M05/M06 A3017 RMK AO2 SLP225 T10501061 EPBY 231230Z 17007KT 140V200 CAVOK 08/06 Q1009 UWKE 231230Z 12004MPS 9999 BKN019 04/M00 Q1008 R21/210355 NOSIG RMK QFE739/0985 KMAE 231253Z AUTO 00000KT 1 1/4SM BR BKN001 09/08 A3012 RMK AO2 SLP198 T00940083 TSNO KLHW 231256Z AUTO 03006KT 10SM RA BKN060 10/08 A3002 RMK AO2 RAB1156 SLP169 P0004 T01040083 $ VOBG 231200Z 09007KT 9999 FEW015 27/16 Q1013 KMAF 231253Z 33005KT 10SM CLR 02/M03 A3020 RMK AO2 SLP216 T00171028 KLHX 231253Z AUTO 28005KT 10SM CLR 05/00 A3023 RMK AO2 SLP222 T00500000 TSNO KLJF 231253Z AUTO 29003KT 10SM CLR M04/M07 A2994 RMK AO2 LBSF 231230Z VRB02KT CAVOK 13/04 Q1020 NOSIG DXNG 231200Z 14004KT 060V170 9999 SCT010 32/19 Q1014 NOSIG KLHZ 231240Z AUTO 00000KT 10SM CLR 00/M01 A3020 RMK AO2 VOCB 231230Z 10005KT 6000 FEW015 30/17 Q1011 BECMG 5000 HZ KMAI 231253Z AUTO 02005KT 10SM SCT013 BKN021 BKN034 13/04 A2999 RMK AO2 SLP154 T01280044 $ ENVR 230650Z 11037G052KT 9999 -SHRASN ///// 03/M01 Q0992 VOBL 231230Z 05003KT 8000 SCT012 26/17 Q1014 NOSIG VOBM 231200Z 00000KT 9999 SCT015 BKN080 29/15 Q1013 KLIT 231253Z 00000KT 10SM FEW200 M01/M02 A3022 RMK AO2 SLP239 T10111022 KO22 231235Z AUTO 20003KT 10SM CLR 12/09 A3017 RMK AO1 KMAN 231255Z AUTO 30004KT M1/4SM FG OVC002 08/08 A3009 RMK A01 KMAO 231255Z AUTO 05009KT 10SM CLR 06/00 A3013 RMK AO2 VOCI 231230Z 23002KT 5000 HZ FEW090 29/21 Q1008 NOSIG KMBG 231252Z AUTO 14006KT 10SM CLR 01/M01 A2986 RMK AO2 SLP124 T00111006 $ UWKS 231230Z 36003MPS 4000 BR OVC006 01/01 Q1007 R06/290250 TEMPO OVC005 RMK QFE740 VNKT 231250Z 23004KT 8000 FEW020 15/09 Q1016 NOSIG VOCL 231230Z 27003KT 6000 FEW015 29/24 Q1008 NOSIG KMCB 231253Z AUTO 35005KT 10SM CLR 01/M03 A3013 RMK AO2 SLP204 T00111028 KMBL 231256Z AUTO 17003KT 10SM FEW035 BKN046 OVC060 01/M04 A2998 RMK AO2 SLP173 T00061044 FZRANO PNO $ KMCC 231250Z AUTO 00000KT 4SM BR CLR 10/10 A3013 RMK AO2 KMCD 231253Z AUTO 26015G22KT 10SM OVC018 02/M02 A2990 RMK AO2 T00151022 KMAW 231315Z AUTO 00000KT 10SM CLR M02/M03 A3020 RMK AO2 KMCE 231253Z AUTO 00000KT M1/4SM FG VV001 09/08 A3011 RMK AO2 SLP195 T00890083 ENWV 231250Z AUTO 24038KT 9999NDV FEW026/// 08/02 Q0985 W///S5 EPGD 231230Z 19013KT CAVOK 09/04 Q1006 R11/290095 VOBZ 231230Z 00000KT 3000 HZ FEW020 FEW100 30/23 Q1009 NOSIG KMBO 231255Z AUTO 00000KT 10SM CLR M01/M03 A3016 RMK AO2 KMCF 231158Z 12005KT 10SM SCT026 BKN055 BKN070 20/20 A2987 RMK AO2A SLP118 T02030203 10203 20198 53001 $ KLKR 231255Z AUTO 05005KT 10SM CLR 04/M03 A3014 RMK AO2 KMCI 231253Z 22009KT 10SM SCT200 01/M06 A3004 RMK AO2 SLP180 T00111056 KMBS 231253Z 21009KT 10SM OVC041 01/M04 A3005 RMK AO2 SLP183 T00061044 KMCJ 231255Z AUTO 35005KT 10SM CLR 07/02 A3019 RMK A01 KLLJ 231255Z AUTO VRB04KT 10SM BKN075 OVC095 01/00 A3016 RMK AO2 SLP212 T00110000 KMCK 231253Z AUTO 25010KT 10SM CLR 05/03 A3009 RMK AO2 SLP193 T00500028 LCLK 231230Z 20011KT 9999 FEW025 SCT060 19/05 Q1018 NOSIG UWLW 231200Z 20003MPS 3100 BR OVC004 02/01 Q1008 R20/290050 NOSIG RMK QFE750 KLKU 231255Z AUTO 00000KT 10SM CLR M05/M06 A3024 RMK AO2 T10471056 KLKV 231256Z AUTO 20011KT 10SM FEW120 09/05 A3020 RMK AO2 SLP216 T00940050 PNO $ KMDD 231255Z AUTO 31003KT 10SM CLR 03/M02 A3021 RMK AO2 T00301020 KMCN 231253Z AUTO 05005KT 10SM BKN025 OVC033 12/07 A3005 RMK AO2 SLP175 T01170067 KMCO 231253Z 13010KT 10SM FEW026 FEW060 SCT095 BKN130 OVC250 21/20 A2989 RMK AO2 RAB35E44 SLP120 P0000 T02060200 KMBY 231255Z AUTO 22007KT 10SM CLR 01/M07 A3005 RMK AO2 KMDH 231252Z 00000KT 8SM CLR M05/M06 A3017 RMK AO2 SLP221 I1000 T10501056 KLLQ 231253Z AUTO 00000KT 10SM CLR M02/M04 A3021 RMK AO2 SLP231 T10221044 KLNA 231255Z AUTO 15005KT 10SM SCT029 SCT038 SCT044 24/21 A2991 RMK AO2 T02440206 KMEB 231252Z AUTO 04007KT 10SM CLR 05/M01 A3015 RMK AO2 SLP210 T00501006 KLNC 231255Z AUTO 00000KT 10SM CLR 00/M02 A3021 RMK AO2 T00011022 KLND 231253Z AUTO 22005KT 10SM CLR 06/01 A3017 RMK AO2 SLP202 T00560006 KMCW 231253Z AUTO 29007KT 10SM CLR M06/M08 A2995 RMK AO2 SLP151 T10561083 KMCX 231255Z AUTO 21008KT 10SM OVC085 00/M05 A3010 RMK AO2 T10051054 KLMO 231255Z AUTO 25004KT 10SM CLR 05/01 A3021 RMK AO2 T00500012 KMDQ 231255Z AUTO 00000KT 10SM CLR M01/M04 A3014 RMK AO2 KMEH 231256Z AUTO VRB05KT 10SM OVC085 14/04 A2998 RMK AO2 SLP142 T01440044 KMEI 231258Z 00000KT 10SM CLR 00/M02 A3013 RMK AO2 SLP204 T00001017 KKY8 231255Z AUTO 00000KT 10SM M04/M04 A3018 RMK AO1 KMDS 231250Z AUTO 32006KT 10SM CLR M04/M04 A2996 RMK AO2 KLMT 231253Z AUTO 32003KT 10SM BKN055 05/04 A3016 RMK AO2 SLP198 T00500039 KLNK 231254Z 00000KT 10SM CLR 01/M02 A3005 RMK AO2 SLP185 T00111022 KMDT 231256Z 36003KT 10SM SCT120 M01/M05 A3017 RMK AO2 SLP219 T10111050 KLNL 231255Z AUTO 00000KT 10SM SCT023 M06/M07 A2988 RMK AO2 T10591074 LDDU 231230Z 20006KT 140V260 9999 FEW028 SCT035 16/08 Q1021 NOSIG UWOO 231230Z 09004MPS 9999 SCT049 03/M04 Q1011 R08/CLRD65 NOSIG RMK QFE747/0997 KMFD 231252Z 20006KT 10SM SCT110 M03/M06 A3012 RMK AO2 SLP215 T10331061 KMEM 231254Z 00000KT 10SM CLR M01/M05 A3019 RMK AO2 SLP225 T10111050 ENZV 231250Z 18018G29KT 6000 RA SCT006 BKN009 09/07 Q0975 TEMPO 4000 DZ BR BKN006 KMFE 231253Z 32003KT 10SM CLR 08/06 A3023 RMK AO2 SLP235 T00830061 KLNN 231255Z AUTO 22004KT 10SM OVC090 M01/M06 A3014 RMK AO1 T10151064 KMDW 231253Z 20007KT 10SM BKN075 01/M06 A3004 RMK AO2 SLP185 T00111056 LBWN 231230Z 14006KT 100V170 9999 SCT021 12/07 Q1020 NOSIG UWOR 231200Z 11005MPS CAVOK 02/M03 Q1011 R07/CLRD65 NOSIG RMK QFE734/0979 KLNP 231255Z AUTO 00000KT 10SM CLR M03/M05 A3011 RMK AO2 KMDZ 231255Z AUTO 00000KT 10SM CLR M08/M09 A2991 RMK AO2 T10771091 VOHB 230700Z 12004KT CAVOK 29/19 Q1015 KMER 231255Z AUTO 00000KT 09/09 A3011 RMK AO1 KMFI 231254Z AUTO 00000KT 10SM CLR M06/M09 A2990 RMK AO2 SLP147 T10561094 TSNO KLNR 231256Z AUTO 00000KT 10SM CLR M04/M07 A2997 RMK AO2 SLP152 T10441072 EPIR 231230Z 12010KT CAVOK 09/06 Q1009 RMK 087 085 6/6 = KLNS 231253Z 26003KT 10SM CLR M03/M06 A3017 RMK AO2 SLP220 T10331056 KO69 231255Z AUTO 28004KT 2SM BR OVC002 10/10 A3014 RMK A01 DXSK 231200Z 00000KT 9999 SCT013 BKN260 32/23 Q//// KLOL 231253Z AUTO 08004KT 10SM CLR 03/M01 A3024 RMK AO2 SLP241 T00281006 TSNO KLPC 231256Z AUTO 08007KT 10SM CLR 09/07 A3005 RMK AO2 SLP180 T00890072 KMGC 231255Z AUTO 20005KT 10SM OVC080 00/M06 A3008 RMK AO2 VOGO 231030Z 25006KT 6000 NSC 34/22 Q1007 KLOM 231255Z AUTO 00000KT 10SM CLR M01/M07 A3018 RMK AO1 KMEV 231255Z AUTO 02003KT 10SM CLR 02/01 A3026 RMK AO2 KMGE 231256Z AUTO 00000KT 10SM CLR 03/M01 A3007 RMK AO2 SLP188 T00271006 $ KMGG 231253Z AUTO 00000KT 10SM CLR M05/M07 A2994 RMK AO2 T10551073 KMEZ 231255Z AUTO 00000KT 10SM CLR M01/M02 A3018 RMK AO2 LCPH 231230Z 30014KT 9999 FEW025 19/10 Q1018 KMFR 231253Z AUTO 00000KT 9SM FEW070 12/12 A3006 RMK AO2 RAE05 SLP174 P0000 T01170117 KLOR 231258Z AUTO 36004KT 10SM SCT020 BKN030 OVC046 09/04 A3001 RMK AO2 SLP146 T00910036 KMGJ 231254Z AUTO 31006KT 10SM CLR M01/M07 A3009 RMK AO2 SLP193 T10111072 KLOT 231255Z AUTO 21009KT 10SM BKN075 BKN100 00/M05 A3004 RMK AO2 T00031052 KLOU 231253Z 00000KT 6SM BR CLR M03/M04 A3018 RMK AO2 SLP224 T10331039 EPKK 231230Z 06004KT CAVOK 11/06 Q1013 EPLB 231230Z 14008KT 8000 FEW008 07/06 Q1015 KMGM 231253Z 00000KT 10SM CLR 00/M02 A3007 RMK AO2 SLP183 T00001017 KMFV 231230Z AUTO 04006KT 10SM OVC030 01/M03 A3018 RMK AO2 T00121029 KMHE 231253Z AUTO 00000KT 10SM CLR M02/M03 A3000 RMK AO2 SLP172 T10221033 KMGN 231255Z AUTO 24011G18KT 5SM RA OVC008 00/00 A2992 RMK AO2 T00070001 FHAW 231150Z 16014KT 9999 -SHRA FEW011 BKN028 25/20 Q1015 BLU VOHS 231230Z 33004KT 6000 SCT015 SCT100 28/22 Q1013 NOSIG KLOZ 231253Z AUTO 34004KT 10SM CLR M04/M06 A3016 RMK AO2 SLP224 I1000 T10391061 KO86 231255Z AUTO 00000KT 8SM BKN006 OVC010 10/10 A3019 RMK AO1 KLPR 231253Z AUTO 22005KT 10SM SCT100 M02/M07 A3014 RMK AO2 SLP217 T10221072 KMGR 231235Z AUTO 01004KT 10SM -DZ OVC006 13/12 A3000 RMK AO2 LCRA 231250Z 28012KT 9999 FEW055 19/05 Q1017 NOSIG KMIA 231253Z 14005KT 10SM FEW022 FEW190 SCT250 25/22 A2991 RMK AO2 SLP127 T02500217 $ EPKS 231230Z 18006KT CAVOK 11/05 Q1009 RMK 106 067 6/6= KMHK 231252Z 24004KT 10SM CLR 00/M05 A3007 RMK AO2 SLP190 T00001050 $ KLQK 231255Z AUTO 02005KT 10SM CLR M01/M01 A3012 RMK AO2 T10071015 KMIB 231256Z AUTO 17003KT 10SM CLR M03/M04 A2971 RMK AO2 SLP090 T10271038 EPMB 231230Z 18012KT 7000 NSC 09/06 Q1008 RMK 085 086 5/5= KMIC 231253Z 00000KT 10SM CLR M06/M10 A2994 RMK AO2 SLP150 T10611100 KMHL 231255Z AUTO 23005KT 10SM CLR 02/M03 A3007 RMK AO2 EPKT 231230Z 19006KT CAVOK 11/04 Q1013 KLRD 231256Z 10003KT 10SM CLR 06/03 A3023 RMK AO2 SLP250 T00610028 EPLL 231230Z 16005KT 130V210 CAVOK 10/06 Q1011 VOHY 231230Z VRB03KT 5000 HZ SCT015 SCT025 28/20 Q1013 NOSIG KMGW 231253Z 00000KT 10SM CLR M03/M06 A3016 RMK AO2 SLP228 T10331061 KMIE 231253Z 21006KT 10SM BKN120 00/M04 A3012 RMK AO2 SLP205 T00001044 KLRF 231256Z AUTO 00000KT 10SM CLR M04/M05 A3020 RMK AO2 SLP233 T10371054 KMGY 231253Z AUTO 19004KT 10SM FEW095 FEW120 M02/M05 A3014 RMK AO2 SLP218 T10221050 KMHR 231245Z 00000KT 10SM BKN030 12/12 A3012 EPMI 231230Z 20008KT CAVOK 09/05 Q1006 RMK 094 073 4/4= KLRJ 231255Z AUTO VRB03KT 10SM CLR M00/M02 A3000 RMK AO2 KMHS 231256Z AUTO 00000KT 10SM SCT065 08/07 A3018 RMK AO2 SLP229 T00780067 LEAB 231200Z VRB02KT CAVOK 16/00 Q1021 NOSIG KMHT 231253Z 34005KT 10SM FEW045 SCT200 M01/M08 A3001 RMK AO2 SLP178 T10111083 KMHV 231240Z AUTO 30003KT 10SM CLR 10/M01 A3020 RMK A01 EPMM 231230Z 16008KT CAVOK 09/05 Q1014 RMK 086 077 4/4 = KLSE 231253Z 00000KT 10SM CLR M03/M07 A2995 RMK AO2 SLP157 T10331072 KLSF 231156Z 33003KT 10SM SCT045 SCT100 07/01 A3002 RMK AO2A SLPNO 57014 WND DATA ESTMD/ALSTG/SLPNO ESTMD KLRO 231235Z AUTO 00000KT 10SM CLR 09/06 A3008 RMK AO2 LEAG 231230Z AUTO 09004KT 050V140 CAVOK 17/13 Q1020 EPMO 231230Z 16008KT 120V200 CAVOK 09/07 Q1012 EPLY 231230Z 19006KT CAVOK 10/07 Q1011 RMK 100 082 6/6= UWSS 231230Z 24004MPS 9999 BKN023 02/M03 Q1009 R30/190055 NOSIG RMK QFE743 LEBA 231230Z 09003KT 060V120 CAVOK 17/02 Q1020 KMIS 231255Z AUTO 03021KT 9SM CLR 15/10 A3004 RMK A01 KNAK 230154Z AUTO 29006KT 10SM CLR 06/M02 A3016 RMK AO2 SLP213 T00611017 LEBB 231230Z 25003KT 170V310 CAVOK 22/09 Q1013 NOSIG LEAL 231230Z 22007KT 190V250 CAVOK 22/03 Q1018 NOSIG KMKC 231254Z 23007KT 10SM CLR 03/M06 A3006 RMK AO2 SLP182 T00331056 KLRU 231255Z AUTO 00000KT 10SM CLR 03/M06 A3029 RMK AO2 T00291056 KNBC 231156Z AUTO 03007KT 10SM OVC110 11/06 A3006 RMK AO2 SLP180 T01060056 10139 20106 53006 LEAM 231230Z 20003KT 150V250 CAVOK 17/12 Q1020 KMIV 231254Z AUTO 29005KT 10SM CLR M01/M04 A3017 RMK AO2 SLP216 T10111044 KMKE 231252Z 22008KT 10SM BKN070 BKN250 01/M06 A2999 RMK AO2 SLP165 T00111061 KMIW 231253Z AUTO 23004KT 10SM CLR M04/M08 A2994 RMK AO2 SLP150 T10391078 LEAO 231200Z VRB02KT CAVOK 18/M00 Q1020 LEBG 231230Z 21015KT 9999 BKN026 13/07 Q1017 KLRY 231255Z AUTO 22005KT 10SM CLR 00/M04 A3011 RMK AO2 KNBG 231155Z AUTO 02005KT 10SM CLR 06/02 A3009 RMK AO2 SLP189 T00610022 10111 20061 58003 PWINO $ KMKG 231255Z 23009KT 10SM OVC036 03/M04 A3002 RMK AO2 SLP172 T00331039 KMJQ 231254Z AUTO 00000KT 10SM CLR M02/M05 A2995 RMK AO2 LEAS 231230Z 09004KT 060V120 9999 FEW065 19/13 Q1011 NOSIG KLUA 231255Z AUTO 00000KT 10SM CLR M06/M06 A3018 RMK AO2 KNCA 231256Z AUTO 01008KT 10SM CLR 05/02 A3014 RMK AO2 SLP210 T00500017 KP28 231256Z AUTO 33004KT M01/M05 A3008 RMK AO1 SLP195 T10111050 KMKJ 231255Z AUTO 00000KT 10SM CLR M06/M08 A3013 RMK AO2 T10621084 VOMD 231230Z 03005KT 4000 HZ FEW020 SCT100 30/21 Q1010 NOSIG KMLB 231253Z 12005KT 10SM BKN049 24/21 A2990 RMK AO2 SLP123 T02390211 EPOK 231230Z 18014KT CAVOK 10/05 Q1006 RMK 102 068 6/6 = LEBL 231230Z 22012KT CAVOK 18/13 Q1017 NOSIG KMKL 231253Z 00000KT 9SM CLR M05/M06 A3019 RMK AO2 SLP226 T10501061 KMLC 231253Z AUTO 00000KT 10SM CLR M02/M04 A3018 RMK AO2 SLP226 T10171039 KLSV 231258Z AUTO 04003KT 10SM CLR 09/00 A3018 RMK AO2 SLP211 T00921004 $ KLUD 231255Z AUTO 22006KT 10SM CLR 05/M07 A3016 RMK AO2 T00501070 KMKN 231255Z AUTO 00000KT 10SM CLR 04/M05 A3020 RMK AO2 T00381047 KMLE 231255Z AUTO 00000KT 10SM CLR M01/M04 A3001 RMK AO2 T10071040 KMLF 231252Z AUTO 20009KT 10SM CLR M01/M02 A3033 RMK AO2 SLP262 T10061022 KMKO 231253Z AUTO 17004KT 10SM CLR M02/M04 A3019 RMK AO2 SLP226 T10221044 KMJX 231256Z AUTO 29005KT 10SM CLR M02/M05 A3015 RMK AO2 SLP217 T10171050 FZRANO KLUF 231258Z AUTO 00000KT 10SM CLR 12/01 A3007 RMK AO2 SLP177 T01210011 VISNO RWY21 $ LECH 231230Z AUTO VRB01KT CAVOK 19/05 Q1018 LEBR 231230Z AUTO 11016KT 9999 NCD 17/03 Q1017 KMLI 231252Z 22007KT 10SM CLR M01/M07 A2999 RMK AO2 SLP160 T10061072 UWUU 231230Z VRB01MPS 9999 SCT040 02/M03 Q1011 R14R/0///60 NOSIG RMK QFE748/0997 KLTS 231256Z AUTO 00000KT 7SM CLR 01/M06 A3014 RMK AO2 SLP214 T00091064 $ KMLJ 231255Z AUTO 06004KT 10SM SCT050 10/06 A3007 RMK AO2 KMKS 231255Z AUTO 01005KT 7SM CLR 07/02 A3009 RMK AO2 VOML 231230Z 27004KT 6000 NSC 30/21 Q1008 NOSIG VOND 230900Z 33005KT 6000 FEW020 33/19 Q1011 LEBT 231200Z AUTO VRB01KT 9999 // NCD 22/02 Q1018 VOMM 231230Z 05006KT 5000 HZ FEW020 28/22 Q1010 NOSIG KLUK 231252Z 00000KT 4SM R21L/3500VP6000FT BR SCT003 M03/M04 A3019 RMK AO2 SLP228 T10331039 KMKT 231256Z AUTO 31003KT 10SM CLR M04/M08 A2995 RMK AO2 SLP157 T10441078 FZRANO KNBT 230756Z AUTO 01010KT 10SM A3011 RMK AO2 SLP202 PNO $ KLUL 231255Z AUTO 00000KT 10SM CLR M01/M03 A3013 RMK AO2 T10101026 KLUM 231255Z AUTO 00000KT 10SM CLR M06/M08 A2995 RMK AO2 T10651080 LECO 231230Z 21013G23KT 170V240 9999 SCT025 BKN034 16/13 Q1011 NOSIG DXXX 231200Z 21009KT 160V230 9999 SCT015 FEW020CB 30/26 Q1011 NOSIG KMLP 231258Z AUTO 21011G23KT 1 1/2SM RA BR BKN004 BKN009 OVC015 06/04 A2993 RMK AO2 P0001 T00560044 TSNO KMKY 231256Z AUTO 10003KT 10SM CLR 22/21 A2989 RMK AO2 SLP123 T02220206 EPPO 231230Z 18005KT CAVOK 11/05 Q1009 LEBZ 231200Z 00000KT CAVOK 19/09 Q1018 KMMH 231255Z AUTO 00000KT 10SM CLR M03/M03 A3041 RMK AO2 T10261035 KMMI 231255Z AUTO 03003KT 10SM CLR M02/M03 A3016 RMK EPPR 231230Z 15006KT 8000 NSC 08/06 Q1007 RMK 081 086 4/4= KLVJ 231253Z AUTO 00000KT 10SM CLR 07/04 A3021 RMK AO2 SLP230 T00670044 KMLS 231253Z AUTO 00000KT 10SM CLR 11/04 A2986 RMK AO2 SLP111 T01060044 KLWA 231257Z AUTO 19005KT 10SM BKN065 OVC070 01/M06 A3006 RMK AO2 T00061064 KLVK 231253Z AUTO 00000KT 6SM BR CLR 12/12 A3010 RMK AO2 SLP192 T01220117 KMLT 231253Z AUTO 31012G23KT 10SM BKN019 M05/M08 A2989 RMK AO2 PK WND 31026/1156 SLP132 T10501083 TSNO KMMK 231253Z AUTO 33004KT 10SM CLR M01/M07 A3008 RMK AO2 SLP188 T10061067 KLWB 231255Z AUTO 00000KT 10SM CLR M08/M10 A3012 RMK AO2 T10821097 EPRA 231230Z 17010KT CAVOK 08/06 Q1014 LEEC 231200Z VRB03KT CAVOK 17/04 Q1020 KLWC 231252Z AUTO 00000KT 10SM CLR M02/M05 A3007 RMK AO2 SLP189 T10171050 KMLU 231253Z 02004KT 10SM CLR 00/M03 A3022 RMK AO2 SLP234 T00001028 KMML 231256Z AUTO 28007KT 10SM CLR M05/M07 A2997 RMK AO2 SLP168 T10501072 FZRANO KLVL 231255Z AUTO 02003KT 10SM CLR 00/M04 A3018 RMK AO1 T00041041 LECV 231200Z 16003KT 9999 FEW060 12/M01 Q1020 KLVM 231253Z AUTO 25025G34KT 10SM CLR 12/04 A2999 RMK AO2 PK WND 26045/1209 SLP136 T01170039 KLWD 231253Z AUTO 22006KT 10SM CLR M02/M06 A2999 RMK AO2 SLP166 T10171061 KLVN 231251Z AUTO 00000KT 10SM CLR M07/M08 A2994 RMK AO2 KMNE 231255Z AUTO 00000KT 10SM CLR M01/M02 A3021 RMK AO2 T10151022 KP53 231256Z AUTO 20004KT M02/M07 A2989 RMK AO1 SLP131 T10221067 EPPW 231230Z 16006KT CAVOK 09/06 Q1009 RMK 093 079 7/7 = KLUX 231255Z AUTO 03005KT 10SM CLR 02/00 A3013 RMK AO2 KMNH 231252Z AUTO 21008KT 10SM CLR 02/M01 A3032 RMK AO2 KMNI 231255Z 10SM CLR 07/00 A3011 RMK AO2 KP58 231251Z AUTO 22007KT 00/M06 A3002 RMK AO1 SLP176 T00001061 KLVS 231253Z AUTO 36004KT 10SM CLR 06/M02 A3035 RMK AO2 SLP238 T00561022 KP59 231251Z AUTO VRB03KT M01/M04 A2982 RMK AO1 SLP111 T10111044 KMOB 231256Z 36006KT 10SM FEW250 04/M01 A3007 RMK AO2 SLP180 T00391006 KMMT 231258Z AUTO 05004KT 10SM CLR 06/M01 A3012 RMK AO2 SLP203 T00601014 $ KP60 231256Z AUTO 00000KT 01/01 A3031 RMK AO1 SLP254 T00060006 KNEL 231200Z AUTO 28003KT 10SM CLR M04/M06 A3012 RMK AO2 SLP198 6//// 7//// T10391061 10000 21050 53005 FZRANO PNO $ UWWW 231230Z 21004MPS 9999 BKN011 03/02 Q1009 R23/290150 NOSIG RMK QFE745/0994 KMMU 231245Z 30004KT 10SM SKC M01/M06 A3013 KMMV 231253Z AUTO 22005KT 10SM BKN013 BKN022 OVC046 15/14 A2992 RMK AO2 RAE47 SLP133 P0000 T01500144 KMOD 231253Z AUTO 27003KT 4SM BR CLR 13/12 A3010 RMK AO2 SLP194 T01280122 KLWM 231254Z 30003KT 10SM CLR 00/M07 A3003 RMK AO2 SLP170 T00001072 KMNM 231256Z AUTO 23004KT 10SM OVC044 M02/M06 A2996 RMK AO2 SLP165 T10171056 FZRANO $ EPSC 231230Z 15010KT CAVOK 11/05 Q1004 KMNN 231253Z AUTO 20005KT 10SM FEW110 M03/M06 A3014 RMK AO2 SLP220 T10331061 KNFE 231256Z AUTO 00000KT 10SM CLR 04/01 A3017 RMK AO2 SLP218 T00440006 KNFG 231257Z AUTO 00000KT 10SM CLR 11/03 A3000 RMK AO2 SLP157 T01060033 $ KNDZ 231256Z AUTO 35006KT 10SM OVC036 08/01 A3004 RMK AO2 SLP159 T00780006 $ LEGA 231200Z 36003KT CAVOK 16/M02 Q1022 KP68 231253Z AUTO 20009KT 05/00 A3033 RMK AO1 SLP235 T00500000 KLWS 231256Z AUTO 08006KT 10SM OVC100 12/10 A2990 RMK AO2 SLP125 T01220100 KP69 231252Z AUTO 00000KT 08/07 A3003 RMK AO1 SLP174 T00780072 KLWT 231254Z AUTO 23021KT 10SM CLR 13/02 A2986 RMK AO2 PK WND 23030/1237 SLP095 T01330022 KLXL 231251Z AUTO 00000KT 10SM CLR M08/M10 A2993 RMK AO2 KNFL 231256Z AUTO 02005KT 10SM CLR 04/01 A3024 RMK AO2 SLP201 T00390006 FGSL 231200Z 07007KT 3500 TSRA BKN007 SCT020CB BKN060 23/22 Q1011 BECMG 6000 -TSRA KLWV 231253Z AUTO 16003KT 10SM OVC110 M02/M04 A3017 RMK AO2 SLP220 T10171039 KMNV 231255Z AUTO 00000KT 10SM CLR M00/M02 A3014 RMK A01 LEGE 231230Z 19011KT CAVOK 19/10 Q1016 KNEW 231253Z 36012KT 10SM CLR 08/03 A3012 RMK AO2 SLP193 T00780028 KLXN 231255Z AUTO 29008KT 10SM CLR 03/01 A3008 RMK AO2 T00340011 EPSN 231230Z 19012KT CAVOK 10/04 Q1004 RMK 101 067 4/4= KMOP 231255Z AUTO 18005KT 10SM OVC040 01/M05 A3002 RMK AO2 T00051047 KLYH 231254Z 00000KT 10SM CLR M03/M06 A3017 RMK AO2 SLP221 T10281056 KMNZ 231255Z AUTO 27006KT 7SM CLR 03/M04 A3020 RMK AO2 T00311040 KMOR 231255Z AUTO 00000KT 10SM CLR M01/M04 A3013 RMK A01 EPRZ 231230Z 19012KT CAVOK 09/04 Q1015 LDOS 231230Z 21010KT CAVOK 16/07 Q1018 KLXT 231253Z AUTO 22011KT 10SM CLR 02/M06 A3006 RMK AO2 SLP187 T00171056 KMOT 231254Z AUTO 21015KT 10SM CLR 02/00 A2971 RMK AO2 SLP082 T00220000 KMQB 231255Z AUTO 20008KT 10SM CLR M01/M06 A3003 RMK AO2 T10061063 LEHC 231230Z 08001KT CAVOK 16/02 Q1018 LDPL 231230Z 27008KT 9999 FEW015 15/11 Q1019 NOSIG KLXV 231253Z AUTO 05006KT 10SM BKN026 M02/M03 A3048 RMK AO2 SLP266 T10221033 EPTM 231230Z 16006KT CAVOK 10/05 Q1012 RMK 102 072 4/4= KNFW 231252Z AUTO 00000KT 10SM CLR 03/M04 A3019 RMK AO2 SLP206 T00331044 $ KMQE 231256Z AUTO 30005KT M02/M06 A3000 RMK AO1 SLP174 T10171061 KMPO 231253Z AUTO 33006KT 10SM CLR M05/M08 A3004 RMK AO2 SLP197 T10501083 KMOX 231253Z AUTO 00000KT 10SM CLR M08/M09 A2994 RMK AO2 KNGP 231256Z AUTO 01009KT 10SM CLR 12/06 A3020 RMK AO2 SLP227 T01170056 KLXY 231255Z AUTO 28004KT 10SM CLR 01/M03 A3019 RMK AO2 T00051032 EPSY 231230Z 16008KT 130V200 7000 FEW010 09/07 Q1011 R01/290195 LEGR 231230Z 00000KT CAVOK 17/M02 Q1021 KMQI 231245Z AUTO 04006KT 10SM CLR 08/03 A3015 RMK AO2 T00790028 KMQJ 231256Z AUTO 19004KT 10SM BKN120 M02/M03 A3013 RMK AO1 LEGT 231200Z 00000KT CAVOK 15/00 Q1020 LEIB 231230Z 24010KT CAVOK 20/13 Q1018 NOSIG KMRB 231253Z 30005KT 10SM CLR M01/M07 A3018 RMK AO2 SLP225 T10111072 $ KNHK 231252Z AUTO 33011KT 10SM CLR 02/M04 A3020 RMK AO2 SLP227 T00221039 $ KMRC 231255Z AUTO 00000KT 7SM CLR M05/M05 A3015 RMK A01 KNGU 231250Z AUTO 36010KT 10SM BKN024 05/M01 A3019 RMK AO2 T00501006 $ KP92 231253Z AUTO 00000KT M17/ A3013 RMK AO1 SLP203 T1172 $ KMPV 231251Z AUTO 31009G15KT 10SM CLR M08/M11 A3007 RMK AO2 SLP203 T10781111 KNID 231256Z AUTO 19007KT 10SM CLR 08/M01 A3018 RMK AO2 SLP217 T00781011 $ KLYV 231259Z AUTO 00000KT 10SM CLR M03/M06 A2998 RMK AO2 KMRF 231256Z AUTO 03003KT 10SM CLR M02/M08 A3027 RMK AO2 SLP247 T10171083 FZRANO KMPZ 231255Z AUTO 19009KT 10SM CLR M01/M07 A2999 RMK AO2 T10121067 KMRH 231258Z AUTO 03006KT 10SM CLR 08/05 A3013 RMK AO2 SLP202 T00780050 TSNO LDRI 231230Z 19007KT 9999 FEW023 BKN047 15/11 Q1019 KMQS 231255Z AUTO 31006KT 10SM CLR M02/M06 A3016 RMK AO2 KMRJ 231255Z AUTO 18004KT 10SM CLR M01/M06 A2995 RMK AO2 EPWA 231230Z 15010KT CAVOK 10/05 Q1013 NOSIG KLZU 231256Z 06006KT 10SM CLR 06/M02 A3009 RMK AO2 SLP190 T00561017 $ KMRN 231245Z AUTO 00000KT 10SM CLR M03/M03 A3018 RMK AO2 T10261028 VORY 231100Z 32006KT 4000 HZ FEW020 31/23 Q1008 NOSIG KNIP 231253Z AUTO 02012KT 5SM +RA BR FEW004 BKN012 OVC047 18/17 A2998 RMK AO2 SLP146 P0021 T01780167 $ KMQY 231256Z 00000KT 10SM CLR M04/M06 A3019 RMK AO2 SLP239 T10441056 KLZZ 231255Z AUTO 00000KT 10SM CLR 01/M03 A3019 RMK AO2 T00111026 VOTK 230330Z 01005KT 6000 FEW025 28/23 Q1011 LFBA 231230Z AUTO 13011KT CAVOK 17/11 Q1014 NOSIG KOAJ 231256Z AUTO 03006KT 10SM CLR 04/00 A3015 RMK AO2 SLP215 T00390000 KOAK 231253Z 00000KT 9SM BKN200 13/13 A3012 RMK AO2 SLP198 T01280128 KMRT 231254Z AUTO 23005KT 10SM BKN120 M03/M05 A3015 RMK AO2 T10261050 KNJK 231256Z AUTO 27006KT 10SM CLR 13/00 A3004 RMK AO2 SLP189 T01280000 $ LFBC 231230Z AUTO 24007KT 220V280 CAVOK 19/11 Q1012 NOSIG KMSL 231253Z AUTO 01005KT 10SM CLR M01/M04 A3017 RMK AO2 SLP217 T10061039 KMTC 231256Z AUTO 22005KT 10SM OVC060 M01/M04 A3009 RMK AO2 SLP202 T10061045 $ LFBD 231230Z AUTO 25007KT CAVOK 20/09 Q1013 BECMG 17010KT KNJM 231257Z AUTO 01010KT 10SM CLR 06/02 A3013 RMK AO2 SLP206 T00610022 LFBE 231230Z AUTO 16010KT CAVOK 17/11 Q1013 NOSIG VOTP 231230Z 07003KT 4000 HZ FEW020 29/21 Q1010 KMSN 231253Z 20007KT 10SM BKN050 00/M07 A2996 RMK AO2 SLP156 T00001067 KOBE 231255Z AUTO 00000KT 10SM SCT025 SCT060 21/20 A2990 RMK AO2 KMSO 231258Z AUTO 11004KT 1SM BR FEW007 BKN065 OVC080 04/04 A2995 RMK AO2 RAE58 P0000 T00390039 VOTR 231230Z 09003KT 3000 HZ FEW018 30/22 Q1008 NOSIG LFBG 231230Z AUTO 20011KT CAVOK 19/09 Q1012 NOSIG KMSP 231253Z 28003KT 10SM FEW250 M05/M08 A2995 RMK AO2 SLP155 T10501078 KMRY 231254Z AUTO 00000KT 10SM CLR 14/10 A3007 RMK AO2 SLP195 T01390100 TSNO LDSP 231230Z VRB01KT 9999 FEW030 BKN070 15/09 Q1021 NOSIG LFAQ 231230Z AUTO 27017KT 230V310 8000 RA FEW011/// SCT018/// BKN023/// ///CB 12/10 Q1004 TEMPO 26015G25KT BECMG NSW BKN030 LFBH 231230Z AUTO 22011KT 190V260 CAVOK 17/13 Q1011 TEMPO 24015G25KT 4000 -SHRA BKN020TCU KMTH 231253Z AUTO 16008KT 10SM FEW022 SCT100 26/21 A2990 RMK AO2 SLP123 T02610211 LFBI 231230Z AUTO 21016KT 190V250 9999 FEW033 BKN064 17/09 Q1011 TEMPO 19015G25KT LEJR 231300Z 19008KT 150V220 CAVOK 24/04 Q1019 KMSS 231253Z AUTO 19003KT 10SM CLR M07/M08 A3015 RMK AO2 SLP216 T10721083 KMTJ 231253Z AUTO 17007KT 10SM CLR 01/M02 A3042 RMK AO2 SLP284 T00111017 EPWR 231230Z 16009KT CAVOK 13/05 Q1010 LFAT 231230Z AUTO 27015G26KT 230V290 9999 SCT033 OVC046 12/05 Q1003 BECMG 24015KT VOTV 231230Z 28003KT 5000 HZ FEW015 29/26 Q1007 NOSIG LELC 231200Z 24006KT 190V270 CAVOK 22/05 Q1019 NOSIG LFBL 231230Z AUTO 21012KT CAVOK 14/08 Q1013 NOSIG KNLC 231256Z AUTO 22007KT 2 1/2SM BR CLR A3014 RMK AO2 SLPNO $ LFBM 231230Z AUTO 11003KT 070V140 CAVOK 19/08 Q1013 BECMG 24010KT KMSV 231256Z AUTO 33010G17KT 10SM FEW022 M03/M08 A3007 RMK AO2 SLP200 T10331078 FZRANO KMTN 231245Z 29004KT 10SM FEW250 M02/M03 A3020 LFBO 231230Z AUTO 15011KT CAVOK 17/10 Q1015 NOSIG KMTO 231253Z AUTO 19008KT 10SM OVC100 M01/M05 A3011 RMK AO2 SLP206 T10111050 KOCF 231251Z 32010KT 1SM +RA BR BKN005 OVC014 18/18 A2992 RMK AO2 TSE00 SLP133 P0041 T01830178 LFBP 231230Z AUTO 26009KT 230V290 CAVOK 20/07 Q1013 NOSIG KMSY 231253Z 36008KT 10SM CLR 09/03 A3012 RMK AO2 SLP201 T00890028 KMTP 231254Z AUTO 01007KT 03/M04 A3008 RMK AO1 SLP185 T00281044 KOCH 231256Z AUTO 00000KT 10SM CLR M02/M03 A3022 RMK AO2 SLP239 T10221033 FZRANO KMUI 231256Z AUTO 00000KT 10SM CLR 00/M08 A3016 RMK AO2 SLP221 T10051082 TSNO $ LFCK 231230Z AUTO 12022KT CAVOK 17/10 Q1016 TEMPO 12030G40KT LFBT 231230Z AUTO 06005KT 010V080 9999 BKN084 19/05 Q1014 TEMPO SCT060TCU KNKT 231155Z 02009KT 7SM SKC 06/02 A3013 RMK SLP199 T00560022 10089 20056 53004 LELL 231230Z 27003KT CAVOK 17/12 Q1017 LFBU 231230Z AUTO 19010KT 160V220 CAVOK 17/08 Q1012 NOSIG LEMD 231230Z 18005KT 120V210 CAVOK 15/M00 Q1019 NOSIG KMTV 231255Z AUTO 00000KT 10SM CLR M04/M06 A3020 RMK AO2 T10451056 LELN 231200Z 21011KT 9999 SCT020 13/08 Q1015 KMVE 231251Z AUTO 30005KT 10SM CLR M05/M07 A2997 RMK AO2 KMTW 231256Z AUTO 22005KT 10SM CLR M02/M07 A2998 RMK AO2 SLP175 T10171067 FZRANO KNKX 231155Z 08008KT 10SM CLR 21/03 A3000 RMK AO2 SLP153 T02060028 10233 20194 58004 $ LELO 231200Z 12004KT 070V150 9000 FEW065 13/05 Q1017 KMUO 231258Z AUTO 12013KT 10SM FEW150 10/10 A3011 RMK AO2 SLP192 T01020102 $ LEMG 231230Z 13007KT CAVOK 18/11 Q1020 NOSIG LFBY 231205Z 23010KT 200V260 CAVOK 22/06 Q1013 LEMH 231230Z 25005KT 210V300 9999 FEW020 18/12 Q1019 LFBZ 231230Z AUTO 19007KT 140V300 CAVOK 21/06 Q1013 NOSIG KOCQ 231255Z AUTO 00000KT 10SM BKN040 OVC046 M02/M05 A2995 RMK AO1 T10171054 KMVH 231300Z AUTO 24016G25KT 10SM CLR 14/01 A2990 RMK AO2 EPZG 231230Z 17008KT CAVOK 12/05 Q1008 LFCR 231230Z AUTO 14012KT CAVOK 14/09 Q1016 NOSIG KMWA 231251Z 13006KT 10SM FEW200 M03/M04 A3018 KMUT 231255Z AUTO 16005KT 10SM CLR M01/M06 A3000 RMK AO2 KOEB 231254Z AUTO 22005KT 10SM SCT048 OVC060 M01/M05 A3008 RMK AO2 T10101055 KMVL 231254Z AUTO 01005KT 10SM CLR M07/M11 A3009 RMK AO2 SLP204 T10721106 TSNO KMWC 231255Z AUTO 00000KT 10SM CLR 00/M08 A3000 RMK AO2 KNMM 231256Z AUTO 30004KT 10SM CLR M02/M04 A3013 RMK AO2 SLP218 T10171039 $ KOCW 231245Z AUTO 01005KT 10SM CLR 03/M01 A3016 RMK AO2 T00271008 KMVN 231256Z AUTO 00000KT 9SM CLR M06/M06 A3017 RMK AO2 SLP222 T10561061 FZRANO VOVZ 231200Z 10009KT 4000 HZ/FU FEW018 SCT090 28/23 Q1009 NOSIG KODO 231253Z AUTO 35006KT 10SM CLR 02/M03 A3021 RMK AO2 SLP221 T00171028 LEMO 231300Z VRB01KT CAVOK 22/01 Q1019 NOSIG KMWH 231252Z AUTO 14006KT 1/2SM R32R/1800VP6000FT FG VV001 06/06 A2983 RMK AO2 SLP106 T00610061 KMWK 231245Z AUTO 00000KT 10SM CLR M02/M05 A3017 RMK AO2 T10171049 KMWL 231253Z AUTO 00000KT 10SM CLR M01/M04 A3017 RMK AO2 SLP220 T10061039 KMWM 231254Z AUTO 32006KT 10SM CLR M03/M11 A2995 RMK AO2 PWINO TSNO KMWN 231254Z 31042KT 120SM BKN/// FEW070 SCT120 BKN180 M12/M19 RMK TPS LWR BKN045 KODX 231253Z AUTO 32004KT 10SM CLR 00/M01 A3003 RMK AO2 SLP185 T00001006 KOFF 231256Z AUTO 30006KT 10SM CLR M02/M06 A3001 RMK AO2 SLP177 T10221062 $ KMXF 231256Z AUTO 00000KT 10SM CLR 03/00 A3005 RMK AO2 SLP179 T00301005 KOEO 231255Z AUTO 00000KT 10SM CLR M09/M10 A2996 RMK AO2 T10921102 KMWO 231255Z AUTO 00000KT 10SM CLR M03/M04 A3018 RMK AO2 PWINO T10301039 KMVY 231253Z 32005KT 10SM CLR 02/M05 A3004 RMK AO2 SLP172 T00171050 KNOG 231156Z AUTO 36006KT 10SM CLR 03/02 A3022 RMK AO2 SLP216 6//// 7//// T00330017 10094 20033 53002 PWINO PNO $ LEPA 231230Z 22006KT 170V250 CAVOK 20/15 Q1018 NOSIG LFGA 231230Z AUTO 17009KT CAVOK 17/05 Q1012 PTKK 231252Z 05007KT 15SM FEW014 SCT120 BKN280 28/26 A2974 RMK SLP072 T02830261 KNPA 231256Z AUTO 35011KT BKN040 07/01 A3002 RMK AO2 SLP166 T00670011 $ KOGA 231255Z AUTO 27005KT 10SM CLR 03/02 A3011 RMK AO2 T00320019 KOGB 231253Z AUTO 05007KT 10SM FEW100 08/01 A3010 RMK AO2 SLP192 T00780006 KMWT 231253Z AUTO 00000KT 10SM CLR M03/M04 A3017 RMK AO2 SLP227 T10331044 KOFK 231256Z AUTO 00000KT 10SM CLR 02/01 A3001 RMK AO2 SLP174 T00220006 KOGD 231253Z AUTO 17010KT 10SM CLR 08/03 A3027 RMK AO2 SLP233 T00780033 KMYF 231253Z AUTO 00000KT 10SM CLR 18/02 A3001 RMK AO2 SLP156 T01830022 KMXO 231255Z AUTO 18004KT 10SM CLR M03/M07 A2996 RMK AO2 KOFP 231254Z AUTO 00000KT 10SM CLR M01/M03 A3022 RMK AO2 SLP235 T10111028 PTKR 231251Z 32004KT 15SM FEW016 SCT120 BKN300 28/25 A2978 RMK SLP085 T02800254 KMYJ 231255Z AUTO 00000KT 10SM CLR M01/M06 A3007 RMK AO2 LFGJ 231230Z AUTO 19023G34KT CAVOK 17/08 Q1013 NOSIG KNQA 231250Z 00000KT 10SM SKC M03/M04 A3019 LDZA 231230Z 24012KT 200V260 CAVOK 16/07 Q1016 NOSIG KMYL 231251Z AUTO 00000KT 9SM SCT001 OVC090 03/02 A3012 RMK AO2 SLP202 T00280022 TSNO LDZD 231230Z 20009KT 170V240 9999 FEW030 BKN072 15/10 Q1021 NOSIG KNOW 231255Z AUTO 19009KT 10SM SCT095 OVC110 11/10 A2978 RMK AO2 T01110097 LEPP 231230Z 18004KT 140V250 9999 BKN056 15/05 Q1016 ESCF 231250Z 19012KT CAVOK 10/07 Q0994 KMYP 231251Z AUTO 24011KT 10SM SCT001 SCT006 M02/M03 A3066 RMK AO2 KMZG 231255Z AUTO 36014G19KT 10SM CLR 16/08 A3016 RMK A01 KMZH 231255Z AUTO 00000KT 10SM CLR M10/M11 A2991 RMK AO2 KNOZ 231159Z AUTO 01010KT 10SM CLR 20/00 A3002 RMK AO2 SLP114 T02000000 10228 20161 58006 KMYR 231256Z 02008KT 10SM CLR 08/03 A3012 RMK AO2 SLP200 T00780028 KNQI 231156Z AUTO 33006KT 10SM CLR 04/03 A3022 RMK AO2 SLP229 T00440028 10089 20039 53005 $ KOGS 231255Z AUTO 00000KT 10SM CLR M05/M07 A3011 RMK AO2 T10551070 GABS 231230Z 09005KT 0900 R06/0900U DU NSC 33/09 Q1013 NOSIG KNRB 231252Z AUTO 02010KT 1 1/2SM +RA FEW010 BKN019 OVC036 18/ A2998 RMK AO2 SLP152 P0097 T0178 $ KMYV 231253Z AUTO 35003KT 3SM BR CLR 10/09 A3013 RMK AO2 SLP205 T01000089 ESDF 231250Z 14007KT CAVOK 08/06 Q0999 FJDG 231155Z 28010KT 9999 FEW020 SCT080 BKN220 30/27 A2972 RMK SLP061 70041 8/132 T03020267 10315 20302 55003 KMYZ 231255Z AUTO 00000KT 10SM CLR 00/M05 A3004 RMK AO2 LERI 231200Z 00000KT CAVOK 20/01 Q1019 NOSIG WIBB 231230Z 33005KT 8000V BKN055 FEW017CB SCT015 26/23 Q1006 LESA 231230Z 24020KT 210V270 CAVOK 18/05 Q1017 KOJA 231255Z AUTO 25003KT 10SM CLR 04/M05 A3012 RMK AO2 KOJC 231253Z 22007KT 10SM CLR 01/M06 A3006 RMK AO2 RAB1154RAEMMB27E46 SLP189 P0000 T00061056 $ LGAD 231250Z 35007KT CAVOK 17/08 Q1021 KNSE 230445Z E36009KT 10SM BKN250 11/04 A3008 RMK SLP172 T01100040 KPAE 231253Z AUTO 15012KT 10SM BKN014 BKN019 OVC085 13/11 A2982 RMK AO2 SLP097 T01280111 KNQX 231253Z AUTO 15004KT 10SM CLR 24/24 A2990 RMK AO2 RAB1156E09 SLP123 P0000 T02390239 $ KPAH 231253Z 27003KT 10SM CLR M06/M07 A3017 RMK AO2 SLP221 I1000 T10561072 KMZZ 231255Z AUTO 20004KT 7SM SCT095 SCT120 M02/M04 A3012 RMK AO2 T10161036 FIMP 231300Z 12013KT 9999 SCT016 BKN050 26/18 Q1014 KNSI 231257Z AUTO 29008KT 10SM CLR 19/M04 A3001 RMK AO2 SLP156 T01891039 PWINO $ FIMR 231200Z 12018KT 9999 BKN017 SCT050 27/21 Q1013 LERS 231230Z 21004KT 130V260 9999 FEW020 19/14 Q1017 KNRS 231256Z AUTO 02004KT 10SM CLR 12/05 A3000 RMK AO2 SLP157 T01220050 $ LERT 231200Z 15009KT 110V220 CAVOK 19/14 Q1019 NOSIG LFKB 231230Z 13006KT 100V160 9999 FEW030 17/12 Q1019 NOSIG KOKB 231252Z AUTO 00000KT 10SM CLR 12/04 A2999 RMK AO2 SLP155 T01170044 LFJL 231230Z AUTO 21018KT 9999 FEW048 SCT084 16/08 Q1009 TEMPO 21015G25KT LFKC 231230Z AUTO 31004KT 270V350 9999 ////// 18/09 Q1019 KOKC 231252Z 17006KT 10SM FEW250 01/M06 A3012 RMK AO2 SLP208 T00061056 LGAL 231220Z 19004KT 9999 FEW020 16/09 Q1020 RCFN 231200Z 36009KT 320V050 9999 FEW030 BKN070 20/15 Q1021 NOSIG RMK A3016 KPAM 231256Z AUTO 02008KT 10SM -DZ FEW010 13/07 A2997 RMK AO2 SLP152 P0000 T01290073 TSNO $ KNTD 231256Z AUTO 36009KT 10SM CLR 17/07 A2999 RMK AO2 SLP157 T01720067 PWINO $ KPAN 231255Z AUTO 01005KT 4SM HZ 12/M01 A3032 RMK AO2 LESO 231230Z 21008KT 180V250 CAVOK 22/08 Q1013 LFKF 231230Z AUTO 10007KT 060V130 CAVOK 19/11 Q1019 NOSIG KPAO 230447Z 00000KT 10SM BKN075 15/14 A3012 RMK LAST KPBF 231253Z AUTO 30003KT 8SM CLR M03/M04 A3022 RMK AO2 SLP235 T10281039 KPBG 231253Z AUTO 30003KT 10SM CLR M06/M12 A3013 RMK AO2 SLP208 T10561117 KPBH 231255Z AUTO 00000KT 10SM OVC025 M05/M07 A2989 RMK AO2 T10471069 LFJR 231230Z AUTO 21013KT 9999 BKN025 BKN039 OVC052 17/12 Q1008 TEMPO 4000 SHRA BKN020TCU BECMG 27010KT KPBI 231253Z 17005KT 10SM SCT023 SCT075 SCT250 24/20 A2991 RMK AO2 SLP128 T02440200 $ LFKJ 231230Z 21006KT CAVOK 18/11 Q1019 NOSIG WIDD 231230Z 00000KT 9999 FEW014 26/25 Q1010 NOSIG LEST 231230Z 21012KT 170V240 9999 SCT014 BKN020 15/13 Q1012 TEMPO BKN014 LFLB 231230Z AUTO VRB01KT CAVOK 16/02 Q1017 NOSIG KOKK 231256Z AUTO 20007KT 10SM UP BKN080 OVC100 M01/M03 A3012 RMK AO2 UPB53 SLP211 P0000 T10111033 FZRANO KNUC 230156Z 33004KT 10SM FEW250 22/10 A3003 RMK SLP165 LAST T02170100 LESU 231230Z VRB03KT CAVOK 10/M04 Q1018 LETL 231230Z AUTO 26014KT 230V310 0300 R36/0350U HZ VV/// 18/M05 Q1020 LFLC 231230Z AUTO 18015KT CAVOK 18/08 Q1013 TEMPO 17016G28KT LGBL 231250Z 09004KT CAVOK 16/05 Q1019 PTPN 230350Z 06014KT 5SM -SHRA BKN016CB OVC130 27/25 A2969 RMK CB ALQDS MOV W LAST LGAV 231250Z VRB03KT 9999 FEW030 19/04 Q1020 NOSIG KPCD 231255Z AUTO 10SM CLR M03/M05 A3016 RMK AO2 T10271051 PWINO KOKM 231255Z AUTO 00000KT 10SM CLR M02/M04 A3016 RMK AO2 T10201041 KOLE 231255Z AUTO 20004KT 10SM OVC017 M05/M07 A3004 RMK AO2 LETO 231200Z VRB02KT CAVOK 14/M00 Q1020 NOSIG KOLF 231253Z AUTO 23005KT 10SM CLR M02/M04 A2975 RMK AO2 SLP099 T10221039 KOLG 231255Z AUTO 22003KT 10SM CLR M08/M09 A2991 RMK AO1 ESGG 231250Z 18018KT 9999 SCT035 09/05 Q0991 R21/29//95 KNUI 231253Z AUTO 31005KT 10SM CLR 02/M03 A3020 RMK AO2 SLP226 T00221033 LFKS 231230Z AUTO 10003KT 060V150 CAVOK 17/12 Q1019 KOMA 231252Z 12003KT 10SM FEW250 M02/M06 A3001 RMK AO2 SLP169 T10171061 ESGJ 231250Z 17013KT 9999 FEW040 SCT060 08/06 Q0993 WIEE 231200Z 02010KT 3500 -RA BKN018 25/24 Q1008 NOSIG LETU 231230Z AUTO 10013KT 9999 NCD 14/03 Q1017 LEVC 231230Z 00000KT CAVOK 22/01 Q1017 NOSIG LFLL 231230Z 19022KT 9999 FEW050 SCT120 16/07 Q1016 NOSIG LFMC 231200Z 16003KT 080V190 9999 SCT033 BKN230 16/09 Q1019 KNTU 231256Z AUTO 01006KT 10SM CLR 04/M01 A3016 RMK AO2 SLP215 T00441011 KPDC 231255Z AUTO 00000KT 10SM CLR M02/M08 A2997 RMK AO2 T10201080 LEVD 231230Z 23019KT 9999 FEW030 15/07 Q1017 LFMD 231230Z AUTO 16006KT 110V200 CAVOK 17/10 Q1019 NOSIG KOLM 231254Z AUTO 20008KT 10SM -RA FEW040 FEW050 OVC075 13/13 A2986 RMK AO2 RAB25 SLP111 P0001 T01330133 KOKV 231255Z AUTO 00000KT 10SM CLR M03/M07 A3018 RMK AO2 KPCM 231255Z AUTO 12006KT 10SM -RA SCT007 SCT016 BKN055 21/20 A2990 RMK AO2 LFLN 231230Z AUTO 18012KT CAVOK 17/08 Q1013 TEMPO 17015G25KT KPBX 231255Z AUTO 00000KT 10SM CLR M04/M04 A3014 RMK AO2 T10411041 LFLP 231230Z AUTO 20007KT 170V230 CAVOK 15/03 Q1017 NOSIG LFMH 231230Z AUTO 18011KT CAVOK 18/07 Q1015 NOSIG KOKZ 231255Z AUTO 08006KT 10SM SCT050 SCT095 10/01 A3006 RMK AO2 T01030014 KOMH 231255Z AUTO 00000KT 10SM CLR M06/M07 A3020 RMK AO2 KNUQ 231256Z 28003KT 10SM CLR 14/13 A3012 RMK AO2 SLP200 T01390133 PTSA 230050Z 06006KT 10SM SCT021 BKN130 BKN300 31/24 A2971 RMK LAST LFMI 231230Z AUTO 13010KT 9999 FEW023 SCT180 17/11 Q1019 NOSIG LFLS 231230Z AUTO 23010KT 190V260 CAVOK 16/06 Q1017 NOSIG ESGR 231250Z AUTO 17016KT 9999 FEW048/// 11/05 Q0990 RERA KPEA 231255Z AUTO 25004KT 10SM CLR 00/M06 A2998 RMK AO2 T00001059 KOLS 231254Z AUTO 00000KT 10SM CLR 07/M07 A3020 RMK AO2 SLP186 T00721072 KONA 231252Z AUTO 00000KT 10SM CLR M03/M06 A2996 RMK AO2 LFMK 231230Z AUTO 11011KT 090V150 9999 BKN021 BKN028 17/12 Q1016 BECMG OVC007 KOMK 231253Z AUTO 18007KT 8SM BKN002 OVC017 06/06 A2979 RMK AO2 SLP094 T00610061 KPDK 231253Z VRB06KT 10SM FEW031 06/M02 A3008 RMK AO2 SLP191 T00611022 KNY0 231235Z AUTO 31003KT 10SM OVC024 M04/M08 A3008 RMK AO2 LFLU 231230Z AUTO 18017KT 9999 SCT031 BKN037 16/09 Q1017 LFML 231230Z AUTO 13009KT 090V150 9999 BKN024 BKN029 18/11 Q1019 NOSIG ESIB 231250Z 19020KT 9999 FEW040 FEW050CB SCT150 09/08 Q0988 ESGT 231250Z 19018G28KT 9999 -RA FEW012 BKN054 10/07 Q0989 KOLU 231256Z AUTO 30003KT 10SM CLR M03/M04 A3004 RMK AO2 SLP187 T10331044 FZRANO KOLV 230150Z VRB05KT 10SM SKC A3022 KOMN 231250Z 11004KT 4SM -RA BR SCT030 BKN080 20/19 A2991 LFLW 231230Z AUTO 15009KT 120V190 CAVOK 15/08 Q1016 NOSIG PTRO 231250Z 04003KT 15SM SCT016TCU BKN120 OVC300 27/25 A2978 RMK TCU N-E LFMN 231230Z 18005KT 9999 FEW028 BKN270 17/09 Q1019 NOSIG KNUW 231256Z AUTO 12005KT 10SM OVC038 13/10 A2984 RMK AO2 SLP104 T01280100 $ LFLX 231230Z AUTO 22018KT CAVOK 17/08 Q1011 TEMPO 20017G30KT LFMO 231230Z AUTO 17009KT 140V200 9999 FEW032 SCT068 17/09 Q1019 NOSIG LFLY 231230Z AUTO 19023G37KT CAVOK 16/08 Q1015 NOSIG LFMP 231230Z AUTO 03004KT 360V060 9999 BKN017 15/10 Q1017 NOSIG KOLY 231255Z AUTO 00000KT 10SM OVC100 M03/M04 A3017 RMK AO2 T10341044 KOLZ 231255Z AUTO 19004KT 10SM CLR M04/M06 A2994 RMK AO2 KPCZ 231255Z AUTO 00000KT 10SM CLR M04/M06 A2995 RMK AO2 T10381062 LEVS 231230Z VRB01KT CAVOK 17/01 Q1020 LFOA 231230Z AUTO 22018KT CAVOK 18/06 Q1011 TEMPO 22020G30KT KOOA 231255Z AUTO 23006KT 10SM CLR M02/M06 A2997 RMK AO2 T10221058 LEVT 231230Z 20008KT 150V250 9999 SCT045 18/07 Q1015 LFOB 231230Z AUTO 22016KT 9999 BKN029 BKN039 17/11 Q1004 BECMG 21020G30KT RA BKN025TCU LFMT 231230Z AUTO 12007KT CAVOK 16/13 Q1019 TEMPO DZ BKN014 BKN045 KPDT 231253Z AUTO 29005KT 10SM FEW075 FEW095 10/07 A2989 RMK AO2 SLP117 T01000072 LFMU 231230Z AUTO 13013KT 9999 SCT036 BKN047 BKN058 17/13 Q1018 TEMPO DZ OVC008 LFOC 231230Z AUTO 22017KT 9999 BKN025 OVC046 16/12 Q1008 TEMPO 27020G30KT 3000 RA BKN010 BKN025 LGEL 231250Z 00000KT CAVOK 18/08 Q1019 KONL 231255Z AUTO 24005KT 10SM CLR 04/03 A3000 RMK AO2 T00400026 LFMV 231230Z AUTO 14007KT 9999 SCT033 17/09 Q1019 NOSIG KONM 231255Z AUTO 32005KT 10SM CLR 02/M04 A3033 RMK AO2 T00231040 LFOE 231230Z AUTO 25014KT 9999 FEW035 BKN043 OVC052 15/10 Q1005 ETAD 231256Z AUTO 22016KT 9999 BKN040 BKN047 12/08 A2973 RMK AO2 PK WND 23028/19 RAB19E35 SLP062 P0000 T01190080 TSNO $ LEVX 231230Z 19007KT 140V220 9999 SCT022 BKN031 17/14 Q1013 NOSIG KONO 230753Z AUTO 18003KT 1/2SM FG VV002 08/08 A3017 RMK AO2 SLP221 T00830083 TSNO KPDX 231253Z 16007KT 10SM FEW015 OVC036 15/14 A2991 RMK AO2 SLP129 T01500144 KPEO 231253Z AUTO 23004KT 10SM BKN034 OVC120 M01/M08 A3011 RMK AO2 SLP208 T10111078 $ KNXF 231256Z AUTO 00000KT 10SM CLR 23/03 A2999 RMK AO2 SLP239 T02280033 $ RCKH 231230Z 36004KT 320V030 4200 HZ FEW016 SCT034 BKN120 22/14 Q1018 NOSIG RMK A3007 LFMY 231230Z AUTO 16008KT 140V200 9999 FEW029 SCT040 BKN056 17/10 Q1019 NOSIG KONP 231255Z AUTO 19018G24KT 1 3/4SM -RA OVC003 13/13 A2998 RMK AO2 LFOH 231230Z AUTO 25017KT 9999 BKN026 OVC033 12/07 Q1005 BECMG 26015G25KT KPEQ 231255Z AUTO 30006KT 10SM CLR 01/M03 A3023 RMK AO2 T00121029 LEXJ 231230Z 20009KT 150V240 CAVOK 21/09 Q1011 LFOJ 231230Z AUTO 22019KT 9999 BKN026 BKN035 OVC046 16/11 Q1008 BECMG 20020G30KT KPGA 231253Z AUTO 00000KT 10SM CLR 05/M02 A3035 RMK AO2 SLP259 T00501017 TSNO LFPB 231230Z AUTO 21017G27KT 9999 BKN030/// BKN037/// BKN048/// ///TCU 17/11 Q1006 TEMPO 3000 SHRA LFOK 231230Z AUTO 21020KT 9999 OVC035 15/09 Q1008 BECMG 20020G30KT KONT 231253Z 04004KT 10SM CLR 16/05 A3005 RMK AO2 SLP160 T01610050 KNYC 231251Z AUTO VRB03KT 10SM CLR 00/M07 A3013 RMK AO2 SLP197 T00001072 $ KPGD 231253Z 00000KT 6SM -RA BR FEW033 BKN110 21/20 A2990 RMK AO2 SLP126 P0006 T02110200 WIHH 231200Z 27007KT 7000 FEW024 29/23 Q1005 NOSIG KONX 231300Z AUTO 30003KT 10SM CLR 03/01 A3017 RMK AO2 T00280005 PTTP 231258Z 05008KT 15SM BKN018 BKN130 OVC300 28/25 A2978 RMK SLP085 T02820249 402980244 KOPF 231253Z 00000KT 10SM CLR 23/23 A2991 RMK AO2 SLP131 T02330228 KPEX 231253Z AUTO 25003KT 10SM CLR M09/M09 A2994 RMK AO2 T10881094 LFOP 231230Z AUTO 28011KT 250V330 9999 BKN015 OVC024 12/10 Q1005 NOSIG LFPG 231230Z 21018KT 9999 VCSH BKN025 FEW026TCU SCT050 16/11 Q1006 TEMPO 3000 SHRA BKN016TCU VQPR 231030Z 19011KT 9999 FEW030 15/M01 Q1015 KNYG 231156Z AUTO 34005KT CLR M02/M05 A3021 RMK AO2 SLP232 T10171050 10017 21017 53004 $ KNXP 231156Z AUTO 30008KT 10SM CLR 13/M01 A3023 RMK AO2 SLP208 T01281006 10172 20128 58003 KONZ 231252Z AUTO 24005KT 10SM BKN065 M01/M05 A3011 RMK AO2 T10071049 KPEZ 231255Z AUTO 00000KT 10SM CLR 02/M02 A3024 RMK AO2 T00161021 LFQA 231230Z AUTO 23016KT 200V260 9999 BKN035 BKN041 16/09 Q1007 ETAR 231256Z 23014G28KT 9999 SCT043 BKN055 15/09 A2977 RMK AO2A PK WND 25031/28 SLP084 T01540091 $ LFOT 231230Z AUTO 21014KT 9999 BKN022 OVC028 16/12 Q1009 TEMPO 18015G27KT SCT020TCU BKN025 LFQB 231230Z AUTO 22018KT 9999 BKN043 BKN056 17/09 Q1009 KNYL 231157Z AUTO 00000KT 10SM CLR 17/02 A3002 RMK AO2 SLP163 T01720022 10239 20167 58004 KOPL 231255Z AUTO 00000KT 10SM CLR 00/M01 A3017 RMK AO2 T00001010 LFPM 231230Z AUTO 21019KT 9999 OVC024 16/11 Q1007 LFOV 231230Z AUTO 23010KT 200V260 9999 FEW025 SCT056 15/11 Q1007 KPHD 231253Z AUTO 13003KT 10SM CLR M04/M06 A3016 RMK AO2 SLP225 T10441056 LFPN 231230Z AUTO 22018KT 9999 BKN021/// BKN044/// BKN052/// ///CB 16/11 Q1006 TEMPO 20020G35KT 4000 -SHRA ESKM 231250Z AUTO 14010KT 9999 ////// 05/04 Q0987 KOPN 231255Z AUTO 06003KT 10SM BKN025 07/03 A3007 RMK AO2 LFPO 231230Z 22013KT 190V250 9999 BKN022 BKN026 16/11 Q1007 NOSIG ESKN 231250Z 15010KT CAVOK 07/06 Q0995 R26/29//95 KPHF 231254Z AUTO 01008KT 10SM CLR 03/M03 A3019 RMK AO2 SLP224 T00281033 LFQG 231230Z AUTO 20010KT 170V230 9999 FEW035 BKN086 BKN110 19/07 Q1011 LEZG 231230Z 09007KT 050V120 9000 FEW050 15/05 Q1017 WIII 231300Z 24011KT 9000 FEW020 27/24 Q1006 NOSIG LGHI 231250Z 16005KT 9999 FEW020 18/10 Q1019 KPIA 231254Z 20009KT 10SM CLR M01/M06 A3004 RMK AO2 SLP180 T10061056 $ LFPT 231230Z AUTO 23010KT 9999 SCT032/// BKN039/// OVC045/// ///TCU 14/12 Q1006 LFRB 231230Z AUTO 25008KT 230V300 9999 FEW031 BKN050 12/06 Q1007 NOSIG KORB 231253Z AUTO 00000KT 10SM CLR M09/M11 A2983 RMK AO2 KPIB 231256Z AUTO 35005KT 10SM CLR 01/M02 A3013 RMK AO2 SLP204 T00061022 FZRANO GAMB 231200Z 36008KT 4000 NSC 33/10 Q1012 LEZL 231230Z 00000KT CAVOK 22/05 Q1019 NOSIG LFRC 231230Z AUTO 25018KT 9999 FEW049 12/03 Q1005 NOSIG KPHL 231254Z 32007KT 10SM FEW280 00/M08 A3018 RMK AO2 SLP218 T00001078 KORC 231255Z AUTO 29008KT 10SM CLR M02/M03 A2999 RMK AO2 LFRD 231230Z AUTO 26010KT 230V290 9999 FEW035 OVC048 12/07 Q1007 NOSIG LFPV 231230Z AUTO 22015KT 180V250 9999 BKN021/// BKN048/// ///TCU 15/11 Q1006 TEMPO BKN015 BKN020CB BECMG 19015G25KT KORD 231251Z 19009KT 10SM FEW080 BKN100 01/M07 A3002 RMK AO2 SLP173 T00061067 KPGV 231245Z AUTO 01003KT 10SM CLR 02/M01 A3019 RMK AO2 KORE 231252Z AUTO 33006KT 10SM CLR M03/M07 A3003 RMK AO2 SLP177 T10281072 TSNO KPIE 231253Z 15006KT 10SM -RA BKN090 OVC120 21/20 A2987 RMK AO2 RAE1158B22 SLP114 P0001 T02060200 KPHN 231256Z AUTO 22004KT 10SM OVC060 M01/M06 A3010 RMK AO2 KORF 231251Z 02006KT 10SM OVC026 06/01 A3016 RMK AO2 SLP213 T00610006 RCMQ 231230Z 01011KT 9999 FEW010 SCT050 BKN100 16/11 Q1019 NOSIG RMK A3009 LFRG 231230Z AUTO 27009KT 250V310 9999 BKN030 OVC035 12/09 Q1006 NOSIG KPHP 231255Z AUTO 26008KT 10SM CLR 06/03 A2995 RMK AO2 SLP146 T00560033 KORG 231255Z AUTO 36003KT 10SM CLR 04/02 A3021 RMK AO2 T00350016 GAKY 230600Z VRB02KT 2000 DU NSC 22/10 Q1010 LFRH 231230Z AUTO 25008KT 9999 FEW021 BKN045 13/09 Q1008 NOSIG LFQQ 231230Z AUTO 24019KT 9999 FEW027 BKN038 BKN047 12/09 Q1003 TEMPO 25017G27KT KPIH 231253Z 35008KT 10SM CLR 01/01 A3021 RMK AO2 SLP227 T00110011 KORH 231254Z 31007KT 10SM CLR M03/M09 A2999 RMK AO2 SLP169 T10281094 LFRI 231230Z AUTO 24012KT 200V270 9999 BKN017 BKN022 OVC084 16/13 Q1009 BECMG 23015G25KT LFRJ 231230Z AUTO 26011KT 230V290 CAVOK 12/06 Q1006 NOSIG KOSA 231255Z AUTO 00000KT 10SM CLR M02/M02 A3022 RMK AO1 T10171023 LFRK 231230Z AUTO 25012KT 9999 FEW025 SCT030 BKN040 13/09 Q1006 NOSIG LFSB 231230Z 14006KT CAVOK 14/05 Q1013 NOSIG KOQT 231253Z AUTO 00000KT 10SM CLR M01/M02 A3016 RMK AO2 SLP227 T10061022 $ KPHT 231255Z AUTO 00000KT 9SM CLR M05/M05 A3016 RMK A01 KOQU 230350Z 32010KT 10SM SCT039 04/M02 A2994 RMK LAST LFRL 231230Z AUTO 25010KT 9999 FEW034 SCT040 BKN052 14/06 Q1007 NOSIG ESMK 231250Z 17012KT CAVOK 09/09 Q0997 KORL 231253Z 13010KT 10SM SCT025 BKN038 BKN060 21/20 A2989 RMK AO2 RAB06E15 SLP123 P0000 T02110200 KPIL 231253Z AUTO 31007KT 10SM CLR 09/06 A3019 RMK AO2 SLP224 T00940061 KOSC 231254Z AUTO 22008KT 10SM OVC085 M01/M05 A3000 RMK AO2 T10081053 ETEB 231256Z AUTO 18006KT 9999 CLR 11/05 A2987 RMK AO2 SLP135 T01130045 $ RCNN 231230Z 01006KT 8000 FEW012 BKN060 17/12 Q1018 RMK A3007 LFSD 231230Z AUTO 19014KT CAVOK 17/09 Q1013 LFRM 231230Z AUTO 24009KT 210V270 9999 FEW018/// SCT026/// OVC043/// ///TCU 15/13 Q1007 TEMPO 4000 SHRA KPIM 231255Z AUTO 06003KT 10SM CLR 05/03 A3004 RMK AO2 T00530026 PWINO LFRN 231230Z AUTO 29011KT 9999 FEW019 BKN029 BKN036 13/10 Q1007 NOSIG ESND 231250Z AUTO 14008KT 110V170 9999 OVC013/// 05/04 Q0984 LGIO 231220Z /////KT CAVOK 15/03 Q1021 LFRO 231230Z AUTO 23010KT 9999 BKN049 11/05 Q1006 NOSIG KPHX 231251Z 08004KT 10SM CLR 16/01 A3007 RMK AO2 SLP170 T01610011 LFSG 231230Z AUTO 20019KT CAVOK 15/07 Q1011 KNZY 230752Z 00000KT 10SM CLR 19/08 A3000 RMK SLP158 LAST T01890078 403330133 LFRQ 231230Z AUTO 27012KT 9999 BKN027 OVC050 12/07 Q1008 NOSIG ESNG 231250Z 10019KT 1000 SN VV007 M09/M11 Q1004 KOSH 231253Z 20006KT 10SM BKN050 OVC060 M01/M06 A2995 RMK AO2 SLP158 T10061056 LFSI 231230Z AUTO 22015KT 190V250 9999 OVC042 16/08 Q1009 ESMQ 231250Z 19012KT CAVOK 08/06 Q0999 KPIR 231253Z AUTO 00000KT 10SM CLR M01/M01 A2992 RMK AO2 SLP142 T10111011 LGIR 231250Z 32011KT 9999 FEW025 19/12 Q1019 NOSIG PTYA 231252Z VRB05KT 12SM SCT016CB BKN130 OVC300 27/26 A2977 RMK OCNL LTGIC N AND S CB N AND SE-SW SLP083 T02730255 LFRS 231230Z AUTO 24015KT 210V280 9999 BKN021 BKN027 BKN096 16/12 Q1008 BECMG 23015G25KT KORS 231255Z AUTO 26007KT 190V290 9SM FEW049 BKN070 OVC075 14/09 A2979 RMK AO2 LFRT 231230Z AUTO 26008KT 230V290 9999 BKN029 OVC036 12/07 Q1007 KPIT 231251Z 00000KT 10SM FEW150 BKN250 M06/M06 A3014 RMK AO2 SLP229 I1000 T10561061 $ ESMS 231250Z 17014KT CAVOK 09/06 Q0997 R17/29//95 KPKB 231253Z 00000KT 7SM CLR M06/M08 A3020 RMK AO2 SLP236 I1000 T10611078 LGKC 231250Z 00000KT CAVOK 19/08 Q1020 LFRU 231230Z AUTO 25008KT CAVOK 12/06 Q1006 LFSL 231230Z AUTO 18008KT 120V210 CAVOK 17/08 Q1014 NOSIG ESNK 231250Z AUTO 15016KT 6000 -RA OVC004/// 05/05 Q0989 ESMT 231250Z 17014KT 9999 FEW049 09/05 Q0994 LHBC 231145Z 17005KT CAVOK 11/08 Q1020 LFRV 231230Z AUTO 28009KT 250V310 9999 FEW027 BKN043 13/08 Q1008 ESNL 231250Z AUTO 12017KT 1000 R14/1700D R32/1600D -SN FEW003/// SCT006/// BKN010/// M03/M04 Q0993 KPKD 231253Z AUTO 00000KT 10SM CLR M11/M13 A2987 RMK AO2 SLP144 T11111133 LFSN 231230Z AUTO 20016KT CAVOK 16/07 Q1010 KQD3 231158Z 08010G15KT 8000 HZ CLR 30/19 A2986 RMK SLP077 WND DATA ESTMD T03030194 LGKF 231250Z 33007KT 9999 FEW018 18/13 Q1021 LFSO 231230Z AUTO 20019KT CAVOK 16/08 Q1010 BECMG 19020G30KT ESNN 231250Z 13014KT 3400 BR OVC003 05/05 Q0989 R16/29//82 ESOE 231250Z 19018KT CAVOK 10/07 Q0992 KQBF 231256Z AUTO VRB04G12KT 3200 HZ CLR 35/00 A2987 RMK AO2 SLPNO WND DATA ESTMD T03451002 ESNO 231250Z 11019KT 1600 -RASN OVC003 02/02 Q0992 ESMX 231250Z 14011KT 110V170 CAVOK 07/05 Q0996 KOTG 231256Z AUTO 30008KT 10SM CLR M04/M06 A2997 RMK AO2 SLP171 T10391061 FZRANO KS25 231255Z AUTO 24007KT 10SM CLR 03/03 A2976 RMK AO2 LFTH 231230Z AUTO 11006KT 080V170 CAVOK 17/12 Q1019 NOSIG LFRZ 231230Z AUTO 24015KT 210V270 9999 OVC016 17/13 Q1008 NOSIG KOTH 231256Z AUTO 20014KT 9SM OVC006 16/14 A3002 RMK AO2 RAE54 SLP166 P0001 T01560144 ESNQ 231250Z 10008KT 1200 SN VV012 M11/M12 Q1004 GANR 231200Z 08006KT CAVOK 33/06 Q1015 LFST 231230Z AUTO 18010KT CAVOK 16/07 Q1011 NOSIG ESNS 231250Z 12021KT 0600 R10/1200U R28/1200N SN VV009 M02/M03 Q1000 ESPA 231250Z 13026KT 3000 SN DRSN BKN007 BKN012 M02/M03 Q1004 LGKL 231250Z 35009KT CAVOK 19/04 Q1019 ESOK 231220Z 18016KT 9999 FEW020 BKN031 08/06 Q0988 KOSU 231253Z 17005KT 10SM FEW110 M03/M05 A3015 RMK AO2 SLP219 T10331050 KQBL 231256Z AUTO 34007KT 300V030 10SM FEW042 09/03 A3003 RMK AO2 SLP171 WND DATA ESTMD T00940031 ESNU 231250Z 12020KT 0450 R14/1100VP1500D R32/1100V1300N SN VV009 M01/M01 Q0997 R14/75//27 KOTM 231253Z AUTO 22006KT 10SM CLR M01/M06 A2997 RMK AO2 SLP155 T10061061 KS32 231255Z AUTO 19007KT 5SM BR BKN001 M06/M06 A2987 RMK AO2 ESNV 231250Z AUTO 10022G34KT 2000 -SN ///020 M02/M04 Q0987 KS33 231255Z AUTO 17009KT 10SM -RA SCT050 BKN080 OVC100 A2996 RMK AO2 P0001 LFSX 231230Z AUTO 23011KT 200V260 CAVOK 17/06 Q1012 NOSIG LGKO 231250Z 35006KT 9999 FEW030 16/08 Q1019 ESPE 231250Z 12016KT 1200 1100// R11/1900N R29/1900N -SN DRSN VV011 M04/M04 Q1000 LGKP 231250Z 30010KT 9999 SCT018 20/13 Q1019 ESNX 231250Z AUTO 11019KT 0450 R30/1000D +SN VV004 M04/M05 Q0996 LHBP 231230Z 09008KT 3200 BR SCT001 OVC003 06/06 Q1018 NOSIG ETGG 231220Z 21019G33KT 6000 -RA BKN020 11/08 Q0994 WHT ESNZ 231250Z 13017KT 9999 2000E BR OVC006 02/02 Q0981 LGKR 231250Z 14003KT 9999 FEW020 19/12 Q1021 NOSIG ETHA 231220Z 22002KT 9999 FEW150 BKN230 14/01 Q1014 BLU+BLU+ VRMM 231200Z VRB02KT 9999 FEW017TCU BKN110 26/23 Q1008 TEMPO 4000 TSRA WIMM 231230Z 27005KT 9999 SCT018 27/25 Q1008 KS39 231255Z AUTO 22010G19KT 10SM FEW085 15/06 A3000 RMK AO2 ETHB 231220Z 23023G35KT 9999 FEW026 BKN040 BKN100 15/08 Q1000 BLU BLU LHDC 231215Z 18005KT 0300 FG VV002 05/05 Q1020 NOSIG ETHC 231220Z 20015KT 9999 BKN047 BKN070 14/06 Q1001 BLU BLU LGKV 231250Z 21004KT 9999 FEW016 16/05 Q1019 LGLM 231250Z 17005KT 9999 FEW025 17/12 Q1020 KPMD 231253Z AUTO 20007KT 10SM CLR 07/01 A3020 RMK AO2 SLP213 T00720006 TSNO KPKV 231255Z AUTO 00000KT 10SM CLR 04/01 A3021 RMK AO2 T00360011 LFTW 231230Z AUTO 15009KT 120V180 9999 SCT023 BKN030 BKN035 17/11 Q1019 TEMPO BKN014 KPLN 231254Z AUTO 26007KT 9SM OVC020 01/M01 A2992 RMK AO2 SLP141 T00111011 KOVE 231253Z AUTO 00000KT 9SM CLR 13/12 A3013 RMK AO2 SLP204 T01280122 KOUN 231255Z AUTO 17006KT 10SM CLR 01/M06 A3012 RMK AO2 T00071058 ETHE 231220Z 22011G26KT 9999 SCT030 BKN050 13/09 Q1000 BLU ESOW 231250Z 16011KT CAVOK 08/05 Q0994 R19/290295 ETHF 231220Z 22020KT 9999 FEW030 13/05 Q1005 BLU+BLU TEMPO BLU+ KQDG 231256Z AUTO 26004KT 9999 BKN016 02/01 A2979 RMK AO2 SLP090 P0002 T00180010 PWINO FZRANO $ LGKZ 231250Z 00000KT CAVOK 16/03 Q1019 KPLR 231255Z AUTO 00000KT 8SM CLR M03/M03 A3011 RMK A01 LGLR 231250Z 00000KT CAVOK 16/08 Q1019 BLU KOWA 231254Z AUTO 00000KT 10SM CLR M07/M09 A2994 RMK AO2 KPNA 231255Z AUTO 27003KT 10SM CLR M03/M03 A3035 RMK AO2 LGMK 231150Z 15006KT CAVOK 18/08 Q1020 KOWB 231256Z 00000KT 10SM CLR M03/M04 A3018 RMK AO2 SLP234 T10331044 KPNC 231253Z AUTO 00000KT 10SM CLR 02/M06 A3012 RMK AO2 SLP202 T00221061 KOVL 231252Z AUTO 29004KT 10SM CLR M06/M07 A2995 RMK AO2 KPLU 231255Z AUTO 22003KT 9SM -DZ FEW026 OVC032 14/14 A2986 RMK AO2 ETHL 231220Z 23006KT 9999 FEW120 BKN200 12/02 Q1013 BLU+BLU+BECMG BLU KOWD 231253Z 29005KT 10SM CLR 01/M06 A3005 RMK AO2 SLP174 T00061056 ETIC 231256Z AUTO 00000KT 9999 CLR 09/05 A2987 RMK AO2 SLP132 T00890047 $ KS52 231255Z AUTO 00000KT 10SM BKN006 BKN015 OVC047 02/02 A2982 RMK AO2 T00180015 KPNE 231254Z 30005KT 10SM CLR 00/M07 A3018 RMK AO2 SLP219 T00001072 ETHN 231220Z 20012KT 9999 FEW090 BKN260 14/03 Q1010 BLU+BLU+ LFVP 231300Z 15038G51KT 1500 RA BR OVC007 09/09 Q0997 KPMP 231253Z 15006KT 10SM SCT024 SCT029 26/22 A2991 RMK AO2 SLP127 T02610217 ETIH 231256Z AUTO 00000KT 9999 CLR 10/08 A2991 RMK AO2 SLP146 T01010084 $ KQEI 231250Z AUTO 17001KT 9999 CLR M02/M11 A3010 RMK A02 TSNO KOWI 231255Z AUTO 19003KT 10SM CLR M01/M04 A3008 RMK AO2 KQEJ 231250Z AUTO 27001KT 9999 FEW075 M01/M12 A3009 RMK A02 TSNO KOVS 231253Z AUTO 00000KT 10SM CLR M03/M08 A2997 RMK AO2 SLP158 T10331083 PWAK 231258Z AUTO 04009KT 9999 SCT030 26/23 A2985 RMK AO2 SLP115 ETHS 231220Z 24016KT 9999 BKN042 14/06 Q1000 BLU BLU TEMPO WHT KQFB 231250Z AUTO 08001KT 9999 CLR M01/M06 A3024 RMK A02 TSNO LGMT 231250Z 13006KT CAVOK 17/09 Q1021 ESSA 231250Z 17013KT 9999 -RA FEW055 OVC070 08/06 Q0995 RERA R01L/29//95 R01R/29//95 R08/29//95 NOSIG KOXB 231253Z AUTO 32006KT 10SM CLR 01/M04 A3018 RMK AO2 SLP219 T00061039 KPOB 231256Z AUTO 04005KT 10SM OVC170 04/M01 A3016 RMK AO2 SLP217 T00351007 ESSB 231250Z 16010KT 9999 -DZ SCT010 08/06 Q0996 RERA R12/29//71 KOXC 231251Z 33006KT 10SM CLR M02/M07 A3005 RMK AO2 SLP197 T10221072 KPOC 230447Z 10003KT 10SM CLR 20/04 A3010 RMK LAST KQEL 231250Z AUTO 13001KT 9999 OVC065 M03/M08 A3022 RMK A02 TSNO ETIK 231256Z AUTO 19006KT 9999 CLR 13/05 A2986 RMK AO2 SLP117 T01330052 KPMU 231255Z AUTO 00000KT 10SM CLR M05/M06 A3021 RMK AO2 T10461056 WIOO 231230Z 34003KT 7000 TS FEW011CB BKN012 25/23 Q1007 NOSIG KPNM 231254Z AUTO 00000KT 10SM CLR M08/M09 A2994 RMK AO2 KPMV 231255Z AUTO 30008KT 10SM CLR 03/00 A3001 RMK AO2 T00301005 KPOE 221958Z AUTO 01008KT 10SM CLR 16/06 A3016 RMK AO2 SLP215 T01640055 ESSD 231250Z 18013KT 9999 SCT015 BKN050 06/05 Q0989 KQEN 231250Z AUTO 25007G16KT 9999 CLR M06/M14 A2996 RMK A02 TSNO KPOF 231253Z AUTO 00000KT 6SM BR CLR M04/M06 A3018 RMK AO2 SLP228 T10391056 KQEP 231250Z AUTO 04001KT 9999 CLR M01/M10 / RMK A02 TSNO KOWP 231255Z AUTO 00000KT 10SM CLR 02/M05 A3014 RMK AO2 T00221047 KQEQ 231250Z AUTO 31002KT 9999 OVC039 M00/M06 A3019 RMK A02 TSNO RCSS 231230Z 09011KT 9999 FEW020 BKN035 BKN050 18/12 Q1022 NOSIG RMK A3019 KQER 231250Z AUTO 14001KT 9999 OVC060 M03/M09 A3007 RMK A02 TSNO KOXI 231255Z AUTO 21005KT 10SM OVC075 00/M05 A3009 RMK AO1 LGPA 231150Z 32003KT CAVOK 23/15 Q1019 KQES 231250Z AUTO 31020G26KT 9999 FEW011 BKN026 BKN095 04/M01 A3018 RMK A02 TSNO KPNS 231253Z 35010KT 10SM SCT038 07/01 A3002 RMK AO2 SLP170 T00670011 KPPA 231255Z AUTO 29010KT 10SM CLR 07/00 A3017 RMK AO2 T00661005 ESTA 231250Z 16017KT CAVOK ///// Q0995 KPNT 231255Z AUTO 19009KT 10SM OVC080 00/M04 A3006 RMK AO2 T00031039 ESSL 231250Z 19009KT 150V220 CAVOK 10/07 Q0994 KQEV 231250Z AUTO 06001KT 8000 CLR M03/M04 A3016 RMK A02 TSNO FKKD 231200Z 00000KT 4000 -TSRA BKN013 SCT013CB 23/23 Q1010 TEMPO 2000 TSRA WIPP 231230Z 32003KT 8000 FEW013 28/25 Q1006 NOSIG KQEW 231250Z AUTO 20005KT 9999 CLR 00/M05 A3016 RMK A02 TSNO KQGE 231256Z AUTO 01007KT 10SM FEW042 09/03 A3000 RMK AO2 SLP163 T00930026 $ RCTP 231230Z 06016KT 9999 FEW015 BKN035 BKN050 17/12 Q1022 NOSIG RMK A3018 LGNX 230850Z 00000KT CAVOK 17/11 Q1020 KPPF 231252Z AUTO 18005KT 10SM CLR 00/M04 A3013 RMK AO2 SLP209 T00001039 KQEX 231250Z AUTO 17001KT 9999 CLR 01/M04 A3011 RMK A02 TSNO KOWX 231255Z AUTO 22004KT 10SM CLR M01/ A3015 RMK AO1 KQEY 231250Z AUTO 14001KT 9999 OVC048 M00/M05 A2988 RMK A02 TSNO ESSP 231250Z 14007KT CAVOK 09/07 Q0995 R27/19//95 KOXR 231251Z AUTO 31006KT 10SM CLR 14/12 A3000 RMK AO2 SLP158 T01390117 KOZA 231255Z AUTO 03003KT 10SM CLR M02/M06 A3024 RMK AO2 KQFT 231250Z AUTO 16002KT 9999 OVC065 M01/M08 A3014 RMK A02 TSNO ESST 231250Z AUTO 15010KT 7000 -DZ BKN011/// OVC015/// 07/06 Q0986 KQFU 231250Z AUTO 30002KT 9999 OVC043 M00/M07 A3018 RMK A02 TSNO KPOU 231253Z 00000KT 10SM CLR M04/M07 A3011 RMK AO2 SLP194 T10391067 FKKL 231200Z 03010KT 350V080 3800 DU NSC 32/00 Q1011 ESTL 231250Z 18015KT CAVOK 10/05 Q0996 KQFV 231250Z AUTO 28001KT 9999 BKN060 M03/M09 A3012 RMK A02 TSNO KPOV 231253Z AUTO 00000KT 10SM BKN120 M03/M07 A3012 RMK AO2 T10321067 KOXV 231255Z AUTO 24007KT 10SM CLR 00/M07 A2995 RMK AO2 ESSV 231250Z 17018KT CAVOK 08/05 Q1000 R21/29//84 KQFW 231250Z AUTO 34001KT 9999 FEW085 M03/M08 A3014 RMK A02 TSNO ESUD 231250Z AUTO 12014KT 0800 R33/1400N -SN VV007 M03/M05 Q0991 FKKN 231200Z 02006KT CAVOK 30/12 Q1015 KQFX 231250Z AUTO 12001KT 9999 OVC095 M02/M07 A3014 RMK A02 TSNO KPPO 231255Z AUTO 21005KT 10SM OVC070 00/M05 A3008 RMK AO2 T10051050 KPOY 231255Z AUTO 21014G18KT 10SM CLR 10/00 A3005 RMK AO2 KPPQ 231255Z AUTO 18005KT 10SM CLR 00/M06 A3008 RMK AO2 T10051065 LFYR 231230Z AUTO 23013G25KT 190V270 9999 BKN038 BKN064 17/09 Q1010 NOSIG KPQI 231256Z AUTO 32013G19KT 9SM -SN OVC023 M05/M08 A2986 RMK AO2 SLP157 P0000 T10501083 FZRANO FKKR 231200Z 16004KT 8000 NSC 34/03 Q1010 NOSIG KPRB 231253Z AUTO 16003KT 10SM CLR 07/03 A3012 RMK AO2 SLP196 T00720033 KPQL 231253Z AUTO 34005KT 10SM CLR 03/M01 A3007 RMK AO2 SLP184 T00331006 KPRC 231253Z 19005KT 10SM CLR 04/M02 A3033 RMK AO2 SLP229 T00441017 KPQN 231254Z AUTO 35004KT 10SM CLR M04/M06 A2996 RMK AO2 KPRG 231255Z AUTO 20006KT 10SM SCT080 OVC110 00/M04 A3014 RMK AO2 T10051036 LGPZ 231250Z 35005KT 9999 FEW030 17/10 Q1022 ESUP 231250Z AUTO 10012KT 9999 NCD ///// Q1010 KOZR 231256Z AUTO 35006KT 10SM OVC022 10/03 A3001 RMK AO2 SLP165 T01020028 LGSA 231250Z 30011KT 9999 FEW025 19/13 Q1019 KOZS 231255Z AUTO 21009G14KT 10SM CLR 02/M07 A3010 RMK AO2 VTBD 231230Z 07004KT 9999 FEW030 30/23 Q1010 NOSIG ESUT 231250Z AUTO 12025G42KT 0350 R33/0750N SN VV011 M04/M06 Q0986 KPSC 231253Z AUTO 12010KT 10SM OVC085 11/09 A2986 RMK AO2 SLP113 T01110089 KRAC 231253Z AUTO 21006KT 10SM OVC070 01/M07 A3001 RMK AO2 SLP171 T00061067 ETML 231220Z AUTO 18022KT //// // ////// 11/07 Q0996 /// ETND 231220Z 22017KT 9999 -RA SCT026 BKN030 12/09 Q1000 RERA BLU KOZW 231254Z AUTO 20003KT 10SM SCT080 OVC110 M01/M05 A3007 RMK AO2 T10151048 KPRN 231256Z AUTO 01003KT 10SM CLR 02/M01 A3004 RMK AO2 SLP171 T00221011 ETMN 231220Z 22024G37KT 7000 -RA BKN020 12/09 Q0996 WHT BLU TEMPO GRN KPSF 231254Z AUTO 29012KT 10SM SCT023 M03/M09 A3003 RMK AO2 SLP180 T10331089 KPRO 231255Z AUTO 29007KT 10SM CLR M01/M04 A2997 RMK AO2 T10061044 KQHY 230356Z AUTO 01007KT 10SM FEW055 BKN220 14/05 A3006 RMK AO2 SLP186 T01440053 $ LGRP 231250Z 27008KT CAVOK 18/09 Q1019 NOSIG ETNG 231253Z 22014G25KT 9999 FEW020 SCT035 15/08 Q1003 TEMPO 5000 RA SHRA SCT020TCU ETNH 231241Z 21014KT 8000 -SHRA FEW025 BKN030 12/08 Q0996 BLU BLU TEMPO GRN LIBA 231155Z 05003KT 9999 FEW035 17/11 Q1021 RMK FEW VIS MIN 9999 WIND THR11 VRB01KT WIND THR29 /////KT BLU VTCC 231230Z 26004KT 230V320 9999 SCT035 25/20 Q1014 NOSIG KPRS 231255Z AUTO 34006KT 10SM CLR 07/M05 A3025 RMK AO2 T00721055 LGSK 231250Z 01004KT CAVOK 16/08 Q1020 KPSK 231255Z AUTO 28003KT 10SM CLR M05/M06 A3013 RMK AO2 T10471057 KPTB 231256Z AUTO 03003KT 10SM CLR 00/M12 A3020 RMK AO2 KT20 231255Z AUTO 00000KT 10SM CLR 01/M01 A3022 RMK AO2 T00071015 KRAL 231253Z AUTO 04004KT 10SM CLR 17/04 A3005 RMK AO2 SLP159 T01720044 ETNL 231220Z 19012G23KT 9999 SCT120 12/05 Q1000 BLU+BLU TEMPO BLU+ VTBO 231100Z 02006KT 8000 FEW020 29/23 Q1008 LIBD 231250Z 06004KT 020V090 CAVOK 16/10 Q1020 LGSM 231250Z 01006KT CAVOK 17/08 Q1020 KRBD 231253Z 00000KT 10SM CLR 04/M02 A3018 RMK AO2 SLP222 T00391022 KPSM 231256Z 29008KT 10SM FEW250 M01/M09 A3000 RMK AO2A SLP162 T10111092 CHINO RWY16 $ LHKE 231245Z 09006KT 0300 FG BKN002 OVC004 06/06 Q1018 NOSIG RMK RED KPSN 231255Z AUTO 00000KT 10SM CLR 00/M01 A3022 RMK AO2 T10021010 LIBF 231150Z 08003KT 030V180 9999 FEW040 17/10 Q1020 ETNN 231220Z 24014G24KT 9999 FEW020 BKN035 15/08 Q1004 BLU BLU+ TEMPO BLU VTCH 231200Z 09004KT 9999 SCT025 26/23 Q1010 LGSO 231250Z AUTO 09004KT //// // ////// 17/10 Q1020 RE// KPSO 231255Z AUTO 00000KT 10SM CLR 00/M04 A3041 RMK AO2 T00021036 KPRX 231256Z AUTO 34004KT 10SM CLR 00/M03 A3019 RMK AO2 SLP241 T00001028 FZRANO LGRX 231250Z 00000KT 9999 FEW025 17/09 Q1021 LIBG 231150Z 24003KT 9999 FEW020 17/12 Q1020 KRAP 231252Z 24003KT 10SM CLR 06/02 A2996 RMK AO2 SLP154 T00610017 KPSP 231253Z 31004KT 10SM CLR 19/05 A3006 RMK AO2 SLP177 T01890050 KRBG 231253Z AUTO 00000KT 6SM BR SCT040 OVC055 14/14 A3001 RMK AO2 RAE30 SLP161 P0000 T01440144 KQKG 231255Z AUTO 07014G21KT 10SM CLR 51/39 A2977 RMK AO2 LTG DSNT W SLP881 WND DATA ESTMD T05070394 $ LGTG 231250Z VRB03KT CAVOK 18/02 Q1020 BLU LIBH 231155Z 16004KT CAVOK 15/08 Q1021 RMK SKC QUK 1 QUL 0 VIS MAR 20 KM VIS MIN 9999 VTBS 231230Z 05010KT 9999 FEW020 30/21 Q1010 NOSIG LGSR 231250Z 09003KT 9999 FEW025 18/12 Q1019 VTBU 231230Z 01002KT 7000 FEW020 27/23 Q1009 NOSIG VTCL 231200Z 10003KT 9999 FEW025 25/22 Q1012 LICA 231150Z 27005KT 240V300 9999 FEW020 18/12 Q1022 KRCA 231256Z AUTO 26007KT 10SM CLR 05/02 A2995 RMK AO2 SLP152 T00480020 $ LICB 231150Z VRB03KT 9999 FEW030 19/10 Q1021 ETNS 231246Z 20018KT 4500 -RADZ BR FEW015 BKN022 11/08 Q0995 GRN BLU TEMPO GRN KPTK 231253Z 21004KT 10SM BKN050 BKN110 M02/M06 A3007 RMK AO2 SLP195 T10221056 KPUB 231253Z 26004KT 10SM CLR 01/M02 A3023 RMK AO2 SLP234 T00111017 ETNT 231220Z 22017G27KT 9999 BKN020 SCT045 12/10 Q0996 WHT BLU TEMPO GRN VTCN 231200Z VRB03KT 9999 FEW025 BKN100 25/19 Q1012 LICC 231250Z 08007KT CAVOK 18/13 Q1020 KPUC 231253Z AUTO 36003KT 10SM CLR 01/M01 A3038 RMK AO2 SLP294 T00111011 KRBL 231254Z AUTO 32003KT 10SM -RA BKN100 BKN120 14/13 A3014 RMK AO2 SLP203 P0001 T01390133 LICD 231150Z 14003KT 9999 FEW030 19/13 Q1020 LIBN 231155Z VRB01KT 9999 SCT020 SCT030 16/14 Q1021 RMK BKN VIS MIN 9999 WIND THR14 VRB02KT WIND THR32 VRB02KT BLU VTCP 231200Z AUTO 00000KT 9999 // ////// 26/22 Q1011 KRAW 231255Z AUTO 00000KT 10SM CLR A3009 RMK AO2 KPTN 231256Z AUTO 01007KT 10SM CLR 04/01 A3014 RMK AO2 SLP209 T00390011 KQN3 231256Z AUTO VRB05G13KT 4000 HZ CLR 35/M03 A2986 RMK AO2 SLP104 WND DATA ESTMD T03451029 ETNW 231220Z 22017G29KT 9999 -SHRA FEW025 BKN050 15/07 Q1000 BLU BLU TEMPO GRN LICF 231155Z 06011KT 9999 FEW035 19/10 Q1021 RMK FEW QUK 2 QUL 0 VIS MAR 20 KM MON LIB NC VIS MIN 9999 KPSX 231253Z AUTO 01006KT CLR 03/03 A3020 RMK AO2 SLP224 T00330028 $ KRBO 231235Z AUTO 35005KT 10SM CLR 05/01 A3023 RMK AO2 T00460005 LICG 231155Z 18008KT 9999 SCT020 18/15 Q1020 LGSY 231250Z 00000KT CAVOK 16/09 Q1018 BLU LIBP 231150Z 05007KT CAVOK 16/08 Q1021 KT35 231255Z AUTO 00000KT 10SM CLR 01/M02 A3022 RMK AO2 T00101025 LIBQ 230755Z 21013KT 0500 FG VV/// 05/04 Q1020 RMK MON INVIS VAL FOSCHIA VIS MIN 0500 VTCT 231200Z 05004KT 9999 -RA BKN025 BKN100 23/23 Q1013 LIBR 231215Z 08011KT 9999 SCT020 17/14 Q1021 NOSIG KQKR 231256Z AUTO VRB06KT M /// /// CLR 33/01 A2981 RMK AO2 SLPNO WND DATA ESTMD T03330005 $ LICJ 231250Z 05014KT CAVOK 19/09 Q1020 LGTS 231250Z 00000KT CAVOK 16/04 Q1019 NOSIG KPTS 231255Z AUTO 21007KT 10SM CLR 02/M02 A3011 RMK AO2 T00201025 KPUJ 231255Z AUTO 04003KT 10SM CLR 05/02 A3006 RMK AO2 KQKT 231258Z AUTO 02003KT 10SM SCT240 M01/M03 A3018 RMK AO2 SLPNO T10091032 $ KPTT 231255Z AUTO 31009KT 10SM CLR 04/00 A3009 RMK AO2 T00401002 KPVB 231255Z AUTO 19006KT 10SM CLR M03/M06 A2997 RMK AO1 T10341062 LICL 231155Z 21004KT 9999 FEW050 19/13 Q1020 RMK FEW QUK 1 QUL 0 VIS MAR 20 KM VIS MIN 9999 KPVC 231256Z AUTO 33011G20KT 10SM CLR 02/M05 A3002 RMK AO2 SLP166 T00221050 FZRANO LIBV 231155Z 03002KT 9999 BKN033 15/06 Q1021 RMK BKN VIS MIN 9999 WIND THR32 00000KT WIND THR14 32002KT BLU KPVD 231251Z 32005KT 10SM FEW300 01/M04 A3006 RMK AO2 SLP177 T00061044 $ KRCM 231315Z AUTO 20006KT 10SM CLR 00/M05 A3007 RMK AO2 KRDD 231253Z AUTO 00000KT 8SM BKN090 OVC110 14/13 A3013 RMK AO2 RAB04E33 SLP200 P0001 T01390133 ETOU 231256Z AUTO 20007KT 9999 OVC043 11/07 A2978 RMK AO2 SLP089 T01110070 KPTV 231256Z AUTO 15006KT 5SM BR CLR 08/06 A3014 RMK AO2 SLP221 T00780061 GCGM 231230Z 21006KT 170V260 CAVOK 22/17 Q1016 RMK R09/VRB03KT ARP/21005KT 120V280 GCFV 231230Z 17010KT 120V190 CAVOK 23/12 Q1016 KPTW 231254Z AUTO 31005KT 10SM CLR M02/M08 A3018 RMK AO2 SLP219 T10221078 KPVE 231255Z AUTO 00000KT 8SM CLR M04/M05 A3017 RMK A01 KRBW 231255Z AUTO 04004KT 10SM SCT042 SCT050 SCT055 08/03 A3009 RMK AO2 KPVF 231255Z AUTO 09005KT 10SM CLR 18/04 A3019 RMK AO1 LIBY 231155Z 16002KT 9999 FEW015CB SCT020 16/13 Q1021 RMK BKN QUK 1 QUL 0 VIS MAR 15 KM VIS MIN 9999 KRDG 231254Z AUTO 32007KT 10SM CLR M02/M06 A3016 RMK AO2 SLP221 T10221061 LICR 231150Z 23006KT 200V260 CAVOK 18/11 Q1021 KRCR 231255Z AUTO 21005KT 10SM SCT065 00/M02 A3010 RMK AO2 GCHI 231230Z 16007KT 9999 SCT020 24/19 Q1015 LIEA 231250Z 18004KT 150V210 CAVOK 19/12 Q1019 KPWA 231253Z 21008KT 10SM CLR 04/M05 A3012 RMK AO2 SLP205 T00391050 KPVJ 231255Z AUTO 00000KT 10SM CLR 00/M05 A3016 RMK AO2 T10051051 LIEB 231155Z 13004KT CAVOK 19/13 Q1019 RMK SCT SCT200 QUK 2 QUL 0 VIS MAR 30 KM MON LIB VIS MIN 9999 LICT 231155Z 16009KT 9999 SCT022 20/13 Q1020 KRDK 231255Z AUTO 00000KT 10SM CLR M03/M06 A3000 RMK AO2 LIEC 231155Z 06009KT 9999 FEW015 19/15 Q1019 RMK BKN SCT200 QUK 2 QUL 0 VIS MAR 18 KM VIS MIN 9999 KPWC 231252Z AUTO 00000KT 10SM CLR M14/M16 A2992 RMK AO2 LIED 231155Z 14006KT 9999 FEW018 20/14 Q1018 RMK BKN BKN200 VIS MIN 9999 WIND THR35 14005KT WIND THR17 /////KT BLU KRCV 231255Z AUTO 00000KT 10SM CLR 04/M03 A3043 RMK AO2 T00351028 KQND 231256Z AUTO VRB06G14KT 9999 FEW200 33/M04 A2990 RMK AO2 SLPNO WND DATA ESTMD T03291038 KRDM 231256Z 17006KT 10SM FEW100 14/07 A2999 RMK AO2 SLP142 T01390072 LIEE 231250Z 20006KT CAVOK 19/12 Q1019 KPUW 231253Z AUTO 26008KT 9SM -RA SCT065 OVC080 13/09 A2993 RMK AO2 RAB1159 SLP132 P0002 T01330089 KRCX 231255Z AUTO 00000KT 10SM CLR M05/M06 A2993 RMK AO2 T10461061 KPWG 231256Z AUTO 00000KT 10SM CLR M01/M04 A3022 RMK AO2 SLP250 T10061039 FZRANO KREG 231255Z AUTO 36004KT 7SM CLR 02/00 A3014 RMK AO2 T00191004 KRCZ 231240Z AUTO 01003KT 10SM CLR 03/M01 A3015 RMK AO2 T00301012 LICZ 231155Z 27005KT 9999 FEW025 21/11 Q1022 RMK FEW VIS MIN 9999 WIND THR28 28003KT WIND THR10 29003KT A3018 BLU KRDR 231256Z 21007KT 10SM OVC012 M02/M02 A2986 RMK AO2A SLP129 T10161020 $ ETSA 231220Z 24007KT 9999 BKN240 13/M01 Q1014 BLU+BLU+ KPWK 231252Z 20008KT 10SM BKN100 01/M06 A3004 RMK AO2 SLP178 T00111061 ETSB 231220Z 23017G30KT 9999 SCT012 BKN023 10/07 Q1006 WHT BLU TEMPO WHT KRDU 231251Z 05007KT 10SM FEW190 BKN250 02/M02 A3018 RMK AO2 SLP219 T00221017 KPVU 231256Z AUTO 00000KT 10SM CLR 04/03 A3033 RMK AO2 SLP270 T00390033 KPWM 231251Z 25009KT 10SM FEW040 FEW250 M02/M06 A3000 RMK AO2 SLP159 T10171056 KRFD 231254Z 18006KT 10SM FEW250 M01/M06 A3002 RMK AO2 SLP174 T10111061 $ KPXE 231255Z AUTO 05005KT 10SM BKN021 OVC029 12/07 A3005 RMK AO2 T01180068 KPVW 231255Z AUTO 30003KT 10SM CLR 03/M02 A3017 RMK AO2 T00251022 LIEO 231250Z 04007KT 010V070 CAVOK 18/13 Q1019 KREO 231252Z AUTO 18010KT 12/06 A3012 RMK AO1 SLP183 T01170061 KT65 231255Z AUTO 35005KT 10SM CLR 07/05 A3022 RMK AO2 T00720051 ETSH 231220Z 20012G22KT 9999 SCT120 BKN220 13/03 Q1006 BLU+BLU+ KRFI 231255Z AUTO 00000KT 10SM CLR M01/M01 A3021 RMK AO2 T10101015 ETSI 231220Z 08001KT 9999 FEW140 BKN250 08/04 Q1013 BLU+BLU+ LHPA 231245Z 18010KT CAVOK 14/06 Q1014 NOSIG RMK BLU KRGA 231255Z AUTO 00000KT 7SM CLR M06/M07 A3015 RMK AO2 KPWT 231256Z AUTO 20009KT 10SM BKN075 12/11 A2984 RMK AO2 SLP122 P0001 T01170106 ETSL 231220Z 22005KT 9999 FEW150 BKN250 12/01 Q1014 BLU+BLU+ ETSN 231220Z VRB01KT 9999 FEW100 BKN300 08/04 Q1013 BLU+BLU+ LGZA 231250Z VRB03KT 9999 FEW025 18/11 Q1021 GCLA 231230Z 17012KT 140V210 9999 SCT035 24/18 Q1014 KRGK 231255Z AUTO 00000KT 10SM CLR M06/M09 A2993 RMK AO2 FLKK 231200Z 05007KT 9999 BKN025TCU SCT300 29/15 Q1016 KPYM 231252Z AUTO VRB04KT 10SM CLR 01/M04 A3002 RMK AO2 SLP168 T00061044 KQOV 231258Z AUTO 24006KT 8SM OVC010 M02/M03 A2994 RMK AO2 SLP160 T10161030 KT82 231255Z AUTO 00000KT 10SM CLR M01/M05 A3021 RMK AO2 T10131046 LHPP 231215Z 22008KT 9999 FEW030 BKN200 15/08 Q1018 FMCH 231200Z 08006KT 9999 -TSRA FEW020CB BKN028 25/24 Q1010 TEMPO 2000 SHRA KRHI 231253Z AUTO 24004KT 10SM OVC025 M04/M06 A2989 RMK AO2 SLP148 T10391061 LHPR 231215Z 13013KT CAVOK 09/07 Q1015 RMK BLU AGGH 231300Z 16003KT 9999 FEW015 FEW017CB BKN300 24/24 Q1008 KRIC 231254Z 01006KT 10SM FEW250 BKN300 00/M03 A3020 RMK AO2 SLP232 T00001033 $ KRID 231255Z AUTO 19005KT 10SM BKN120 M02/M03 A3013 RMK AO2 KQRD 231258Z AUTO 36007KT 7SM FEW043 09/03 A3000 RMK AO2 SLP163 KPYX 231255Z AUTO 29008KT 10SM CLR 06/00 A3013 RMK AO2 T00630000 KRHP 231240Z AUTO 00000KT 10SM CLR M04/M04 A3010 RMK AO2 T10401040 GCLP 231230Z 15009KT 120V180 CAVOK 24/18 Q1014 NOSIG KPZQ 231255Z AUTO 19005KT 10SM OVC020 M01/M04 A2995 RMK AO2 T10101045 KQRH 231256Z AUTO 08007KT 360V130 9999 CLR 29/21 A2983 RMK AO2 SLP088 WND DATA ESTMD T02900212 KSAA 231255Z AUTO 14006KT 10SM CLR 03/01 A3033 RMK AO2 KRIL 231253Z AUTO 12003KT 10SM CLR M02/M02 A3041 RMK AO2 SLP301 T10171022 KSAC 231253Z AUTO 00000KT 1/4SM FG VV001 12/12 A3011 RMK AO2 SLP196 T01170117 KSAD 231251Z AUTO 02006KT 10SM CLR 05/M09 A3022 RMK AO2 SLP218 T00501089 KRHV 230547Z 00000KT 10SM BKN110 17/14 A3012 RMK LAST FMEE 231221Z 13015KT 9999 SCT026 BKN045 24/18 Q1014 NOSIG KSAF 231253Z AUTO 35006KT 10SM CLR 03/M02 A3034 RMK AO2 SLP243 T00281022 FMCZ 231230Z 31009KT 9999 FEW020CB SCT030TCU 29/23 Q1009 NOSIG KSBA 231253Z AUTO 00000KT 10SM CLR 12/07 A3001 RMK AO2 SLP161 T01170072 KSBD 231238Z AUTO 06004KT 10SM CLR 14/00 A3007 RMK AO2 T01360000 KRKD 231256Z AUTO 27007KT 10SM CLR M01/M06 A2996 RMK AO2 SLP149 T10111061 FZRANO KRIV 231258Z AUTO 00000KT 10SM CLR 10/01 A3008 RMK AO2 SLP178 T00950007 LHSM 231215Z 19011KT CAVOK 16/07 Q1015 NOSIG ETWM 231220Z AUTO 21012KT 9999 // ////// 12/10 Q0999 /// LHSN 231245Z 12006KT 0800 R20/1000VP1500U FG OVC003 05/05 Q1018 NOSIG RMK AMB KSAN 231251Z 33003KT 10SM CLR 17/06 A3001 RMK AO2 SLP160 T01670056 $ KRIW 231253Z AUTO 24008KT 10SM CLR 06/01 A3017 RMK AO2 SLP196 T00560011 FMEP 231230Z AUTO 12025KT 9999 FEW033 OVC054 25/18 Q1013 BECMG 12025G35KT KSAR 231255Z AUTO 17004KT 10SM CLR M01/M06 A3016 RMK AO2 T10071056 KSAT 231251Z 32004KT 10SM CLR 03/M03 A3022 RMK AO2 SLP226 T00281033 KSBM 231253Z AUTO 20005KT 10SM OVC065 M02/M06 A2998 RMK AO2 SLP162 T10171056 TSNO KSAV 231253Z 04007KT 10SM -RA SCT060 OVC100 10/07 A3005 RMK AO2 SLP176 P0000 T01000067 KSCD 231255Z AUTO 00000KT 10SM CLR 00/M01 A3009 RMK AO2 T00001008 KRLD 231255Z AUTO 00000KT 10SM BKN085 11/10 A2986 RMK AO2 T01140099 LHUD 231215Z 20009KT CAVOK 14/08 Q1019 LJCE 231230Z 25013KT 9999 FEW040 SCT055 15/07 Q1016 RMK BLU KSBN 231254Z 21006KT 10SM OVC060 M01/M06 A3009 RMK AO2 SLP198 T10111056 KSAW 231247Z 23006KT 10SM OVC034 M04/M07 A2987 KSCF 231255Z AUTO 03015KT 10SM CLR 10/04 A3015 RMK A01 KSBO 231235Z AUTO 06007KT 10SM SCT046 SCT050 11/05 A3006 RMK AO2 KRKP 231253Z AUTO 35005KT 10SM CLR 07/03 A3021 RMK AO2 SLP232 T00720033 KSBP 231256Z 00000KT 10SM CLR 11/07 A3005 RMK AO2 SLP174 T01060072 KSCH 230245Z 32008G22KT 10SM OVC038 02/M06 A3007 RMK LAST KSAZ 231252Z AUTO 00000KT 10SM CLR M11/M12 A2990 RMK AO2 KRKR 231255Z AUTO 00000KT 10SM CLR M02/M03 A3020 RMK AO2 LIMA 231150Z 00000KT 2500 BR NSC 13/06 Q1020 KRKS 231254Z AUTO 24011KT 10SM CLR 05/01 A3034 RMK AO2 SLP251 T00500011 KSBS 231254Z AUTO 00000KT 5SM BKN043 00/00 A3040 RMK AO1 T00010001 KSDA 231255Z AUTO 24003KT 10SM CLR M01/M05 A3002 RMK AO2 KSDB 231253Z AUTO 07012KT 10SM CLR 19/00 A3027 RMK AO2 SLP200 T01890000 KSCK 231255Z AUTO 23003KT 6SM BR CLR 12/12 A3010 RMK AO2 SLP194 T01170117 LIMC 231250Z 22004KT 180V240 1500 BR NSC 11/09 Q1020 NOSIG KU42 231255Z AUTO 15009KT 10SM CLR 10/05 A3029 RMK AO1 T00990051 LIME 231250Z 23003KT 200V270 4000 BR SCT060 12/08 Q1019 NOSIG KRME 231253Z 00000KT 10SM CLR M03/M06 A3013 RMK AO2 SLP208 T10331061 LIMF 231250Z 17003KT 130V220 5000 BR NSC 12/06 Q1020 KQVF 231256Z AUTO 12009G15KT 080V150 9999 FEW026 29/24 A2978 RMK AO2 LTG DSNT N SLPNO WND DATA ESTMD T02890238 KSDF 231256Z 00000KT 8SM FEW170 M02/M04 A3017 RMK AO2 SLP221 T10171039 LIMG 231150Z 00000KT 9999 FEW050 14/09 Q1020 KRMG 231253Z AUTO 36004KT 10SM CLR 01/M02 A3011 RMK AO2 SLP196 T00061017 $ KSBY 231254Z 30003KT 10SM CLR 01/M04 A3019 RMK AO2 SLP225 T00061039 LIMH 231155Z /////KT 9999 BKN040 M03/M19 Q1019 RMK BKN SCT100 MON LIB VAL S FOSCHIA VIS MIN 9999 KSCR 231240Z AUTO 36004KT 10SM CLR 01/M03 A3016 RMK AO2 T00101033 LIMJ 231250Z 12006KT 9999 BKN022 SCT027 16/11 Q1020 KSEA 231253Z 23006KT 10SM -RA BKN007 BKN015 OVC021 13/13 A2985 RMK AO2 RAB44 SLP114 P0000 T01330128 FKYS 231200Z VRB02KT 8000 FEW010 27/21 Q1015 NOSIG LIMK 231155Z 00000KT 3000 BR SCT005 09/09 Q1019 RMK BKN VAL FOSCHIA VIS MIN 3000 LIML 231250Z VRB04KT 3000 BR NSC 12/08 Q1020 NOSIG KSDL 231253Z 29003KT 10SM CLR 14/02 A3010 RMK AO2 SLP175 T01390022 KRNC 231255Z AUTO 35004KT 9SM CLR M04/M05 A3015 RMK A01 KRND 231256Z AUTO 32003KT 10SM CLR 02/M03 A3022 RMK AO2 SLP235 T00231032 KSDM 231253Z AUTO 12006KT 10SM CLR 19/03 A3000 RMK AO2 SLP155 T01890028 LIMN 231155Z 12003KT 050V170 1600 BR SCT020 BKN060 10/08 Q1020 RMK BKN VIS MIN 1600 YLO KSEE 231255Z AUTO 00000KT 10SM CLR 12/03 A3001 RMK AO2 KRMN 231255Z AUTO 00000KT 10SM CLR M04/M04 A3026 RMK AO2 T10431043 KSCX 231255Z AUTO 00000KT 10SM CLR M05/M05 A3013 RMK A01 KSEF 231255Z AUTO 00000KT 10SM CLR 22/20 A2990 RMK AO2 T02170200 LIMP 231150Z 29003KT 1800 BR SCT060 11/08 Q1021 KSEG 231253Z AUTO 00000KT 10SM CLR M03/M06 A3018 RMK AO2 SLP224 T10331056 KRNH 231255Z AUTO 00000KT 10SM CLR M09/M10 A2994 RMK AO2 T10871102 LIMS 231155Z 36001KT 1800 BR SCT040 SCT060 10/10 Q1019 KROA 231254Z 28003KT 10SM CLR M03/M06 A3018 RMK AO2 SLP227 T10281056 $ LIMT 231055Z 19005KT 0300 FG VV/// 07/05 Q1019 RMK MON INVIS VAL INVIS VIS MIN 0300 KSFB 231253Z 11007KT 10SM FEW030 BKN036 OVC047 21/19 A2988 RMK AO2 SLP118 T02060194 LIMU 231155Z 05005KT 9999 SCT026TCU 16/11 Q1020 RMK BKN SCT120 QUK 1 QUL 1 SE VIS MAR 20 KM VIS MIN 9999 KROC 231254Z 23005KT 10SM BKN120 BKN160 M01/M05 A3012 RMK AO2 SLP209 T10111050 LIMV 231155Z /////KT 8000 2000N SCT008 SCT010 09/06 Q1020 RMK OVC MON N INVIS S LIB ABB SLW VAL FOSCHIA VIS MIN 2000N KRNM 231253Z AUTO A3006 RMK AO2 SLPNO PWINO PNO $ KSEM 231255Z AUTO 00000KT 10SM CLR M00/M02 A3008 RMK AO2 TSNO VTPH 231200Z 00000KT 7000 FEW032 26/24 Q1009 NOSIG KSFF 231253Z AUTO 21018G23KT 8SM -RA SCT055 BKN070 OVC120 14/11 A2982 RMK AO2 RAB47 SLP095 P0001 T01390106 KRNO 231255Z 00000KT 10SM FEW120 SCT200 05/03 A3025 RMK AO2 SLP224 T00500033 LIMY 231155Z VRB02KT 6000 NSC 09/06 Q1020 RMK SCT SCT180 VAL FOSCHIA VIS MIN 6000 KRMY 231253Z AUTO 20004KT 10SM SCT047 OVC065 M01/M07 A3006 RMK AO2 T10101070 KRNP 231254Z AUTO 19006KT 10SM BKN047 OVC065 00/M05 A3006 RMK AO2 T00001055 KSDY 231256Z AUTO 20006KT 10SM CLR 02/01 A2977 RMK AO2 SLP106 T00170011 FZRANO KSEP 231255Z AUTO 00000KT 10SM CLR 02/M03 A3021 RMK AO2 T00171033 KROG 231258Z 19005KT 10SM CLR 00/M04 A3015 RMK AO2 SLP216 T00001044 $ LIMZ 231150Z 04004KT 8000 NSC 10/05 Q1020 GCRR 231230Z 14008KT CAVOK 22/14 Q1016 LIPA 231155Z 19002KT 9999 SCT040 SCT060 12/07 Q1019 RMK BKN VIS MIN 9999 WIND THR05 /////KT WIND THR23 /////KT A3012 BLU KU68 231255Z AUTO 05005KT 10SM CLR 03/M03 A3008 RMK AO2 LIPB 231250Z VRB01KT 9999 SCT070 09/01 Q1020 VTPM 231000Z 08009KT 9999 SCT022 SCT035 29/20 Q1009 KRNT 231253Z AUTO 19004KT 10SM -RA FEW011 BKN016 OVC029 14/13 A2984 RMK AO2 RAB28 SLP110 P0000 T01390133 KSET 231254Z AUTO 07004KT 10SM CLR M04/M07 A3013 RMK AO2 SLP205 T10391072 LIPC 231155Z 00000KT 5000 BR NSC 13/10 Q1020 FNBC 231200Z 36005KT 9999 BKN015 FEW018CB 28/// Q1011 VTPO 231100Z 18004KT 9999 FEW020CB SCT022 30/23 Q1009 KSFM 231256Z AUTO 26009KT 10SM M02/M07 A3001 RMK AO2 SLP168 T10171072 FZRANO $ KRPD 231255Z AUTO 00000KT 10SM CLR M07/M07 A2995 RMK AO2 T10671073 KRNV 231255Z AUTO 36004KT 10SM CLR M02/M03 A3021 RMK AO2 T10201026 VTPP 231200Z 05003KT 8000 SCT021 27/23 Q1010 LIPE 231250Z 30004KT 270V350 2000 BR BKN009 10/08 Q1020 LIPF 231155Z 16003KT 3000 BR NSC 12/08 Q1020 KSGF 231252Z 18007KT 10SM CLR M01/M03 A3011 RMK AO2 SLP206 T10061033 KSFO 231256Z 01006KT 10SM FEW180 SCT200 16/13 A3011 RMK AO2 SLP196 T01560133 FNBG 231100Z 31008KT 9999 FEW020 27/21 Q1011 LIPH 231250Z 21004KT 8000 FEW050 13/06 Q1019 KSGH 231256Z AUTO 19003KT 10SM FEW120 M03/M04 A3014 RMK AO2 SLP223 T10281039 FZRANO $ KRPH 231255Z AUTO 00000KT 10SM M01/M03 A3016 RMK AO2 T10111027 KSEZ 231255Z AUTO 05008KT 10SM CLR 15/00 A3031 RMK AO2 KSFQ 231255Z AUTO 00000KT 10SM CLR 02/M01 A3018 RMK AO2 T00171010 LIPI 231155Z /////KT 5000 BR FEW040 SCT055 12/07 Q1019 RMK BKN VIS MIN 4500SW WIND THR06 33002KT WIND THR24 VRB02KT GRN KROS 231256Z AUTO 00000KT 10SM CLR M09/M10 A2995 RMK AO2 KSGJ 231256Z 35014KT 2SM RA BR BKN004 BKN017 OVC070 17/17 A2995 RMK AO2 SLP141 P0017 T01720167 KRPJ 231255Z AUTO 18007KT 10SM CLR M02/M05 A3001 RMK AO2 T10201048 LIPK 231250Z 00000KT 4000 BR FEW020 14/08 Q1019 FNCA 231200Z 22007KT 9999 FEW016 BKN023 29/24 Q1011 EVLA 231250Z AUTO 16008KT 120V180 9999 FEW010/// 07/06 Q1007 KRQB 231254Z AUTO 18003KT 10SM OVC036 00/M04 A2999 RMK AO2 T10051041 LIQC 231155Z ///04KT CAVOK 15/11 Q1023 RMK SKC QUK 2 QUL 1 NE VIS MAR 20 KM VIS MIN 9999 LIPL 231155Z /////KT 2300 BR FEW035 SCT060 11/08 Q1020 RMK BKN VIS MIN 2300 WIND THR3125005KT 220V300 YLO KSHD 231255Z AUTO 00000KT 10SM CLR M08/M09 A3018 RMK AO2 T10821092 KROW 231251Z AUTO 32004KT 10SM CLR 02/M03 A3024 RMK AO2 SLP226 T00171033 KRQE 231253Z AUTO 00000KT 10SM CLR M04/M07 A3041 RMK AO2 SLP267 T10441072 TSNO LIPO 231150Z 26006KT 1500 BR SCT060 11/06 Q1020 KROX 231254Z AUTO 22004KT 10SM OVC110 M07/M09 A2986 RMK AO2 KSFY 231255Z AUTO 16006KT 10SM CLR M02/M06 A3000 RMK AO2 T10231062 LIPQ 231250Z VRB02KT 8000 FEW070 13/06 Q1019 KSFZ 231256Z AUTO 32005KT 10SM CLR M01/M06 A3002 RMK AO2 SLP116 T10111061 FZRANO VTSB 231200Z 00000KT 8000 FEW020 27/24 Q1008 LIPR 231245Z 06002KT 3000 BR SCT069 13/09 Q1020 KSGR 231253Z 36004KT 10SM CLR 05/03 A3020 RMK AO2 SLP229 T00500028 LIPS 231155Z 27003KT 7000 NSC 13/08 Q1019 RMK SCT SCT200 VIS MIN 7000 WIND THR26 24002KT WIND THR08 21003KT WHT VTSC 230900Z 08005KT 040V120 7000 -SHRA FEW018 SCT020 BKN028 OVC100 26/24 Q1007 LIRA 231250Z 18005KT 130V220 9999 SCT030 17/09 Q1021 KSGS 231253Z AUTO 00000KT 10SM CLR M05/M08 A2995 RMK AO2 T10551076 GCTS 231230Z 21007KT 170V260 CAVOK 24/16 Q1015 NOSIG KSGT 231256Z AUTO 32003KT 9SM CLR M03/M03 A3022 RMK AO2 SLP235 T10281033 FZRANO LIPU 230700Z VRB01KT 7000 SCT045 07/05 Q1020 VTSE 231100Z 05007KT 7000 FEW020 SCT040 BKN100 28/26 Q1007 KSHL 231255Z AUTO 27004KT 10SM CLR M04/M06 A2997 RMK AO2 KSGU 231256Z AUTO 00000KT 10SM CLR 07/M01 A3029 RMK AO2 SLP246 T00721011 VTSF 231200Z 20004KT 9999 SCT018 BKN020 27/26 Q1008 KSHM 231258Z AUTO 00000KT 10SM CLR 08/M01 A3028 RMK AO2 SLP228 T00781014 LIQN 231150Z 00000KT CAVOK 11/09 Q1020 LIRE 231155Z 15006KT 9999 FEW020 SCT030 19/11 Q1021 RMK BKN VIS MIN 9999 WIND THR13 18007KT WIND THR31/////KT BLU VTSG 231200Z 09005KT 9999 FEW020 26/23 Q1008 KSHN 231253Z AUTO 23006KT 10SM BKN013 BKN029 OVC055 13/12 A2982 RMK AO2 RAE00B22E34 SLP100 P0000 T01330122 LIQO 231155Z 18006KT 0000 FG VV/// 12/12 Q1021 RMK VAL INVIS NC VIS MIN 0000 VTSH 231000Z 14008KT 9999 FEW020 SCT040 BKN100 27/24 Q1007 NOSIG LIPX 231250Z 25005KT 220V280 5000 BR BKN070 12/06 Q1020 LIRF 231250Z 16008KT 140V200 9999 SCT030 18/12 Q1021 NOSIG KSIF 231245Z AUTO 00000KT 10SM CLR M03/M05 A3017 RMK AO2 T10281050 KRQO 231255Z AUTO 20008KT 10SM 00/M05 A3013 RMK AO2 T00031053 LIRG 231155Z 16003KT 100V210 9999 FEW030 18/08 Q1021 LIPY 231150Z 27008KT 230V290 CAVOK 18/09 Q1020 WMBA 231200Z 07004KT 340V120 8000 RA FEW010 FEW017CB SCT029 OVC260 25/24 Q1009 LIRH 231155Z 10001KT 7000 FEW030 16/09 Q1021 LIPZ 231250Z 17004KT 5000 BR FEW070 12/07 Q1019 NOSIG LIRI 231150Z 17006KT 9999 FEW030 18/11 Q1021 VTSK 231000Z 09006KT 9999 FEW005 FEW020 SCT080 28/23 Q1006 KSHR 231253Z AUTO 24005KT 10SM CLR 09/02 A2996 RMK AO2 SLP143 T00890022 FMMI 231300Z 12009KT 080V170 9999 SCT020CB 24/16 Q1016 TEMPO TS VTSM 231230Z 13004KT 9999 FEW020 28/25 Q1010 KSIK 231255Z AUTO 00000KT 10SM CLR M03/M05 A3019 RMK AO2 LIRL 231155Z 19003KT 9999 SCT025 18/11 Q1021 KSJC 231253Z AUTO 00000KT 9SM CLR 15/13 A3011 RMK AO2 SLP193 T01500133 KRRL 231255Z AUTO 00000KT 10SM OVC041 M07/M07 A2992 RMK AO2 T10691074 LIRM 231155Z /////KT 8000 SCT025 18/11 Q1021 KTAD 231254Z AUTO 22004KT 10SM CLR 06/M01 A3029 RMK AO2 SLP233 T00561011 KSHV 231256Z 00000KT 10SM FEW280 M01/M02 A3021 RMK AO2 SLP230 T10061017 LIQW 231155Z 16006KT 100V220 9999 FEW030 16/09 Q1020 VTSP 231230Z VRB02KT 8000 FEW018 SCT100 28/23 Q1010 NOSIG LIRN 231250Z 19006KT 160V250 9999 FEW030 SCT050 17/11 Q1021 NOSIG VTSR 231200Z VRB03KT 9999 FEW029 SCT051 28/24 Q1008 NOSIG LIRP 231245Z 11007KT 9999 FEW025 15/10 Q1020 NOSIG VTSS 231230Z 07003KT 9999 FEW020 BKN100 26/24 Q1008 NOSIG LIRQ 231250Z 14003KT 110V190 9999 BKN035 15/11 Q1020 VTST 231200Z 00000KT 9999 FEW018 SCT025 26/23 Q1006 WMAU 231200Z AUTO 33005KT 290V030 //// // 26/24 Q//// QFF1008 LIRS 231155Z 14010KT 9999 SCT030 17/11 Q1020 KSKA 231242Z 21019G27KT 10SM FEW060 BKN100 12/12 A2982 RMK AO2A RAB31E42 SLP100 $ LIRT 230955Z ///07KT 0000 FG VV/// 09/06 Q1021 RMK MON INVIS VAL INVIS VIS MIN 0000 VTUD 231200Z 08005KT 9999 FEW048 SCT060 27/18 Q1013 KRRT 231254Z AUTO 00000KT 10SM BKN038 BKN110 M08/M10 A2986 RMK AO2 LIRU 231150Z VRB00KT 9999 FEW040 17/12 Q1021 FMMT 231200Z 18008KT 9000 VCSH FEW007 SCT017CB BKN033 26/23 Q1012 TEMPO TSRA KRSL 231253Z AUTO 24005KT 10SM CLR 01/00 A3006 RMK AO2 SLP190 T00110000 FNDU 231100Z 00000KT 9999 BKN025 24/// Q1014 LIRV 231155Z 35005KT 320V030 9999 SCT035 14/09 Q1021 FMNM 231200Z 32010KT 9999 FEW020 32/24 Q1009 NOSIG KTAN 231252Z AUTO 30003KT 10SM CLR 00/M06 A3003 RMK AO2 SLP168 T00001056 $ KSJN 231254Z AUTO 20003KT 10SM CLR 01/M06 A3038 RMK AO2 SLP261 T00061061 TSNO KRSN 231255Z AUTO 00000KT 10SM CLR M01/M02 A3024 RMK AO2 T10151025 LIRX 231155Z 18010KT 9999 BKN013 15/13 Q1019 RMK BKN VIS MIN 9999 VIS MAR 20 KM FMNN 231200Z 29008KT 9999 FEW020 32/23 Q1009 KSKF 231256Z AUTO 33003KT 10SM CLR 01/M02 A3019 RMK AO2 SLP226 T00141022 $ KRSP 231154Z AUTO 34005KT 10SM OVC023 M03/M07 A3009 RMK AO2 SLP215 T10331067 11028 21044 53008 $ VVCI 231230Z 03008KT 9999 FEW046 15/09 Q1021 NOSIG VTUI 231200Z 11011KT 070V140 CAVOK 23/16 Q1014 KSIY 231253Z AUTO 04003KT 10SM OVC060 08/08 A3013 RMK AO2 SLP209 T00830083 LIRZ 231150Z VRB01KT 9999 FEW040 15/09 Q1021 VTUK 231200Z 08005KT 040V120 9999 FEW035 SCT080 26/21 Q1013 NOSIG VTUL 231200Z 25002KT 9000 SCT030 BKN035 25/23 Q1014 KSJS 231255Z AUTO 00000KT 10SM CLR M04/M05 A3016 RMK AO2 T10421050 KSJT 231251Z 24004KT 10SM CLR M01/M04 A3021 RMK AO2 SLP238 T10111039 KRST 231254Z 28007KT 10SM CLR M05/M08 A2992 RMK AO2 SLP149 T10501078 KSLB 231255Z AUTO 31009KT 10SM CLR M01/M04 A2997 RMK AO2 KTCC 231253Z AUTO VRB03KT 10SM CLR M01/M04 A3022 RMK AO2 SLP231 T10061039 KSLC 231254Z 14009KT 10SM FEW100 SCT150 09/04 A3027 RMK AO2 SLP230 T00940044 VTUO 231200Z 05010KT 7000 FEW025 25/21 Q1013 A2993 INFO N RWY 04 KRSV 231235Z AUTO 16003KT 10SM OVC100 M03/M04 A3017 RMK AO2 T10271043 KRSW 231253Z 14005KT 10SM CLR 22/22 A2989 RMK AO2 SLP118 T02220217 KRTN 231253Z AUTO 00000KT 10SM CLR 02/M03 A3032 RMK AO2 SLP251 T00171028 KRUE 231253Z AUTO 00000KT 10SM CLR M03/M03 A3019 RMK AO2 SLP223 T10281033 $ KSLE 231256Z AUTO 20007KT 10SM BKN020 BKN025 OVC030 16/14 A2993 RMK AO2 SLP135 T01610144 KTBN 231256Z AUTO 21005KT 10SM CLR 01/M09 A3009 RMK AO2 SLP203 T00051090 VTUQ 231200Z AUTO 04006KT ////NDV ////// 25/21 Q1013 A2991 KSJX 231257Z AUTO 26013KT 10SM OVC015 01/M01 A2993 RMK AO2 T00061015 VVCR 231230Z 04017KT 9999 FEW013 SCT050 27/26 Q1012 NOSIG GCXO 231230Z 12008KT 080V160 CAVOK 21/08 Q1017 NOSIG KRUG 231255Z AUTO 11006KT 10SM CLR M07/M07 A2977 RMK AO2 KSLG 231256Z AUTO 17004KT 10SM CLR M02/M05 A3016 RMK AO2 SLP222 T10171050 FZRANO KSLH 231254Z AUTO 20004KT 7SM BKN017 OVC023 00/M02 A2991 RMK AO2 T10031028 KTAZ 231255Z AUTO 18010KT 10SM OVC100 M01/M05 A3011 RMK AO2 T10101050 VVCT 231230Z 07004KT 9999 FEW015TCU 28/24 Q1008 NOSIG KTBR 231255Z AUTO 05003KT 10SM RA OVC085 10/05 A3007 RMK AO2 T00950051 KSLI 231258Z AUTO 00000KT 10SM CLR 15/08 A2999 RMK AO2 SLP158 T01480081 FNGI 231200Z 06008KT 9999 FEW010 SCT020 32/12 Q1014 VTUU 231200Z 03012KT 9999 FEW023 23/18 Q1013 NOSIG LJLJ 231230Z 25008KT 210V270 9999 FEW043 BKN055 13/05 Q1017 NOSIG KRTS 231250Z AUTO 04004KT 10SM CLR 08/02 A3029 RMK AO2 VTUV 231200Z 07009KT 8000 SCT030 24/16 Q1013 A2993 INFO M RWY 36 LJMB 231230Z 22016KT CAVOK 15/03 Q1014 KSLK 231251Z AUTO 18003KT 2SM BR OVC009 M10/M11 A3001 RMK AO2 SLP192 T11001111 $ LIVC 231155Z VRB05G15KT 0100 FG VV/// 01/01 Q1020 RMK MON INVIS VAL INVIS VIS MIN 0100 VVDN 231230Z 31005KT 3500 RA BR FEW007 SCT012 OVC040 21/20 Q1017 TEMPO 2500 RA BR VTUW 231100Z 09009KT CAVOK 23/14 Q1014 KTCL 231253Z 00000KT 8SM CLR M02/M03 A3013 RMK AO2 SLP203 T10171028 LIVD 231155Z 28003KT 9999 FEW025 04/02 Q1020 RMK BKN BKN220 VIS MIN 9999 KTCM 231258Z AUTO 21006KT 10SM -RA BKN055 BKN075 OVC085 14/14 A2986 RMK AO2 RAB44 SLP115 P0000 T01350135 $ LIVE 231155Z 21004KT CAVOK 05/M03 Q1019 RMK BKN BKN200 VIS MIN 9999 KSLN 231253Z 00000KT 10SM CLR 02/M04 A3008 RMK AO2 SLP192 T00221044 KSME 231255Z AUTO 17003KT 10SM CLR M05/M05 A3018 RMK AO2 KTDF 231240Z AUTO 00000KT 10SM CLR M01/M02 A3019 RMK AO2 KSMF 231253Z 28003KT 1/2SM R16R/6000FT FG SCT003 11/11 A3011 RMK AO2 TWR VIS 3/4 SLP195 T01060106 $ KSKX 231256Z AUTO 09003KT 10SM CLR M01/M04 A3042 RMK AO2 SLP297 T10111039 FZRANO $ KSLO 231255Z AUTO 18004KT 10SM CLR M01/M05 A3015 RMK AO2 T10071052 KTBX 231255Z AUTO 19010KT 10SM CLR 07/M01 A3028 RMK AO2 KRUQ 231245Z AUTO 00000KT 10SM CLR 00/M03 A3016 RMK AO2 T10031026 KSLR 231255Z AUTO 21003KT 10SM CLR 02/M02 A3022 RMK AO2 T00151023 KTCS 231253Z AUTO 05004KT 10SM CLR 04/M05 A3030 RMK AO2 SLP229 T00391050 KSNA 231253Z AUTO 00000KT 10SM CLR 16/10 A2999 RMK AO2 SLP155 T01610100 KTEB 231251Z 32004KT 10SM CLR 01/M07 A3012 RMK AO2 SLP198 T00061067 EVRA 231250Z 16013KT 6000 OVC004 02/01 Q1011 R18/290195 NOSIG KRUT 231256Z AUTO 32004KT 10SM FEW023 M06/M09 A3008 RMK AO2 SLP209 T10561089 FZRANO $ KSNC 231255Z AUTO VRB06KT 10SM CLR 00/M06 A3006 RMK AO2 LKCV 231200Z 14011KT CAVOK 08/04 Q1013 NOSIG RMK BLU+ BLU KSMN 231256Z AUTO 00000KT 1/2SM FG OVC002 03/03 A3015 RMK AO2 SLP230 T00280028 LIVO 231155Z 22003KT 9999 SCT032 10/04 Q1017 RMK BKN VIS MIN 9999 KSMO 231251Z AUTO 36004KT 10SM CLR 22/04 A3000 RMK AO2 SLP158 T02170039 KRWF 231253Z AUTO 29006KT 10SM CLR M05/M08 A2996 RMK AO2 SLP159 T10501078 LIVP 231155Z 26008KT 0900 FZFG VV/// M01/M03 Q1017 RMK MON INVIS VAL INVIS VIS MIN 0900 KSMP 231256Z AUTO 23007KT 170V270 1 1/2SM HZ BKN005 OVC013 08/M01 A2984 RMK AO2 RAE26 SLP105 P0003 T00781006 $ KSMQ 231253Z AUTO 00000KT 10SM CLR M02/M07 A3013 RMK AO2 SLP205 T10221067 KSNH 231255Z AUTO 00000KT 4SM BR CLR M05/M06 A3017 RMK A01 LIVR 231155Z 27006KT 9999 SCT020 BKN050 M02/M05 Q1018 RMK BKN MON GEN INC VIS MIN 9999 KRWI 231253Z AUTO 02005KT 10SM CLR 01/M02 A3019 RMK AO2 SLP222 T00061017 KTDR 231256Z AUTO 02012KT 10SM SCT010 BKN190 13/08 A2997 RMK AO2 SLP152 T01280083 $ KRVS 231253Z 00000KT 10SM CLR M01/M04 A3016 RMK AO2 SLP223 T10111044 KSMS 231255Z AUTO 03006KT 10SM CLR 06/M00 A3013 RMK AO2 KSOA 231255Z AUTO 00000KT 10SM CLR M03/M07 A3025 RMK AO2 LIVT 231155Z 00000KT 9999 BKN025 12/09 Q1019 RMK OVC SCT070 QUK 0 QUL 0 VIS MAR 10 KM VIS MIN 9999 KSNK 231255Z AUTO 25006KT 10SM CLR 01/M03 A3019 RMK AO2 T00111030 KRWL 231253Z AUTO 25012KT 10SM CLR 05/02 A3030 RMK AO2 SLP226 T00500017 KSNL 231255Z AUTO 20006KT 10SM CLR 02/M06 A3014 RMK AO2 T00151062 FNHU 231200Z 00000KT 9000 VC RA BKN021 25/16 Q1019 FMSD 231200Z 07018KT 9999 FEW020 SCT040 26/20 Q1015 KRXE 231253Z AUTO 04003KT 10SM CLR 01/01 A3023 RMK AO2 SLP247 T00110006 KSMX 231251Z AUTO 15003KT 10SM CLR 11/07 A3005 RMK AO2 SLP178 T01060072 $ KTDZ 231253Z AUTO 21007KT 10SM CLR M02/M04 A3014 RMK AO2 SLP213 T10171044 KSPA 231255Z AUTO 02005KT 10SM CLR 02/M02 A3013 RMK AO2 KSNS 231253Z AUTO 10006KT 10SM CLR 13/09 A3009 RMK AO2 SLP197 T01280094 KSNT 231251Z AUTO 00000KT 00/M01 A3021 RMK AO1 SLP207 T00001006 KSPB 231253Z AUTO 14003KT 8SM -RA OVC018 14/14 A2989 RMK AO2 RAE11B47 SLP120 P0001 T01390139 KSPD 231256Z AUTO 30007KT 04/M01 A3022 RMK AO1 SLP224 T00391011 KRWV 231255Z AUTO 00000KT 10SM CLR 02/M03 A3022 RMK AO2 T00221032 KTEW 231254Z AUTO 19004KT 10SM BKN045 OVC070 00/M06 A3007 RMK AO2 T00001062 KSPF 231255Z AUTO 27008KT 10SM CLR 14/02 A2999 RMK AO2 KTEX 231255Z AUTO 13005KT 10SM CLR 01/M03 A3050 RMK AO2 T00131032 KSPG 231253Z 15008KT 10SM -RA FEW013 SCT080 BKN090 21/19 A2986 RMK AO2 RAB23 SLP109 P0000 T02110194 KSNY 231253Z AUTO 28010KT 10SM CLR 07/03 A3013 RMK AO2 SLP193 T00720033 KSOP 231256Z AUTO 02005KT 10SM 03/M02 A3016 RMK AO2 SLP233 T00281022 TSNO $ KSPI 231252Z 20011KT 10SM OVC090 01/M06 A3009 RMK AO2 SLP196 T00111056 KTGI 231256Z AUTO 36009KT 10SM CLR 04/M02 A3018 RMK AO1 KTHA 231255Z AUTO 08004KT 10SM CLR M02/M04 A3012 RMK A01 KRYM 231256Z AUTO 00000KT 10SM CLR M09/M10 A2993 RMK AO2 SLP158 T10891103 $ KRYN 231245Z 12006KT 10SM CLR 12/M05 A3014 KSOW 231255Z AUTO 00000KT 10SM CLR M00/M05 A3041 RMK AO2 KSQI 231256Z AUTO VRB03KT 10SM M01/M06 A3001 RMK AO2 SLP185 T10111056 FZRANO KSPR 231255Z AUTO 02019G24KT 10SM CLR 12/06 A3009 RMK A01 KSPS 231252Z AUTO 20007KT 10SM CLR M01/M05 A3015 RMK AO2 SLP213 T10111050 EVVA 231250Z AUTO 15007KT 4500 BR OVC004 04/04 Q1006 KSRB 231255Z AUTO 00000KT 7SM CLR M05/M06 A3014 RMK A01 KSQL 231255Z AUTO 31003KT 10SM CLR 14/13 A3011 RMK AO2 KSRC 231256Z AUTO 00000KT 10SM CLR M04/M04 A3022 RMK AO2 SLP242 T10391039 FZRANO KRZL 231255Z AUTO 21009KT 10SM SCT070 OVC080 00/M06 A3009 RMK AO2 FNKU 231200Z 08006KT 9999 SCT014 25/17 Q1017 KRYV 231255Z AUTO 21004KT 10SM OVC055 M01/M06 A2998 RMK AO2 T10091061 KSPW 231253Z AUTO 27004KT 10SM CLR M05/M07 A2996 RMK AO2 SLP163 T10501067 KRYW 231255Z AUTO 30005KT 10SM CLR 04/M03 A3020 RMK AO2 T00441034 KRZN 231255Z AUTO 00000KT 10SM CLR M09/M10 A2994 RMK AO2 T10901098 KTIF 231255Z AUTO 26003KT 10SM CLR 05/03 A3005 RMK AO2 T00510027 KRYY 231248Z 00000KT 10SM SCT100 01/M01 A3008 RMK AO2 SLP909 T00111006 WMKA 231200Z VRB02KT 9999 -RA SCT030 SCT140 OVC260 27/24 Q1008 LJPZ 231230Z 30005KT 9999 SCT073 13/08 Q1020 WMKB 231200Z 09007KT 050V110 7000 -RA SCT023 SCT140 OVC250 26/25 Q1008 TEMPO 9000 -RA KRZR 231255Z AUTO 00000KT 10SM CLR M00/M02 A3013 RMK A01 WMKC 231200Z VRB02KT 7000 -RA FEW008 SCT018 OVC180 24/24 Q1009 WMKD 231200Z 35003KT 300V030 9999 FEW025 SCT160 BKN260 25/24 Q1008 TEMPO 5000 RA KRZT 231255Z AUTO 00000KT 10SM CLR M05/M05 A3018 RMK AO2 KTIK 231256Z AUTO 18008KT 10SM CLR 01/M05 A3012 RMK AO2 VIS 1 3/4 RWY18 SLP215 T00071055 WMKE 231200Z AUTO 01003KT 300V070 //// // 23/23 Q1009 KSSC 231256Z AUTO 05007KT 10SM OVC150 06/M01 A3010 RMK AO2 SLP195 T00621010 $ FNLU 231200Z 27008KT 9999 FEW022 BKN080 26/23 Q1010 NOSIG GEML 231230Z VRB02KT CAVOK 22/M01 Q1020 KTHV 231253Z AUTO 00000KT 10SM CLR M04/M06 A3017 RMK AO2 SLP224 T10441061 KW13 231255Z AUTO 00000KT 10SM CLR M07/M07 A3014 RMK AO1 T10661074 KSSF 231253Z 00000KT 10SM CLR 02/M01 A3021 RMK AO2 SLP234 T00221011 $ FNMO 231200Z 33012KT 9999 FEW026 SCT120 24/17 Q1008 WMKI 231200Z VRB01KT 5000 -RA FEW005 SCT025 OVC260 25/24 Q1009 KTIP 231255Z AUTO 20008KT 10SM BKN090 OVC110 01/M04 A3010 RMK AO2 T00101038 WMKJ 231200Z VRB03KT 9999 FEW022 SCT130 BKN270 26/25 Q1007 KSRQ 231253Z 14008KT 10SM BKN080 20/19 A2987 RMK AO2 SLP112 T02000194 WMKK 231230Z 02007KT 340V060 7000 -RA FEW008 FEW017CB SCT028 BKN140 25/24 Q1008 NOSIG KSSI 231253Z AUTO 02011KT 10SM -RA BKN110 16/14 A3000 RMK AO2 RAB04 SLP161 P0002 T01560139 KSRR 231255Z AUTO 28004KT CLR 08/M05 A3035 RMK AO2 WMKL 231200Z VRB05KT 9999 FEW022 SCT140 BKN270 28/22 Q1007 WMKM 231200Z 04004KT 010V080 5000 RA FEW010 FEW017CB SCT026 OVC260 25/24 Q1009 LKKB 231200Z 10003KT 080V200 CAVOK 09/03 Q1012 NOSIG KTKC 231159Z AUTO 31006KT 10SM CLR M02/M05 A2997 RMK AO2 WMKN 231200Z VRB02KT 6000 RA FEW008 SCT022 OVC160 24/24 Q1009 KSTC 231253Z 00000KT 10SM CLR M07/M09 A2993 RMK AO2 SLP161 T10721089 KW22 231255Z AUTO 00000KT 9SM CLR M04/M05 A3014 RMK AO2 WMKP 231230Z 04005KT 010V070 8000 -RA FEW010 SCT024 BKN260 26/24 Q1008 TEMPO 6000 RA KTIW 231253Z AUTO 22005KT 10SM -RA OVC006 13/13 A2985 RMK AO2 RAB06E19B50 SLP107 P0000 T01280128 KUBE 231255Z AUTO 00000KT 10SM CLR M08/M09 A2991 RMK AO2 KSTE 231255Z AUTO 00000KT 10SM CLR M08/M08 A2994 RMK AO2 T10781082 KTIX 231247Z 11005KT 7SM BKN030 23/22 A2991 KSTF 231315Z AUTO 32003KT 10SM CLR M02/M03 A3017 RMK AO2 KUAO 231253Z AUTO 21004KT 10SM FEW029 BKN045 OVC049 16/16 A2993 RMK AO2 RAB13E25 SLP134 P0000 T01610156 LLBG 231250Z 30005KT 260V330 9999 SCT040 19/12 Q1018 NOSIG RMK SCT090 KTKI 231253Z 00000KT 10SM CLR M01/M02 A3019 RMK AO2 SLP236 T10111022 KSTJ 231253Z AUTO 22004KT 10SM CLR M01/M05 A3005 RMK AO2 SLP182 T10111050 KSUA 231247Z 18003KT 7SM SCT030 23/22 A2992 KW29 231240Z AUTO 33008KT 10SM CLR 02/M05 A3019 RMK AO2 KSTK 231250Z AUTO 20006KT 10SM CLR 03/01 A3015 RMK AO2 KSTL 231251Z 14003KT 10SM FEW090 FEW250 00/M06 A3012 RMK AO2 SLP210 T00001061 KW31 231255Z AUTO 00000KT 10SM CLR M01/M03 A3017 RMK AO1 T10121035 KSUE 231256Z AUTO 21005KT 10SM OVC044 M01/M04 A2996 RMK AO2 SLP170 T10111044 FZRANO KSTP 231253Z 00000KT 10SM CLR M05/M07 A2996 RMK AO2 SLP154 T10501072 KTLH 231253Z 35008KT 3SM BR OVC004 14/13 A2997 RMK AO2 SLP148 T01390133 VVNB 231230Z 02008KT 340V040 CAVOK 16/07 Q1024 NOSIG KSTS 231253Z AUTO 00000KT 1/4SM FG VV002 11/11 A3013 RMK AO2 SLP197 T01060106 KTMA 231235Z AUTO 01003KT 7SM OVC005 13/13 A2999 RMK AO2 T01270127 KTMB 231253Z 00000KT 10SM CLR 23/22 A2990 RMK AO2 SLP125 T02330217 LKKU 231200Z 20011KT 9999 FEW014 08/05 Q1015 KSVC 231255Z AUTO 34007KT 10SM CLR 04/M05 A3031 RMK AO2 T00381049 LKKV 231230Z VRB02KT CAVOK 07/02 Q1011 KTKV 231255Z AUTO 00000KT 10SM OVC030 M04/M07 A2991 RMK AO2 T10411070 FOGM 231200Z /////KT 9999 SCT013 BKN026 28/24 Q//// LKLN 231200Z AUTO VRB02KT CAVOK 08/03 Q1012 KSVE 231255Z AUTO 26003KT 8SM CLR 02/02 A3027 RMK AO2 KSUN 231235Z AUTO 33009KT 10SM SCT085 03/01 A3024 RMK AO2 KTME 231255Z AUTO 05003KT 10SM CLR 02/01 A3022 RMK AO2 KW43 231255Z AUTO 22009KT 10SM CLR 08/02 A3001 RMK AO2 KTKX 231255Z AUTO 00000KT 10SM CLR M03/M04 A3019 RMK AO2 FOGO 231200Z 00000KT 9999 FEW013 BKN030 27/22 Q//// KUCP 231256Z AUTO 00000KT 10SM CLR M03/M06 A3015 RMK AO2 SLP239 T10331056 KUDG 231256Z AUTO 36006KT 10SM CLR 04/M01 A3015 RMK AO2 SLP216 T00441006 KSVH 231245Z AUTO 00000KT 10SM CLR 00/M03 A3014 RMK AO2 T10051031 FOGR 231200Z 28004KT 9999 SCT011TCU BKN033 30/24 Q//// LKNA 231200Z 15008KT 0300 FG VV001 03/03 Q1014 NOSIG RMK RED RED KSUS 231254Z 00000KT 10SM CLR M03/M06 A3011 RMK AO2 SLP206 T10331056 KSUT 231245Z AUTO 02007KT 10SM CLR 07/03 A3011 RMK AO2 T00680028 KTNB 231255Z AUTO 00000KT 10SM CLR M06/M06 A3008 RMK AO2 T10591059 KTMK 231255Z AUTO 19011G16KT 4SM HZ SCT010 BKN018 OVC029 A2992 RMK AO2 P0002 KSUU 231258Z 00000KT 6SM BR FEW210 11/10 A3010 RMK AO2A SLP200 T01070104 KSVN 231256Z AUTO 04006KT 10SM CLR 11/07 A3002 RMK AO2 RAB1156E1157DZB1157E02RAB02 SLP169 P0001 T01100067 $ KSUW 231255Z AUTO 21006KT 10SM CLR M08/M09 A2993 RMK AO2 T10761086 KSUX 231252Z 32009KT 10SM CLR 01/M02 A3000 RMK AO2 SLP169 T00061017 KSWF 231245Z 31005KT 10SM SKC M03/M06 A3011 KUCY 231255Z AUTO 00000KT 6SM BR CLR M05/M06 A3018 RMK A01 VVPB 231230Z 29011KT 2500 -RA BR SCT005 SCT010 OVC030 20/20 Q1018 NOSIG KTOA 230347Z 00000KT 10SM SKC 22/05 A3002 FNSA 231200Z 00000KT CAVOK 27/19 Q1018 LKMT 231230Z 24013KT CAVOK 10/06 Q1014 NOSIG KTOB 231253Z AUTO 26004KT 10SM CLR M06/M08 A2993 RMK AO2 KTMT 231255Z AUTO 14005KT 10SM CLR 01/M01 A3033 RMK AO2 T00061010 KTOC 231255Z AUTO 04003KT 10SM CLR 03/02 A3012 RMK AO2 T00320018 KW63 231255Z AUTO 00000KT 10SM CLR 00/M02 A3019 RMK AO1 KSWO 231253Z AUTO 19004KT 10SM CLR 00/M05 A3012 RMK AO2 SLP203 T00001050 KTOI 231253Z AUTO 03003KT 10SM CLR 03/01 A3005 RMK AO2 SLP175 T00330011 KTPA 231253Z 12004KT 10SM -RA SCT060 BKN100 BKN120 22/19 A2988 RMK AO2 RAB35 SLP117 P0001 T02170194 KUES 231245Z 23004KT 10SM OVC060 M01/M08 A2999 LLET 231250Z 02011KT CAVOK 22/07 Q1017 RMK FEW070 KTOL 231252Z 20005KT 10SM FEW120 M02/M04 A3013 RMK AO2 SLP210 T10221039 KTNU 231255Z AUTO 24007KT 10SM CLR M02/M07 A2996 RMK AO2 PWINO LKPD 231200Z 08003KT CAVOK 10/05 Q1013 NOSIG RMK BLU BLU KSWW 231255Z AUTO 22011KT 10SM CLR 06/M04 A3020 RMK AO2 T00571041 VVPQ 231230Z VRB01KT 9999 FEW017 27/24 Q1009 NOSIG KTPF 231255Z AUTO 14006KT 10SM -RA A2988 RMK AO2 KSYF 231255Z AUTO 25004KT 10SM CLR 08/03 A3015 RMK AO2 T00760029 FNSO 231200Z 20006KT 9999 SCT023 ///// Q1011 KTOP 231253Z 22003KT 10SM CLR 01/M05 A3006 RMK AO2 SLP185 T00061050 KW75 231255Z AUTO 34010G15KT 10SM CLR 03/M03 A3019 RMK AO1 T00251028 KTPH 231256Z AUTO 36006KT 10SM CLR 04/M02 A3032 RMK AO2 SLP238 T00441017 KTOR 231253Z AUTO 22003KT 10SM CLR 08/04 A3010 RMK AO2 SLP181 T00780039 KSYI 231255Z AUTO 00000KT 9SM CLR M04/M05 A3016 RMK A01 LLHA 231250Z 29009KT 9999 SCT048 19/07 Q1018 RMK SCT080 KSXS 231258Z AUTO 02005KT 10SM M 09/03 A3001 RMK AO2 SLP164 T00870027 $ KW78 231255Z AUTO 00000KT 10SM CLR M02/M02 A3020 RMK AO1 T10171024 KSXT 231256Z AUTO 18013G20KT 1/4SM FG VV001 11/10 A3008 RMK AO2 SLP170 T01060100 FNUB 231200Z 20008KT 9999 FEW040 BKN080 28/// Q1021 KTPL 231251Z AUTO 34005KT 10SM CLR M02/M03 A3021 RMK AO2 SLP250 T10171033 FZRANO KSXU 231255Z AUTO 35003KT 10SM CLR 02/M02 A3026 RMK AO2 T00171020 KW81 231255Z AUTO 00000KT 10SM CLR M02/M02 A3018 RMK AO1 T10241024 FNSU 231200Z 29008KT 9999 FEW014 BKN060 26/// Q1012 KSYM 231250Z AUTO 00000KT 10SM CLR M05/M07 A3018 RMK AO2 KSYN 231253Z AUTO 19004KT 10SM CLR M06/M08 A2993 RMK AO2 T10651080 KTQE 231254Z AUTO 34006KT 10SM CLR M03/M07 A3001 RMK AO2 SLP169 T10331072 KUGN 231255Z 21011KT 10SM OVC075 01/M07 A3000 RMK AO2 SLP171 T00061067 FNUE 231200Z 08006KT 9999 SCT032 25/16 Q1016 FNUG 231200Z 24008KT 9999 TS SCT016 FEW018CB BKN070 25/21 Q1013 WMSA 231200Z VRB03KT 8000 -RA FEW005 FEW016CB SCT024 BKN260 25/24 Q1009 KTQH 231255Z AUTO 00000KT 10SM CLR M03/M04 A3017 RMK AO2 LKPR 231230Z 16005KT CAVOK 10/04 Q1011 NOSIG KSYR 231254Z 00000KT 10SM BKN025 BKN040 BKN200 M02/M06 A3013 RMK AO2 SLP204 T10221061 $ LLIB 231250Z 30011KT 9999 SCT035 17/05 Q1017 KSZL 231256Z AUTO 21010KT 10SM CLR 02/M06 A3003 RMK AO2 SLP179 T00211058 MBPV 231130Z 10002KT 9999 FEW012 25/// Q1012 GFLL 222200Z 21009KT 8000 TS BKN012 FEW027CB 26/23 Q1011 RMK-N/NE KW96 231255Z AUTO 10SM CLR 00/M04 A3021 RMK AO1 T10051040 KTRI 231253Z 00000KT 8SM CLR M04/M05 A3014 RMK AO2 SLP208 I1000 T10391050 MDAB 231300Z 00000KT 9999 FEW018 SCT300 26/24 Q1014 KSZT 231255Z AUTO 20004KT 10SM RA BKN022 OVC030 11/10 A2980 RMK AO2 KTRK 231255Z AUTO 00000KT 1/4SM FZFG OVC001 M01/M01 A3033 RMK AO2 KW99 231235Z AUTO 00000KT 7SM CLR M08/M09 A3018 RMK AO2 T10781087 KUIL 231253Z AUTO 25014KT 1 3/4SM RA BR BKN004 OVC014 12/12 A2982 RMK AO2 SLP097 P0033 T01220117 KTRL 231253Z AUTO 05003KT CLR M01/M03 A3021 RMK AO2 SLP229 T10061028 $ KTRM 231252Z AUTO 34003KT 10SM CLR 13/06 A3001 RMK AO2 SLP163 T01280056 KVAD 231256Z AUTO 06005KT 10SM -RA OVC005 15/15 A2997 RMK AO2 RAE34RAB48 SLP151 P0002 T01520152 $ KUIN 231254Z AUTO 19010KT 10SM CLR M01/M07 A3003 RMK AO2 SLP176 T10111072 KVAF 231255Z AUTO 02010KT 7SM FEW037 SCT043 18/10 A3013 RMK A01 KSZY 231255Z AUTO 00000KT 10SM CLR M04/M05 A3016 RMK A01 KTTA 231245Z AUTO 00000KT 10SM CLR 00/M02 A3017 RMK AO2 T00001018 LKTB 231244Z 17004KT 3500 BR OVC002 04/04 Q1016 RMK REG QNH 1010 FOOB 231200Z /////KT 9999 SCT010 BKN030 25/22 Q1010 KTTD 231253Z AUTO 00000KT 10SM SCT013 OVC039 15/14 A2991 RMK AO2 RAE12 SLP129 P0000 T01500139 KUKF 231235Z AUTO 00000KT 10SM CLR M03/M03 A3019 RMK AO2 KTTF 231255Z AUTO 20003KT 10SM OVC110 M01/M04 A3012 RMK AO2 T10091045 KTSP 231255Z AUTO 00000KT 10SM CLR 08/00 A3025 RMK AO2 KVBG 231258Z AUTO 12008KT 10SM CLR 11/09 A3004 RMK AO2 SLP175 T01140093 CHINO RWY12 $ MDBH 231300Z 27006KT 9999 FEW018 SCT300 22/19 Q1014 VVTS 231230Z 07004KT 9999 SCT015 FEW017CB 29/25 Q1008 NOSIG RMK CB/N/NW FOOG 231200Z 20008KT 9999 SCT010 BKN030 30/25 Q1010 KUKI 231256Z AUTO 00000KT 7SM FEW060 13/12 A3015 RMK AO2 RAB1157E15 SLP206 P0000 T01280117 KVCB 231253Z AUTO 00000KT 8SM CLR 11/11 A3013 RMK AO2 SLP202 T01110106 FOOK 231200Z 14008KT SCT012 FEW020CB 29/20 Q1010 FOOL 231230Z 22007KT 190V260 9999 FEW015 FEW020CB 29/23 Q1010 NOSIG KTTN 231253Z 30005KT 10SM CLR M01/M08 A3014 RMK AO2 SLP204 T10111078 FOON 231200Z 07002KT 9999 BKN013 FEW020CB BKN030 29/22 Q1012 KVAY 231254Z AUTO 31005KT 10SM CLR M01/M07 A3016 RMK AO2 SLP214 T10111072 $ KVBS 221805Z AUTO 35014G19KT 10SM CLR 16/11 A3017 RMK A01 FOOR 231100Z /////KT 9999 BKN008 28/23 Q//// KTTS 231258Z AUTO 14007KT 10SM FEW140 22/22 A2989 RMK AO2 SLP126 T02230221 KUKT 231255Z AUTO 31003KT 10SM CLR M02/M08 A3015 RMK AO1 KVBT 231256Z AUTO 19004KT 10SM CLR 00/M04 A3017 RMK AO2 SLP227 T00001044 FZRANO FOOT 231200Z 32004KT 9999 SCT013 BKN030 30/24 Q1011 KTUL 231253Z 16008KT 10SM CLR 02/M05 A3015 RMK AO2 SLP213 T00221050 KTVC 231253Z 19004KT 10SM OVC027 01/M02 A2996 RMK AO2 SLP154 T00061022 KULM 231254Z AUTO 00000KT 10SM CLR M07/M09 A2996 RMK AO2 KVBW 231255Z AUTO 00000KT 10SM CLR M07/M08 RMK AO2 T10751081 KVDF 231255Z AUTO 13004KT 10SM -RA SCT050 BKN070 BKN120 20/19 A2988 RMK AO2 KTVF 231241Z AUTO 24008KT 1/2SM -SN FZFG OVC003 M06/M07 A2989 RMK AO2 SNB29 P0000 FZRANO KTUP 231253Z 35003KT 10SM CLR M04/M07 A3017 RMK AO2 SLP218 T10391067 RJAA 231230Z 32008KT 9999 FEW020 SCT090 11/03 Q1008 NOSIG RMK 1CU020 4AC090 A2978 KVDI 231255Z AUTO 05007KT 10SM BKN028 BKN100 12/07 A3004 RMK AO2 KTVI 231255Z AUTO 01004KT 7SM OVC005 13/13 A3001 RMK AO2 KTUS 231253Z 13005KT 10SM CLR 13/M07 A3016 RMK AO2 SLP182 T01281067 KTVK 231235Z AUTO 21008KT 10SM 00/M05 A2999 RMK AO2 KVCT 231251Z 34005KT 10SM CLR 01/M01 A3021 RMK AO2 SLP229 T00111006 KTVL 231253Z AUTO 00000KT 10SM CLR 04/02 A3033 RMK AO2 SLP251 T00390017 KVCV 231255Z AUTO 00000KT 10SM CLR 07/M01 A3020 RMK AO2 RJAF 230700Z 24015KT 9999 FEW050 SCT070 08/M04 Q1005 LKVO 231200Z 10004KT CAVOK 08/05 Q1012 KTWF 231253Z 33003KT 10SM CLR 07/05 A3016 RMK AO2 SLP192 T00720050 MDCY 231300Z 20005KT 9999 SCT018 SCT300 23/22 Q1015 RJAH 231200Z 17003KT 9999 FEW012 SCT080 09/04 Q1007 KTVR 231253Z AUTO 36004KT 8SM CLR M02/M02 A3020 RMK AO2 SLP235 T10171022 KUNI 231255Z AUTO 00000KT 10SM CLR M07/M07 A3018 RMK AO2 T10731073 RJAK 230417Z 32003KT 5000 BR FEW005 BKN060 BKN070 12/11 Q1000 RMK 1ST005 6SC060 7AC070 A2953 RJBB 231230Z 30019KT 9999 FEW025 09/M01 Q1018 NOSIG KX60 231255Z AUTO 02008G13KT 1 1/4SM BR BKN002 BKN007 18/18 A2993 RMK A01 RJBD 231000Z 33017G29KT 9999 FEW045 SCT070 10/M02 Q1015 KVEL 231253Z AUTO 28003KT 10SM CLR 00/M03 A3036 RMK AO2 SLP287 T00001028 RJBE 231200Z 30012KT 9999 FEW025 SCT080 08/M02 Q1018 KTWM 231254Z AUTO 22003KT 10SM CLR M06/M09 A2986 RMK AO2 SABE 231200Z 31014G24KT CAVOK 23/08 Q1006 KUNO 231253Z AUTO 18003KT 10SM CLR M02/M07 A3014 RMK AO2 SLP216 T10171072 $ KTVY 231255Z AUTO 13004G09KT 10SM CLR 07/03 A3028 RMK AO2 SAAR 231200Z 32021KT 9000 NSC 22/07 Q1008 KVER 231255Z AUTO 16004KT 10SM CLR M01/M06 A3007 RMK AO2 T10071057 RJCB 231100Z 34012KT 9999 FEW040 BKN/// 02/M02 Q1001 KVES 231235Z AUTO 18004KT 10SM BKN120 M01/M03 A3012 RMK AO2 RJCC 231230Z 25003KT 220V290 9999 FEW020 M00/M01 Q1005 RMK 1CU020 A2970 EYKA 231250Z 16009KT 130V190 8000 OVC004 02/01 Q1014 R08/1///95 KTXK 231253Z 00000KT 10SM CLR M02/M02 A3020 RMK AO2 SLP229 T10171022 KUNU 231255Z AUTO 19004KT 10SM OVC050 00/M06 A2998 RMK AO2 T10051065 RJAW 231200Z 22005KT 190V250 9999 FEW015 24/23 Q1014 RMK 1CU015 A2995 KUNV 231253Z 32006KT 10SM OVC029 M01/M07 A3012 RJCH 231100Z 28005KT 9999 FEW040 BKN140 02/M04 Q1006 RJBT 230900Z 29008KT 9999 -SHRA FEW015 SCT025 BKN035 05/01 Q1015 RJCK 231100Z 35004KT 9999 FEW020 SCT060 BKN150 04/01 Q1000 RJDC 231200Z 00000KT 9999 FEW025 SCT040 BKN070 08/M01 Q1019 RJCM 231100Z VRB02KT 9999 FEW005 SCT035 BKN040 02/M00 Q1002 RJCN 230900Z VRB02KT 9999 -SHRA FEW015 SCT025 BKN035 04/03 Q1000 LLOV 231250Z 32004KT 9999 BKN030 16/06 Q1019 RMK RERA RJCO 230925Z 30005KT 9999 FEW030 BKN150 03/M00 Q1005 RMK 2CU030 7AC150 A2970 SADF 231200Z 32012KT CAVOK 22/10 Q1006 SACO 231200Z 31013KT CAVOK 29/08 Q1008 KUOX 231255Z AUTO 10SM CLR M06/M07 A3020 RMK AO2 KTYQ 231255Z AUTO 19006KT 10SM BKN085 OVC120 M01/M04 A3012 RMK AO2 T10151037 KTYR 231253Z 00000KT 10SM CLR 01/M02 A3020 RMK AO2 SLP226 T00061017 FQCH 231300Z 15008KT 9999 BKN015 BKN020 28/19 Q1016 RJEB 230700Z 31008KT 8000 -SHRA FEW006 BKN008 BKN030 02/01 Q1002 FQBR 231230Z 02015KT 9999 SCT017 30/25 Q1011 KTYS 231253Z 06003KT 10SM FEW080 00/M02 A3014 RMK AO2 SLP211 T00001017 RJEC 231100Z 34004KT 9999 -SHSN FEW010 SCT020 BKN030 00/M01 Q1003 KVGT 231253Z AUTO 31005KT 10SM CLR 12/03 A3018 RMK AO2 SLP228 T01220028 RJCW 230900Z 30010KT 9999 -SHSN FEW015 SCT020 BKN030 02/M03 Q1003 KVIH 231253Z AUTO 21010KT 10SM CLR 00/M08 A3010 RMK AO2 SLP202 T00001083 KTZR 231247Z 00000KT 10SM SKC M04/M06 A3016 RJDT 231100Z 32006KT 250V030 9999 FEW030 BKN040 08/M02 Q1021 MDJB 231300Z 00000KT 9999 SCT018 23/21 Q1014 NOSIG LLSD 231250Z 30011KT 9999 SCT040 20/09 Q1018 RMK SCT070 RJFF 231230Z 29011KT 270V330 CAVOK 10/M02 Q1021 RMK A3015 KUSE 231300Z AUTO 22006KT 10SM OVC120 M02/M02 A3012 RMK AO2 RJFG 230900Z 32012KT 9999 FEW040 SCT/// 11/03 Q1019 KVJI 231255Z AUTO 11005KT 10SM CLR M02/M04 A3011 RMK AO2 T10241041 RJFK 231200Z 29002KT 9999 FEW030 SCT060 04/00 Q1021 KUTA 231255Z AUTO 00000KT 10SM A3023 RMK AO2 TSNO KVIS 231256Z AUTO 18003KT 1 1/2SM BR CLR 08/07 A3013 RMK AO2 SLP211 T00780067 KY19 231255Z AUTO 20010KT 10SM CLR 00/00 A2981 RMK AO2 RJFM 231200Z 29007KT 9999 FEW030 08/02 Q1021 KWAL 231254Z AUTO 10SM CLR 01/M03 A3019 RMK AO2 SLP219 T00061033 RJFO 231200Z 28005KT 9999 FEW030 BKN070 07/01 Q1020 KY23 231255Z AUTO 36003KT 10SM CLR M08/M09 A2993 RMK AO2 T10811088 RJGG 231230Z 30017KT 9999 FEW015 09/03 Q1015 NOSIG SAEZ 231230Z 30017G27KT CAVOK 24/11 Q1005 RJFR 231200Z 29008KT 240V320 9999 VCSH FEW030 SCT045 BKN080 10/M00 Q1020 RJFS 231200Z 30005KT 9999 FEW040 BKN060 07/02 Q1021 RJFT 231200Z 27003KT 240V340 9999 FEW050 BKN070 05/00 Q1021 RJFU 231200Z 34014KT 9999 -RA FEW030 BKN050 BKN070 10/03 Q1021 EYPA 231250Z 17014KT CAVOK 07/05 Q1008 R19/2///95 KY31 231254Z AUTO 22006KT 10SM SCT020 OVC028 M01/M04 A2998 RMK AO2 T10101045 KVLD 231253Z 08005KT 7SM -RA SCT005 BKN090 BKN110 15/14 A2998 RMK AO2 RAE27B49 SLP159 P0001 T01500144 RJFY 230509Z 30015G25KT 9999 FEW030 SCT050 13/M00 Q1017 RMK 1CU030 3SC050 A3004 KUTS 231253Z AUTO 00000KT 10SM CLR 02/M01 A3021 RMK AO2 SLP229 T00221011 $ KUVA 231255Z AUTO 00000KT 10SM CLR 00/M03 A3024 RMK AO2 T00041026 KVKS 231255Z AUTO 00000KT 6SM BR CLR M02/M03 A3021 RMK A01 KVLL 231254Z AUTO 20005KT 10SM SCT075 OVC110 00/M05 A3012 RMK AO2 T10051050 GGOV 231200Z 04006KT CAVOK 30/14 Q1011 NOSIG KVKY 231255Z AUTO 03019KT 10SM CLR 16/10 A3004 RMK A01 KWDG 231245Z 00000KT 10SM SKC M00/M03 A3010 SBAA 231200Z 27002KT 5000 -RA BR SCT010 SCT015 OVC080 22/22 Q1014 MDLR 231300Z 09006KT 9999 FEW016 SCT300 26/26 Q1014 KY50 231256Z AUTO 00000KT 10SM OVC046 M03/M06 A2995 RMK AO2 SLP172 T10281061 KY49 231255Z AUTO 21003KT 10SM SCT110 M10/M12 A2987 RMK AO2 T11041118 KVNC 231255Z AUTO 13006KT 10SM CLR 21/21 A2988 RMK AO2 LTG DSNT W LMML 231245Z 14009KT 9999 FEW025 19/14 Q1020 NOSIG KUUU 231253Z AUTO 34011KT 10SM CLR 01/M06 A3004 RMK AO2 SLP174 T00061061 KY51 231255Z AUTO 19004KT 10SM CLR M03/M07 A2993 RMK AO1 T10311070 SBAF 231200Z 09003KT 9999 BKN030 OVC090 22/18 Q1017 RJKA 231000Z 35010KT 9999 FEW040 SCT050 16/06 Q1020 KWDR 231255Z AUTO 04004KT 10SM SCT042 05/00 A3013 RMK AO1 KVOA 231255Z AUTO 01014G20KT 7SM CLR 17/11 A2998 RMK A01 EYSA 231250Z 16013KT 2700 BR OVC002 02/02 Q1011 R14L/29//95 R14R/29//95 AMB NOSIG SBAN 231200Z 31005KT 9999 BKN020 SCT100 23/16 Q1018 SBBE 231300Z 07010KT 9999 BKN025 29/22 Q1012 KY63 231257Z AUTO 24005KT 7SM CLR M09/M11 A2994 RMK AO2 T10951106 SBBG 231200Z 34012KT CAVOK 23/08 Q1013 FQIN 231200Z 16008KT 9999 SCT020 30/22 Q1014 SBAQ 230200Z 15004KT 9999 SCT020 22/19 Q1014 SBBH 231200Z 02003KT 3000 -RA BR SCT005 BKN009 OVC050 20/19 Q1017 SBBI 231200Z 07006KT 9999 OVC014 16/12 Q1019 SBAR 231300Z 08014KT 9999 FEW019 29/22 Q1013 SBCA 231200Z 02015KT CAVOK 21/11 Q1017 SBAT 231200Z 22002KT 9999 FEW012 BKN100 28/24 Q1013 SBCB 231200Z 24008KT 1500 -RA BR SCT004 BKN006 BKN030 23/22 Q10 17 SBCC 231200Z 17006KT CAVOK 26/20 Q1014 SBAU 230800Z 11010KT 9999 SCT046 ///// Q1011 KVOK 231256Z AUTO 00000KT 10SM CLR M05/M09 A2993 RMK AO2 SLP151 T10551092 $ KY70 231256Z AUTO 22007KT 10SM OVC042 00/M05 A3005 RMK AO2 T00001052 MDPC 231300Z 09006KT 9999 SCT022 27/24 Q1014 KVPC 231253Z AUTO 00000KT 10SM FEW037 M01/M01 A3010 RMK AO2 SLP193 T10061006 KUXL 231255Z AUTO 00000KT 10SM CLR 03/01 A3019 RMK AO2 T00260007 SBAX 231200Z 11006KT 9999 FEW003 20/19 Q1018 SBCF 231200Z 17002KT 6000 SCT003 SCT030 OVC080 19/19 Q1018 KUYF 231255Z AUTO 18006KT 10SM BKN110 M01/M04 A3013 RMK AO2 SBCG 231300Z 09007KT 050V140 CAVOK 26/18 Q1014 SBBQ 231200Z 15005KT 090V180 2000 RA BR BKN007 OVC023 15/14 Q1021 SBCH 231200Z 06004KT CAVOK 19/13 Q1016 KVNY 231251Z 00000KT 10SM CLR 17/04 A3004 RMK AO2 SLP163 T01670044 SBCI 231200Z 35005KT 9999 FEW010 SCT020 OVC080 27/22 Q1013 SBBR 231300Z 24006KT 9999 SCT030 BKN100 27/17 Q1018 SBCJ 231200Z 00000KT 4000 FU BKN005 22/20 Q1016 KUZA 231254Z AUTO 04003KT 10SM CLR 04/M03 A3014 RMK AO2 SLP212 T00391028 SBBU 231200Z 08009KT CAVOK 23/19 Q1016 FPST 231200Z 12008KT 9999 FEW020CB BKN040 28/23 Q1012 SBBV 231300Z 08012KT 9999 FEW030 31/22 Q1012 SBBW 231200Z 00000KT 9999 BKN020 BKN097 26/22 Q1013 FQLC 231200Z 34005KT 9999 TS SCT011 BKN015 SCT020CB 24/17 Q1018 RMK CB TO E/W/NW/N SAME 231200Z 18013KT CAVOK 27/M04 Q1009 SBCO 231200Z 27003KT CAVOK 20/08 Q1015 SBCP 231220Z 22012KT 4000 -RA BR BKN008 OVC080 21/19 Q1017 MDPP 231200Z 00000KT 9999 FEW018 22/21 Q1013 SBCR 231300Z 06004KT CAVOK 28/20 Q1012 SBCT 231300Z 10008KT 9999 OVC014 16/12 Q1019 KVPS 231155Z 03008KT 10SM BKN042 11/03 A2998 RMK AO2A SLP159 T01080026 10123 20108 58003 $ KVRB 231253Z 19003KT 10SM SCT050 23/21 A2990 RMK AO2 RAB1155E06 SLP125 P0000 T02330211 FQMA 231300Z 23006KT 9999 BKN020 BKN025 23/18 Q1017 NOSIG SBDN 231200Z 09009KT CAVOK 23/15 Q1015 SBCX 221900Z 21006KT CAVOK 16/10 Q1015 RJNG 231226Z 32011KT 280V350 9999 FEW030 SCT080 07/01 Q1015 RMK 1CU030 4AC080 A2999 SBEG 231300Z 15003KT CAVOK 32/24 Q1012 SBCY 231300Z 24003KT 9999 BKN033 BKN050 28/24 Q1012 KWHP 230355Z 00000KT 10SM SKC 27/02 A3008 SBCZ 231300Z 32005KT 9999 FEW015 SCT100 27/23 Q1012 KVQQ 231250Z 03012KT 3SM RA BKN006 OVC032 17/17 A2997 KVPZ 231256Z AUTO 20006KT 10SM OVC075 01/M05 A3008 RMK AO2 SLP194 T00061050 RJOA 231200Z 28004KT 9999 FEW020 BKN050 BKN070 04/M02 Q1018 SBEK 231200Z 27002KT CAVOK 28/25 Q1011 RJOB 231200Z 28003KT 9999 FEW020 SCT050 BKN060 04/M01 Q1017 RJNK 231200Z 25024KT 5000 -SHRA FEW015 SCT020TCU BKN030 06/02 Q1015 EYVI 231250Z 17013KT 2900 DZ BR OVC003 00/M00 Q1015 R19/2///95 TEMPO 1500 DZ BR SAOC 231200Z 29009KT CAVOK 30/10 Q1006 RJOC 231100Z 28015KT 9999 FEW030 SCT045 BKN060 09/M04 Q1017 KVQT 231255Z AUTO 05015KT 10SM CLR 15/08 A3012 RMK A01 MDSD 231300Z 07005KT 5000 BR FEW016 SCT280 24/23 Q1013 RJOF 231031Z 24004KT 210V300 9999 -SHRA FEW025 BKN040 07/01 Q1019 RMK 1CU025 7CU040 A3011 KVSF 231254Z AUTO 32007KT 10SM CLR M03/M09 A3007 RMK AO2 SLP190 T10331094 KWJF 231256Z AUTO 27005KT 10SM CLR 05/M03 A3020 RMK AO2 SLP223 T00501033 RJOH 231200Z 27013KT 9999 -SHRA FEW030 SCT045 BKN060 09/M07 Q1017 SANR 230000Z 05012KT CAVOK 27/08 Q1009 RJOI 231255Z 30004KT 9999 FEW025 BKN080 08/M01 A3013 RMK SLP202 T00781006 SBFI 231200Z 13005KT CAVOK 21/15 Q1014 SBES 231200Z 10005KT 060V130 3000 RA BR BKN010 OVC020 20/19 Q1017 RJNS 231200Z 27022KT 9999 FEW020 08/M01 Q1010 SANT 231200Z 34016KT CAVOK 25/14 Q1010 RJOK 231100Z 34007KT 9999 FEW030 SCT060 06/M00 Q1018 RJNT 231200Z 17004KT 120V220 9999 -SHRA FEW010 SCT030 BKN040 06/02 Q1014 KVTA 231254Z AUTO 00000KT 8SM CLR M04/M06 A3016 RMK AO2 SLP222 T10391061 SBFL 231300Z 33006KT 280V020 9999 FEW035 BKN050 22/13 Q1017 RJOM 231200Z 29012KT 260V350 9999 FEW030 SCT050 09/M02 Q1019 SBFN 231300Z 12014KT 9999 SCT017 28/23 Q1014 RJNW 231000Z 29003KT 250V340 9999 FEW000 SCT010 03/03 Q1012 LOAN 231200Z 00000KT 0150 FG VV001 RJOO 231100Z 30006KT 260V330 9999 FEW030 08/M03 Q1017 RJOP 222323Z 32023G33KT 9999 SCT030 BKN060 12/08 Q1011 RMK 3CU030 6SC060 A2987 P/RR RJNY 231214Z 26020G30KT 9999 FEW015 08/M02 Q1008 RMK 1CU015 A2979 FQNP 231200Z 18005KT 9999 BKN020 36/16 Q1010 RJOR 231200Z 23014KT 9999 FEW015 SCT030 BKN045 07/M02 Q1017 RJOS 222321Z 34018G28KT 9999 SCT025 BKN050 12/06 Q1011 RMK 3CU025 6SC050 A2988 P/RR SBFS 231200Z /////KT 4000 BR FEW010 BKN025 OVC070 ///// Q//// KVTI 231255Z AUTO 18003KT 10SM CLR M02/M07 A2995 RMK AO2 T10211066 RJOT 231200Z 23006KT 9999 FEW025 04/M00 Q1018 VYMD 231230Z 16003KT 4000 BKN015 FEW018CB OVC090 24/24 Q1009 MDST 231300Z 13004KT 070V180 1000 BR BKN010 22/22 Q1014 BR ALL QDS SBGL 231300Z 07008KT 9999 SCT014 BKN040 22/18 Q1016 SBGM 221900Z 22007KT 9999 SCT015 BKN040 OVC060 23/23 Q1008 FQPB 231200Z 07012KT 9999 FEW020 30/24 Q1009 LOAV 231200Z VRB02KT 0500 FG VV005 03/01 RJOW 231000Z 28015KT 250V310 9999 FEW045 SCT070 10/M02 Q1018 KWLD 231254Z AUTO 18003KT 10SM CLR 01/M04 A3010 RMK AO2 SLP203 T00061044 $ KVTN 231252Z AUTO 22007KT 10SM CLR 04/02 A3001 RMK AO2 SLP171 T00390022 SBGO 231300Z 35007KT 9999 FEW035 25/18 Q1016 RJOY 231000Z 33008KT 9999 FEW060 09/M04 Q1016 RJOZ 222346Z 34015G29KT 9999 FEW030 SCT060 10/M02 Q1018 RMK 1CU030 4SC060 A3007 SBFZ 231300Z 10017KT 9999 BKN025 30/22 Q1013 KVTP 231254Z AUTO 23012KT 10SM CLR 00/M02 RMK AO2 KXBP 231255Z AUTO 00000KT 10SM CLR M02/M03 A3020 RMK AO2 T10181030 SBGR 231300Z 06009KT 9999 OVC021 20/16 Q1018 KVUJ 231245Z AUTO 03003KT 10SM CLR 03/M02 A3020 RMK AO2 T00291020 SBIC 222100Z 08003KT 9999 FEW025TCU 30/25 Q1007 RETS SARC 231200Z 05011KT CAVOK 24/09 Q1013 KWMC 231256Z AUTO 20004KT 10SM CLR 04/02 A3023 RMK AO2 SLP224 T00390022 SBGW 231200Z 03003KT 9000 4000SE BKN017 BKN035 BKN050 20/16 Q1017 SARE 231200Z 04009KT CAVOK 23/07 Q1012 SARF 231200Z 07006KT CAVOK 23/11 Q1014 KVUO 231253Z AUTO 11004KT 10SM SCT037 BKN070 OVC100 14/14 A2990 RMK AO2 SLP126 T01440144 SBIH 231200Z 12003KT 7000 FEW007 SCT080 26/23 Q1012 KVVG 231230Z AUTO 1SM BR 19/19 A2981 RMK A01 SARI 231200Z 05004KT CAVOK 20/13 Q1014 SASA 231200Z 09004KT CAVOK 18/11 Q1016 RJSA 231228Z 20010KT 3000 -SHSN FEW008 SCT015 BKN020 00/M00 Q1007 RMK 1ST008 3CU015 5CU020 A2975 SBHT 231200Z 07006KT 9999 BKN015 28/24 Q1012 RKJB 231200Z 10004KT 9999 BKN025 02/M01 Q1023 NOSIG SBIL 231200Z 04005KT 9999 SCT020 28/24 Q1014 SARL 231200Z 02008KT CAVOK 24/09 Q1014 RJSC 231000Z 01008KT 8000 -SHRA FEW005 SCT030 BKN040 05/04 Q1007 FQQL 231300Z 14013KT 9999 BKN020 31/23 Q1009 RJSF 231100Z 30008KT 270V340 9999 -SHRA FEW030 SCT040 BKN050 05/02 Q1007 SBIP 231200Z 13005KT 9999 SCT010 OVC030 27/23 Q1014 SARP 231200Z 07005KT CAVOK 23/10 Q1014 RJSI 231000Z 34008KT 9999 -SHRA FEW020 SCT030 BKN045 06/M01 Q1005 SASJ 231200Z 00000KT CAVOK 23/10 Q1015 SCBA 231200Z 30012KT CAVOK 07/M05 Q1018 RJSK 231200Z VRB02KT 9999 -SHSN FEW015 SCT030 BKN040 02/00 Q1009 RKJK 231256Z AUTO 17005KT 10SM R36/4500FT FEW027 BKN034 BKN041 BKN050 03/01 A3020 RMK AO2 SLP232 T00330013 $ RJTC 230253Z 03008KT 310V080 9999 FEW010 BKN160 10/08 Q1000 RMK 1ST010 6AC160 A2954 HAAB 231200Z 16008KT 9999 BKN025 22/06 Q1022 RJTE 230325Z 35014KT 9999 FEW010 SCT015 BKN080 13/11 Q0998 RMK 1ST010 3CU015 7AC080 A2950 RJSN 231200Z 31018KT 9999 FEW020 SCT030 BKN050 08/01 Q1011 KVVV 231254Z AUTO 31003KT 10SM CLR M04/M08 A2996 RMK AO2 TSNO RJSO 231243Z 25003KT 200V290 3200 -SHSN FEW006 SCT010 BKN020 01/00 Q1008 RMK 1ST006 3ST010 7CU020 A2977 RJTF 230700Z 36008KT 330V030 9999 FEW020 SCT050 14/04 Q1002 SBKG 231200Z 09013KT 050V130 9999 BKN026 27/19 Q1016 SBJP 231200Z 11009KT 9999 BKN020 28/23 Q1015 SBIZ 231200Z 06008KT 9999 SCT035 30/26 Q1012 SBJR 231200Z 01001KT 9999 FEW020 OVC050 23/19 Q1016 RJTI 230700Z 16003KT 130V210 9999 FEW020 BKN060 BKN/// 14/10 Q1002 RJSR 231000Z 28008KT 250V310 9999 FEW010 SCT020 BKN040 03/03 Q1008 SCAR 231200Z 25003KT 9999 OVC030 19/12 Q1016 RJSS 231200Z 31009KT 280V350 9999 FEW020 SCT100 06/01 Q1008 SBLB 231200Z 22018KT 9999 FEW008 SCT018 OVC070 23/19 Q1015 W///S4 RJTK 230521Z 36008KT 9999 FEW010 BKN060 13/10 Q1001 RMK 2CU010 6SC060 A2956 SCAT 231200Z 34006KT 9999 SCT009 OVC010 14/11 Q1017 SBJU 231200Z 08007KT 9999 FEW022 30/16 Q1016 RJTL 230539Z 36006KT 310V030 9999 FEW005 SCT010 14/11 Q1000 RMK 1ST005 4ST010 A2955 SBJV 231200Z 26005KT 9999 SCT015 BKN030 19/16 Q1017 KVWU 231249Z AUTO 24006KT 10SM OVC110 M07/M08 A2987 RMK AO2 SBLE 231200Z 36005KT 9999 BKN025 25/18 Q1017 RJTO 230700Z 19009KT 9999 FEW025 BKN030 BKN/// 16/11 Q1002 SCCF 231200Z 09019KT CAVOK 12/M17 Q1024 RJSY 231200Z 31013G25KT 270V360 8000 -SHRA FEW015 SCT020 BKN035 05/01 Q1011 SBKP 231300Z 13010KT CAVOK 22/15 Q1016 SCCH 231200Z 20013KT CAVOK 12/07 Q1015 RJTR 230800Z AUTO 00000KT 7SM FEW005 SCT014 OVC028 12/08 A2964 RMK AO2 RAE00 CIG 014V028 SLP040 $ SCCI 231200Z 26022KT 9999 BKN041 07/M02 Q1009 NOSIG SBMA 231200Z 01004KT 9999 SCT017 29/24 Q1013 SCDA 231200Z 24004KT 9999 OVC032 18/12 Q1016 RJTT 231230Z 34015KT 9999 FEW020 SCT080 12/00 Q1008 NOSIG RMK 1CU020 3AC080 A2978 MOD TO SEV TURB OBS AT 1210Z AROUND ADDUM BTN 10000FT AND 13000FT BY B767 RJTU 230422Z 03006KT 9999 FEW015 SCT100 14/08 Q1001 RMK 1CU015 3AC100 A2956 SAVC 231200Z 23016G28KT 9999 FEW035 10/M06 Q1015 SBMD 231200Z 05006KT 9999 SCT015 28/24 Q1012 SBME 231200Z 28003KT 3000 -RA BKN010 OVC070 20/19 Q1017 SBLO 231200Z 12006KT 9999 SCT025 22/17 Q1016 SBLP 231200Z 09004KT CAVOK 32/21 Q1013 SBMG 231200Z 07004KT 9999 FEW020 23/17 Q1014 RJTY 231256Z AUTO 01007KT 10SM CLR 08/M01 A2982 RMK AO2 SLP105 T00791011 FZRANO $ SBLS 231200Z 23003KT 7000 -RA SCT004 BKN031 BKN100 20/19 Q1017 SBMK 231200Z 25003KT 210V320 CAVOK 26/17 Q1016 KVYS 231255Z AUTO 18008KT 10SM CLR M01/M06 A3002 RMK AO2 T10131056 SAWC 222010Z 25017KT 9999 VCSH FEW030 SCT080 10/04 Q1004 SBML 230800Z 12012KT CAVOK 18/17 Q1013 KWRB 231256Z AUTO 02003KT 10SM OVC024 12/07 A3005 RMK AO2 SLP178 T01190066 FQTT 231200Z 13007KT 030V180 9999 SCT020 38/20 Q1007 SAWE 231200Z 27024G34KT CAVOK 07/M02 Q1004 SBMN 231300Z 17002KT CAVOK 30/24 Q1011 SBNF 231300Z 12004KT 9999 BKN040 22/14 Q1017 SBMO 231300Z 07010KT 9999 BKN020 29/23 Q1014 SAWG 231200Z 23024G34KT CAVOK 07/M07 Q1011 KXIF 231256Z AUTO 00000KT 10SM BKN030 M02/M06 A3009 RMK AO2 SLPNO WND DATA ESTMD T10231065 SCCY 231200Z VRB04KT 9999 SCT040 08/M04 Q1019 SAWH 231200Z 36005KT 9999 BKN035 BKN100 04/01 Q1002 SBMQ 231300Z 05010KT 9999 BKN025 34/24 Q1011 KXIH 231255Z AUTO 07014KT 9SM CLR 13/06 A3016 RMK A01 SBMS 231200Z 11012KT 9999 BKN030 33/20 Q1013 KWRI 231256Z AUTO 32006KT 10SM CLR M01/M07 A3013 RMK AO2 SLP204 T10101072 $ SCFA 231200Z 32006KT 9999 OVC024 17/10 Q1015 NOSIG SBMT 231200Z 09009KT 9999 SCT015 BKN017 19/14 Q1018 SCEL 231200Z 03003KT 340V110 8000 NSC 19/07 Q1013 NOSIG SBNM 221900Z 20018KT CAVOK 26/11 Q1013 KWRL 231253Z AUTO 21004KT 10SM CLR M01/M01 A3010 RMK AO2 SLP223 T10061006 FQVL 231200Z 12013KT 080V140 9999 FEW020 29/22 Q1013 SBMY 231200Z 11005KT CAVOK 28/25 Q1011 SBOI 231300Z 09005KT 9999 SCT025 29/23 Q1012 SBPA 231200Z 30003KT 240V020 CAVOK 19/10 Q1015 SBPB 231200Z 10018KT 9999 FEW017 34/23 Q1011 SBNT 231300Z 12015KT 9999 BKN023 FEW027TCU 29/22 Q1013 SBPC 231200Z 07002KT 6000 OVC010 20/20 Q1019 RKPC 231200Z 32009KT 290V350 9999 BKN035 09/M02 Q1024 NOSIG SCGE 231200Z 18015KT CAVOK 11/09 Q1017 SBPF 231100Z 08010KT CAVOK 16/10 Q1016 RKNY 231200Z 27006KT CAVOK 01/M12 Q1019 NOSIG SAZA 222333Z 36008KT -TS SCT035 FEW045CB 22/08 Q1004 RMK CB OBS TO W LPAR 231200Z /////KT 9999 FEW020 20/15 Q1015 SBPJ 231200Z 36003KT 9999 FEW025 30/23 Q1012 SBPK 231200Z 35008KT CAVOK 22/10 Q1013 LPBJ 231200Z 17019KT 9999 FEW015 19/13 Q1017 RKPK 231200Z 30005KT CAVOK 04/M05 Q1022 NOSIG MGCB 231300Z 00000KT 8000 BKN014 14/14 QFE872.3 BR MTN W CUB/CL KWST 231253Z AUTO 00000KT 10SM CLR 01/M03 A3008 RMK AO2 SLP185 T00061033 SBPL 231200Z 08008KT CAVOK 31/19 Q1013 SBPP 231200Z 14005KT CAVOK 23/13 Q1015 SBPR 231200Z 01002KT 3000 -RA BR BKN005 BKN010 OVC080 20/20Q1018 LPAZ 231230Z 16011KT 9999 FEW019 19/14 Q1007 SBPS 231300Z 05012KT 9999 BKN020 29/24 Q1013 SBRB 231300Z 32006KT CAVOK 27/21 Q1012 SCIC 231200Z 18010KT 8000 NSC 14/09 Q1013 SAZM 231200Z 23008KT 180V270 CAVOK 15/09 Q1004 SBPV 231300Z 04003KT 9999 SCT015 28/24 Q1011 KXLL 231255Z AUTO 29003KT 10SM CLR M01/M07 A3017 RMK AO2 SAZN 231200Z 23009G22KT CAVOK 17/03 Q1013 SCIE 231200Z 22007KT CAVOK 15/08 Q1016 SBRF 231300Z 06009KT 020V100 9999 BKN021 BKN050 29/22 Q1014 SAZS 231200Z 28017KT 9000 NSC 09/M01 Q1016 SBRJ 231200Z 03005KT 9999 SCT025 OVC050 22/19 Q1016 KWVI 231253Z AUTO 34003KT 9SM CLR 14/14 A3009 RMK AO2 SLP187 T01390139 $ LPCS 231230Z 16015KT 130V190 9999 FEW022 20/15 Q1015 KXNA 231253Z 00000KT 10SM CLR M01/M05 A3015 RMK AO2 SLP219 T10111050 SBSC 231200Z 00000KT 7000 FEW010 OVC025 20/19 Q1017 FSIA 231200Z 26007KT 9999 BKN019 30/21 Q1008 NOSIG SBQV 231200Z 03006KT CAVOK 26/16 Q1017 KWVL 231256Z AUTO 30007KT 10SM CLR M03/M08 A2991 RMK AO2 SLP160 T10281083 FZRANO KWWD 231255Z AUTO 36008KT 10SM CLR 01/M07 A3017 RMK AO2 SLP219 T00111067 FZRANO RKSG 231256Z 01005KT 10SM FEW038 01/00 A3016 RMK AO2A SLP217 T00051005 PWINO TSNO $ SBSG 231300Z 15014KT 9999 BKN027 30/22 Q1013 SCIP 231200Z 11014KT 9999 SCT012 BKN035 18/16 Q1025 NOSIG SBRP 231200Z 14004KT 9999 OVC010 21/19 Q1014 RKSI 231230Z 33008KT 9999 -SN BKN025 OVC070 03/M06 Q1021 NOSIG SBTA 231200Z VRB03KT 9999 FEW022 SCT040 21/14 Q1017 SBSJ 231200Z 12005KT 9999 BKN020 BKN040 20/15 Q1017 KXMR 231258Z AUTO 13012KT 10SM CLR 23/21 A2989 RMK AO2 SLP125 T02270205 $ SBTC 222000Z 06010KT CAVOK 28/24 Q1010 SBSL 231300Z 06015KT 9999 BKN017 29/22 Q1011 SBSM 231200Z 07003KT 020V150 CAVOK 22/09 Q1014 RKSM 231200Z 18003KT 9999 SCT070 M01/M06 A3016 SBSN 231300Z 07009KT 7000 SCT017 FEW025TCU 29/24 Q1012 SBTE 231200Z 08007KT CAVOK 31/19 Q1011 SCJO 231200Z 18008KT 9999 SCT030 11/03 Q1021 SBTF 231300Z 25002KT 9999 FEW005 BKN070 25/24 Q1011 RKSO 231235Z 27008KT 2SM -SN OVC022 01/00 A3018 RMK AO2A SHSNB1204SE1235 SNB1235 KXNO 231256Z AUTO 03008KT 10SM FEW160 06/00 A3011 RMK AO2 SLP200 T00641004 $ SBSP 231300Z 12006KT 9999 FEW015 OVC023 19/14 Q1019 SBSR 231200Z 16006KT CAVOK 24/18 Q1015 SBUA 222000Z 25003KT 9999 SCT030 SCT100 30/26 Q1006 RKSS 231200Z 24002KT 9999 SCT040 M00/M09 Q1021 NOSIG KWWR 231255Z AUTO 22009KT 10SM CLR 03/M02 A3014 RMK AO2 SBTK 231200Z 07002KT 9999 FEW015 26/24 Q1012 MGES 231300Z 05004KT 9999 OVC014 18/16 QFE910.8 MTN W CUB/CL SBST 231200Z 16006KT 130V190 9999 OVC030 22/18 Q1016 HBBA 231100Z 18006KT 9999 FEW020 FEW025CB BKN100 28/19 Q1011 NOSIG LPFL 231230Z 05008KT 340V130 9999 SCT018 FEW020TCU BKN034 14/11 Q1006 SBSV 231300Z 08013KT 9999 SCT017 29/24 Q1014 RKTN 231200Z 36002KT 9999 FEW050 01/M06 Q1021 NOSIG SBUF 231200Z 07004KT CAVOK 31/19 Q1014 SBUG 231300Z 02011KT CAVOK 24/07 Q1013 SBSY 231200Z AUTO 13005KT 050V170 9999 ///////// 22/16 Q1016 LPFR 231230Z 10010KT 9999 SCT012 21/18 Q1018 SBTT 231300Z 31005KT 9999 SCT013 BKN100 27/24 Q1012 SBTU 231200Z /////KT 9999 SCT015 ///// Q1014 SBUL 231200Z 05005KT 9999 BKN007 OVC015 21/19 Q1017 RKTU 231200Z 01001KT CAVOK M03/M04 Q1021 NOSIG VYYY 231230Z 15004KT 6000 BKN015 FEW018CB B100 28/23 Q1010 SBVH 231200Z 29007KT 7000 BKN004 BKN040 24/23 Q1014 SBUR 231200Z 35004KT 9999 SCT018 BKN100 24/18 Q1016 KWYS 231255Z AUTO 09004KT 10SM OVC015 05/03 A3025 RMK AO2 MGGT 231300Z 36012KT 9999 SCT018 15/12 Q1026 A3030 FEW080 YABA 231230Z AUTO 08007KT 9999 // BKN082 13/10 Q1018 LPHR 231230Z 09008KT 9999 SCT018 17/13 Q1005 KXSA 231255Z AUTO RMK AO2 PWINO TSNO SBVT 231300Z 20010KT 9999 SCT008 BKN020 23/21 Q1015 MGHT 231300Z 00000KT 9999 BKN015 12/11 QFE820.8 MTN N CUB/CL WSAP 231200Z 05003KT 9999 -RA FEW018 BKN150 27/25 Q1007 KYIP 231253Z 19006KT 10SM BKN110 M02/M04 A3011 RMK AO2 SLP202 T10171039 SCNT 231200Z 29020KT 9999 SCT033 BKN200 07/M01 Q1013 MHAM 231200Z 00000KT CAVOK 24/22 BKN090 MHCA 231300Z 0000KT 9999 SCT020 BKN080 20/20 Q1016 LPLA 231200Z /////KT 9999 FEW015 FEW020TCU 16/13 Q1006 LQBK 231230Z 24007KT 210V290 CAVOK 17/05 Q1018 NOSIG KYKM 231253Z AUTO 00000KT 3SM BR SCT070 08/07 A2984 RMK AO2 SLP107 T00830067 KYKN 231256Z AUTO 36003KT 10SM CLR 01/M02 A3000 RMK AO2 SLP184 T00061017 FZRANO SCPQ 231200Z 19017KT CAVOK 09/03 Q1022 MHCH 231200Z 00000KT 9999 FEW030 BKN080 23/19 HZ SBYS 231100Z 18006KT 9999 FEW030 20/16 Q1015 LPMA 231230Z 21017KT 160V220 9999 FEW015 22/16 Q1014 SCQP 231200Z 17010KT 140V200 CAVOK 11/07 Q1019 KXVG 231256Z AUTO 00000KT 10SM CLR M14/M16 A2988 RMK AO2 FSPP 231200Z 31005KT //// //// 29/22 Q1009 SCRM 231200Z 24009KT 9000 -SHSN SCT009 OVC015 M02/M02 Q0981 MGMM 231300Z 28006KT 9999 FEW012 SCT090 21/20 Q1018 A3006 SCSE 231200Z 00000KT 9999 FEW008 OVC009 13/11 Q1014 LOWG 231250Z 15003KT 110V200 CAVOK 13/03 Q1013 NOSIG KYNG 231251Z 17003KT 10SM FEW120 BKN170 BKN250 M03/M07 A3013 RMK AO2 SLP216 T10331067 LPMR 231200Z 17011KT 9999 FEW035 20/14 Q1014 LOWI 231250Z 27006KT CAVOK 11/01 Q1016 NOSIG MGMT 231300Z 00000KT CAVOK 25/20 QFE1009.6 BKN070 SCT200 LPMT 231200Z 17019KT 9999 FEW025 22/14 Q1014 LOWK 231250Z VRB01KT 9999 FEW040 09/02 Q1016 NOSIG SEAM 231200Z 00000KT 9999 FEW003 BKN033 BKN300 11/10 Q1028 LOWL 231250Z 04004KT 9000 1000N BCFG SCT002 BKN300 05/04 Q1015 TEMPO 2000 SCTE 231200Z 19009KT 9999 SCT030 10/04 Q1022 NOSIG SECA 231221Z 21001KT 9999 -RA FEW010 BKN040 OVC100 17/17 Q1020 LOWS 231250Z 15010KT CAVOK 11/02 Q1014 NOSIG MGPB 231300Z 27004KT 9999 FEW018 BKN080 24/21 Q1016 A3000 LPPD 231230Z 09004KT 050V150 9999 VCSH FEW018 FEW020TCU 17/13 Q1007 SCTN 231200Z 20014KT 9999 SCT021 FEW033 10/05 Q1021 LOWW 231250Z VRB02KT 5000 BR FEW003 BKN005 05/04 Q1016 NOSIG LOXT 231220Z 16006KT 7000 FEW008ST BKN010ST 05/03 Q1016 NOSIG RMK OVC SCVD 231200Z 16008KT CAVOK 12/06 Q1020 LPOV 231200Z 17008KT 8000 -SHRA FEW003 SCT006 BKN020 17/16 Q1013 SECO 231200Z 05003KT 8000 BCFG SCT016 OVC090 22/22 Q1013 RMK A2994 LOXZ 231250Z 22010KT 50KM BKN300CI 12/01 Q1014 NOSIG LPPR 231230Z 18011KT 9999 FEW008 BKN014 17/15 Q1014 LPPS 231230Z 20009KT 9999 SCT015 21/16 Q1014 LPPT 231230Z 18019G29KT 140V200 9999 FEW020 21/14 Q1015 SECU 231200Z 18003KT 9999 FEW004 OVC070 12/10 Q1026 SCVM 231300Z 33006KT 6000 OVC010 13/11 Q1014 YBAF 231230Z AUTO 17004KT 9999 // SCT024 19/16 Q1016 RMK MGQZ 231300Z 36004KT 9999 FEW022 07/07 QFE773.2 YBAS 231230Z AUTO 06005KT 9999 // NCD 22/20 Q1011 RF00.0/003.8 MGSJ 231300Z 00000KT CAVOK 22/21 Q1012 A2988 SCT080 MGRT 231300Z 00000KT CAVOK 21/17 Q1014 A2994 VOL. STA. MARIA Y SANTIAGUITO EN ACTIVIDAD LRBC 231230Z 16010KT 9999 FEW014 OVC048 05/02 Q1020 YBBN 231230Z 12005KT 9999 FEW020 21/17 Q1016 FM1400 20005KT 9999 SCT020 YBCG 231230Z AUTO 24004KT 9999 // SCT027 18/17 Q1017 RF00.0/000.0 YBCK 231230Z AUTO 10008KT //// // ////// 23/11 Q1012 RMK YAMB 231230Z AUTO 18005KT 9999 // NCD 19/16 Q1016 LRAR 231230Z 21009KT CAVOK 13/08 Q1019 LPST 231200Z 16019KT 9999 FEW015 19/15 Q1015 MHLC 231300Z 21006KT 9999 2000 S VCSH BKN022TCU BKN070 24/22 Q1016 A3000 NOSIG LRBM 231230Z /////KT 9999 BKN032 ///// Q1020 R09/19//95 YBDG 231230Z AUTO 08006KT 9999 // NCD 22/07 Q1010 RMK MHLE 231200Z 06016KT 6000 BKN019 14/12 6KM E CL D/C UNL VCSH ALL LRBO 231200Z 04007KT 9999 BKN023 OVC070 05/02 Q1021 WHT WHT YBCS 231230Z 17005KT 9999 VCSH FEW025 SCT050 BKN140 25/21 Q1011 INTER 1230/1530 3000 SHRA FEW005 BKN018 SEGS 231200Z 16008KT 9999 FEW020 19/15 Q1014 A2995 LRBS 231230Z 07004KT 020V100 CAVOK 10/05 Q1021 NOSIG YBCV 231230Z AUTO 04007KT 9999 // NCD 24/11 Q1013 LRCK 231230Z 04007KT 9999 BKN033 06/06 Q1021 NOSIG SEGU 231200Z 23005KT 9999 BKN023 OVC100 21/17 Q1013 NOSIG RMK A2992 LRCL 231230Z 10005KT 6000 FEW006 BKN008 07/05 Q1020 MHLM 231200Z 00000KT 9999 SCT025 BKN080 22/22 Q1014 A2995 NOSIG YANG 231230Z AUTO 08004KT 9999 // NCD 32/04 Q1010 YBDV 231230Z AUTO 01009KT //// // ////// 31/10 Q1008 LRCT 231200Z 30002KT 4000 BR BKN005 OVC008 07/06 Q1019 YLO YLO SEJD 222100Z 08007KT 9999 SCT026 BKN300 32/23 Q1008 LRCV 231230Z 07007KT 4000 BR NSC 07/05 Q1020 LQMO 231200Z VRB02KT 9999 FEW050 SCT055 15/06 Q1020 ROAH 231230Z 03010KT 350V060 9999 SCT040 BKN050 19/10 Q1021 RMK 3SC040 6SC050 A3016 BGBW 231250Z 00000KT 9999 FEW060 BKN075 BKN090 M02/M10 Q1021 YBGD 231230Z AUTO 18010KT 9999 // NCD 36/07 Q1008 RMK SFAL 231250Z 21025KT 9999 BKN020 06/02 Q0995 GMAD 231230Z 07006KT 030V110 CAVOK 27/M03 Q1018 NOSIG MHNO 231200Z 36002KT 9999 FEW035 0/15 HZ GMAG 231200Z 14014KT CAVOK 24/M06 Q1018 NOSIG FTTA 231200Z 20004KT CAVOK 35/04 Q1010 FTTC 231200Z 10004KT CAVOK 30/03 Q1013 HDAM 231100Z 09012KT 9999 FEW020 32/22 Q1010 FTTD 231200Z 04006KT CAVOK 33/07 Q1011 YBHI 231230Z AUTO 29013KT 9999 // OVC110 21/12 Q1012 RMK KZPH 231315Z AUTO 14004KT 10SM SCT049 20/20 A2989 RMK AO2 T02020196 MGZA 231300Z 00000KT 9999 FEW024 SCT100 21/18 QFE990.5 FEW200 SEMC 231200Z 36002KT 9999 4000S BCFG FEW010 BKN030 OVC100 19/19 Q1017 LRFT 231200Z 12006KT 9999 BKN040 07/05 Q1021 BLU BLU FTTJ 231200Z 05014KT 010V090 3500 DU NSC 33/M03 Q1011 NOSIG YBHM 231230Z AUTO 12019KT 9999 // SCT025 SCT032 BKN048 25/21 Q1012 MHPL 231200Z 00000KT 9999 FEW026 SCT080 24/24 HZ GMAT 231200Z 14015KT CAVOK 25/M06 Q1018 NOSIG YARG 231234Z AUTO 05005KT 5000 // SCT033 SCT050 OVC068 28/22 Q1009 LRIA 231230Z 11011KT CAVOK 04/M02 Q1021 BGGH 231250Z 11016KT 9000 -SN DRSN SCT015 BKN035 OVC070 01/M03 Q1015 SELT 231200Z 23003KT 9999 FEW010 SCT026 OVC100 10/09 Q1030 YARM 231230Z AUTO 09009KT 9999 // NCD 11/10 Q1020 RMK FVBU 231200Z 12011KT 100V160 CAVOK 29/13 Q1018 NOSIG RODN 231256Z AUTO 03010KT 10SM BKN041 OVC050 18/11 A3017 RMK AO2 SLP223 T01800106 HCMF 231200Z 05009KT CAVOK 27/22 Q1010 NOSIG FTTY 231200Z 04014KT CAVOK 27/03 Q1017 YCBA 231230Z AUTO 04007KT 9999 // NCD 25/05 Q1012 RMK HCMH 231200Z 32012KT CAVOK 25/09 Q1016 NOSIG YCBB 231230Z AUTO 13005KT 080V180 //// // ////// 16/09 Q1017 LQSA 231230Z VRB02KT CAVOK 14/03 Q1020 NOSIG WSSL 231200Z 01006KT 9999 -RA FEW016 BKN200 27/25 Q1007 RMK 1130Z Q1007 SEMT 231200Z 18005KT 9999 OVC016 21/19 Q1014 RMK A2995 SENL 231215Z 30004KT 1000 SHRA SCT007 OVC023 21/21 Q1009 YBKE 231300Z AUTO 05006KT //// // ////// 23/04 Q1012 RMK MHSC 231158Z AUTO 33013KT 9999 FEW034 OVC055 20/20 A3003 RMK AO2 DZB21E30 SLP134 P0000 60000 T02010199 10203 20192 53010 $ HCMM 231200Z 11012KT 9999 FEW022 30/24 Q1007 NOSIG MHRO 231300Z 33008KT 9999 SCT018 BKN080 25/22 Q1014 A2995 NOSIG YCAR 231300Z AUTO 18018KT 9999 // NCD 26/14 Q1007 YCAS 231230Z AUTO 00000KT //// // ////// 16/14 Q1017 RMK WSSS 231230Z 01005KT 270V050 9000 -SHRA FEW014 FEW016TCU BKN170 26/24 Q1008 NOSIG FVCZ 230900Z 13012KT 9999 SCT045 28/17 Q1021 NOSIG FVFA 231200Z 09010KT 040V150 CAVOK 35/08 Q1013 NOSIG MHTE 231200Z 36010KT 8000 -RA BKN020CB BKN080 23/22 Q1013 CB TCU ALL 8KMS ALL -RA YCBP 231230Z AUTO 21019KT 9999 // NCD 22/11 Q1012 RMK MHTG 231300Z 24003KT 9999 SCT026 BKN080 16/14 Q1019 A3009 NOSIG GMFF 231200Z 08005KT 350V160 CAVOK 25/M03 Q1022 NOSIG YBMA 231230Z AUTO 36007KT 9999 // BKN100 29/16 Q1009 YBKT 231230Z AUTO 36004KT //// // ////// 27/24 Q1007 MHSR 231200Z 00000KT 9999 BKN020 16/15 BR HZ YBLN 231230Z AUTO 19009KT //// // ////// 18/11 Q1015 RMK GMFK 231200Z 13003KT CAVOK 17/M05 Q1025 NOSIG GMFM 231200Z 03004KT 350V110 CAVOK 24/M05 Q1021 NOSIG GMFO 231200Z VRB04KT CAVOK 21/M07 Q1021 NOSIG BGJN 231250Z 09025KT 9999 DRSN FEW080 M10/M18 Q1018 YBNA 231230Z AUTO 00000KT 9999 // SCT024 17/17 Q1017 RMK YBLT 231230Z AUTO 19012KT 9999 // NCD 19/11 Q1013 RMK MHTR 231200Z 24004KT 9999 FEW024CB BKN080 23/22 CB W HZ YBMK 231230Z AUTO 11012KT 9999 // SCT021 24/21 Q1012 RMK SERB 222100Z 05020KT 9999 SCT040 21/10 Q1023 FVHA 231200Z 13011KT 9999 TS FEW035CB BKN040 24/16 Q1019 NOSIG YCEE 231230Z AUTO 16005KT //// // ////// 16/16 Q1012 SEQM 231220Z 16003KT 6000 BCFG BKN003 12/12 Q1026 BECMG TL1315 9999 RMK A3031 YCDO 231230Z AUTO 04009KT //// // ////// 23/09 Q1013 RMK BGKK 231250Z 07013KT 9999 SCT030 M04/M10 Q1026 YCCY 231230Z AUTO 36006KT //// // ////// 30/15 Q1007 RMK ROIG 231100Z 03017KT 9999 VCSH BKN026 BKN070 20/15 Q1020 LQTZ 231230Z VRB02KT CAVOK 15/04 Q1019 SESA 231200Z 21006KT 9999 OVC016 21/17 Q1014 YCDU 231300Z AUTO 19012KT 9999 // SCT015 SCT021 OVC029 18/15 YCEM 231230Z AUTO 21003KT //// // ////// 21/14 Q1011 RMK GLRB 230100Z 00000KT 7000 BKN011 FEW022CB 25/24 Q1012 RMK CB-NE/SW BRVC SERO 231227Z 06002KT 6000 -DZ FEW006 OVC013 SESG 230800Z 12004KT 9999 FEW030CB FEW035 SCT090 15/M01 Q1013 YBNS 231230Z AUTO 31009KT 9999 // NCD 20/11 Q1011 RMK YBOK 231230Z 08011KT CAVOK 18/14 Q1017 YCFL 231300Z AUTO 12009KT //// // ////// 26/21 Q1010 RMK SESM 231200Z 22003KT 9999 BKN030 OVC100 18/17 Q1017 A3004 YAYE 231230Z AUTO 16014KT 9999 // NCD 26/09 Q1011 RMK LROD 231200Z 20010KT CAVOK 12/07 Q1019 YCFS 231300Z AUTO 31005KT 310V040 9999 // NCD 17/15 Q1017 RMK SGAS 231300Z 05006KT 360V070 CAVOK 26/12 Q1013 SEST 231200Z 16012KT 9999 FEW013 SCT040 BKN300 20/19 Q1013 RMK A2993 HEBA 231200Z 32008KT 9999 SCT020 20/10 Q1020 NOSIG FVKB 231200Z 28001KT 9999 FEW030 BKN100 30/22 Q1010 YBPN 231230Z AUTO 16005KT 9999 // SCT024 22/20 Q1012 RMK LSGC 231250Z 24011KT CAVOK 12/02 Q1015 WS R24 SETN 231200Z 19007KT 9999 BKN020 OVC100 23/20 Q1012 A2990 LROP 231230Z 16006KT 360V170 CAVOK 09/06 Q1020 NOSIG LSGG 231250Z 22017KT 9999 FEW090 BKN120 15/03 Q1016 NOSIG YCHK 231230Z AUTO 10005KT 9999 // NCD 34/05 Q1008 RMK YAYT 231100Z 21004KT 9999 FEW035 BKN100 22/M02 Q1009 HEAR 231200Z 30007KT 9999 SCT025 21/12 Q1018 NOSIG SETU 222100Z 11008KT 9999 SCT030 19/09 Q1027 HECA 231300Z 29009KT 9999 FEW025 21/09 Q1019 NOSIG HEAT 231200Z 02014KT CAVOK 21/08 Q1021 NOSIG HEBL 231200Z 03012KT CAVOK 23/03 Q1016 NOSIG HEAX 231200Z 28007KT 9999 SCT020 21/07 Q1020 NOSIG MHYR 231200Z 25003KT 9999 SCT020 BKN080 BR YBRK 231230Z AUTO 11007KT 9999 // NCD 22/18 Q1014 RF00.0/000.0 YBRL 231230Z AUTO 02006KT //// // ////// 28/23 Q1007 RMK LSGS 231250Z VRB03KT 9999 SCT100 BKN200 11/00 Q1017 YBRM 231300Z AUTO 30008KT 9999 // NCD 29/24 Q1005 RMK YCIN 231230Z AUTO 30004KT 9999 // NCD 30/23 Q1004 RF00.0/000.2 GMMB 231200Z 19006KT 150V260 CAVOK 26/M01 Q1021 NOSIG GMMC 231200Z 22006KT CAVOK 24/02 Q1018 FWCL 230800Z 31010KT 9999 BKN030 29/19 Q1016 NOSIG YBSG 231230Z AUTO 00000KT //// // ////// 25/23 Q1009 RMK GMMD 231200Z 26003KT CAVOK 22/M06 Q1020 NOSIG GMME 231230Z 31004KT 290V010 CAVOK 24/M03 Q1019 NOSIG GMMH 231200Z 13005KT 9999 SCT006 21/17 Q1016 NOSIG GMMI 231200Z 24004KT CAVOK 29/M01 Q1018 NOSIG LTAB 222214Z 24006KT 9999 BKN020 02/M01 Q1017 RERASN NOSIG RMK RWY06 23005KT 200V260 LRSB 231230Z 36003KT 9999 SCT056 SCT066 12/06 Q1019 LTAC 231250Z 29008KT 9999 BKN030 05/01 Q1018 NOSIG SGEN 231300Z 09005KT CAVOK 23/10 Q1013 GMML 231200Z 16018KT CAVOK 28/02 Q1016 NOSIG KZZV 231253Z AUTO 00000KT 10SM CLR M06/M07 A3016 RMK AO2 SLP223 T10611072 YBRY 231300Z AUTO 09008KT 9999 // NCD 33/04 Q1010 RMK YBTH 231230Z AUTO 05003KT 9999 // NCD 14/10 Q1018 RMK GMMN 231230Z 20007KT 170V250 CAVOK 26/M01 Q1019 NOSIG ROMY 231100Z 02012KT 9999 FEW030 BKN070 20/14 Q1020 LTAF 231250Z VRB02KT CAVOK 15/02 Q1017 NOSIG LTAG 231250Z 02003KT 9999 FEW040 SCT200 14/02 Q1017 NOSIG SGES 232300Z 21005KT CAVOK 19/14 Q1012 LTAI 231250Z 22007KT CAVOK 19/06 Q1017 NOSIG YBSU 231230Z AUTO 14009KT 9999 // BKN023 BKN030 BKN047 22/18 YBTL 231230Z AUTO 09007KT 9999 // SCT024 BKN033 25/20 Q1011 LTAJ 231250Z 24008KT CAVOK 10/M02 Q1016 NOSIG LTBA 231250Z 23006KT 200V270 9999 SCT040 BKN100 13/10 Q1021 NOSIG YBUD 231230Z AUTO 16005KT 9999 // SCT024 19/17 Q1015 RMK YCKN 231300Z AUTO 12008KT 9999 // NCD 26/21 Q1010 LRTC 231230Z 07003KT 030V100 9999 FEW024 BKN028 05/02 Q1022 LTAL 231250Z 25006KT 9999 BKN030 BKN060 02/01 Q1017 R182///61 LRSM 231230Z 09004KT 9999 SCT015 OVC024 08/07 Q1019 R01/29//95 LTBD 231250Z 09003KT 040V120 CAVOK 15/03 Q1020 FVMV 231100Z 12013KT 9999 FEW040 BKN100 25/14 Q1019 NOSIG LTAN 231250Z 03003KT 350V070 9999 SCT037 BKN100 07/01 Q1020 NOSIG GMMW 231200Z 11003KT 060V170 CAVOK 24/M02 Q1020 NOSIG LTBF 231250Z VRB01KT CAVOK 16/05 Q1021 NOSIG LTBG 222016Z 13006KT 9999 SCT035 BKN100 09/04 Q1019 RESHRA NOSIG RMK RWY18 13008KT GMMX 231230Z VRB03KT CAVOK 24/M08 Q1019 NOSIG LTAP 231250Z 15003KT 110V180 9999 BKN040 05/01 Q1018 NOSIG BGSF 231250Z AUTO 06008KT 9999NDV BKN060/// M08/M10 Q1018 LTBH 231250Z 22005KT 9999 FEW035 16/11 Q1020 GMMZ 231200Z 00000KT CAVOK 15/M05 Q1024 NOSIG LTAR 231250Z 01010KT 1600 SN BCFG SCT012 BKN032 OVC080 M04/M05 Q1015 LTAS 231250Z 03004KT 9999 SCT035 BKN100 10/05 Q1021 LTBJ 231250Z 36009KT 9999 FEW030 16/07 Q1020 NOSIG LTCA 231250Z 31007KT 9999 BKN030 BKN090 04/M01 Q1016 BECMG 4000 LTAT 231250Z VRB02KT 9999 BKN035 BKN090 04/M03 Q1015 NOSIG LTCB 231250Z 24018KT 4000 SHRA SCT008 BKN025 05/03 Q1021 LTAU 231250Z 26013KT 9999 -RA SCT013 BKN025 OVC080 04/01 Q1018 NOSIG LTCC 231250Z 12004KT 090V160 9999 FEW040 BKN100 10/M04 Q1015 NOSIG LRSV 231230Z 13003KT 100V160 3000 BR BKN004 04/03 Q1019 R16/29//95 LRTM 231230Z AUTO 06006KT //// R07////// BKN050/// ///// Q1019 LTCD 231250Z VRB01KT 7000 -SN FEW015 BKN033 OVC080 M01/M03 Q1016 NOSIG YDBY 231230Z AUTO 31006KT 9999 // NCD 30/24 Q1004 RMK LTCE 231250Z 25015KT 9999 SCT030 BKN080 M03/M07 Q1012 NOSIG LTAW 231250Z 24005KT 6000 -RA SCT008 BKN028 OVC070 02/01 Q1020 BIBD 231300Z 01006KT 9999 VCSH SCT030 M03/M06 Q1018 LTCF 231250Z 20012KT 9999 SCT035 M04/M08 Q1010 LTBO 231250Z 20004KT 160V250 9999 BKN040 10/00 Q1020 LTCG 231250Z 23008KT 200V270 9999 -SHRA SCT012 BKN028 06/03 Q1020 NOSIG LTAY 231250Z 09006KT 9999 FEW035 10/01 Q1020 LTAZ 231220Z 21011KT 9999 FEW020 BKN030 04/01 Q1019 LTBQ 231250Z 25004KT 220V330 8000 BKN028 BKN090 12/09 Q1021 NOSIG LRTR 231230Z 18005KT 140V220 CAVOK 14/06 Q1019 LTBR 231250Z VRB02KT 7000 SCT035 BKN090 11/07 Q1020 NOSIG LTCI 231250Z 26012KT 220V290 9999 SCT030 BKN070 03/M09 Q1012 NOSIG LSMA 231250Z VRB02KT CAVOK 10/02 Q1015 RMK BLU LTBS 231250Z 29003KT 190V360 CAVOK 20/03 Q1018 NOSIG LTCJ 231250Z 29003KT 250V320 9999 FEW040 BKN200 09/M04 Q1016 LTDA 231250Z 22004KT 180V270 9999 SCT030 BKN090 14/03 Q1018 YCMM 231230Z AUTO 20009KT //// // ////// 16/16 Q1012 RMK LTBT 230820Z VRB02KT 5000 BR NSC 07/03 Q1023 RMK RWY14 VRB02KT BIAR 231200Z 34015G26KT 1100 R01/0900V1900D -SN VV006 M01/M01 Q1008 RESN R01/490146 LTCK 231250Z VRB02KT 9999 FEW025 SCT035 BKN080 03/M04 Q1014 LTCL 231250Z 25005KT 9999 SCT040 BKN200 09/M01 Q1016 LTBU 231250Z 28007KT 9999 SCT030 15/06 Q1020 LTCM 231250Z 30010KT 9999 BKN030 07/M02 Q1021 LSMD 231250Z AUTO 21004KT 150V290 9999NDV FEW100 SCT120 14/01 Q1015 RMK LSME 231250Z 00000KT CAVOK 12/04 Q1015 RMK BLU BGTL 231258Z AUTO 10012KT 9999 CLR M14/M20 A3019 RMK AO2 SLP212 T11441199 LTCN 231250Z 21005KT 160V240 9999 FEW040 BKN200 11/M01 Q1016 NOSIG HEGN 231200Z 01014KT 9999 SCT025 22/05 Q1017 NOSIG LTCO 231250Z 24010KT 9999 BKN020 M01/M05 Q1012 RESN LTBY 231250Z 29005KT 7000 -RA SCT009 BKN025 OVC090 07/06 Q1020 LTCP 231250Z 19004KT 150V250 9999 SCT040 BKN100 09/M03 Q1015 LRTZ 231200Z 08004KT 9999 SCT025 OVC070 10/06 Q1021 BLU BLU LTBZ 230650Z VRB02KT 9999 SCT035 BKN090 02/02 Q1021 YCMT 231230Z AUTO 05003KT //// // ////// 23/16 Q1013 RMK YCNK 231230Z AUTO 19005KT //// // ////// 18/14 Q1015 RMK LTCR 231250Z 25007KT 220V280 9999 FEW040 BKN200 11/M05 Q1016 LTCS 231250Z 24008KT CAVOK 09/M03 Q1017 LTCT 231250Z 05006KT 030V100 9999 SCT034 BKN080 06/M07 Q1012 YCNM 231230Z AUTO 07007KT //// // ////// 22/08 Q1014 RMK YCOE 231230Z AUTO 36005KT //// // ////// 25/22 Q1010 LTCU 231250Z 31005KT 280V340 9999 SCT035 BKN100 04/M04 Q1015 LTCV 231250Z 26004KT 9999 FEW030 BKN100 11/M05 Q1016 LSMM 231250Z AUTO 26006KT 9999NDV SCT100 06/01 Q1016 RMK YBWP 231230Z AUTO 09005KT 9999 // NCD 25/22 Q1009 LTCW 231250Z 20007KT 150V230 9999 SCT035 BKN150 M00/M06 Q1013 LSMP 231250Z 22012KT CAVOK 15/03 Q1015 RMK BLU RORS 231000Z 03024KT 9999 FEW032 BKN044 21/14 Q1019 LSMS 231250Z VRB03KT 9999 SCT100 BKN200 11/00 Q1017 RMK BLU YCOM 231230Z AUTO 33009KT 9999 // SCT071 SCT087 BKN120 12/11 YBWW 231230Z AUTO 09011KT 9999 // NCD 18/15 Q1016 RMK LTFC 231250Z 32011KT 9999 FEW035 11/M00 Q1020 YBWX 231230Z AUTO 02009KT //// // ////// 26/22 Q1005 LTFD 231250Z 31005KT 270V340 9999 FEW035 16/08 Q1021 YCNY 231230Z AUTO 36007KT //// // ////// 28/22 Q1008 RMK LTFE 231250Z 29004KT CAVOK 18/04 Q1020 NOSIG RORY 231200Z AUTO 02015KT 9999 FEW042 SCT046 BKN049 18/09 Q1021 LTFG 231250Z 25005KT 190V290 9999 FEW035 18/06 Q1018 LTFH 231250Z 26012KT 9999 SCT033 08/01 Q1021 NOSIG BIEG 231200Z 34019G29KT 9999 VCSH SCT020 BKN040 00/M04 Q1000 R04/790194 RMK RWY SANDED LTFJ 231250Z 26008KT 9999 SCT020 BKN080 13/09 Q1020 NOSIG RPLB 231200Z 05008KT 9999 FEW020 BKN080 29/21 Q1009 NOSIG RMK A2980 RPLC 231200Z 31005KT 9999 FEW020 BKN100 27/22 Q1012 NOSIG RMK A2988 HEIS 231200Z 30014KT 9999 SCT025 22/08 Q1019 GMTA 231200Z 36006KT CAVOK 20/15 Q1020 NOSIG LTFK 231250Z 36003KT 350V080 9999 BKN030 17/12 Q1020 ROTM 231259Z 04006KT 9999 FEW030 BKN040 18/12 A3018 RMK SLP211 STNPR29880 T01830120 RPLI 231200Z 05006KT 9999 FEW019 27/22 Q1011 NOSIG RMK A2985 YBYU 231300Z AUTO 10006KT 9999 // ////// 30/24 Q1007 YDGU 231230Z AUTO 12009KT 9999 // NCD 30/M02 Q1011 RMK FWKI 231000Z 09012KT 9999 FEW032CB BKN035 29/17 Q1016 NOSIG RPLL 231200Z 10004KT 050V130 9999 FEW025 SCT100 29/24 Q1011 NOSIG RMK A2985 RPMD 231200Z 36007KT 320V030 9999 FEW016 SCT090 28/24 Q1009 RMK A2980 FVTL 231200Z 12010KT 9999 FEW050CB SCT070 BKN300 25/14 Q1019 GMTN 231200Z 07002KT 8000 NSC 20/11 Q1020 NOSIG HEMA 231200Z 33019KT 9999 SCT025 22/10 Q1016 NOSIG GMTT 231230Z 27007KT 240V300 9999 FEW016 SCT200 24/00 Q1020 NOSIG RPMR 230900Z 00000KT 9999 FEW018TCU 31/25 Q1007 NOSIG RMK A2974 HEMM 231200Z 29005KT 9999 SCT020 20/13 Q1021 NOSIG BIHN 231100Z 33035G45KT 9999 FEW028 FEW048 M03/M10 Q1001 HELX 231200Z 30005KT CAVOK 23/03 Q1016 NOSIG RPMZ 231200Z 00000KT 9999 FEW017 SCT300 27/25 Q1009 RMK A2980 NCAI 231200Z AUTO 24006KT //// ////// 25/24 Q1009 FVWN 230900Z 12008KT CAVOK 32/10 Q1015 MKJP 231200Z 35007KT 9999 SCT022 28/24 Q1012 MKJS 231200Z 02006KT 9999 -SHRA BKN018 SCT038 27/24 Q1012 YCUN 231230Z AUTO 14005KT 9999 // NCD 23/01 Q1013 RMK BIIS 231300Z 02019KT 4000 SHSN VV008 M02/M05 Q1018 LUBM 231200Z 13004KT 090V170 CAVOK 04/M00 Q1021 R25/CLRD65 ROYN 231200Z AUTO 04023KT 7000 FEW033 SCT034 OVC050 21/15 Q1021 YDLQ 231230Z AUTO 01005KT //// // ////// 23/07 Q1010 RMK GOGG 231200Z 36004KT CAVOK 30/14 Q1012 BIKF 231230Z 35023KT 9999 SCT028 M02/M08 Q1014 GOGK 231200Z 08004KT CAVOK 32/14 Q1011 HEPS 231200Z 31008KT 9999 FEW025 21/12 Q1019 NOSIG GOGS 231200Z 04010KT CAVOK 31/12 Q1012 YCWR 231230Z AUTO 08005KT //// // ////// 19/11 Q1015 HESC 231200Z 02005KT 9999 FEW020 12/00 Q1022 NOSIG HESG 231200Z 31008KT CAVOK 23/03 Q1018 NOSIG HESH 231200Z 02014KT 9999 FEW025 22/14 Q1016 NOSIG YDPO 231230Z AUTO 00000KT 9999 // NCD 17/15 Q1013 RMK HESN 231100Z 01009KT CAVOK 24/05 Q1019 NOSIG LSZA 231250Z 20003KT 8000 SCT040 13/07 Q1019 NOSIG LSZB 231250Z 13004KT 9999 BKN100 10/03 Q1015 NOSIG RPVD 231200Z 00000KT 9999 SCT015 BKN080 28/26 Q1008 RMK A2977 LSZC 231250Z VRB01KT CAVOK 10/01 Q1015 LSZG 231250Z 23006KT CAVOK 12/05 Q1015 NOSIG LSZH 231250Z 21013KT CAVOK 14/02 Q1014 NOSIG HETR 231200Z 30015KT CAVOK 21/11 Q1016 LSZL 231250Z 25004KT 200V360 7000 FEW040 SCT080 12/06 Q1019 RMK WHT RPVM 231200Z 03004KT 360V060 9999 FEW020 27/24 Q1009 RMK A2980 RPVP 231200Z 07014KT 9999 FEW020 29/24 Q1009 RMK A2980 LSZR 231250Z 09005KT CAVOK 11/06 Q1015 NOSIG RMK I LSZS 231250Z 17003KT CAVOK 04/M04 Q1018 RMK M MMAA 231249Z 00000KT 5SM FEW100 BKN300 23/21 A2992 RMK 8/032 HZY YELD 231230Z AUTO 02008KT //// // ////// 29/24 Q1008 RMK CAHR 231200Z AUTO 28017G29KT 01/M00 RMK AO1 2PAST HR PRESRR 3115 PK WND 27036/1100 SLP946 P0005 T00051001 50250 BIRK 231200Z 34019KT 9999 FEW030 M03/M08 Q1014 GOOD 231200Z 04006KT CAVOK 34/18 Q1013 MMAN 231240Z 28006KT 15SM SKC 05/03 A3026 RMK RTS YFBS 231230Z AUTO 07006KT //// // ////// 19/11 Q1014 RMK GOOG 231200Z 04002KT CAVOK 33/07 Q//// MMAS 231242Z 05008KT 9SM SKC 03/M06 A3033 MMCB 230055Z 00000KT 7SM SCT020TCU BKN100 BKN200 20/10 A3007 RMK 8/268UK METAR MMMX 230052Z 03016KT 10SM SCT020 15/01 A3031 NOSIG RMK 8/500 AC LUKK 231230Z 14004KT 9999 BKN046 04/M04 Q1021 R08/CLRD// NOSIG GOOK 231200Z 36008KT CAVOK 34/13 Q1012 FYGB 231200Z AUTO 07003KT //// // ////// 33/04 Q1018 YFDF 231230Z AUTO 09006KT 9999 // NCD 33/05 Q1008 RMK MMCE 231245Z 30015KT 7SM SCT010 BKN030 OVC080 25/// A3000 RMK 8/87/ LWR SC CBBC 231253Z AUTO 21011G18KT 170V240 9SM OVC009 09/08 A2951 RMK SLP997 FYGF 231000Z 08005KT 9999 FEW050 29/13 Q//// YEML 231300Z AUTO 06010KT 9999 // NCD 23/16 Q1013 MMBT 230040Z 00000KT 7SM BKN040CB OVC230 24/// A2995 RMK 8/307 MMCL 230440Z 00000KT 10SM BKN250 20/15 A2992 RMK 8/001 MMCM 231243Z 00000KT 5SM SKC 20/20 A2998 RMK HZY MMCN 231255Z 03004KT 10SM SKC 12/02 A2990 RMK HZY RTS MMCP 231246Z 00000KT 7SM SCT030 SCT100 22/21 A2993 RMK 8/830 GOOY 231230Z 04014KT CAVOK 28/22 Q1013 NOSIG MMCS 231256Z 00000KT 10SM SCT250 06/M02 A3028 RMK 8/005 RTS MMCT 222041Z 00000KT 8SM BKN030CB 30/21 A2989 RMK 8/300 CB W STN MSGTX MMMD MMCU 231140Z 17006KT 10SM FEW200 00/M08 A3029 RMK SLP239 5//// 973 8/001 RTS MMCV 231240Z RTD E00000KT 10SM SKC 06/04 A3023 RMK RTS MMDO 231241Z 00000KT 8SM SKC M03/M07 A3035 RMK HZY MMCZ 231240Z 29004KT 8SM SKC 23/21 A2991 RMK CU FZAA 231200Z 09008KT 7000 TS SCT022 FEW030CB BKN100 28/21 Q1012 BECMG 4000 TSRA BIVM 231213Z 36023G33KT 350V020 CAVOK M03/M07 Q1009 R88/CLRD// MMEP 230253Z 00000KT 8SM SKC 18/17 A3008 RMK SLP184 52018 908 BCFG W GOSM 231200Z 00000KT 6000 NSC 34/12 Q1013 GOSP 231200Z 02002KT CAVOK 31/10 Q1013 GOSS 231200Z 04006KT CAVOK 25/18 Q1013 GOTK 231200Z 00000KT 6000 DU NSC 33/12 Q1011 MMGL 231243Z 00000KT 8SM SKC 03/M03 A3025 MMGM 230145Z 20006KT 5SM SKC 26/09 A2990 FYKM 231000Z 00000KT CAVOK 29/18 Q1016 MMIA 230347Z 00000KT 8SM FEW020 21/21 A3009 RMK 8/100 YERN 231230Z AUTO 16017KT //// // ////// 21/09 Q1014 GOTT 231200Z 10010KT 070V140 3000 DU NSC 36/21 Q1011 FYKT 231100Z AUTO 00000KT //// // ////// 29/M02 Q1018 MMHO 231240Z 13003KT 10SM SKC 17/00 A2998 RMK HZY NCRG 231200Z 19013KT 9999 -SHRA FEW008 BKN014 OVC090 21/19 Q1009 NCPY 231200Z AUTO 04004KT //// ///// 27/24 Q1009 FYML 231200Z AUTO 12002KT //// // ////// 33/M01 Q1018 YESP 231230Z AUTO 09012KT 9999 // NCD 13/08 Q1018 RMK MMIO 231240Z 00000KT 10SM SKC 02/M05 A3030 YGBI 231230Z AUTO 02005KT //// // ////// 27/24 Q1009 RMK YEST 231230Z AUTO 10009KT 9999 // NCD 14/09 Q1019 RMK FYLZ 231200Z AUTO 20027G38KT //// // ////// 27/09 Q1011 FYOA 231200Z 09003KT 9999 SCT040TCU 34/09 Q1013 YGAY 231230Z AUTO 08005KT //// // ////// 20/15 Q1016 RMK YFLI 231230Z AUTO 06002KT 9999 // NCD 14/13 Q1011 RMK MNBL 231200Z 34004KT 9999 SCT020 24/23 Q1011 2AC090 YGDH 231300Z AUTO 11007KT //// // ////// 17/11 Q1015 RMK FYOO 231200Z AUTO 00000KT //// // ////// 34/08 Q1014 MNCH 231200Z 00000KT 9999 FEW024CB SCT025 23/22 Q1011 1AC090 1CI300 SW MMMA 231209Z RTD 30006KT 5SM SKC 08/07 A3019 RMK SLP224 5//// 940 HZ RTS MMLM 230340Z 00000KT 10SM SKC 21/16 A2995 MMMD 231248Z 21005KT 7SM BKN070 BKN300 20/19 A2995 RMK 8/078 HZY MDT CU N SC SE FYOW 231200Z AUTO 30004KT //// // ////// 34/02 Q1015 MMLO 231248Z 02004KT 8SM SKC 06/02 A3035 MMLP 231240Z 20004KT 10SM SKC 14/13 A2997 RMK ISOL CI RTS YGEL 231230Z AUTO 16014KT 9999 // NCD 23/13 Q1010 RF00.0/000.0 MMLT 230142Z 00000KT 8SM SKC24/21 A2994 MMML 230740Z 29005KT 10SM SKC 19/03 A3004 MMMM 231242Z 00000KT 7SM SKC 01/01 A3029 RMK HZY MMMT 231243Z 01010KT 8SM SCT030 24/18 A3006 RMK 8/100 METAR MMTG 231245Z 36008KT 5SM SCT010 SCT070 BKN080 20/16 A3010 RMK 8/670 BR HZ ARND MMNL 230141Z 00000KT 10SM SKC 13/06 A3026 YGFN 231230Z AUTO 20003KT 9999 // NCD 17/14 Q1018 RMK MMMV 231246Z 00000KT 10SM SKC 07/00 A3022 MMMX 231251Z 07004KT 6SM SKC 04/00 A3037 NOSIG RMK HZY FYRN 231100Z AUTO 15008KT //// // ////// 31/13 Q1016 SKBG 231300Z VRB02KT 8000 2000S BCFG SCT006 SCT240 21/21 A3003 MMMY 231240Z 30006KT 12SM SKC 07/03 A3023 SKAR 231200Z 00000KT 8000 VCFG BKN020 19/19 A3006 MMMZ 231243Z 06005KT 10SM SKC 16/15 A2992 RMK HZY MMPA 231246Z 28004KT 4SM SKC 25/23 A3027 RMK BRHZ ISOL AC S RTS MMPB 231057Z RTD 31005KT 12SM SKC 02/M01 A3031 RMK RTS SKCC 231200Z 22004KT 8000 4000NW VCFG SCT015 BKN080 25/24 A2990 FYRU 231200Z AUTO 10005KT //// // ////// 31/14 Q1016 MMPE 222204Z RTD 29005KT 10SM SKC 34/M05 A2996 SKBO 231300Z 04004KT 9000 FEW018 SCT200 13/11 A3036 RMK HZ SKCG 231300Z 02004KT 9999 FEW017 SCT200 29/26 A2985 MMPG 230040Z 30006KT 10SM FEW040 16/03 A3027 RMK 8/500 SKBQ 231200Z 00000KT 3000 BR SCT010 SCT070 26/25 A2983 RMK AD OPER IMC SKCL 231300Z 20005KT 9999 FEW023 SCT300 23/22 A3004 MMPN 231248Z 00000KT 8SM SKC 10/08 A3017 RMK 5//// 9// MIFG N HZY RTS MMOX 231249Z 00000KT 10SM FEW020 SCT070 OVC220 09/09 A3029 RMK 8/771 MMPQ 230042Z 27010KT 4SM BKN040TCU 23/21 A2989 RMK 8/200 HZY MSGTX MMMD MMPR 231247Z 00000KT 12SM SKC 20/19 A2991 MMPS 231241Z 06010KT 7SM SKC 21/17 A3002 RMK HZY YHBA 231230Z AUTO 15005KT 9999 // NCD 21/18 Q1015 RMK SKEJ 231200Z 00000KT 9999 SCT010 SCT200 25/24 A2984 YFRT 231300Z AUTO 15011KT //// // ////// 16/14 Q1017 MMQT 231248Z 12005KT 7SM SKC 01/00 A3037 BKPR 231300Z VRB02KT CAVOK 12/03 Q1020 NOSIG RMK 17010095 FYWB 231200Z 28004KT CAVOK 23/09 Q1012 MMSD 231240Z 00000KT 15SM SKC 15/11 A2996 RMK RTS FYWE 231200Z 35010KT 310V020 CAVOK 30/M03 Q1020 MNJG 231200Z 36010KT 5000 BKN016 19/18 Q1012 BR YGLA 231230Z AUTO 15006KT 9999 // NCD 23/17 Q1014 RF00.0/000.0 YGLB 231230Z AUTO 02003KT 9999 // NCD 13/11 Q1017 RMK FYWH 231200Z 36008KT 9999 FEW045CB SCT050TCU 28/00 Q1020 NOSIG TAPA 231200Z 10005KT 9999 FEW017 28/24 Q1013 NOSIG MMSL 231259Z RTD 31009KT 8SM SKC 19/15 A3000 RMK ISOL CI RTS MMTC 231241Z 00000KT 8SM SKC 09/M04 A3026 YHAY 231230Z AUTO 00000KT //// // ////// 23/08 Q1010 RMK MMRX 231241Z 00000KT 6SM SKC 09/05 A3021 RMK HZY FU YGLI 231230Z AUTO 10008KT 9999 // NCD 12/11 Q1020 RMK MMTG 231245Z 36008KT 5SM SCT010 SCT070 BKN080 20/16 A3010 RMK 8/670 BR HZ ARND GQNO 231230Z 06008KT 020V080 CAVOK 29/10 Q1013 NOSIG MMSP 231244Z 00000KT 1SM R SKC M01/M04 A3032 MMTJ 231241Z 10006KT 6SM SKC 23/01 A3003 GQPA 231200Z 08012KT 8000 NSC 31/02 Q1015 MNJU 231200Z 00000KT 9999 FEW020 24/21 Q1011 2AC080 MMTM 231251Z 00000KT 7SM SKC 14/10 A3022 YFTZ 231230Z AUTO 24006KT //// // ////// 36/13 Q1003 RMK FYWW 231200Z 29008KT CAVOK 30/M00 Q1019 MMTO 231249Z 00000KT 3SM BR HZ SCT200 M01/M02 A3037 RMK 8/002 MMTP 231255Z 00000KT 10SM SKC 22/19 A2987 RMK HZY YGLS 231230Z 16014KT CAVOK 26/02 Q1012 RMK RF00.0/000.0 SKIB 231200Z 14003KT 8000 VCFG BKN010 SCT100 21/21 A3008 RMK AD OPR IMC MMVA 231243Z 24004KT 7SM FEW015 FEW100 BKN200 20/20 A3007 RMK 8/232 TCU 1ST 4TH QUADS ISOL SC MMUN 231252Z 27002KT 6SM SCT070 BKN250 20/20 A2994 RMK 8/078 HZ K04V 231254Z AUTO 32016KT 10SM CLR 03/M01 A3041 RMK AO2 K06D 231255Z AUTO 17005KT 10SM CLR M07/M07 A2978 RMK AO2 K04W 231254Z AUTO 00000KT 10SM CLR M10/M10 A2993 RMK AO2 MNMG 231200Z 17004KT 5000 FEW021 SCT060 23/23 Q1010 A2984 1CI300 BR NOSIG GQPP 231200Z 03011KT 6000 FEW010 22/19 Q1016 NOSIG K05U 231255Z AUTO 20007KT 10SM CLR 05/M00 A3034 RMK A01 SKIP 231200Z 00000KT 9999 FEW010 OVC070 09/08 A3043 MMVR 231241Z 33004KT 5SM SKC 18/14 A3012 RMK HZY GQPZ 231200Z 13014KT 100V160 CAVOK 28/M04 Q1017 SLAL 231200Z 36010KT 9999 SCT013 12/09 Q1028 K08D 231255Z AUTO 00000KT 6SM BR CLR M02/M01 A2974 RMK AO2 LWOH 231300Z 16003KT CAVOK 11/03 Q1021 SLCA 231200Z 00000KT 9999 BKN040 24/16 Q1017 SLCB 231200Z 31003KT 7000 FEW027 BKN200 21/08 Q1023 SKLC 231200Z 00000KT 7000 BKN015 25/24 A2985 RMK HZ LXGB 231250Z 07006KT CAVOK 18/15 Q1020 NOSIG MNPC 231200Z 35010KT 6000 VCRA SCT016TCU SCT100 25/24 Q1010 TCURA NE E SE NFFN 231300Z 11009KT 9999 FEW030 25/21 Q1010 NOSIG YHID 231300Z AUTO 08008KT 9999 // SCT020 28/23 Q1009 SKMD 231200Z 00000KT 8000 SCT020 BKN100 19/17 A3016 RMK HZ MMZC 231241Z 00000KT 8SM SKC M05/M12 A3033 SLCO 231200Z 00000KT 9999 FEW010 SCT080 BKN200 25/24 Q1011 SLCP 231200Z 00000KT 9999 NSC 23/22 Q1015 MMZH 231245Z 00000KT 6SM SCT030 SCT250 24/21 A2991 RMK SLP120 5//// 914 8/501 HZY SKLT 231300Z 34003KT 9999 SCT013 BKN100 27/26 A2987 MMZO 230150Z 00000KT 10SM FEW020 28/22 A2989 RMK 8/100 SKMR 231200Z 00000KT 9999 FEW017 25/24 A2983 K11R 231255Z AUTO 00000KT 10SM CLR 02/00 A3023 RMK AO2 T00220000 YGTE 231230Z AUTO 05005KT 9999 // NCD 28/24 Q1007 RMK YGTH 231300Z AUTO 11009KT 9999 // NCD 25/07 Q1011 RMK K12N 231154Z AUTO 00000KT M03/M08 A3010 RMK AO1 SLP205 70003 T10281083 11006 21039 53005 YHLC 231300Z AUTO 30006KT 9999 // NCD 31/16 Q1006 RMK MNRS 231200Z 00000KT 3000 BR FEW012CB SCT070 23/23 Q1010 CB SE S SLET 231200Z 00000KT 9999 BKN080 26/20 Q1013 TBPB 231200Z 10013KT 9999 VCSH SCT018 29/23 Q1013 NOSIG SKPC 231200Z 06004KT CAVOK 27/24 A2981 LWSK 231300Z 22001KT CAVOK 13/03 Q1021 NOSIG YGTN 231300Z AUTO 07005KT 9999 // ////// 25/19 Q1011 SKNV 231200Z 19003KT 9999 TS SCT027CB BKN090 23/22 A2993 REDZ RMK CB/E VCSH/E/S SKPE 231300Z VRB02KT 9999 SCT015 SCT080 21/17 A3009 LYBE 231230Z VRB01KT CAVOK 16/05 Q1019 NOSIG MPBO 231300Z 24004KT 9999 SCT018 BKN080 ///// Q1013 SKPS 231200Z 00000KT 0100 DZ FG VV/// 16/16 A3018 RMK AD BLW MNM MET YHML 231230Z AUTO 07007KT 9999 // SCT120 18/12 Q1012 RMK MPDA 231300Z 00000KT 9999 FEW014CB 24/// Q1010 LYBT 231230Z VRB02KT CAVOK 16/06 Q1019 NOSIG SKRG 231300Z 05003KT 6000 VCFG BKN007 15/15 A3031 RMK AD OPER IMC SKRH 222300Z 17004KT 7000 -TSRA BKN013CB 26/26 A2979 RMK CB W/SW K14Y 230358Z AUTO 00000KT 10SM CLR M04/M09 A2994 RMK AO2 NFNA 231300Z 12005KT 9999 BKN020 BKN045 25/21 Q1012 K0A9 231255Z AUTO 00000KT 10SM CLR M03/M04 A3014 RMK A01 SLJE 231200Z 00000KT 9999 NSC 27/21 Q1015 YIFL 231300Z AUTO 29002KT 9999 // SCT016 BKN022 BKN029 24/22 K18A 231255Z AUTO 00000KT 10SM SCT037 05/00 A3012 RMK AO2 T00511005 K17J 231255Z AUTO 03006KT 10SM SCT010 BKN018 OVC048 12/06 A3000 RMK AO2 T01230058 SKSM 231200Z 00000KT 9999 FEW020 SCT200 25/23 A2980 YHOO 231230Z AUTO 33011KT //// // ////// 27/16 Q1005 RMK SLJO 231200Z 00000KT 8000 VCSH SCT020 FEW023CB BKN070 24/24 Q1010 SKSP 231300Z 05021KT 8000 -DZ SCT012 OVC070 23/21 A2989 RERA YHOT 231300Z AUTO 31003KT 9999 // ////// 08/08 Q1018 K18H 231255Z AUTO 01017G28KT 7SM OVC040 20/11 A3003 RMK A01 SKUC 231200Z 36005KT 9999 FEW017 BKN200 26/25 A2986 TDCF 231200Z 13002KT 9999 FEW020 29/21 Q1012 SKUI 231200Z 00000KT 4000 -DZ BKN008 24/23 A2986 RMK AD OPER IMC NGFU 231300Z 04006KT 9999 FEW020TCU 29/24 Q1007 K0E0 231255Z AUTO 02006KT 10SM CLR M02/M06 A3035 RMK AO2 T10211056 K21D 231251Z AUTO 00000KT 10SM CLR M07/M08 A2995 RMK AO2 SLMG 231200Z 32004KT 8000 VCSH FEW015 OVC070 24/24 Q1010 SLLP 231200Z 10006KT 6000 FEW005 BKN200 09/04 Q1037 YJAB 231230Z AUTO 03003KT //// // ////// 27/23 Q1008 RMK K19S 231255Z AUTO 30007KT 10SM CLR 03/00 A3015 RMK AO2 T00251004 K20U 231255Z AUTO 26015KT 10SM CLR 09/05 A2986 RMK AO2 K20V 231254Z AUTO 00000KT 1/4SM FZFG OVC001 00/M01 A3044 RMK AO2 K0F2 231255Z AUTO 00000KT 10SM CLR M01/M03 A3017 RMK AO2 T10061035 SKVP 231200Z 06004KT 7000 SCT010 SCT200 25/24 A2989 RMK HZ K0CO 231253Z AUTO 32036G51KT OVC001 M05/M10 A3046 RMK AO2 PWINO YHSM 231230Z AUTO 23006KT 9999 // NCD 18/12 Q1011 RMK SKVV 231200Z 34004KT 9999 SCT020 SCT090 23/22 A2992 K22N 231255Z AUTO 00000KT 10SM CLR M02/M08 A3016 RMK AO2 K24A 231245Z AUTO 11004KT 10SM CLR M01/M03 A3009 RMK AO2 T10061033 HKEL 231230Z 31006KT 9999 FEW021CB BKN022 23/11 Q1020 YHUG 231230Z AUTO 05006KT 9999 // SCT088 23/17 Q1010 RMK NFTF 231300Z 15010KT 9999 FEW017 BKN280 23/15 Q1014 SLOR 231200Z 33004KT 8000 NSC 06/M03 Q1034 K24J 231255Z AUTO 05007KT 4SM BR FEW050 SCT060 BKN070 16/16 A2997 RMK A01 P0002 NFTL 231200Z 12013KT 9999 FEW017 BKN280 25/20 Q1012 SLPO 231200Z 00000KT 9999 NSC 10/04 Q1035 SLPS 231200Z 00000KT 9999 NSC 28/24 Q1011 SLRB 231200Z 00000KT 9999 NSC 22/21 Q1014 LYKV 231230Z VRB02KT CAVOK 14/05 Q1020 NOSIG NFTV 231300Z 12007KT 9999 FEW008 BKN017 OVC110 25/21 Q1011 MPMG 231200Z VRB02KT 9000 SCT017 SCT090 25/23 Q1011 NOSIG K0J4 231258Z AUTO VRB05KT 10SM BKN042 08/03 A3004 RMK AO2 SLP172 T00780028 $ SLRI 231200Z 18006KT 5000 VCSH SCT008 BKN015 FEW020CB BKN070 25 /23 Q1012 K1A5 231245Z AUTO 00000KT 10SM CLR M05/M06 A3012 RMK AO2 T10461058 SLSA 231200Z 00000KT 9999 SCT010 BKN080 24/23 Q1010 K1A6 231255Z AUTO 00000KT 10SM CLR M04/M05 A3017 RMK AO2 T10451051 K1A9 231255Z AUTO 00000KT 10SM CLR 00/M01 A3006 RMK AO2 T10011007 SLRQ 231200Z 00000KT 9999 OVC043 25/23 Q1012 SLSI 231200Z 00000KT 9999 BKN017 23/21 Q1013 LYNI 231230Z 00000KT CAVOK 13/04 Q1020 NOSIG SLRY 231200Z 00000KT 9999 BKN030 BKN200 23/22 Q1011 SMJP 231300Z 10007KT 9999 FEW015 29/23 Q1012 NOSIG SLTJ 231200Z 00000KT 9999 SCT020 18/12 Q1019 MPPA 231300Z 00000KT 9999 FEW018CB ///// Q1011 K28J 231255Z AUTO 03009KT 3SM RA BKN005 OVC012 17/17 A2994 RMK AO2 P0052 HKJK 231230Z 09010KT 9999 FEW025CB BKN026 26/13 Q1016 K1AM 231258Z AUTO 26018G29KT 10SM BKN240 16/02 A2983 RMK AO2 PK WND 25031/31 SLP044 T01610021 $ K1AN 231256Z AUTO 18008KT 10SM CLR M02/M04 A2970 RMK AO2 SLP100 T10211036 $ LYPG 231230Z VRB01KT 9999 FEW040 BKN050 15/05 Q1021 NOSIG SLTR 231200Z 09006KT 9999 SCT017 BKN200 25/22 Q1011 HKKI 231200Z 22009KT 9999 FEW027CB BKN090 29/16 Q1012 K1BM 231258Z AUTO 24022G31KT 10SM BKN240 14/03 A2980 RMK AO2 PK WND 24031/50 SLP086 T01390025 $ K1BN 231256Z AUTO 22018KT 10SM CLR 00/M02 A2973 RMK AO2 PK WND 22026/14 SLP094 T10041020 $ K1AW 231258Z AUTO 29021G27KT 10SM CLR 10/02 A3014 RMK AO2 PK WND 29027/39 SLP181 T00960021 $ ZBAA 231230Z 36005MPS CAVOK M01/M14 Q1027 NOSIG LZIB 231230Z 07007KT 5000 BR OVC005 06/06 Q1016 NOSIG SLVM 231200Z 00000KT 9999 OVC070 20/16 Q1012 K1F0 231255Z AUTO 00000KT 10SM CLR M01/M05 A3018 RMK AO2 K1CM 231258Z AUTO 25011G21KT 10SM BKN220 15/02 A2985 RMK AO2 PK WND 24031/00 SLP095 T01450015 $ SLUY 230100Z 26015KT 9999 NSC 10/M11 Q1030 K1CN 231256Z AUTO 18006KT 10SM CLR M04/M04 A2977 RMK AO2 SLP111 T10431045 $ K1BW 231258Z AUTO 29020KT 10SM CLR 08/03 A3015 RMK AO2 SLP189 T00840029 $ SLVR 231200Z 16004KT 9999 FEW023 SCT080 27/19 Q1013 HKML 231200Z 15012KT 9999 SCT025 31/25 Q1008 K1DM 231258Z AUTO 18013G18KT 10SM BKN220 10/03 A2980 RMK AO2 SLP102 T00990034 $ K1DN 231256Z AUTO 17006KT 10SM CLR M03/M04 A2976 RMK AO2 SLP108 T10311037 $ HKMO 231200Z 15006KT 9999 FEW026CB SCT027 31/24 Q1009 NOSIG GUCY 222300Z 00000KT 9999 FEW015 FEW023CB SCT110 27/24 Q1012 SC/SE-S NOSIG SLYA 231200Z 04008KT 9999 NSC 26/18 Q1013 YJLC 231230Z AUTO 08009KT //// // ////// 29/15 Q1007 RMK NGTA 231300Z 10005KT 9999 FEW020 28/24 Q1007 TDPD 231200Z 24004KT 9999 FEW019 27/21 Q1014 MPSM 231300Z 32003KT 9999 FEW025 SCT100 24/24 Q1011 K1H2 231255Z AUTO 17003KT 10SM SCT110 M02/M05 A3017 RMK AO2 T10161055 K1EM 231258Z AUTO 23016G21KT 10SM SCT140 13/03 A2981 RMK AO2 SLP098 T01310031 $ CERM 231200Z AUTO 32010G17KT M07/M10 RMK AO1 SOG 00 2011 PK WND 31018/1103 SLP113 T10681101 K1EN 231256Z AUTO 20005KT 10SM FEW080 02/01 A2972 RMK AO2 SLP097 T00210005 $ K1DW 231258Z AUTO 27010KT 10SM CLR 07/03 A3018 RMK AO2 SLP199 T00680025 $ K0R0 231255Z AUTO 32004KT 9SM CLR M02/M02 A3018 RMK AO2 K33V 231255Z AUTO 19006KT 10SM CLR 03/M01 A3040 RMK AO1 HKNW 221700Z 04004KT 9999 SCT023 21/13 Q1018 K1FN 231256Z AUTO 22010KT 10SM CLR 01/00 A2964 RMK AO2 SLP098 T00061005 $ MPTO 231300Z 00000KT 9999 SCT018TCU 26/24 Q1011 NOSIG K0R4 231255Z AUTO A3018 RMK AO2 PWINO TSNO K2A0 231255Z AUTO 00000KT 10SM FEW014 FEW036 M03/M03 A3013 RMK A01 YIVO 231230Z AUTO 05007KT //// // ////// 27/04 Q1009 RMK LYTV 231230Z 31003KT 9999 FEW030 SCT040 15/10 Q1021 NOSIG K1GM 231258Z AUTO 21015G25KT 10SM BKN180 12/03 A2984 RMK AO2 PK WND 21030/44 SLP101 T01170029 $ K1GN 231256Z AUTO 22010KT 10SM OVC240 M02/M02 A2971 RMK AO2 SLP099 T10181025 $ K1FW 231258Z AUTO 27014KT 10SM CLR 06/02 A3014 RMK AO2 SLP190 T00600024 $ LZKZ 231230Z 28003KT 8000 OVC005 05/03 Q1019 NOSIG K0S9 231255Z AUTO 03006KT 6SM -DZ FEW005 OVC010 12/12 A2980 RMK AO2 K1K1 231255Z AUTO 19003KT 10SM CLR 00/M06 A3009 RMK AO2 T10041059 K1HM 231258Z AUTO 22018G35KT 10SM BKN210 14/04 A2978 RMK AO2 PK WND 24035/43 SLP069 T01440035 $ K1HN 231256Z AUTO 01004KT 10SM CLR M04/M04 A2975 RMK AO2 SLP106 T10401040 PWINO FZRANO $ LYUZ 231230Z 20005KT 130V260 CAVOK 10/02 Q1019 LYVR 231230Z 18004KT 160V220 CAVOK 15/05 Q1020 NOSIG GVAC 231300Z 07008KT 9999 SCT014 BKN200 27/20 Q1015 NOSIG K1IM 231258Z AUTO 23010KT 10SM FEW075 SCT240 15/03 A2985 RMK AO2 PK WND 24027/15 SLP110 T01520031 $ K1IN 231256Z AUTO 26005KT 10SM CLR M02/M03 A2972 RMK AO2 SLP098 T10251033 $ SOCA 231230Z AUTO VRB02KT CAVOK 28/24 Q1012 NOSIG GVBA 231300Z 03008KT 9999 FEW014 BKN200 27/19 Q1015 NOSIG K2C8 231255Z AUTO 18005KT 8SM OVC012 M05/M06 A2986 RMK AO2 K40B 231216Z AUTO 24007G14KT 070V010 M08/M11 A2987 RMK AO1 SLP138 T10791107 11031 21079 52012 70009 K1JM 231258Z AUTO 22026G37KT 10SM CLR 14/03 A2977 RMK AO2 PK WND 23037/44 SLP083 T01350034 $ ZBHH 231200Z VRB01MPS 9999 FEW040 M08/M17 Q1025 NOSIG K1JN 231256Z AUTO 22010KT 10SM CLR M03/M03 A2970 RMK AO2 SLP092 T10261033 $ K1IW 231258Z AUTO 28011KT 10SM CLR 05/02 A3013 RMK AO2 SLP200 T00450021 $ K1M4 231256Z AUTO 01005KT 10SM CLR M02/M04 A3014 RMK AO2 SLP230 T10171039 K0V4 231255Z AUTO 00000KT 10SM CLR M03/M03 A3018 RMK AO1 T10301030 K2D5 231255Z AUTO 18007KT 1/4SM FZFG M05/M05 A2992 RMK AO2 PWINO K1M5 231255Z AUTO 00000KT 10SM CLR M04/M05 A3016 RMK A01 K40J 231255Z AUTO 09005KT 7SM -RA SCT016 OVC090 17/16 A2996 RMK AO2 P0009 T01650160 K1KM 231258Z AUTO 27009KT 10SM SCT200 08/02 A2993 RMK AO2 SLP141 T00810019 $ K1KN 231256Z AUTO 21015KT 10SM CLR M02/M03 A2970 RMK AO2 SLP091 T10191031 $ K1JW 231258Z AUTO M 10SM CLR 08/03 A3013 RMK AO2 SLP186 T00820026 $ LZPP 231230Z 13008KT 090V150 9999 BKN012 07/05 Q1016 HLLM 231250Z 09010KT 8000 SCT025 SCT080 22/11 Q1019 K1LN 231256Z AUTO 22008KT 10SM CLR M02/M02 A2970 RMK AO2 SLP086 T10171023 $ K1KW 231258Z AUTO 26006KT 10SM CLR 06/03 A3013 RMK AO2 SLP199 T00560025 $ K2F5 231255Z AUTO 30008KT 10SM SCT110 02/M03 A3021 RMK AO2 K0VG 231230Z AUTO 00000KT 10SM CLR M05/M06 A3017 RMK AO2 YLBD 231300Z AUTO 27005KT 9999 // NCD 29/25 Q1005 RMK K42J 231255Z AUTO 03008KT 3/4SM OVC001 17/17 A2996 RMK AO1 TSNO MSAC 222250Z 28006KT CAVOK 29/24 Q1007 A2976 K1P1 231255Z AUTO 28009KT 10SM CLR M04/M10 A3004 RMK AO2 T10421100 TFFF 231230Z AUTO 07005KT 030V110 CAVOK 28/24 Q1013 NOSIG K1MN 231256Z AUTO 24006KT 10SM CLR 00/M02 A2970 RMK AO2 SLP086 T10031018 $ K1LW 231258Z AUTO 28013KT 10SM CLR 09/03 A3016 RMK AO2 SLP188 T00890029 $ K2G4 231250Z AUTO 30003KT 10SM SCT011 M06/M08 A3002 RMK AO1 K2DP 231256Z AUTO 35006KT 10SM FEW200 05/04 A3014 RMK AO2 SLPNO T00500038 $ HKWJ 231000Z 06003KT 9999 BKN030 30/22 Q1008 LZSL 231230Z 17003KT 110V220 7000 OVC003 04/03 Q1018 K2G9 231255Z AUTO 00000KT 10SM CLR M06/M08 A3009 RMK AO2 K1NM 231258Z AUTO 14004KT 10SM CLR 13/02 A2982 RMK AO2 SLP105 T01270020 $ K1NN 231256Z AUTO 13004KT 10SM CLR M07/M08 A2972 RMK AO2 SLP092 T10731084 $ TFFR 231230Z AUTO VRB01KT 9999 BKN015 28/23 Q1013 TEMPO 4000 SHRA SCT015TCU MRLB 231300Z 19004KT 9999 FEW045 24/23 A2985 NOSIG K2I0 231235Z AUTO 00000KT 10SM CLR M02/M03 A3018 RMK AO2 T10251031 K1ON 231256Z AUTO 13005KT 10SM CLR M07/M08 A2973 RMK AO2 SLP098 T10691079 $ K1NW 231258Z AUTO 25013KT 10SM CLR 05/02 A3016 RMK AO2 SLP200 T00470017 $ YLEC 231300Z AUTO 16007KT //// // ////// 18/14 Q1010 RMK LZTT 231230Z VRB02KT 0300 R27/0550N FG OVC002 02/02 Q1016 TEMPO 0500 FG MRLM 231300Z 25002KT 9999 FEW020 BKN120 25/23 A2986 YKMP 231300Z AUTO 00000KT //// // ////// 15/14 Q1017 RMK SMZO 231300Z 07006KT 9999 FEW020 29/23 Q1012 NOSIG K46D 231255Z AUTO 15008KT 10SM FEW070 M04/M05 A2984 RMK AO2 K1OW 231258Z AUTO 28014KT 10SM CLR 08/02 A3017 RMK AO2 SLP194 T00820017 PWINO $ K2J3 231230Z AUTO 06006KT 10SM CLR 10/02 A3007 RMK AO2 T00970015 K1S5 231255Z AUTO 00000KT 10SM OVC100 12/10 A2986 RMK AO2 T01170097 K2J9 231255Z AUTO 03005KT 9SM -RA OVC008 11/10 A3000 RMK AO2 YLEO 231230Z AUTO 10008KT 9999 // NCD 26/02 Q1013 RMK YKNT 231300Z AUTO 13018KT //// // ////// 31/09 Q1007 MROC 231300Z 08007KT 050V110 CAVOK 22/18 A2999 NOSIG K46U 231240Z AUTO 00000KT 1/4SM FG OVC003 01/01 A3035 RMK A01 AYMO 230800Z 00000KT 9999 FEW018CB SCT018 SCT300 29/25 Q1005 RMKS K49A 231255Z AUTO 05006KT 10SM CLR 03/M01 A3010 RMK AO2 LTG DSNT N T00291007 YKOW 231230Z AUTO 09002KT 9999 // ////// 26/22 Q1009 RMK K3D2 231255Z AUTO 25006KT 10SM OVC047 00/M06 A2993 RMK AO2 T10031060 YLHI 231234Z AUTO 09011KT 9999 // SCT009 BKN020 OVC082 20/18 Q1019 K1V4 231254Z AUTO M07/M11 A3006 RMK AO1 SLP192 T10671106 K1V6 231250Z AUTO 27014KT 10SM CLR 11/01 A3025 RMK AO2 SPCL 231200Z VRB02KT 9999 FEW015 SCT070 23/23 Q1011 RMK BIRD HAZARD RWY 02/20 PP000 K3AU 231255Z AUTO 00000KT 10SM CLR 00/M05 A3009 RMK AO2 YLHR 231230Z AUTO 09004KT //// // SCT024 27/22 Q1009 LZZI 231230Z VRB02KT 0200 R06/0450N FG OVC002 04/04 Q1015 MRPV 231200Z 11010KT 9999 FEW030 BKN100 20/16 A3000 NOSIG K3F3 231255Z AUTO 00000KT 10SM CLR 00/M01 A3025 RMK AO2 T10051011 YMBA 231300Z AUTO 15007KT //// // ////// 21/18 Q1013 YLIS 231230Z AUTO 00000KT 9999 // NCD 16/14 Q1017 RMK ZBSJ 231200Z 02002MPS CAVOK 03/M12 Q1025 NOSIG OAHR 231255Z 11004KT CAVOK 18/M10 Q1013 RMK BLU YMBD 231230Z AUTO 23009KT 9999 // NCD 19/17 Q1011 RMK K2LS 231255Z AUTO 32005KT 10SM CLR 07/02 A3013 RMK AO2 YKRY 231230Z AUTO 11005KT 9999 // NCD 17/14 Q1017 RMK K2P2 231255Z AUTO 25007KT 10SM SCT024 OVC050 00/M05 A2993 RMK AO2 T10011052 ZBTJ 231230Z 34009MPS CAVOK 03/M17 Q1025 NOSIG AYPY 231200Z 20008KT CAVOK 27/23 Q1008 YMAV 231230Z AUTO 05007KT 9999 // SCT120 21/16 Q1011 RF00.0////./ OAKB 231250Z VRB02KT 6000 NSC 09/M07 Q1019 NOSIG RMK A3010 WHT WHT YLLE 231230Z AUTO 03007KT 9999 // NCD 28/07 Q1009 OAJL 231155Z 00000KT 8000 HZ FU FEW180 15/09 A2998 RMK AO2A SLP146 T01520086 10196 20067 57004 YMAY 231230Z AUTO 07005KT 9999 // BKN125 21/12 Q1013 RMK OAIX 231258Z 00000KT 8000 HZ CLR 10/M05 A3005 RMK AO2A SLP141 T01011055 GVNP 231200Z 05010KT 9999 FEW015 OVC200 28/19 Q1015 NOSIG OBBI 231300Z 33007KT 9999 -RA FEW025 23/17 Q1014 NOSIG K54J 231255Z AUTO 36007KT 10SM BKN015 OVC048 10/03 A3001 RMK AO2 T00960028 SPGM 222100Z 36004KT 9999 FEW040 SCT130 30/21 Q1008 RMK TX YMCO 231230Z AUTO 35005KT //// // ////// 18/12 Q1013 NIUE 231200Z AUTO 13010KT //// // ///////// 23/22 Q1010 OAKN 231155Z 05003KT 9999 SCT170 22/M16 A2997 RMK AO2A SLP118 Q1014 DA4841 56007 YMDG 231300Z AUTO 25001KT 9999 // NCD 15/14 Q1017 RMK K3I2 231255Z AUTO 00000KT 10SM CLR M06/M08 A3020 RMK AO2 T10641076 MTCH 221900Z 36006KT 9999 FEW025 29/20 Q1011 A2986 SPHI 231200Z 18009KT 9999 OVC025 19/17 Q1015 RMK BIRD HAZARD RWY 19/01 PP000 SPHO 231200Z VRB01KT 9999 FEW040 SCT110 15/11 Q1027 RMK TN11.9 PP000 MSLP 231250Z 36005KT 320V050 CAVOK 25/19 Q1012 A2988 NOSIG SPJA 222130Z 09004KT 9999 SCT050 OVC080 21/21 Q1012 YMEK 231230Z AUTO 11009KT 9999 // NCD 29/M07 Q1011 K4A6 231255Z AUTO 36003KT 10SM CLR M01/M02 A3014 RMK AO2 K3J7 231255Z AUTO 00000KT 10SM CLR 07/02 A3005 RMK AO2 SPJC 231300Z 18004KT 140V220 9999 OVC032 20/15 Q1016 NOSIG RMK PP000 MSLU 222250Z 00000KT CAVOK 32/25 Q1007 A2976 YMEN 231230Z AUTO 13005KT 030V180 9999 -SHRA OVC110 21/16 K4A9 231255Z AUTO 00000KT 10SM BKN032 BKN040 M02/M03 A3011 RMK AO2 K1YT 231258Z AUTO 34004KT 7SM SCT070 08/07 A2982 RMK AO2 SLPNO T00830072 $ K57C 231255Z AUTO 23004KT 10SM BKN060 M01/M06 A2999 RMK AO2 T10061065 SPHY 231200Z /////KT CAVOK 08/02 Q1034 RMK TN 1.2 PP000 K3K3 231255Z AUTO 27005KT 10SM CLR 03/00 A3018 RMK AO2 YMER 231234Z AUTO 18001KT 7000 // NCD 14/13 Q1014 YMES 231230Z AUTO 23005KT 9999 // NCD 16/13 Q1011 SPJI 222100Z 00000KT 9999 BKN030 30/25 Q1015 RMK TX33.6 PP000 YMGB 231300Z AUTO 34004KT //// // ////// 28/22 Q1008 OAMS 231250Z 07005KT 9999 SKC 17/M07 Q1011 BLU+BLU+ YMGD 231230Z AUTO 01009KT 9999 // NCD 28/23 Q1008 RMK SPJL 231200Z 27003KT CAVOK 09/M12 Q1035 RMK PP000 K3L4 231255Z AUTO 04006KT 10SM CLR 07/03 A3018 RMK A01 SPJR 231230Z VRB02KT 9999 SCT040 OVC060 12/09 Q1028 YMHB 231230Z 14004KT CAVOK 17/12 Q1013 ZBYN 231230Z 33003MPS 280V050 CAVOK 01/M20 Q1025 NOSIG AYWK 222200Z 00000KT 9999 FEW020 SCT140 BKN300 28/25 Q1008 YMIA 231230Z AUTO 25005KT 9999 // NCD 23/11 Q1011 RMK K2V6 231249Z AUTO 27009KT 10SM CLR 05/01 A3016 RMK AO2 YLRE 231230Z AUTO 08005KT 9999 // SCT100 25/15 Q1010 RMK SPME 231200Z 00000KT 9999 BKN011 21/19 Q1013 RMK BIRD HAZARD RWY 32/14 TN 20.7 PP000 SPLO 222100Z 15009KT 9999 SCT025 21/16 Q1011 RMK TX 22.2 PP000 K4BM 231254Z AUTO 35006G21KT 10SM CLR 01/M07 A3051 RMK AO2 GVSV 231200Z 03004KT 9999 FEW022 BKN200 28/20 Q1016 NOSIG K3LF 231255Z AUTO 17007KT 10SM SCT085 M02/M04 A3012 RMK AO2 T10171041 K2W6 231246Z AUTO 26004KT 10SM CLR 00/M03 A3022 RMK AO1 YMHU 231230Z AUTO 04005KT 9999 // NCD 29/24 Q1007 K3N8 231255Z AUTO 21003KT 10SM OVC006 M07/M08 A2990 RMK AO2 T10661082 YMIN 231230Z AUTO 15006KT //// // ////// 18/16 Q1011 RMK SPMS 231200Z 00000KT 5000 BR BKN015 24/23 Q1013 RMK BIRD HAZARD RWY09/27 PP000 MSSA 230050Z 28005KT CAVOK 25/18 Q1016 A3002 YNAR 231230Z AUTO 05013KT //// // ////// 26/07 Q1012 RMK YLST 231230Z AUTO 09005KT 9999 // NCD 24/M02 Q1013 RMK YLTN 231230Z AUTO 11012KT //// // ////// 24/07 Q1015 MSSM 230050Z 19002KT CAVOK 26/23 Q1010 A2983 DAAD 231200Z 11002KT CAVOK 16/06 Q1022 YNBR 231300Z AUTO 07003KT 9999 // NCD 17/10 Q1015 RMK DAAE 231200Z 24009KT CAVOK 22/04 Q1019 YMMB 231230Z AUTO 29008KT 9999 // OVC120 24/16 Q1011 RMK DAAG 231230Z 26006KT 220V300 CAVOK 21/10 Q1020 MSSS 231250Z 35005KT CAVOK 21/17 Q1016 A3001 YLTV 231230Z AUTO 03003KT 9999 // SCT105 17/14 Q1011 RMK DAAJ 231200Z 33004KT CAVOK 21/M00 Q1022 MUCC 231250Z VRB01KT 9000 SCT020 BKN050 24/23 Q1013 DABB 231230Z 00000KT 9999 FEW030 BKN200 20/07 Q1018 DABC 231230Z 36003KT 330V050 9999 FEW040 BKN200 15/M01 Q1020 MUCF 231250Z 08003KT 050V120 9999 FEW020 FEW040 22/22 Q1013 K4I3 231256Z AUTO 00000KT 10SM CLR M04/M05 A3014 RMK AO2 K2WX 231156Z AUTO 27011KT 08/03 A2984 RMK AO1 SLP106 T00830033 10083 20044 56018 DAAP 231200Z 31008KT 8000 FEW040TCU BKN080 23/08 Q1019 YMLT 231230Z AUTO 30003KT 9999 // NCD 16/13 Q1013 RF00.0/000.0 YMML 231230Z 27004KT 210V300 CAVOK 21/15 Q1012 NOSIG K3R7 231255Z AUTO 00000KT 10SM CLR 02/00 A3018 RMK AO2 T00220001 YMNE 231230Z AUTO 13005KT 9999 // NCD 24/M03 Q1013 RMK MUCL 231251Z VRB01KT 9000 SCT020 26/25 Q1013 DAAS 231200Z 00000KT CAVOK 14/01 Q1021 DAAT 231230Z 18009KT 140V200 9999 SCT046 SCT100 23/M09 Q1022 MUCM 231251Z VRB01KT 5000 BR FEW015 BKN080 23/23 Q1014 YMNG 231230Z AUTO 05008KT 9999 // NCD 24/08 Q1011 RMK DAAV 231200Z 00000KT 9999 FEW040 BKN100 21/09 Q1019 TGPY 231200Z 08007KT 9999 FEW020 28/24 Q1013 NOSIG DAAY 231200Z 28012KT CAVOK 16/00 Q1025 K5A6 231255Z AUTO 00000KT 10SM CLR M03/M04 A3017 RMK AO2 T10351039 AZUH 231050Z 00000KT 9999 SCT035TCU 10/M07 Q1012 SPQT 231200Z VRB02KT 9999 BKN005 BKN100 24/23 Q1010 NOSIG RMK BIRD HAZARD RWY 06/24 PPTRZ K3S8 231255Z AUTO 13003KT 10SM FEW026 SCT034 BKN043 15/14 A3009 RMK AO2 K65S 231255Z AUTO 21004KT 8SM FEW026 BKN038 OVC060 10/10 A2976 RMK AO2 P0002 SPQU 231200Z VRB02KT CAVOK 19/M08 Q1024 NOSIG RMK TN 07.9 PP000 DABS 231200Z 34004KT 9999 FEW033 SCT100 15/09 Q1020 MUCU 231250Z 36005KT 9000 SCT020CB BKN060 24/23 Q1013 DABT 231200Z 30004KT 9999 FEW023 BKN200 14/05 Q1020 YMOG 231230Z AUTO 11005KT //// // ////// 28/M04 Q1011 RMK K3T5 231235Z AUTO 00000KT 10SM CLR 03/00 A3019 RMK AO2 T00311005 K66R 231255Z AUTO 34003KT 10SM CLR 03/M01 A3022 RMK AO2 T00341006 SPRU 231200Z 12003KT 080V160 8000 BKN007 OVC120 18/17 Q1014 RMK BR PP000 K5C1 231255Z AUTO 00000KT 10SM CLR M01/M04 A3022 RMK AO1 SPSO 231200Z 23005KT 9999 OVC030 19/16 Q1015 RMK BIRD HAZARD RWY 22/04 PP000 YMOR 231230Z AUTO 09008KT 9999 // NCD 20/12 Q1015 RMK SPST 231200Z 00000KT 9999 FEW020 24/22 Q1011 RMK BIRD HAZARD RWY 17/35 PP000 SPTN 231200Z 21003KT 9999 OVC030 16/12 Q1017 RMK PP000 YMRB 231300Z AUTO 09006KT 9999 // NCD 21/17 Q1013 RMK YNHL 231230Z AUTO 14005KT //// // ////// 20/12 Q1011 RMK DAFH 231200Z 32010KT CAVOK 16/01 Q1022 MUHA 231255Z 23002KT 3000 0300SW R06/0250N R24/P2000D PRFG FEW020TCU 19/19 Q1013 SPTU 231200Z 03005KT 340V080 0500 +TSRA FG OVC015 SCT020CB 22/22 Q1011 RMK TN22.0 BIRD HAZARD RWY 01/19 PP520 K4M9 231235Z AUTO 00000KT 10SM CLR M03/M04 A3020 RMK AO2 PWINO MUGM 231256Z 34008KT 9999 FEW030 SCT080 BKN220 24/24 A2993 RMK SLP134 T02420242 MTPP 231200Z 13004KT 9000 FEW020 24/21 Q1012 A2989 MUHG 231250Z 10003KT 060V120 0100 FG VV/// 22/22 Q1013 K4O4 231255Z AUTO 00000KT 10SM CLR M02/M03 A3019 RMK AO2 YMTG 231230Z AUTO 27006KT 9999 // NCD 18/15 Q1011 RMK YMTI 231230Z AUTO 03003KT //// // ////// 27/25 Q1008 RMK K4MR 231258Z AUTO 30008KT 10SM CLR 08/M02 A3024 RMK AO2 SLP230 T00761019 $ K5H4 231255Z AUTO 12006KT 10SM CLR M06/M06 A2979 RMK AO2 SPYL 222100Z 21012KT CAVOK 22/17 Q1010 RMK BIRD HAZARD RWY 17/35 SCT100 TX25.2 PP000 DBBB 231200Z 21008KT 9999 SCT012 29/25 Q1011 NOSIG K6A1 231255Z AUTO 00000KT 10SM 09/05 A3005 RMK AO2 T00880050 K74V 231255Z AUTO 26006KT 10SM SCT050 SCT070 00/M02 A3038 RMK AO2 K4S2 231255Z AUTO 00000KT 5SM -RA SCT001 BKN022 OVC090 10/10 A2989 RMK AO2 P0002 K6A2 231255Z AUTO 06004KT 10SM CLR 07/02 A3006 RMK AO2 SPZO 231230Z 00000KT 9999 SCT040 BKN100 12/05 Q1032 NOSIG RMK BIRD HAZARD RWY28 UAAA 231230Z 15003MPS 090V170 1100 R05L/P2000 FU NSC 01/M04 Q1018 R05L/CLRD65 TEMPO 0800 FU K6B0 231255Z AUTO 00000KT 10SM CLR M07/M09 A3011 RMK AO2 T10701095 UAAH 231130Z 15003MPS CAVOK 04/M10 Q1021 R05/0///60 NOSIG RMK QFE728/0971 YMYB 231300Z AUTO 18006KT 9999 // NCD 18/16 Q1015 K6B9 231255Z AUTO 00000KT 10SM OVC028 M02/M06 A3010 RMK AO2 UACC 231230Z 08004MPS CAVOK M05/M07 Q1024 R04/0///70 NOSIG RMK QFE736/0981 K4V0 231255Z AUTO 00000KT 10SM CLR M03/M03 A3038 RMK AO2 T10271033 DAOB 231200Z 32010KT CAVOK 15/M02 Q1022 TJBQ 231250Z 11005KT 10SM SKC 27/23 A2997 DAOF 231200Z 07012KT CAVOK 18/M04 Q1021 YNRC 231230Z AUTO 35003KT //// // ////// 17/16 Q1011 RMK UACK 231130Z 18003MPS CAVOK M03/M06 Q1024 R20/010060 NOSIG RMK QFE744/0993 DAOI 231200Z 00000KT CAVOK 18/05 Q1021 K79J 231256Z AUTO 34003KT 10SM CLR 06/02 A3003 RMK AO2 SLP169 T00610017 UADD 231230Z 00000MPS 7000 NSC 04/M01 Q1014 R13/0///65 NOSIG RMK QFE704/0939 K5M9 231255Z AUTO 00000KT 10SM CLR M04/M05 A3016 RMK AO2 T10401047 DAOL 231200Z 25006KT CAVOK 21/03 Q1021 UACP 231230Z 13006MPS CAVOK M01/M04 Q1024 R05/0/0060 NOSIG RMK QFE756/1008 DAON 231230Z 26006KT CAVOK 22/M04 Q1021 DAOO 231230Z 23006KT 200V260 CAVOK 21/01 Q1020 YPAD 231230Z 16004KT CAVOK 19/14 Q1011 NOSIG DAOR 231200Z 32005KT CAVOK 18/M03 Q1023 K82C 231255Z AUTO 00000KT 10SM CLR M03/M08 A2994 RMK AO2 T10331080 YPAG 231230Z AUTO 22003KT 9999 // SCT060 BKN120 19/17 Q1010 DAOV 231200Z 28004KT CAVOK 20/M03 Q1021 DAOY 231200Z 32008KT CAVOK 13/M10 Q1022 YNSM 231230Z AUTO 09006KT //// // ////// 22/04 Q1015 RMK OEAB 231200Z 20011KT 9999 BKN020 FEW025CB SCT070 19/13 Q1021 NOSIG MUSC 231250Z 11001KT 1500 MIFG SCT025 20/20 Q1014 OEAH 231200Z 33010KT 9999 SCT040 BKN100 22/14 Q1013 RERA NOSIG YPCC 231300Z AUTO 14014KT 9999 // OVC045 27/21 Q1009 OEBA 231200Z 23008KT 9999 SCT030 23/12 Q1017 NOSIG YOLD 231230Z AUTO 22006KT 9999 // NCD 19/13 Q1011 RMK YNTN 231300Z AUTO 36004KT 9999 // NCD 27/24 Q1008 YPBO 231300Z AUTO 07006KT 9999 // NCD 34/03 Q1007 RMK K82V 231255Z AUTO 10SM CLR 05/01 A3017 RMK AO2 PWINO OEAO 231200Z 33004KT 9999 FEW040 20/06 Q1017 OEBH 231200Z 36008KT 9999 SCT040 28/14 Q1014 NOSIG OEAR 231200Z 27006KT CAVOK 29/10 Q1011 MWCB 231300Z 13007KT 9999 FEW018 SCT030 27/21 Q1012 K6I2 231255Z AUTO 00000KT 9SM CLR M05/M07 A3016 RMK AO2 YPEA 231230Z AUTO 18007KT 9999 // NCD 21/09 Q1013 YPED 231230Z AUTO 00000KT 9999 // NCD 18/14 Q1011 RMK K5R8 231255Z AUTO 00000KT 10SM CLR 00/00 A3020 RMK AO2 T00011002 YOLW 231300Z AUTO 27004KT 9999 // NCD 26/22 Q1006 RMK DAUA 231200Z 03014KT CAVOK 23/10 Q1019 YPDN 231230Z 05006KT 9999 FEW031 BKN170 BKN240 26/24 Q1008 DAUB 231200Z 00000KT 9999 SCT040 SCT100 18/07 Q1020 DATM 231200Z 01010KT CAVOK 29/06 Q1017 OEDF 231300Z 01012KT 9999 FEW030 SCT100 22/15 Q1014 NOSIG DAUE 231200Z 01003KT CAVOK 19/06 Q1022 UAII 231230Z 00000MPS 6000 NSC 09/M05 Q1013 R10/0///70 NOSIG RMK QFE725/0967 MWCR 231300Z 17004KT 9999 FEW018 BKN040 28/23 Q1012 DAUG 231200Z 30008KT 270V330 9999 FEW046 SCT090 18/02 Q1021 DAUH 231230Z 29013KT 9999 FEW026 SCT233 17/11 Q1020 YOOD 231230Z AUTO 19011KT //// // ////// 24/11 Q1011 RMK YNWN 231230Z AUTO 10006KT 9999 // NCD 31/M03 Q1009 RMK DAUK 231200Z 00000KT 9999 BKN033 16/10 Q1020 OEDM 231200Z 04016KT 9000 FEW040 SCT100 17/08 Q1016 DAUL 231200Z 00000KT CAVOK 19/M02 Q1021 DAUO 231200Z 33005KT 9999 SCT033 SCT090 14/11 Q1019 MUVR 231250Z 15003KT 9000 FEW030 22/21 Q1013 OEDR 231200Z 30004KT 9999 RA BKN025 OVC080 22/17 Q1012 NOSIG UBBB 231230Z 19009KT 9999 SCT047 11/04 Q1012 R88/CLRD// NOSIG YOOM 231230Z AUTO 35004KT 9999 // NCD 23/17 Q1008 RMK UAKD 231130Z 06006MPS 7000 NSC M01/M05 Q1018 R04/0///65 NOSIG RMK QFE730/0974 K5T9 231255Z AUTO 08005KT 10SM SCT018 03/00 A3022 RMK A01 DAUT 231200Z 04011KT CAVOK 20/08 Q1021 DAUU 231200Z 33007KT 9999 FEW046 SCT100 17/09 Q1020 ZGGG 231230Z 01006MPS CAVOK 16/05 Q1023 NOSIG UBBG 231230Z 08006KT 9999 BKN083 08/03 Q1013 R30/CLRD// NOSIG K6L4 231255Z AUTO 00000KT 10SM CLR M03/M04 A3013 RMK AO2 ZGHA 231200Z 36004MPS CAVOK 12/M00 Q1027 NOSIG DAUZ 231200Z 26004KT 9999 SCT040 BKN080 20/01 Q1018 UAKK 231230Z 11003MPS CAVOK M11/M11 Q1023 R05/850552 NOSIG RMK QFE720/0960 TIST 231253Z A2995 RMK AO2 SLP144 $ UBBL 231300Z 29005KT 9999 BKN026 10/06 Q1015 R33/CLRD// NOSIG RMK MT OP UBBN 231230Z 29004KT 9999 SCT050 SCT100 09/M08 Q1011 R14R/CLRD// NOSIG RMK MT OP QFE683 NLWW 230900Z AUTO VRB02KT 9999 FEW020/// 27/25 Q1009 TEMPO 4000 SHRA BKN014 SCT020CB K5SM 231254Z AUTO 36003KT 10SM CLR 00/M02 A3056 RMK AO2 UBBQ 231200Z 30003KT 9999 SCT012 07/03 Q1012 R34/29//60 NOSIG RMK MT OBSC YPGV 231230Z AUTO 36004KT 9999 // SCT020 28/24 Q1008 YORG 231230Z AUTO 10004KT 9999 // NCD 10/08 Q1018 RMK OEGN 231200Z 20010KT 9999 FEW030 FEW035CB SCT100 32/21 Q1009 NOSIG K7BM 231253Z AUTO 32008G17KT 10SM CLR 06/M01 A3046 RMK AO2 UBBY 231200Z 33001KT 9999 FEW030 SCT070 08/M02 Q1016 R33/////// NOSIG RMK MT OP OEGS 231200Z 04008KT 9999 BKN030 22/08 Q1016 OEGT 231200Z 30006KT 9999 SCT040 16/04 Q1017 NOSIG OEHL 231200Z 05002KT 9999 SCT040 17/07 Q1018 NOSIG UBEE 231300Z 32002KT 9999 SCT048 10/03 Q1014 R30/CLRD// NOSIG YPKA 231230Z AUTO 31011KT 9999 // NCD 29/22 Q1004 RMK YPKG 231300Z AUTO 10011KT 9999 // NCD 23/03 Q1015 YPJT 231230Z AUTO 19012KT 9999 // NCD 22/08 Q1013 RF00.0/000.0 ZHCC 231200Z 27004MPS CAVOK 09/M15 Q1026 NOSIG ZGKL 231200Z VRB01MPS 5000 -RA BR SCT040 10/08 Q1027 NOSIG K6P9 231255Z AUTO 24006KT 10SM CLR 04/M05 A3018 RMK AO2 T00381047 UAOO 231230Z 08005MPS CAVOK 06/M04 Q1012 R05/CLRD70 NOSIG RMK QFE748/0997 OEJN 231300Z 32010KT 9999 FEW030 27/16 Q1011 NOSIG YPKS 231230Z AUTO 03005KT 9999 // NCD 19/10 Q1015 RMK YPKT 231230Z AUTO 04003KT //// // ////// 27/23 Q1006 RMK YPKU 231300Z AUTO 35005KT 9999 // NCD 28/22 Q1007 RMK OEKJ 231100Z 03014KT 8000 SCT040 SCT080 20/13 Q1017 YPLM 231300Z AUTO 20010KT 9999 // NCD 29/12 Q1005 OEKM 231200Z 21009KT 9999 BKN022 FEW025CB 20/11 Q1021 NOSIG K6R3 231255Z AUTO 00000KT 7SM CLR 02/01 A3021 RMK AO2 T00200013 TJPS 230950Z 00000KT 10SM SKC 19/19 A2993 K6R6 231253Z AUTO 28007KT 05/M02 A3018 RMK AO1 SLP209 T00501022 OEMA 231300Z 21006KT CAVOK 24/03 Q1016 NOSIG K6S0 231255Z AUTO 25016G23KT 10SM CLR 11/03 A2998 RMK A01 K8A0 231255Z AUTO 02004KT 10SM CLR 00/00 A3009 RMK AO2 K96D 231255Z AUTO 00000KT 10SM CLR M03/M03 A2985 RMK AO2 K6S2 231255Z AUTO 19011G21KT 1 3/4SM DZ OVC002 A3000 RMK AO2 YPMQ 231230Z AUTO 00000KT 9999 // NCD 15/14 Q1017 K8A3 231255Z AUTO 00000KT 4SM BR CLR M03/M04 A3012 RMK A01 SUAA 231200Z 33015KT 9999 FEW040 21/11 Q1007 YPOD 231230Z AUTO 15007KT 9999 // SCT059 SCT100 20/13 Q1009 OEMK 231200Z 00000KT CAVOK 32/11 Q1010 ZGNN 231200Z 35004MPS 9000 -DZ SCT013 OVC033 09/08 Q1026 NOSIG K8B0 231255Z AUTO 31013G20KT 280V340 10SM -SN CLR M08/M11 A2990 RMK AO2 OENG 231200Z 11008KT CAVOK 31/09 Q1013 NOSIG UARR 231230Z 28003MPS 9999 BKN008 OVC020CB 03/02 Q1011 R22/150060 NOSIG RMK QFE755/1006 TJSJ 231256Z 23003KT 10SM FEW021 FEW035 SCT042 28/25 A2994 RMK AO2 SLP137 SHRA DSNT SE T02830250 $ UASK 231230Z 08002MPS 9999 NSC M09/M11 Q1028 R30/090060 NOSIG RMK QFE745/0994 YPPD 231300Z AUTO 23005KT 9999 // NCD 28/23 Q1005 YPPF 231230Z AUTO 00000KT 9999 // NCD 18/15 Q1011 RMK UATE 231230Z 03003MPS 9999 SCT027 BKN110 06/01 Q1013 R30/0///70 NOSIG RMK QFE758/1011 K7L2 231255Z AUTO 13011KT 10SM M03/M05 A2986 RMK AO2 YPPH 231230Z 20017KT CAVOK 23/08 Q1013 NOSIG UATG 231230Z 32005MPS 9999 SCT033CB 04/M00 Q1013 R32/CLRD70 NOSIG RMK QFE761/1015 UASP 231230Z 10004MPS CAVOK M09/M09 Q1029 R21/0///70 NOSIG RMK QFE760/1014 SUCA 231200Z 33021G31KT 9999 FEW0023CB 23/09 Q1004 UASS 231030Z 09004MPS 7000 NSC M03/M07 Q1028 NOSIG RMK QFE750/1000 OEPA 231200Z 35003KT 9999 FEW035 21/06 Q1016 NOSIG ZGOW 231200Z 03002MPS 360V060 9999 BKN033 17/10 Q1022 NOSIG ZHHH 231200Z 22003MPS CAVOK 11/00 Q1028 NOSIG K8D3 231256Z AUTO 23006KT M06/M07 A2993 RMK AO1 SLP158 T10561072 UATT 231230Z 12004MPS CAVOK 04/M03 Q1009 R13/0///60 NOSIG RMK QFE738/0984 K7N0 231256Z AUTO 01006KT 10SM CLR 08/02 A3013 RMK AO2 SLP202 T00780017 TSNO CMGB 231245Z AUTO 25005KT M06/M10 RMK AO1 SLP199 T10601095 53011 CMFM 231200Z AUTO 33004KT M11/M14 RMK AO1 SOG 12 2004 SLP128 T11141140 UAUU 231230Z 11005MPS CAVOK 03/M04 Q1018 R15/CLRD60 NOSIG RMK QFE747/0996 OERF 231200Z 29012KT CAVOK 19/01 Q1016 SUDU 231200Z 32020KT 9999 FEW026 22/08 Q1009 OERK 231300Z 03010KT 9999 BKN040 17/09 Q1017 NOSIG OESH 231200Z 00000KT CAVOK 33/11 Q1010 NOSIG OERR 231200Z 00000KT CAVOK 18/07 Q1016 NOSIG OETB 231200Z 02004KT 9999 FEW040 18/01 Q1017 NOSIG OESK 231200Z 32007KT 9999 SCT030 17/01 Q1018 NOSIG UCFL 231200Z 09002MPS 9999 SCT030CB SCT100 05/M02 Q1021 R07/CLRD70 RMK V/G/CH/Z YPTN 231230Z AUTO 02003KT 9999 // NCD 29/23 Q1007 UCFM 231230Z 02002MPS CAVOK 04/M08 Q1014 R26/CLRD70 NOSIG UCFO 231230Z 00000MPS 0600 0550N R12/1000D FG FU NSC 04/M06 Q1015 R12/CLRD70 TEMPO 0400 FG FU OETF 231200Z VRB08KT CAVOK 22/04 Q1017 NOSIG ZGSZ 231200Z 02005MPS CAVOK 17/06 Q1022 NOSIG OERY 231200Z 02014KT 8000 SCT040 OVC080 18/12 Q1017 TKPK 231200Z 04008KT 9999 FEW014 28/25 Q1013 TKPN 231200Z 13003KT 9999 VCSH BKN015 26/25 Q1013 OETR 231200Z 26004KT 9999 SCT040 BKN100 13/04 Q1017 K9A5 231255Z AUTO 05003KT 10SM SCT030 OVC040 00/M03 A3015 RMK AO2 T00001030 YREN 231230Z AUTO 00000KT 9999 // SCT125 20/16 Q1010 RMK OEWD 231200Z 33012KT CAVOK 30/11 Q1011 NOSIG YPWR 231230Z AUTO 00000KT 9999 // NCD 17/15 Q1011 OEWJ 231200Z 24010KT 9999 SCT040 27/11 Q1013 NOSIG YPXM 231300Z AUTO 19004KT 9999 // SCT013 SCT038 OVC046 25/22 Q1009 SVBM 221900Z 11013KT 9999 FEW016 31/18 Q1012 MYGF 231300Z 00000KT 9999 SCT025 BKN250 24/21 A2993 HTAR 231200Z 06010KT 9999 FEW038CB BKN040 28/19 Q1013 K9D7 231255Z AUTO 13005KT 9SM CLR M07/M07 A2982 RMK AO2 OEYN 231200Z 27010KT 9999 FEW040 28/12 Q1011 NOSIG K7W4 231255Z AUTO 00000KT 10SM CLR 00/M04 A3020 RMK AO1 T10041044 K7W6 231245Z AUTO 34005KT 10SM CLR 06/04 A3013 RMK AO2 T00560038 SULS 231200Z 31021G32KT 270V350 9999 SCT030 22/08 Q1006 HTDA 231200Z 11006KT 9999 SCT018 BKN020 FEW021CB 29/25 Q1009 NOSIG HTBU 231200Z 00000KT 9999 FEW018 FEW020CB BKN080 22/19 Q1014 SUMU 231300Z 33011KT CAVOK 24/11 Q1006 NOSIG HTDO 231200Z 10010KT 9999 SCT030 FEW031CB 30/16 Q1013 RETS YSBK 231230Z AUTO 07005KT 9999 // NCD 21/14 Q1016 YSCB 231230Z AUTO 19001KT 9999 // NCD 14/11 Q1017 TLPC 231200Z 08003KT 9999 FEW024 SCT040 29/25 Q1014 NOSIG HSOB 231100Z 36015KT CAVOK 27/01 Q1014 HSNN 231100Z 03011KT CAVOK 25/M01 Q1014 TLPL 231200Z 10010KT 9999 FEW028 28/24 Q1013 NOSIG YRMD 231300Z AUTO 07006KT 9999 // SCT100 OVC120 25/20 Q1009 YSCN 231230Z AUTO 00000KT 9999 // SCT041 19/14 Q1017 RMK YSCO 231230Z AUTO 00000KT //// // ////// 17/14 Q1015 RMK YSCR 231230Z AUTO 08007KT //// // ////// ///// Q1014 RMK HSPN 231100Z 36020KT 9999 FEW030 28/17 Q1012 MZBZ 231200Z 29003KT 9999 FEW016 21/21 A2998 Q1015 NOSIG RMK MISTY HRYR 231130Z 16005KT 9999 FEW023CB BKN025 22/18 Q1016 NOSIG YSDU 231230Z AUTO 07007KT 9999 // NCD 16/10 Q1015 RF00.0/000.0 YROM 231230Z AUTO 00000KT 9999 // NCD 18/13 Q1014 RMK YSGE 231300Z AUTO 00000KT 9999 // NCD 19/10 Q1014 SUSO 231200Z 36017KT CAVOK 23/13 Q1011 K9L2 231258Z AUTO M M M M M M RMK AO2 SLPNO PWINO PNO FZRANO TSNO $ MYNN 231200Z 00000KT9999 FEW030 SCT220 23/22 A2992 TNCA 231200Z 10012KT 9999 SCT018 29/25 Q1011 A2987 NOSIG HTIR 231200Z 12009KT 9999 SCT024 FEW026CB 28/12 Q1016 TNCB 231155Z 10012KT 070V130 9999 FEW020 28/24 Q1012 TLTL 221800Z 10015KT 9999 FEW018 BKN040 29/24 Q1011 NOSIG HTKA 231200Z 24005KT 9999 SCT024 FEW025CB 27/21 Q1015 TNCC 231200Z 10009KT 9999 FEW018 29/24 Q1012 NOSIG TNCE 231155Z AUTO 07008KT 030V090 //// // ///////// 27/25 Q1013 RE// DFFD 230600Z 00000KT 1800 DU NSC 20/08 Q1012 TEMPO 1400 DU YSHK 231230Z AUTO 22013KT 200V260 //// // ////// 24/14 Q1008 ZJHK 231200Z 36004MPS 9999 OVC040 18/13 Q1020 NOSIG SVMC 221700Z 18003KT 9999 BKN016 32/26 Q1011 HTKJ 231200Z 08008KT 9999 FEW045CB SCT046 32/14 Q1011 NOSIG HSSS 231300Z 33012KT CAVOK 29/03 Q1012 NOSIG TNCM 231200Z 10004KT 060V130 9999 SCT017 27/24 Q1013 A2994 NOSIG K8W2 231255Z AUTO 00000KT 10SM CLR M07/M09 A3017 RMK AO1 T10751086 SVMG 230000Z ////KT 9999 FEW010 27/24 Q1010 NOSIG SVMI 231300Z /////KT 9999 FEW016 26/24 Q1010 YSHT 231230Z AUTO 04010KT 9999 // SCT125 24/08 Q1011 RMK YSHW 231230Z AUTO 11004KT 9999 // NCD 20/15 Q1017 RMK UEEE 231230Z 34001MPS 0350 R23L/1000U FG NSC M40/M44 Q1020 R23L/490150 NOSIG RMK QFE757 HTMG 231200Z 00000KT 9999 SCT027 31/21 Q1012 OIAA 231200Z 31010KT 9999 SCT040 23/07 Q1015 K9MN 231252Z AUTO 29003KT 10SM CLR M03/M07 A2994 RMK AO1 T10261071 YTAR 231300Z AUTO 22010KT //// // ////// 18/12 Q1013 RMK YRTI 231230Z AUTO 18018KT //// // ////// 20/14 Q1013 RMK OIAG 231100Z 28012KT 9999 FEW040 20/07 Q1015 OIAH 231200Z 30004KT 9999 FEW030CB SCT035TCU 16/12 Q1015 RETSRA OIAI 231100Z 29006KT 9999 SCT040 18/10 Q1014 OIBA 231200Z 24012KT CAVOK 28/13 Q1010 OIBB 231200Z 33006KT 9999 FEW040 22/13 Q1014 A2994 HTMT 231200Z 05010KT 9999 BKN024 FEW025CB 30/23 Q1009 DGAA 231200Z 18007KT 9999 FEW020 BKN027 29/25 Q1011 NOSIG HTMU 231200Z 27010KT 9999 FEW022 FEW023CB SCT270 26/17 Q1014 OIAM 231200Z 31012KT CAVOK 21/06 Q1014 HUEN 231230Z 15009KT 9000 FEW022TCU FEW024CB 26/18 Q1014 TSRA/NE NOSIG HTMW 231200Z 27010KT 9999 SCT021 FEW022CB BKN090 22/19 Q1014 NOSIG OIBJ 231200Z 07006KT 9999 FEW003 BKN090 15/14 Q1015 RERA OIBK 231200Z 05012KT 2500 RA FEW020CB SCT025 OVC080 20/19 Q1012 OIBL 231200Z 15010KT 5000 -RA SCT025CB OVC080 22/17 Q1012 OICC 231230Z 30008KT 9999 SCT035CB SCT040 08/M03 Q1015 A3000 NOSIG OIAW 231230Z 32006KT 9999 FEW035 20/06 Q1014 YSMH 231300Z AUTO 13006KT 9999 // NCD 22/19 Q1013 RMK YSMI 231300Z AUTO 08006KT //// // ////// 17/17 Q1012 OIBP 231230Z 08006KT 9999 FEW034CB SCT035 BKN100 20/16 Q1010 A2985 RERA OIBQ 231200Z 07010KT 9999 FEW035TCU 22/10 Q1014 OICI 231230Z 29002KT 9999 FEW030CB SCT040 BKN090 08/02 Q1018 A3006 OICJ 231054Z 21006KT 9999 FEW035CB SCT040 BKN080 08/02 Q1015 OIBS 231200Z 21016KT 9999 SCT025CB SCT090 28/16 Q1011 OICK 231230Z 28016KT 9999 FEW030CB SCT035TCU 11/03 Q1015 YTEE 231230Z AUTO 09012KT 9999 // NCD 29/06 Q1008 RMK KMG 231230Z AUTO 17004KT 140V250 9999 // OVC100 OVC120 23/07 Q1013 OICM 231100Z 27014KT 9999 FEW040TCU 19/05 Q1014 YSNF 231230Z AUTO 08014KT 9999 // BKN016 BKN030 18/16 Q1022 OIBV 231100Z 02018KT 4000 RA SCT020 SCT025CB SCT035 OVC090 20/18 Q1012 RESH YTEF 231230Z AUTO 14012KT //// // NCD 33/M00 Q1007 RMK OICS 231200Z 25012KT 9999 FEW035TCU SCT040 08/M03 Q1013 YTEM 231230Z AUTO 07011KT //// // ////// 20/11 Q1015 RMK CPBT 231200Z AUTO 23030KT 11/06 RMK AO1 PK WND 24039/1147 T01120057 UDSG 231230Z 17008KT 9999 FEW043CB BKN046 01/M08 Q1011 R02/CLRD70 NOSIG YSOL 231230Z AUTO 08003KT 9999 // NCD 36/06 Q1009 RMK YSNW 231230Z AUTO 35003KT 9999 // NCD 16/14 Q1015 CPEH 231200Z AUTO 23021KT 10/04 RMK AO1 PK WND 25032/1143 T00990035 YTGM 231300Z AUTO 06005KT //// // ////// 28/05 Q1010 OIFK 231100Z 00000KT 9999 SCT040 17/M00 Q1010 HTTB 231200Z 32005KT 9999 -RA SCT015 FEW017CB OVC070 20/19 Q1016 OIFM 231230Z 26014KT 9999 FEW035 14/M11 Q1012 A2988 HTSO 231200Z 06010KT 9999 SCT027 FEW028CB 31/16 Q1015 OIGG 231230Z 33004KT 8000 FEW015CB SCT020 BKN070 14/10 Q1012 YTIB 231300Z AUTO 29011KT //// // ////// 25/11 Q1011 RMK SVVA 231300Z /////KT 9999 SCT016 26/23 Q1014 OIFS 231200Z 22014KT 9999 FEW035TCU SCT040 09/M04 Q1014 CPFI 231200Z AUTO 23018KT 11/05 RMK AO1 PK WND 23026/1158 T01050054 OIGK 231053Z 25008KT 9999 FEW020 SCT035 03/M07 Q1012 K9V9 231255Z AUTO 00000KT 10SM CLR 02/02 A2996 RMK AO2 T00170017 HTSU 231200Z 27003KT 9999 SCT019 FEW020CB BKN080 21/17 Q1018 YSRI 231230Z AUTO 25005KT 9999 // NCD 19/14 Q1016 RF00.0/000.0 PRESENT WEATHER SENSOR US DFOO 231200Z 08008KT 1200 DU NSC 33/09 Q1013 OIHH 231200Z 22008KT 9999 FEW035CB BKN040 06/M03 Q1013 OIHM 231050Z 32014KT 9999 FEW030CB BKN035 07/M02 Q1015 OIIE 231200Z 30012KT 9999 FEW040 14/M02 Q1011 OIII 231230Z 29012KT 9999 FEW035 13/M03 Q1011 A2986 NOSIG OIIK 231200Z 18008KT 9999 FEW030CB SCT040 BKN100 10/00 Q1012 PAAD 231255Z AUTO 21007KT 10SM BKN050 OVC060 M14/M16 A2938 RMK AO2 T11411161 OIIP 231200Z 33012KT 8000 FEW035 SCT100 12/M02 Q1012 OJAI 231300Z 27010KT 7000 BKN030 SCT200 12/07 Q1019 NOSIG OIIS 231100Z 18004KT 9999 FEW035 17/M01 Q1010 PABA 231255Z AUTO 12005KT 7SM -SN OVC030 M17/M19 A2942 RMK AO2 P0000 FZRANO TSNO OIKB 231230Z 27004KT 7000 FEW025CB SCT030 BKN090 25/16 Q1012 A2988 PAAK 231256Z AUTO 29020G35KT 10SM BKN035 OVC045 04/M03 A3048 RMK AO2 PK WND 30035/1247 SLP322 T00441028 OJAM 231300Z 31009KT 5000 HZ FEW020TCU SCT025 BKN030 12/05 Q1018 NOSIG YSSY 231230Z 03009KT CAVOK 21/16 Q1016 NOSIG ZJSY 231200Z 08003MPS 9999 BKN066 22/17 Q1016 NOSIG PABE 231253Z 05020KT 1 1/2SM -SN BR FEW008 OVC014 M02/M04 A2900 RMK AO2 PK WND 08028/1158 SLP822 P0000 T10221039 OJAQ 231200Z 32014KT 9999 FEW030 22/06 Q1018 NOSIG PAAQ 231253Z AUTO 00000KT 10SM BKN110 M15/M16 A2926 RMK AO2 SLP916 I1000 T11501161 TSNO PABI 231253Z AUTO 00000KT 10SM CLR M26/M28 A2932 RMK AO2 SLP992 T12611283 TSNO CPIR 231200Z AUTO 22023KT 12/06 RMK AO1 PK WND 24036/1134 T01180060 OIKK 231230Z 18008KT 9999 SCT035CB SCT040 OVC100 10/06 Q1017 A3005 YSTW 231230Z AUTO 17008KT 9999 // NCD 15/12 Q1017 RF00.0////./ PABL 231256Z AUTO 15005KT 9SM -SN FEW023 OVC046 M16/M18 A2952 RMK AO2 SNB1157 SLP999 P0000 T11561178 FZRANO PACD 231253Z AUTO 28036G47KT 7SM -SN BKN032 OVC070 02/M02 A2957 RMK AO2 PK WND 28054/1237 SNE05B27 SLP013 P0000 T00171022 TSNO $ OIKO 231050Z VRB02KT 7000 FEW025CB SCT090 27/15 Q1011 OIKQ 231200Z 00000KT 6000 NSC 26/15 Q1011 PABR 231253Z AUTO 18011KT 10SM OVC008 M07/M09 A2924 RMK AO2 SLP902 T10721089 TSNO HTZA 231200Z 11005KT 9999 SCT022 32/24 Q1008 NOSIG OIMB 231200Z 23008KT 9999 FEW040CB SCT040 BKN100 18/M03 Q1013 PABT 231253Z 35005KT 6SM -SN BR OVC060 M18/M22 A2938 RMK AO2 SNB1155 SLP974 T11831217 OIMC 231200Z AUTO 11004KT //// // ////// 25/03 Q1007 YTMO 231230Z AUTO 13004KT 9999 // NCD 29/07 Q1008 RMK OIMD 231100Z 00000KT 9999 SCT035 BKN100 14/M06 Q1007 PABV 231256Z AUTO 13004KT 9SM OVC002 M12/M14 A2929 RMK AO2 SLP928 T11221139 FZRANO $ PACM 231256Z AUTO RMK AO2 SLPNO PWINO FZRANO $ YTNG 231300Z AUTO 14004KT 9999 // BKN120 20/16 Q1014 YSWG 231300Z AUTO 11011KT 9999 // SCT115 21/10 Q1014 RMK PADE 231253Z AUTO 25015KT 3SM -SN BR BKN030 BKN055 M07/M09 A2948 RMK AO2 SNB17 SLP982 P0000 T10671089 TSNO YSWH 231230Z AUTO 21004KT 9999 // NCD 25/09 Q1010 RMK PADG 230025Z 28011KT 2 1/2SM -SN BKN005 OVC011 M07/M08 A2938 UDYZ 231230Z VRB02KT 9999 NSC 06/M06 Q1012 R09/000070 NOSIG YTNK 231230Z AUTO 19015G25KT 9999 // SCT050 SCT062 BKN091 26/16 Q1011 OINB 231100Z 18004KT 8000 -DZ SCT020 OVC090 13/12 Q1011 PADK 231256Z AUTO 00000KT 10SM OVC043 04/M04 A3057 RMK AO2 SLP350 T00441044 PAEC 230146Z 00000KT 10SM OVC030 M13/M18 A2946 RMK NOSPECI PADL 231256Z AUTO 02006KT 10SM UP OVC006 M05/M06 A2908 RMK AO2 UPB35SNE35 CIG 006V010 SLP852 P0000 T10501056 FZRANO OIMM 231245Z 19012G24KT 2500 SA SCT030CB SCT035 BKN100 19/01 Q1010 A2986 PACV 231253Z 00000KT 10SM OVC100 M08/M09 A2922 RMK AO2 SLP895 T10831094 PADM 231256Z AUTO 04029G34KT 1 1/4SM -SN BR M06/M08 A2923 RMK AO2 PK WND 05035/1235 VIS 1V2 PRESRR SLP905 P0000 T10611083 FZRANO $ PAED 231256Z 00000KT 10SM BKN005 OVC085 M11/M12 A2926 RMK AO2A SLP908 T11121116 $ OIMN 231200Z 33016KT 9999 FEW020 BKN080 BKN180 12/06 Q1011 OINE 231200Z 21006KT 5000 BR BKN020 OVC080 13/10 Q1011 OING 231230Z 24014KT 2000 TSSHRA SCT010 SCT025CB OVC060 13/11 Q1014 PAEG 231253Z AUTO 00000KT 10SM FEW090 M31/M34 A2944 RMK AO2 SLP003 T13111344 TSNO $ OIMQ 231200Z AUTO 05002KT //// // ////// 15/05 Q1011 PADQ 231253Z AUTO 28016G22KT 10SM CLR 03/M01 A2914 RMK AO2 SLP867 T00331011 TSNO $ PAEH 231255Z AUTO 26028G43KT 190V320 5SM -SN OVC012 01/00 A2892 RMK AO2 PK WND 29049/1200 SHSNB1130E1212 SLP799 P0000 T00130000 PACZ 231255Z AUTO 03058G67KT M1/4SM +SN FG CLR M04/M04 A2914 RMK AO2 PK WND 03070/1228 SNB1155 SLP876 P0000 T10401041 $ PAEI 231256Z AUTO 00000KT 10SM OVC060 M18/M21 A2935 RMK AO2 SLP955 T11831208 VISNO RWY14 CHINO RWY14 $ NSFA 231100Z 00000KT 9999 FEW024 25/23 Q1010 NOSIG PAFA 231253Z 00000KT 9SM -SN FEW040 OVC060 M16/M17 A2936 RMK AO2 SLP955 T11561172 $ OINK 231100Z 24006KT 8000 BKN025 OVC090 15/10 Q1010 PAFB 231258Z AUTO 00000KT 9SM R25R/5500FT BKN023 OVC060 M16/M18 A2936 RMK AO2 SNE1159SNB04E29 CIG 019V025 SLP956 P0001 T11601182 PAEL 230152Z 10009KT 10SM FEW018 BKN100 00/M03 A2935 RMK NOSPECI LAST PADU 231256Z AUTO 30043G58KT 8SM -RA FEW013 BKN048 OVC060 04/M04 A2994 RMK AO2 PK WND 28063/1208 RAE16B38 SLP144 P0000 T00391039 OINN 231200Z 26006KT 8000 BKN018 SCT020CB 15/12 Q1011 PAEN 231253Z AUTO 04007KT 10SM SCT110 M11/M12 A2928 RMK AO2 SLP918 T11111122 TSNO PAFE 231235Z AUTO 06004KT 10SM OVC010 M01/M02 A2939 RMK AO2 CIG 008V013 FZRANO OINR 231200Z 30004KT 9999 FEW022CB SCT025 BKN080 15/11 Q1011 PAGA 231256Z AUTO 35006KT 3SM -SN BR OVC004 M14/M16 A2945 RMK AO2 SLP976 P0000 T11441161 FZRANO PAGB 222050Z 24006KT 10SM VC SHSN OVC020 M11/ A2932 PAFM 231256Z AUTO 20004KT 10SM OVC055 M16/M18 A2948 RMK AO2 SNB1158E49 SLP998 P0000 T11611178 FZRANO YTRA 231230Z AUTO 12005KT 9999 // NCD 20/09 Q1016 RMK OINZ 231200Z 11016KT 9999 SCT030 BKN080 13/11 Q1011 RERA PAGH 231256Z AUTO 00000KT 9SM -SN OVC055 M18/M20 A2947 RMK AO2 SNE12B28 SLP991 P0000 T11781200 FZRANO SYCJ 231200Z 24004KT 9999 FEW015CB SCT016 27/25 Q1011 CB-NNW&ENE NOSIG PAFR 231256Z AUTO 00000KT 10SM OVC002 M13/M14 A2926 RMK AO1 PAFS 231201Z AUTO 04007KT 10SM OVC004 M12/M13 A2927 RMK AO2 SLP933 T11221133 11117 21128 56013 FZRANO PAGK 231253Z AUTO 36004KT 10SM BKN023 M24/M27 A2931 RMK AO2 SLP995 T12441267 TSNO YTRE 231230Z AUTO 06001KT 9999 // NCD 17/15 Q1017 RMK PAGL 231256Z AUTO 36011G17KT 10SM CLR M08/M13 A2949 RMK AO2 SLP982 T10781128 FZRANO PAHC 231256Z AUTO 34015KT 10SM BKN085 OVC110 M07/M10 A2926 RMK AO2 SLP911 T10721100 FZRANO PAGM 231256Z AUTO 02020KT 10SM FEW018 BKN027 OVC090 M03/M06 A2972 RMK AO2 PK WND 01027/1212 SLP069 T10331056 FZRANO PAGN 231256Z AUTO 00000KT 8SM FEW003 M02/M03 A2939 RMK AO2 SLP942 T10221028 FZRANO PAGS 231256Z AUTO 00000KT 10SM OVC030 M03/M04 A2936 RMK AO2 SLP944 T10331044 FZRANO SYEC 231200Z 12004KT 9999 FEW016CB BKN017 29/26 Q1011 CB N SSE PAHL 231256Z AUTO 27004KT 1 1/4SM BR OVC002 M24/M26 A2945 RMK AO2 SNB18E29 CIG 001V004 SLP983 P0000 T12391261 FZRANO PAHN 231254Z AUTO 30006KT 10SM CLR M09/M14 A2939 RMK AO2 SLP954 T10941139 TSNO PAHO 231253Z AUTO 06005KT 10SM OVC060 M06/M11 A2920 RMK AO2 SLP888 T10561106 TSNO PAIG 230816Z AUTO 09004KT 9SM -SN OVC013 M01/M02 A2913 RMK AO2 P0000 FZRANO $ PAGY 231253Z AUTO VRB05KT 10SM OVC085 M07/M14 A2943 RMK AO2 SLP966 T10671144 TSNO PAHP 231256Z AUTO 03035G42KT 10SM CLR M03/M04 A2927 RMK AO2 PK WND 03045/1237 SLP950 T10331039 FZRANO PAII 231256Z AUTO 25012G16KT 10SM -RA FEW012 BKN028 OVC042 02/00 A2916 RMK AO2 RAB1158E11B29SNB33E45 SLP877 P0000 T00170000 FZRANO OISA 231100Z 20012KT 9999 SCT040TCU 13/M06 Q1014 NTAA 231230Z 08009KT 050V110 9999 FEW020 SCT250 26/23 Q1010 NOSIG PAIK 231256Z AUTO 21005KT 10SM OVC016 M13/M15 A2949 RMK AO2 SNE44 SLP994 P0000 T11331150 FZRANO PAIL 231253Z AUTO 10016G22KT 1/2SM SN FZFG VV006 M03/M04 A2916 RMK AO2 SLP877 P0003 T10281039 TSNO PAIM 231255Z AUTO 00000KT 10SM FEW002 M22/M24 A2932 RMK AO2 SLP979 T12201243 PAIN 231256Z AUTO 00000KT 10SM CLR M28/M31 A2923 RMK AO2 SLP963 T12781306 FZRANO OISF 231200Z 13006KT 5000 BR SCT015 FEW030CB BKN035 OVC090 11/10 Q1015 PAHX 231256Z AUTO 04015KT 10SM OVC100 M09/M11 A2931 RMK AO2 SLP927 T10891106 FZRANO YTTI 231230Z AUTO 03005KT //// // ////// 29/24 Q1007 RMK YTST 231300Z AUTO 14005KT 9999 // SCT023 SCT051 BKN077 25/24 Q1009 OISL 231200Z 00000KT 5000 RA FEW020 SCT030CB OVC080 13/13 Q1015 PAIW 231256Z AUTO 36017KT 10SM OVC022 M04/M07 A2964 RMK AO2 SNE02 SLPNO P0000 T10391072 FZRANO PAJN 231253Z 00000KT 10SM -SN SCT018 BKN031 OVC055 M07/M07 A2937 RMK AO2 SNB35 SLP946 PCPN VRY LGT P0000 I1000 T10671067 DIAD 231100Z 26002KT 9999 BKN015 30/26 Q1011 NOSIG PAKF 231257Z AUTO 29015G54KT 250V330 4SM -SN SQ 02/M04 A2967 RMK AO2 PK WND 25054/1250 RAB52E54 P0004 FZRANO PAKH 231256Z AUTO 31011KT 10SM FEW024 SCT048 04/00 A2922 RMK AO2 SLP897 T00390000 $ CPRO 231200Z AUTO 15011KT 03/01 RMK AO1 T00320012 OISR 231200Z 31006KT 4000 RA FEW030CB SCT035 OVC070 16/15 Q1016 PAKI 231256Z AUTO 01026G30KT 3SM -SN BR BKN003 OVC009 00/00 A2879 RMK AO2 PK WND 01030/1255 RAB10E35UPB35E42SNB42 CIG 003V007 PRESRR SLP751 P0000 T00000000 FZRANO ZLLL 231200Z 31002MPS CAVOK M07/M15 Q1026 NOSIG OISS 231230Z 00000KT 9999 FEW030CB SCT035 21/09 Q1016 A3003 OKBK 231300Z 35010KT CAVOK 22/02 Q1016 NOSIG PAKK 231256Z AUTO 36008G14KT 10SM CLR M11/M14 A2944 RMK AO2 SLP984 T11111139 FZRANO OITL 231200Z 30012KT 9999 FEW030CB FEW035 07/M08 Q1010 OITM 231200Z 24010KT 9999 SCT031TCU 07/M05 Q1012 PAKN 231254Z 22007KT 10SM FEW019 SCT049 SCT080 01/00 A2911 RMK AO2 SLP857 T00060000 OITP 231100Z 10006KT 9999 SCT035 11/03 Q1012 OISY 231200Z 12008KT 9000 -RA FEW035CB BKN045 08/03 Q1018 PAKP 231256Z AUTO 00000KT 10SM BKN041 OVC050 M22/M24 A2925 RMK AO2 SNB32E43 SLP987 P0000 T12171239 FZRANO PAJZ 231256Z AUTO 20003KT 6SM BR BKN006 OVC090 M06/M06 A2913 RMK AO2 SNE12B28E41 SLP871 P0000 T10561061 FZRANO $ PALH 231253Z 05003KT 10SM FEW006 SCT085 OVC110 M11/M12 A2929 RMK AO2 SLP921 T11061117 YTWB 231230Z AUTO 10018KT 9999 // NCD 16/14 Q1019 RMK CPRY 231200Z AUTO 23022KT 13/06 RMK AO1 PK WND 22035/1133 T01270058 OITR 231200Z 31006KT 9999 FEW035CB FEW040 SCT160 07/M09 Q1011 NOSIG DIAP 231300Z 22009KT 190V250 9999 SCT012 FEW020CB 30/26 Q1010 TEMPO TS PALJ 230153Z 07010KT 25SM OVC060 M04/M07 A2947 RMK LAST 410281078 EST PASS OPEN NOSPECI OITT 231230Z 22008KT 9999 SCT032TCU 06/M08 Q1012 A2990 PAMB 231254Z AUTO 02003KT 4SM -SN BR BKN009 BKN015 OVC021 M02/M02 A2906 RMK AO2 UPB21E49SNB49 SLP847 P0000 T10171022 FZRANO $ PAKT 231253Z AUTO 00000KT 10SM BKN026 OVC032 06/04 A2938 RMK AO2 SLP951 T00560039 TSNO PAKU 231245Z 22008KT 7SM R24/P6000FT -SN OVC019 M12/M13 A2935 OITU 231050Z 27008KT 9999 FEW040 05/M06 Q1011 PAMC 231253Z AUTO 30005KT 10SM BKN120 M12/M15 A2930 RMK AO2 SLP930 I1000 T11221150 TSNO DIBK 231200Z 16004KT 9999 BKN011 30/22 Q1014 NOSIG CPST 231200Z AUTO 24021KT 08/02 RMK AO1 PK WND 24031/1149 T00750019 PAKV 231253Z AUTO 05004KT 10SM UP SCT008 BKN031 M13/M15 A2944 RMK AO2 SLP975 P0000 T11281150 TSNO PAMD 231135Z AUTO 09009KT 8SM -SN SCT029 OVC038 01/M04 A2922 RMK AO2 RAE25SNB25 P0000 FZRANO PAKW 231253Z AUTO 00000KT 10SM BKN029 03/02 A2938 RMK AO2 SLP951 T00330017 TSNO CPSV 231200Z AUTO 20020KT 08/04 RMK AO1 PK WND 20023/1157 T00770042 PALP 231245Z 19010KT 5SM -SN BR BKN035 OVC050 M12/M15 A2935 OITZ 231200Z 24019KT 9999 FEW035 07/M07 Q1010 PANA 231256Z AUTO 06015G23KT 1 3/4SM -SN BR BKN009 OVC015 M01/M01 A2897 RMK AO2 CIG 006V011 PRESRR SLP810 P0000 T10111011 FZRANO PAMK 231256Z AUTO 03023G33KT 7SM CLR M04/M08 A2940 RMK AO2 PK WND 03033/1249 SLP958 T10441078 FZRANO $ PANC 231253Z 36004KT 10SM FEW004 SCT075 BKN110 M10/M12 A2927 RMK AO2 SLP917 T11001122 PALU 231255Z AUTO 29018KT 7SM -SHSN BKN017 M02/M04 A2941 RMK AO2 PK WND 31033/1213 SNB1151E1207SHSNB1212 SLP959 P0000 T10231042 PAMM 231156Z AUTO 22011KT 10SM SCT075 06/04 A2939 RMK AO2 SLP944 60013 70052 T00610039 10072 20061 53009 DIBU 231100Z 00000KT 9999 FEW013 30/22 Q1014 NOSIG PANI 231156Z AUTO 09011KT 10SM FEW037 OVC047 M04/M08 A2914 RMK AO2 SNE46 SLP838 P0000 60000 T10391083 11039 21050 53004 FZRANO PAMR 231253Z 00000KT 9SM BKN004 M11/M12 A2927 RMK AO2 SLP915 T11111117 $ UHBB 231200Z 24002MPS CAVOK M21/M25 Q1015 R36/410260 NOSIG RMK QFE743/0991 DIDK 231100Z ///// 9999 SCT013 32/25 Q1012 NOSIG DIDL 231200Z ///// 9999 BKN013 29/23 Q1014 NOSIG PANN 231253Z AUTO 09008KT 10SM FEW021 FEW031 OVC060 M14/M16 A2933 RMK AO2 SLP946 T11391161 TSNO PAMY 221956Z AUTO 13031G38KT 1 3/4SM -SN BR OVC009 01/00 A2925 RMK AO2 PK WND 13038/1956 CIG 006V013 SLP906 P0001 T00060000 FZRANO PAOH 231256Z AUTO 09006KT 10SM CLR M04/M07 A2936 RMK AO2 SLP944 T10391067 FZRANO PANT 231153Z AUTO VRB06KT 10SM FEW028 BKN055 OVC080 05/04 A2938 RMK SLP952 60018 70065 T00500044 10072 20050 53010 TSNO VIA AUTODIAL PAPB 231253Z AUTO 30039G61KT 6SM -SN FEW025 OVC029 02/M02 A2973 RMK AO2 PK WND 31061/1247 PRESRR SLP056 P0000 T00171022 TSNO PAOM 231253Z AUTO 03010KT 10SM CLR M05/M11 A2952 RMK AO2 PK WND 02030/1208 SLP996 T10501111 TSNO PANW 231256Z AUTO 00000KT 10SM OVC010 M04/M05 A2910 RMK AO2 SNE10 SLP870 P0000 T10441050 FZRANO UGKO 231230Z 32005KT 9999 SCT021CB OVC039 05/03 Q1017 R25/29//50 NOSIG PAPG 231256Z AUTO 10003KT 8SM -SN BKN007 OVC011 00/00 A2937 RMK AO2 CIG 005V010 SLP948 P0003 T00000000 FZRANO PAPH 231256Z AUTO 25021G30KT 10SM FEW017 SCT024 SCT035 02/01 A2927 RMK AO2 PK WND 27038/1226 UPE1158RAB1158E08B27E51 SLP915 P0000 T00220006 FZRANO PAOR 231253Z 00000KT 10SM OVC019 M31/M34 A2938 RMK AO2 SLP034 T13111339 OIZB 231230Z 00000KT CAVOK 22/M06 Q1010 PAOT 231253Z AUTO 05003KT 10SM BKN055 OVC070 M10/M12 A2947 RMK AO2 SLP980 T11001117 TSNO DIGA 231100Z 22006KT 9999 BKN013 29/24 Q1013 NOSIG PAOU 231256Z AUTO 25030G38KT 7SM -RA SCT027 BKN036 OVC060 03/M01 A2943 RMK AO2 PK WND 25042/1218 RAB00E12B29 SLP965 P0000 T00331006 PAPM 231256Z AUTO 22018G31KT 4SM -RA BR SCT007 BKN012 OVC018 02/01 A2887 RMK AO2 PK WND 22034/1230 RAB05E08B35UPB28E35SNE28 SLP780 P0001 T00170006 FZRANO CPXL 231200Z AUTO 17008KT 06/03 RMK AO1 PK WND 18018/1129 T00590026 PAPN 231256Z AUTO 26017KT 10SM FEW023 BKN030 BKN042 02/00 A2920 RMK AO2 PK WND 26028/1234 RAE1159 SLP889 P0000 T00220000 FZRANO PAPO 231256Z AUTO 30024KT 10SM SCT019 BKN029 M03/M06 A2946 RMK AO2 PK WND 31033/1201 SNE23 SLP977 P0000 T10281056 FZRANO OIZH 231200Z 22014KT 9999 FEW035CB SCT090 21/01 Q1014 A2994 NOSIG PAQH 231246Z AUTO 13017KT 2SM BR BKN004 OVC008 00/00 A2883 RMK AO2 PWINO FZRANO OIZI 231200Z 32006KT CAVOK 26/M00 Q1012 OIZJ 231200Z 16010KT CAVOK 27/20 Q1010 PAPT 230147Z 30005KT 20SM OVC100 M14/M14 A2944 RMK NOSPECI LAST OIYY 231230Z 23006KT 9999 FEW035CB 21/M07 Q1011 UGMS 231100Z 23007KT 1500 -SN BR OVC020 M03/M05 Q1009 PASA 231256Z AUTO 35016G24KT 10SM OVC026 M02/M06 A2969 RMK AO2 SLP057 T10221061 FZRANO $ PAQT 231253Z AUTO 17011KT 4SM -SN BR BKN045 OVC055 M12/M13 A2936 RMK AO2 SLP944 P0000 T11221133 TSNO PASC 231253Z 22012KT 8SM -SN OVC036 M14/M16 A2936 RMK AO2 SNB06 SLP945 P0000 T11391161 PASD 231256Z AUTO 32018G30KT 10SM -RA SCT018 BKN065 OVC090 03/M02 A2952 RMK AO2 PK WND 31034/1239 RAE31B56 SLP000 P0000 T00331017 YWCA 231230Z AUTO 05007KT //// // ////// 24/00 Q1009 RMK PASH 231256Z AUTO 32018G25KT 10SM UP OVC026 M02/M07 A2957 RMK AO2 PK WND 32026/1245 SNB17E26 SLP015 P0000 T10221067 FZRANO PASI 231253Z 11006KT 10SM CLR 01/M01 A2935 RMK AO2 SLP938 T00111006 YWBL 231230Z AUTO 16009KT 9999 // NCD 18/13 Q1011 RMK PATA 231252Z AUTO 05004KT 5SM -SN BR OVC018 M12/M13 A2937 RMK AO2 SLP954 T11171133 TSNO PNO PARS 231256Z AUTO 05013G20KT 9SM -SN SCT080 M05/M07 A2918 RMK AO2 SLP886 P0000 T10501072 FZRANO $ OLBA 231027Z 08007KT 8000 -RA BKN030 17/07 Q1020 PASK 231256Z AUTO 00000KT 10SM BKN016 OVC046 M14/M16 A2951 RMK AO2 SNE07B23E37 SLP990 P0000 T11391156 FZRANO $ PASL 231256Z AUTO 00000KT 10SM OVC070 M09/M10 A2926 RMK AO2 SLP904 T10891100 FZRANO PATC 231255Z AUTO 02018KT 10SM -SHSN OVC018 M04/M07 A2959 RMK AO2 PK WND 02026/1211 SHSNB1055 SLP027 P0000 T10431069 $ PASM 231256Z AUTO 04017G25KT 10SM FEW110 M05/M09 A2925 RMK AO2 PK WND 07034/1203 SNE15 SLP923 P0000 T10501089 FZRANO PASN 231253Z AUTO A2970 RMK AO2 SNB1156SNEMMB02SNEMM SLP059 P0000 PWINO FZRANO TSNO $ PATE 231256Z AUTO 33010KT 9SM -SN OVC025 M06/M08 A2957 RMK AO2 SLP023 P0000 T10611078 FZRANO PASO 231253Z AUTO 00000KT 10SM OVC048 M04/M06 A2920 RMK AO2 SLP887 T10441061 TSNO YWBR 231300Z AUTO 15013KT //// // ////// 24/09 Q1013 PARY 231256Z AUTO 28003KT 8SM -SN BKN002 OVC015 M13/M15 A2934 RMK AO2 SNB20 SLP966 P0000 T11281150 FZRANO PATG 231204Z AUTO 21013KT 7SM -SN SCT008 BKN015 OVC036 01/00 A2901 RMK AO2 P0000 FZRANO MSV 231230Z AUTO 32002KT 9999 // NCD 14/11 Q1017 RMK PATK 231153Z AUTO 00000KT 10SM CLR M19/M22 A2930 RMK SLP931 I6000 T11941222 11178 21200 58019 TSNO $ VIA AUTODIAL PATL 231255Z AUTO 00000KT 9SM FEW012 SCT016 BKN110 M12/M13 A2928 RMK AO2 SLP940 T11221130 PASV 231255Z AUTO 06007KT 7SM -SN OVC021 M06/M07 A2909 RMK AO2 SNB1155 SLP884 P0000 T10571074 MUI 231230Z AUTO 00000KT 9999 // NCD 17/09 Q1018 RMK PATO 231253Z AUTO 00000KT 10SM FEW080 M11/M12 A2926 RMK AO2 SLP910 T11111122 TSNO PASX 231256Z AUTO 00000KT 6SM BR CLR M12/M14 RMK AO2 SLPNO T11221139 FZRANO $ UHHH 231230Z 27004MPS CAVOK M15/M19 Q1010 R23L/850350 NOSIG RMK QFE751/1001 PASY 231258Z AUTO 21006KT 7SM OVC035 03/M03 A3060 RMK AO2 SLP366 T00301031 $ PATQ 231256Z AUTO 20015KT 7SM -SN FEW024 SCT033 OVC046 M07/M09 A2926 RMK AO2 SLP914 P0000 T10721089 FZRANO TSNO PAVA 231256Z AUTO 02029G34KT 5SM BR FEW028 BKN100 M04/M05 A2925 RMK AO2 PK WND 02037/1246 SNE37 PRESRR SLP991 P0000 T10441050 FZRANO PAVC 231256Z AUTO 26033G60KT 7SM -RA FEW014 BKN027 OVC033 01/M02 A2955 RMK AO2 PK WND 26060/1248 RAE07B47UPB07E08B25E28SNB08E25 SLP013 P0000 T00111022 FZRANO NSTU 231250Z 00000KT 10SM FEW018 SCT040 SCT100 26/26 A2975 RMK SLP076 T02590257 PAVD 231256Z AUTO 11005KT 10SM OVC110 M07/M14 A2927 RMK AO2 SLP937 T10721144 PWINO FZRANO $ PAUN 231256Z AUTO 07007KT 10SM CLR M11/M15 A2942 RMK AO2 SLP965 T11111150 FZRANO DIKO 231200Z 32002KT 5000 HZ NSC 31/18 Q1012 NOSIG UIAA 231230Z 29002MPS 9999 NSC M21/M25 Q1016 R29/CLRD70 NOSIG RMK QFE703/0938 UGSB 231230Z 21012KT 9999 -TSRA SCT017CB OVC029 05/03 Q1021 R13/290250 NOSIG PAUT 231255Z AUTO 29046G61KT 7SM SCT013 BKN044 OVC055 02/M02 A2981 RMK AO2 T00241016 PAVL 231253Z AUTO 30020KT 5SM HZ SCT027 BKN038 OVC048 M02/M05 A2943 RMK AO2 PK WND 30029/1231 UPB38E42SNB1155E24 SLP967 T10221050 TSNO PNO $ PAWD 231253Z AUTO 10SM FEW100 M06/M11 A2922 RMK AO2 SLP896 T10561106 TSNO $ PAWG 231256Z AUTO 31004KT 4SM -SN BR OVC011 00/M01 A2938 RMK AO2 SLP949 P0002 T00001006 FZRANO TSNO PAWI 231253Z AUTO 20019KT 9SM FEW033 BKN060 M06/M06 A2916 RMK AO2 PK WND 21031/1200 SNB00E30 SLP876 P0000 T10561061 TSNO $ UIBB 231230Z 06001MPS 9999 BKN008 M20/M22 Q1025 R30/490534 NOSIG RMK QBB240 QFE725/0967 UGTB 231230Z 20003KT 9999 BKN050CB 07/M03 Q1015 R31L/CLRD70 NOSIG PAWM 231256Z AUTO 34009KT 10SM CLR M09/M13 A2949 RMK AO2 SLP993 T10891128 FZRANO PAWN 231256Z AUTO 15005KT 9SM -SN FEW023 SCT055 OVC075 M09/M10 A2945 RMK AO2 SLP988 P0000 T10891100 FZRANO DIMN 231200Z 00000KT 9999 BKN013 27/23 Q1014 NOSIG YWHA 231230Z AUTO 21009KT //// // SCT010 SCT023 OVC042 18/17 Q1011 PAYA 231253Z AUTO 10004KT 10SM OVC020 M02/M04 A2926 RMK AO2 SNB19E46 SLP907 P0000 T10221044 TSNO $ PAWS 231256Z AUTO RMK AO2 SLPNO PWINO FZRANO RVRNO $ ZLXY 231200Z 27001MPS 8000 NSC 01/M05 Q1027 NOSIG DIOD 231200Z 04002KT 6000 NSC 32/18 Q1013 NOSIG UHMA 231200Z 32007G11MPS 9999 FEW013 BKN080 M13/M16 Q1014 RMK END R01/36004MPS QFE756/1009 YWGT 231230Z AUTO 12008KT 9999 // NCD 20/11 Q1012 RMK YVRD 231300Z AUTO 20001KT //// // ////// 28/21 Q1006 UHMD 230600Z 01010MPS P1000 -SN OVC016 M02/M06 Q0998 RMK QBB500 MT OBSC QFE747/0997 PAZK 231256Z AUTO 00000KT 10SM FEW001 M18/M20 A2909 RMK AO2 SLP934 T11831200 FZRANO UHMM 231200Z 07002MPS 9999 FEW040 M20/M21 Q1006 RMK QFE740 YWIS 231230Z AUTO 11005KT //// // ////// 23/19 Q1013 RMK OMAA 231200Z 23006KT 180V280 CAVOK 30/07 Q1011 BECMG 34010KT OMAD 231200Z 27004KT 230V350 CAVOK 30/09 Q1011 BECMG 34010KT ZMUB 231300Z 00000MPS 9999 SCT100 M19/M22 Q1018 NOSIG RMK QFE656.1 76 NT OMAL 231200Z 20008KT CAVOK 28/11 Q1013 BECMG 26008KT YWLG 231230Z AUTO 07009KT 9999 // NCD 24/08 Q1014 RMK TQPF 231300Z 11010KT 9999 SCT019 27/24 Q1014 YWLM 231230Z AUTO 04007KT 9999 // NCD 20/14 Q1016 DITB 231100Z 22008KT 9999 SCT013 29/26 Q1011 NOSIG UHPP 231200Z 14008MPS 9999 -SHRA SCT008 OVC022CB 03/02 Q1015 R34L/490260 NOSIG RMK QFE758/1011 EBBE 231240Z 21020KT 9999 FEW024 SCT030 BKN040 15/09 Q1003 BLU WHT TEMPO GRN DISP 231200Z 20010KT 9999 SCT013 29/25 Q1011 NOSIG OMDB 231200Z 28011KT 250V320 CAVOK 28/11 Q1012 NOSIG DISS 231100Z 20004KT 9999 SCT015 30/26 Q1012 NOSIG EBBL 231233Z 22017KT 9999 SCT028 BKN045 15/09 Q1002 BLU BLU EBAW 231250Z 26019G33KT 200V300 7000 -SHRA SCT020 BKN025 13/10 Q1002 NOSIG UIII 231230Z 33003MPS 9999 -SHSN SCT050CB M10/M13 Q1023 R30/490240 NOSIG RMK QFE722/0963 EBCI 231250Z 21017KT 9999 -RA FEW005 SCT010 BKN040 13/11 Q1004 TEMPO 19018G30KT EBBR 231250Z 22019KT 9999 -SHRA FEW020CB BKN028 15/10 Q1002 TEMPO 2000 SHRA CTCK 231200Z AUTO 16001KT M10/M10 RMK AO1 SOG 02 1001 SLP209 T10971095 VAAH 231200Z 00000KT 6000 NSC 28/12 Q1011 TEMPO 4000 FU YWOL 231230Z AUTO 09003KT 9999 // NCD 19/18 Q1016 RMK VABB 231230Z 30008KT 4000 FU NSC 30/16 Q1009 NOSIG KA08 231255Z AUTO 32006KT 10SM CLR M01/M02 A3009 RMK AO2 T10071021 OMDW 231200Z 27008KT 230V300 CAVOK 29/10 Q1012 BECMG 31013KT EBCV 231250Z AUTO 24019KT 3800 DZ FEW013/// BKN021/// 12/11 Q1004 GRN UHSS 231200Z 34006MPS 9999 NSC M04/M07 Q1002 RMK QFE750/1001 OMFJ 231200Z 11007KT 080V140 8000 SCT025 27/17 Q1012 RMK A2988 VAAU 231200Z 25004KT 5000 HZ NSC 31/19 Q1012 NOSIG EBDT 231225Z 20011KT 9999 FEW025 BKN030 15/09 Q1002 BLU BLU VABO 230700Z 07003KT 5000 FU NSC 30/13 Q1012 NOSIG VABP 231230Z 02003KT 4000 HZ NSC 22/14 Q1014 NOSIG VABV 231230Z 03002KT 4000 FU NSC 29/15 Q1010 EBFN 231225Z 27018KT 9999 FEW010 SCT025 BKN040 11/07 Q1002 BLU WHT TEMPO BLU KA39 231235Z AUTO 14006KT 10SM CLR 10/M04 A3013 RMK AO2 EBFS 231225Z 20014KT 9999 FEW015 BKN020 12/09 Q1005 WHT WHT TEMPO GRN DIYO 231200Z 20006KT 9999 SCT013 30/24 Q1012 NOSIG YWUD 231230Z AUTO 22007KT //// // ////// 17/14 Q1012 YWTN 231230Z AUTO 08004KT //// // ////// 25/15 Q1009 RMK UHWW 231230Z VRB01MPS 9999 NSC M08/M18 Q1015 R25L/0///70 NOSIG RMK QFE760 TRPG 231200Z 11008KT 9999 SCT015 26/25 Q1014 VAID 231100Z 34006KT 5000 HZ NSC 26/13 Q1013 NOSIG EBLB 231225Z 23013G24KT 9999 BKN016 10/07 Q1005 WHT WHT TEMPO GRN EBLG 231250Z 21020KT 9999 FEW025 BKN030 14/08 Q1004 NOSIG YWWL 231230Z AUTO 03009KT //// // ////// 23/09 Q1014 RMK VAJB 231200Z 36002KT 4000 HZ NSC 24/10 Q1013 VAJJ 231230Z 35014KT 6000 NSC 33/24 Q1009 NOSIG UKBB 231230Z 34002MPS 9999 SCT030 02/M03 Q1021 R36R/190055 R36L/CLRD// NOSIG YWYM 231230Z AUTO 10005KT //// // ////// 30/23 Q1006 RMK CTNK 231200Z AUTO 00000KT M08/M09 RMK AO1 SOG 09 6021 SLP173 T10781089 UKDD 231230Z 31006MPS 9999 BKN030 M00/M06 Q1018 R26/710270 NOSIG UKDE 231230Z 30005MPS 270V340 9999 BKN033 00/M05 Q1019 R02/210366 NOSIG TTCP 231200Z 00000KT CAVOK 28/24 Q1013 NOSIG UIUU 231230Z 30004MPS 9999 FEW043 M12/M16 Q1020 R26/491050 NOSIG RMK QFE720/0961 EBOS 231250Z 25018KT 9999 FEW014TCU SCT035 11/05 Q1002 NOSIG UKDR 231230Z 34004MPS 310V030 9999 OVC036 01/M06 Q1020 R36/09//70 NOSIG OMRK 231200Z 30016KT 9999 SCT040 28/11 Q1012 A2989 NVSC 230300Z 00000KT 9999 BKN018 FEW025CB 27/26 Q1007 RMK RETS CTRA 231200Z AUTO 29002KT M07/M08 RMK AO1 SOG 05 5000 SLP133 T10721083 VANP 231230Z 00000KT 2000 HZ FEW100 27/18 Q1011 NOSIG OMSJ 231200Z 27013KT 9999 SCT040 29/11 Q1012 EDAC 231250Z 20013KT CAVOK 13/04 Q1008 NVSS 230900Z VRB02KT 9999 SCT020 FEW025CB BKN110 25/24 Q1009 RMK RETS EDAH 231250Z 19006KT 130V250 CAVOK 08/05 Q1002 UKHH 231230Z 32005MPS 290V350 8000 -SHSN BKN020CB BKN040 M01/M03 Q1016 R25/0///66 NOSIG VAPR 230700Z 35004KT 4000 FU NSC 31/11 Q1012 NVVA 222100Z 13006KT 9999 SCT018 OVC110 25/22 Q1013 RMK RESH PFCL 231245Z AUTO 21009KT FEW023 BKN028 OVC080 01/00 A2908 RMK AO2 PWINO FZRANO TSNO $ YYNG 231230Z AUTO 15003KT //// // ////// 20/11 Q1016 RMK ULAA 231230Z 34003MPS 310V020 9999 FEW020 M07/M08 Q1020 R26/910355 NOSIG RMK QFE763/1018 VARK 230100Z 13004KT 5000 HZ NSC 18/09 Q1012 VASD 231130Z 27006KT 6000 FU SKC 32/11 Q1011 NO SIG EDDB 231250Z 19011KT CAVOK 11/05 Q1005 NOSIG EDDC 231250Z 17009KT CAVOK 10/03 Q1008 TEMPO 17015G25KT EDDE 231250Z 21020KT CAVOK 13/05 Q1006 TEMPO 21015G30KT EDDF 231250Z 17008KT 9999 BKN044 13/05 Q1008 NOSIG EDDG 231250Z 19013KT 160V220 9999 SCT046 SCT090 14/09 Q1001 NOSIG EDDH 231250Z 22024KT 9999 -RA FEW030 OVC033 13/09 Q0998 TEMPO 22025G40KT KC07 231254Z AUTO 26005KT 10SM BKN006 OVC012 A3048 RMK AO2 KAAA 231255Z AUTO 18008KT 10SM BKN080 BKN095 00/M04 A3009 RMK AO2 T00031040 PFEL 231256Z AUTO 36007KT 10SM CLR M07/M14 A2948 RMK AO2 SLP983 T10721139 FZRANO KC09 231255Z AUTO 20006KT 10SM BKN075 BKN100 00/M05 A3004 RMK AO2 T00001051 NVVV 231200Z 10010KT 9999 FEW0154 BKN018 25/23 Q1011 RMK RESH EDDK 231250Z 22015KT 190V250 9999 BKN037 15/09 Q1005 NOSIG NVVW 222100Z 09008KT 9999 SCT020 BKN035 28/23 Q1012 RMK RESH EDDL 231250Z 21021KT 9999 FEW028 BKN034 15/09 Q1003 NOSIG EDDM 231250Z VRB02KT CAVOK 13/04 Q1014 NOSIG EDDN 231250Z 17010KT CAVOK 13/05 Q1011 NOSIG KAAF 231253Z AUTO 02008KT 10SM OVC004 14/14 A2994 RMK AO2 SLP139 T01390139 VCBI 231210Z 03005KT 8000 FEW018 FEW020CB 30/22 Q1007 NOSIG RMK SE/S/SW EDDP 231250Z 20017KT CAVOK 14/05 Q1006 TEMPO 20015G25KT UKKK 231230Z 30003MPS CAVOK 02/M04 Q1021 R26/190060 NOSIG VASU 231230Z 34003KT 4000 HZ NSC 28/20 Q1009 EDDR 231250Z 22019G29KT 190V250 9999 BKN040 15/06 Q1009 NOSIG VAUD 231200Z 00000KT 5000 HZ NSC 24/03 Q1013 NOSIG UKKM 231230Z 30003MPS CAVOK 03/M04 Q1021 R33/710255 NOSIG EDDS 231250Z 21007G17KT 170V240 CAVOK 16/05 Q1011 NOSIG EDDT 231250Z 19010KT CAVOK 11/04 Q1005 TEMPO 19015G25KT ZPPP 231200Z 03004MPS 2500 -RA BR SCT003 SCT004 OVC030 03/03 Q1025 NOSIG EDDV 231250Z AUTO 21014KT //// R27R/P2000N R27L/P2000N // ///////// 14/07 Q1001 TEMPO 20025G40KT KABE 231251Z 27004KT 10SM CLR M02/M08 A3015 RMK AO2 SLP212 T10171083 EDDW 231250Z 22017KT 9999 -RA BKN028 13/09 Q0999 TEMPO 22020G35KT KAAO 231254Z AUTO 19004KT 10SM CLR 01/M05 A3008 RMK AO2 SLP198 T00061050 TSNO $ UKLI 231230Z 11003MPS 080V150 9999 SCT050 BKN100 07/05 Q1018 R10/190068 NOSIG KABH 231256Z AUTO 00000KT A3027 RMK AO2 SLPNO $ EDFH 231250Z 24018G30KT 9999 BKN027 12/07 Q1007 KABI 231252Z 19006KT 10SM CLR 04/M04 A3018 RMK AO2 SLP221 T00441044 $ UKLL 231230Z 14004MPS CAVOK 07/04 Q1017 R13/CLRD// NOSIG KAAT 231255Z AUTO 16006KT 10SM OVC090 11/05 A3019 RMK AO2 SLP202 T01060050 TSNO KACB 231255Z AUTO 21004KT 7SM -SN OVC011 00/00 A2997 RMK AO2 T00010000 KC29 231255Z AUTO 22005KT 10SM OVC046 00/M06 A2997 RMK AO1 T00011065 UKLN 231256Z 09004MPS 030V180 9999 BKN040 04/03 Q1019 NOSIG EDFM 231250Z 18009KT 140V210 CAVOK 15/05 Q1009 UKLR 231230Z 17003MPS 9999 OVC019 03/M01 Q1019 R11/090070 NOSIG KC35 231255Z AUTO 00000KT 10SM CLR M02/M08 A2995 RMK AO2 T10221079 KABQ 231252Z 08004KT 10SM SCT300 05/M02 A3034 RMK AO2 SLP246 T00501022 KABR 231253Z AUTO 18004KT 10SM CLR M08/M09 A2994 RMK AO2 SLP157 T10831089 UKLU 231230Z 12003MPS 090V160 9999 OVC016 08/05 Q1019 R10/190065 NOSIG KACJ 231255Z AUTO 03005KT 10SM OVC016 10/04 A3005 RMK AO2 KACK 231253Z 33013KT 10SM CLR 02/M03 A3003 RMK AO2 SLP167 T00221033 KADC 231253Z AUTO 00000KT 10SM CLR M10/M11 A2990 RMK AO2 KADF 231256Z AUTO 00000KT 10SM CLR M05/M07 A3023 RMK AO2 SLP243 T10501067 FZRANO KABY 231253Z 05005KT 10SM OVC042 13/08 A2999 RMK AO2 SLP154 T01330083 KADG 231253Z AUTO 23007KT 10SM OVC110 M02/M04 A3012 RMK AO2 SLP211 T10221044 TSNO KACP 231235Z AUTO 00000KT 10SM CLR M01/M02 A3019 RMK AO2 T10131021 KACQ 231252Z AUTO 00000KT 10SM CLR M07/M09 A2995 RMK AO2 KADH 231255Z AUTO 18004KT 10SM CLR 01/M05 A3016 RMK AO2 EDHI 231250Z VRB05G21KT 9999 -SHRA SCT035 BKN042 14/09 Q0998 EDGS 231250Z 23016G26KT 9999 BKN021 11/07 Q1006 KACT 231251Z 00000KT 10SM CLR M01/M03 A3022 RMK AO2 SLP234 T10061033 EDHK 231250Z 21019G31KT 180V240 9999 -RA SCT046 BKN060 13/07 Q0996 EDHL 231250Z 22013KT 9999 FEW040 BKN100 14/07 Q0998 KACV 231253Z AUTO 13004KT 10SM -RA BKN025 OVC032 15/15 A3011 RMK AO2 RAB1156E29B50 SLP201 P0003 T01500150 KADM 231235Z AUTO 00000KT 10SM CLR M02/M03 A3018 RMK AO2 T10211028 UKOH 231230Z 34005MPS 9999 BKN032 03/M03 Q1022 R03/CLRD65 NOSIG KAEG 231247Z 29003KT 10SM SKC 00M04 A3035 KACY 231254Z 31006KT 10SM CLR M01/M05 A3016 RMK AO2 SLP213 T10061050 KAEJ 231255Z AUTO 32009KT 10SM CLR 04/M01 A3041 RMK AO2 T00361006 KADS 231247Z 00000KT 13SM SKC 03/M01 A3019 EDJA 231250Z 21008KT CAVOK 12/02 Q1014 KADU 231255Z AUTO 32003KT 10SM CLR 00/M04 A2998 RMK AO2 UKON 231230Z 34003MPS 320V020 9999 BKN035 04/M04 Q1022 NOSIG KAEL 231252Z AUTO 30004KT 10SM CLR M04/M08 A2993 RMK AO2 KC62 231255Z AUTO 21006KT 10SM BKN080 OVC120 M01/M03 A3010 RMK AO2 T10171040 UKOO 231230Z VRB01MPS 9999 FEW033 SCT200 05/M03 Q1022 R34/090060 NOSIG KADW 231256Z AUTO 31006KT 10SM CLR 00/M06 A3019 RMK AO2 SLP233 T10031059 $ CWAE 230100Z 36002KT 3/4SM -RA BR FEW002 OVC025 02/02 A2966 RMK SC1SC7 LAST OBS/NEXT 231500UTC WND ESTD SLP059 KAFF 231258Z AUTO 36006KT 10SM CLR 01/M01 A3029 RMK AO2 SLP244 T00141015 CWAF 231200Z AUTO 28015G22KT M04/M08 RMK AO1 PK WND 30029/1101 T10411084 KC65 231255Z AUTO 19004KT 10SM BKN060 OVC080 M01/M06 A3009 RMK A01 KAFJ 231256Z AUTO 20003KT 10SM CLR M06/M07 A3018 RMK AO2 SLP234 T10611072 FZRANO CWBA 232300Z AUTO 19002KT M08/M10 RMK AO1 SOG 05 T10771100 CWAJ 231200Z AUTO RMK AO1 KAFK 231255Z AUTO 29007KT 10SM CLR 04/00 A3001 RMK AO2 T00401002 KAGC 231253Z 16005KT 10SM BKN031 M04/M08 A3014 RMK AO2 SLP225 T10441078 TTPP 231200Z 00000KT 9999 FEW018 27/24 Q1012 NOSIG KAFN 231252Z AUTO VRB03KT 10SM CLR M03/M08 A2999 RMK AO2 SLP174 T10281083 TSNO CWBE 231200Z AUTO 24014G20KT 01/M04 RMK AO1 PK WND 23021/1127 SLP157 T00101040 56019 KAEX 231253Z 30004KT 8SM CLR M03/M03 A3018 RMK AO2 SLP226 T10281033 KAFO 231255Z AUTO 00000KT 1/4SM FZFG OVC001 M02/M03 A3034 RMK AO2 KAFP 231245Z AUTO 00000KT 10SM CLR 02/M01 A3016 RMK AO2 T00191013 KC75 231255Z AUTO 20008KT 10SM CLR 00/M07 A3002 RMK AO2 T00001066 CWAQ 231200Z AUTO 23014KT 07/03 RMK AO1 SOG 00 6024 PK WND 23019/1126 SLP071 T00670034 PFKT 231256Z AUTO 35009KT 9SM -SN OVC025 M04/M07 A2961 RMK AO2 SLP026 P0000 T10441072 FZRANO CWCA 231200Z 16005KT 12SM -SN FEW020 OVC025 00/M02 A2971 RMK CU2SC6 SLP062 CWBK 231200Z AUTO 28033G42KT 03/02 RMK AO1 1PAST HR PRESRR 3145 PK WND 27046/1109 SLP966 P0004 T00280018 50086 PFKW 231256Z AUTO 05014G22KT 8SM -SN FEW016 BKN027 OVC038 M02/M04 A2901 RMK AO2 PRESRR SLP825 P0000 T10221039 FZRANO CWAV 231200Z AUTO 25005KT 08/02 RMK AO1 SOG 05 8011 PK WND 21020/1110 SLP977 T00810020 KAFW 231253Z 00000KT 10SM FEW300 M02/M03 A3018 RMK AO2 SLP230 T10171028 KC83 231255Z AUTO 00000KT 10SM CLR 13/13 A3011 RMK AO2 CWCF 231200Z AUTO 09001KT M14/M16 RMK AO1 SOG 02 0002 SLP144 T11441155 CWBO 231200Z AUTO 16007KT 05/02 RMK AO1 SOG 05 8045 SLP010 T00460024 CWCI 231200Z AUTO 28019KT 01/01 RMK AO1 PK WND 28025/1139 SLP111 T00090005 58014 KAGS 231253Z 06004KT 10SM CLR 09/01 A3009 RMK AO2 SLP189 T00890006 KAIA 231253Z AUTO 25006KT 10SM CLR M01/M01 A3008 RMK AO2 SLP201 T10061006 CWBS 231200Z AUTO 25014KT M06/M10 RMK AO1 PK WND 25018/1156 T10561101 CWDA 231200Z AUTO 11009KT 02/02 RMK AO1 PRESFR SLP038 T00190017 58046 CWCJ 231200Z AUTO 27007KT M01/M04 RMK AO1 SOG 01 8014 SLP091 T10131043 EDMA 231250Z 22011KT CAVOK 13/01 Q1013 KAIB 231355Z AUTO 00000KT 10SM CLR 01/M02 A3043 RMK AO2 CWBT 230100Z AUTO 07003KT 02/02 RMK AO1 SLP113 T00180015 56021 KAID 222048Z 00000KT 10SM SCT033 02/-05 A3025 CWDC 231200Z AUTO 09006KT M17/M19 RMK AO1 PRESFR SOG 20 8045 SLP066 T11731193 CWBU 231200Z AUTO 08009KT M11/M13 RMK AO1 SOG 12 8027 SLP091 T11091133 50002 KAHN 231251Z AUTO 05006KT 10SM CLR 05/M01 A3009 RMK AO2 SLP194 T00501006 EDLN 231250Z VRB11G24KT 9999 FEW038 BKN046 15/09 Q1003 CWCO 231200Z AUTO 18003KT M01/M05 RMK AO1 SLP181 T10061051 58013 KAIG 231255Z AUTO 00000KT 10SM BKN041 M06/M07 A2991 RMK AO2 T10601073 CWBY 231200Z AUTO 31005KT 01/M00 RMK AO1 2PAST HR SOG 05 6023 SLP978 P0001 T00081004 50039 EDLP 231250Z 21021G32KT 9999 BKN040 13/08 Q1003 KAHQ 231255Z AUTO 32004KT 10SM CLR 02/00 A3002 RMK AO2 T00221004 CWBZ 231100Z AUTO 22004KT M07/M10 RMK AO1 SLP211 T10721096 53002 UMBB 231200Z 13003MPS 6000 SCT020 SCT100 05/03 Q1017 NOSIG KD07 231256Z AUTO 26008KT 08/04 A2990 RMK AO1 SLP133 T00830039 OOMS 231150Z 06009KT CAVOK 27/15 Q1011 NOSIG CWDJ 231200Z AUTO 12009KT M08/M10 RMK AO1 SOG 00 6031 SLP067 T10781096 KAIK 231255Z AUTO 05007KT 10SM CLR 06/00 A3012 RMK AO2 KBAB 231258Z AUTO 36004KT 10SM BKN190 11/11 A3011 RMK AO2 SLP199 T01120106 $ CWDK 231200Z AUTO 23020G25KT 12/05 RMK AO1 PK WND 24032/1109 SLP013 T01230053 58016 CWCT 231200Z AUTO 21017KT 04/M00 RMK AO1 PK WND 20025/1122 SLP997 T00371003 57029 CWEB 231200Z AUTO 21003KT 09/08 RMK AO1 SLP085 T00880078 52014 KBAC 231255Z AUTO 19005KT 1/4SM FZFG OVC002 M05/M05 A2990 RMK AO2 KBAD 231256Z AUTO 00000KT 10SM CLR M02/M02 A3021 RMK AO2 SLP234 T10171023 CWDM 231200Z AUTO 06009KT 05/04 RMK AO1 7PAST HR PRESFR 8054 SLP962 P0026 T00450041 50225 EDLV 231250Z 22018G30KT 190V250 9999 BKN032 15/10 Q1000 PFNO 231256Z AUTO 00000KT 10SM OVC015 M12/M13 A2950 RMK AO2 SLP993 T11221133 FZRANO CWEE 231200Z AUTO M12/M13 RMK AO1 SLP128 T11201128 56013 KBAF 231253Z 33009KT 10SM CLR 00/M07 A3005 RMK AO2 SLP181 T00001067 EDLW 231250Z 21017KT 9999 BKN033 13/07 Q1002 KAIO 231255Z AUTO 00000KT 10SM CLR M04/M06 A2999 RMK AO2 EDMO 231250Z 23005KT CAVOK 14/01 Q1014 CWEF 231200Z AUTO 15033G41KT 09/08 RMK AO1 PK WND 14053/1103 SLP802 T00920083 56106 CWDO 231200Z AUTO 13018G26KT 01/M01 RMK AO1 PK WND 13026/1153 SLP062 T00131012 56046 KAJG 231255Z AUTO 00000KT 10SM SCT110 M04/M05 A3017 RMK AO2 T10391046 CWDQ 231200Z AUTO 15002KT M11/M13 RMK AO1 SOG 09 5004 SLP172 T11121127 CWEH 231200Z AUTO 26021KT 06/03 RMK AO1 PK WND 26028/1149 SLP069 T00570028 56019 EEEI 231250Z 14015G28KT 110V170 9999 -DZ OVC004 00/00 Q1008 R06/290095 NOSIG KBAK 231245Z 00000KT 10SM OVC120 M02/M04 A3016 KAIT 231255Z AUTO 00000KT 10SM CLR M13/M14 A2989 RMK AO2 KBBB 231252Z AUTO 28003KT 10SM CLR M08/M09 A2997 RMK AO2 CWDT 231200Z AUTO 29006KT M10/M12 RMK AO1 SLP128 T11041124 56015 CWEK 231200Z AUTO 19015KT 07/06 RMK AO1 4PAST HR 3007 PK WND 18018/1154 SLP955 P0002 T00710059 50012 CWEL 231200Z AUTO 32007KT 12/07 RMK AO1 SLP081 T01220068 52011 KBAM 231255Z AUTO 00000KT 10SM CLR 04/03 A3026 RMK AO1 NWWW 231230Z AUTO VRB02KT 9999 BKN046 OVC054 25/18 Q1013 NOSIG CWDV 231200Z AUTO 27007KT M07/M08 RMK AO1 SOG 23 5004 SLP116 T10721075 CWFD 231200Z AUTO VRB12G62KT ////SM //// OVC002 ///// A//// KAJO 231256Z AUTO 00000KT 10SM CLR 09/04 A3005 RMK AO2 SLP182 T00890039 KBBF 231255Z AUTO 04016G21KT 8SM 16/09 A3016 RMK A01 ULLI 231230Z 13005MPS 110V170 9999 OVC015 M04/M07 Q1020 R88/190055 NOSIG CWFF 231200Z AUTO 11006KT M10/M12 RMK AO1 SOG 08 6027 SLP084 T11001117 KBBG 231255Z 00000KT 10SM SKC 01/M07 A3013 KD25 231255Z AUTO 22004KT 10SM BKN022 OVC040 M05/M07 A2986 RMK AO2 T10521068 CWEP 231200Z AUTO 27039G50KT 07/06 RMK AO1 0PAST HR PRESRR 3042 PK WND 28055/1148 SLP868 P0012 T00670055 50147 KAKH 231254Z AUTO 04006KT 10SM CLR 04/M02 A3014 RMK AO2 SLP210 T00391022 KAIZ 231256Z AUTO 16004KT 10SM CLR M02/M07 A3011 RMK AO2 SLP205 T10221067 FZRANO CWDZ 231200Z AUTO 17007KT 05/01 RMK AO1 T00520009 CWEQ 231200Z AUTO 06009KT M11/M13 RMK AO1 SOG 02 7010 SLP125 T11081130 KAJR 231255Z AUTO 08005KT 10SM CLR 05/M02 A3010 RMK AO2 T00461025 CWFJ 231200Z AUTO 20011G16KT 10/05 RMK AO1 PK WND 19019/1132 T00980054 KALB 231251Z 28008KT 10SM SCT032 SCT250 M02/M08 A3012 RMK AO2 SLP203 T10221083 KBCB 231255Z AUTO 00000KT 10SM CLR M06/M06 A3015 RMK AO2 T10571065 CWGB 231200Z AUTO 33002KT 10/08 RMK AO1 SLP078 T01030080 51012 CWEU 231200Z 07005KT 15SM SKC M14/M20 A3023 RMK SLP239 CWGD 231200Z AUTO 24012KT 01/M04 RMK AO1 PK WND 24020/1106 SLP181 T00131038 56015 KBCE 231253Z AUTO 26011KT 10SM CLR M02/M04 A3046 RMK AO2 SLP279 T10221039 CWEW 231200Z AUTO 23003KT M08/M11 RMK AO1 SLP209 T10791112 51007 KAKO 231253Z AUTO 27010KT 10SM CLR 06/01 A3017 RMK AO2 SLP206 T00610011 KBAX 231255Z AUTO 22006KT 10SM BKN040 OVC046 M01/M06 A3004 RMK AO2 T10081060 KBBP 231255Z AUTO 02006KT 10SM CLR 06/00 A3014 RMK AO2 EDOP 231250Z 18015KT CAVOK 12/06 Q1000 EDNY 231250Z VRB01KT CAVOK 11/04 Q1014 KBAZ 231251Z 29007KT 10SM CLR 02/M02 A3020 RMK AO2 SLP228 T00171022 KAKQ 231254Z AUTO VRB03KT 10SM CLR 01/M03 A3019 RMK AO2 SLP227 T00061028 KAJZ 231255Z AUTO 08003KT 10SM CLR 01/M02 A3040 RMK AO2 T00061021 CWEZ 231200Z AUTO 25005KT 13/08 RMK AO1 0004 SLP084 T01300075 50002 CWFQ 231200Z AUTO 28002KT M08/M11 RMK AO1 1011 SLP196 T10841112 50004 KALI 231253Z AUTO 33005KT 10SM CLR 04/00 A3022 RMK AO2 SLP233 T00390000 KAKR 231254Z AUTO 20005KT 10SM CLR M02/M06 A3013 RMK AO2 SLP214 T10221061 KAMA 231253Z AUTO 30011KT 10SM CLR 09/M02 A3019 RMK AO2 SLP209 T00941017 ULMM 231230Z 16001MPS CAVOK M24/M27 Q1024 R31/420250 NOSIG RMK QFE761 KD39 231253Z AUTO 00000KT 10SM CLR M09/M10 A2992 RMK AO2 T10871100 KALK 231256Z AUTO 13003KT 10SM CLR 12/M08 A3027 RMK AO2 SLP187 T01171083 KBCK 231255Z AUTO 00000KT 10SM CLR M10/M11 A2994 RMK AO2 T11021114 CWGL 231200Z AUTO 23016KT M00/M05 RMK AO1 PK WND 24023/1102 SLP178 T10011051 56011 KALM 231255Z AUTO 08005KT 10SM CLR 00/M06 A3028 RMK AO2 CWGM 231200Z AUTO 22016G23KT 09/06 RMK AO1 8PAST HR M PK WND 22026/1124 P0003 T00850062 50031 KBDE 231253Z AUTO 00000KT 10SM BKN050 OVC110 M08/M10 A2985 RMK AO2 SLP131 T10831100 $ KBBW 231253Z AUTO 00000KT 10SM CLR 01/M01 A3005 RMK AO2 SLP186 T00061011 KALN 231250Z 18005KT 10SM SKC M02/M05 A3013 KALO 231254Z 00000KT 10SM CLR M04/M08 A2995 RMK AO2 SLP153 T10441083 KAMG 231253Z AUTO VRB05KT 7SM BKN110 12/11 A3001 RMK AO2 RAB1155E13 SLP161 P0000 T01220111 $ KBDG 231255Z AUTO 36003KT 10SM 04/M01 A3043 RMK AO1 T00411008 KBDH 231255Z AUTO 27003KT 10SM CLR M07/M09 A2996 RMK AO2 NZAA 231230Z AUTO 19004KT 9999 NCD 16/15 Q1027 NOSIG OOSA 231150Z 15008KT 9999 FEW025 28/22 Q1010 NOSIG CWGR 231200Z AUTO 19011G17KT 08/08 RMK AO1 4PAST HR 6097 PK WND 15025/1109 SLP778 P0009 T00820076 50224 ZSAM 231200Z 05008MPS CAVOK 17/04 Q1022 NOSIG KALS 231252Z AUTO 10007KT 10SM CLR M05/M07 A3041 RMK AO2 SLP290 T10501067 KBEA 231255Z AUTO 33006KT 10SM CLR 04/M01 A3022 RMK AO2 T00401006 KBCT 231249Z 19004KT 10SM SCT024 25/21 A2991 KANB 231253Z AUTO 00000KT 10SM CLR M01/M02 A3009 RMK AO2 SLP196 T10061022 KD50 231255Z AUTO 21013KT 10SM CLR 01/01 A2969 RMK AO2 CWGT 231200Z AUTO 18017KT 12/07 RMK AO1 PK WND 20029/1127 SLP071 T01170069 50014 KBDL 231251Z 33003KT 10SM SCT250 00/M06 A3007 RMK AO2 SLP184 T00001061 KBEC 231255Z AUTO 00000KT 7SM CLR 01/M06 A3009 RMK AO2 T00071060 CWHL 231200Z AUTO 06003KT 06/05 RMK AO1 2011 SLP959 T00560047 50006 KAND 231256Z AUTO 04004KT 10SM CLR 04/M02 A3012 RMK AO2 SLP200 T00441017 KBED 231256Z 30005KT 10SM CLR M01/M07 A3002 RMK AO2 SLP181 T10061072 EDQM 231250Z 20013KT CAVOK 10/01 Q1010 CWID 231200Z AUTO 08005KT M13/M15 RMK AO1 SLP968 T11321151 58041 KALW 231253Z AUTO 12004KT 10SM OVC085 14/09 A2989 RMK AO2 SLP122 T01390089 KANE 231250Z 00000KT 10SM SKC M06/M08 A2994 KBDN 231255Z AUTO 20009G18KT 10SM CLR 14/06 A3001 RMK AO2 KAMN 231255Z AUTO 19005KT 10SM OVC041 00/M04 A3005 RMK AO2 T10021044 CWGW 231200Z AUTO 18008G16KT 09/08 RMK AO1 8PAST HR PRESFR SOG 00 8047 PK WND 20020/1142 SLP042 P0007 T00920079 50046 KALX 231255Z AUTO 02003KT 10SM CLR 02/M01 A3006 RMK AO2 T00171015 OOSH 231150Z AUTO 07012KT //// 27/16 Q1010 RMK 1007 CWGX 231200Z AUTO 30011KT M19/M23 RMK AO1 SOG 17 0001 SLP103 T11911227 CWHO 231200Z AUTO 36015G20KT M03/M03 RMK AO1 2PAST HR 6020 PK WND 01022/1107 SLP072 P0001 T10271030 50023 KD55 231255Z AUTO 22006KT 1 3/4SM BR OVC002 M03/M03 A2981 RMK AO2 PFSH 231256Z AUTO 02023KT 7SM CLR M08/M11 A2945 RMK AO2 PK WND 01026/1255 SLP971 T10831106 PWINO FZRANO $ CWHP 231200Z AUTO 09022G31KT 05/05 RMK AO1 2PAST HR PRESFR 8077 PK WND 08031/1157 SLP863 P0016 T00510051 50161 CWIG 231200Z AUTO 20007KT RMK AO1 CWGY 231200Z AUTO 18019G26KT 07/01 RMK AO1 PK WND 17027/1141 SLP001 T00660014 56029 KBEH 231253Z AUTO 19006KT 10SM OVC070 00/M07 A3007 RMK AO2 SLP190 T00001072 CWGZ 230100Z 06010G27KT 10SM BKN030 BKN190 M04/M09 A3018 RMK SC5AC1 -2.3/-4.9/0.0/LAST STFD OBS/ NXT 231300 UTC SLP227 CWHQ 231200Z AUTO 26004KT M07/M10 RMK AO1 T10711095 ULPB 231230Z 04002MPS 9999 BKN022 M07/M08 Q1022 R01/090045 NOSIG RMK QFE762/1017 KBDR 231252Z 27003KT 10SM CLR 01/M06 A3011 RMK AO2 SLP196 T00111061 CWII 231200Z AUTO 04005KT M08/M10 RMK AO1 T10771102 KANJ 231255Z AUTO VRB05KT 10SM BKN037 OVC046 M02/M06 A2990 RMK AO2 UPB00E01SNE00 SLP132 P0000 T10221061 CWIJ 231200Z AUTO 26004KT M30/M33 RMK AO1 SOG 30 8017 SLP084 T12981328 KANK 231255Z AUTO 28006KT 10SM CLR 02/00 A3048 RMK AO1 T00181005 KD60 231255Z AUTO 24007KT 10SM CLR 00/01 A2974 RMK AO2 OPKC 231225Z 23004KT 6000 NSC 26/M01 Q1013 NOSIG CWJB 231200Z AUTO 21007KT M07/M10 RMK AO1 T10691095 CWHT 231200Z AUTO 00000KT M19/M21 RMK AO1 SOG 03 6016 SLP995 T11891212 CWIK 231200Z AUTO 13006KT M08/M09 RMK AO1 SOG 06 8032 SLP087 T10791090 UKWW 231230Z 18002MPS CAVOK 03/M04 Q1020 R13/0///65 NOSIG EDSB 231250Z 20016KT CAVOK 16/05 Q1010 KBDU 231254Z AUTO 00000KT 10SM CLR 10/00 A3020 RMK AO2 ULOO 231230Z 15005MPS 120V180 P5000 BKN030 M01/M03 Q1018 R19/090070 NOSIG RMK QFE759 CWJC 231200Z AUTO 30016KT M25/M28 RMK AO1 SOG 14 8015 PK WND 30022/1135 SLP076 T12501279 CWIL 231248Z AUTO 27003KT ////SM SCT003 OVC033 M14/M15 A2951 KBFD 231253Z AUTO 21003KT 10SM OVC020 M03/M06 A3005 RMK AO2 SLP199 T10331056 CWJD 231200Z AUTO 29002KT M15/M17 RMK AO1 SOG 22 8010 SLP143 T11491166 CWHV 231200Z AUTO 29004KT M08/M11 RMK AO1 SLP158 T10791112 53009 UMGG 231230Z 34002MPS 9999 OVC009 M02/M04 Q1022 R28/190055 NOSIG KAMW 231253Z AUTO 28005KT 10SM CLR M03/M06 A2995 RMK AO2 SLP151 T10281056 NZAP 231230Z 06001KT 19KM FEW038 14/13 Q1028 RMK AUTO VATSIM USE ONLY KBFF 231253Z AUTO 01005KT 10SM CLR 02/01 A3012 RMK AO2 SLP196 T00220006 CXAF 231200Z AUTO 14004KT M09/M11 RMK AO1 T10901110 TUPJ 231300Z VRB02KT 9999 SCT019 28/24 Q1014 RMK A2995 CXAG 231200Z AUTO 13007KT M08/M10 RMK AO1 T10841102 CWIP 231200Z AUTO 30011G18KT M02/ RMK AO1 PK WND 30018/1154 T1017 KAOH 231253Z AUTO 19007KT 10SM CLR M02/M04 A3012 RMK AO2 SLP210 T10171044 OPLA 231225Z 00000KT 4000 HZ NSC 23/01 Q1013/A29.90 CWJH 231200Z AUTO 18001KT M16/M18 RMK AO1 SOG 20 8026 SLP112 T11641181 KBFI 231253Z 20008G18KT 10SM -RA FEW021 SCT120 14/12 A2984 RMK AO2 RAB51 SLP105 P0000 T01440122 CWJI 231200Z AUTO 23014KT 04/01 RMK AO1 SOG 02 6027 PK WND 23018/1159 SLP064 T00440013 KAPA 231253Z 19008KT 10SM FEW220 04/00 A3024 RMK AO2 SLP223 T00390000 PHBK 231256Z AUTO 07003KT 10SM BKN060 21/14 A3009 RMK AO2 SLP192 T02060139 CXBA 231200Z AUTO 23024KT 08/01 RMK AO1 PK WND 23032/1111 T00800011 CXAJ 231200Z AUTO 12004KT M08/M09 RMK AO1 SOG 11 T10811094 CWIS 231200Z AUTO 01002KT M13/M14 RMK AO1 SOG 09 0003 SLP117 T11301144 EEKA 231250Z 15019G29KT 7000 OVC002 04/04 Q1005 CXAK 231200Z AUTO 20014KT 05/01 RMK AO1 PK WND 19021/1115 T00520007 KAPC 231254Z 30003KT 1/2SM FG VV002 08/08 A3012 RMK AO2 SLP190 T00830078 KBFL 231254Z AUTO 02004KT 5SM HZ CLR 11/06 A3013 RMK AO2 SLP201 T01110061 $ KBFM 231253Z 34008KT 10SM CLR 05/01 A3008 RMK AO2 SLP186 T00500011 KBGD 231251Z AUTO 24007KT 10SM CLR 07/M01 A3018 RMK AO2 SLP211 T00671011 $ CWKD 231200Z AUTO 25011KT M10/M11 RMK AO1 SLP110 T11011111 56017 KANW 231255Z AUTO 24008KT 10SM CLR 05/03 A3001 RMK AO2 T00470030 KBGE 231255Z AUTO 04005KT 10SM SCT012 OVC020 13/08 A3000 RMK AO2 KD73 231255Z AUTO 04004KT 10SM SCT031 BKN040 05/00 A3010 RMK AO2 T00501005 CWIW 231200Z AUTO 15005KT M09/M10 RMK AO1 SOG 02 6031 SLP070 T10861095 EEKE 231250Z 17017KT 9000 OVC005 04/03 Q1007 R17/290095 KAOO 231253Z AUTO 31005KT 10SM OVC024 M01/M07 A3013 RMK AO2 SLP218 T10061067 KAPF 231253Z 11005KT 10SM CLR 22/21 A2988 RMK AO2 SLP117 T02220206 KBGF 231255Z AUTO 00000KT 10SM CLR M05/M06 A3014 RMK CWIX 231200Z AUTO 30007KT M07/M11 RMK AO1 SLP141 T10701107 56011 CWJO 231200Z AUTO 26007KT M07/M10 RMK AO1 SLP154 T10691099 55008 NZCH 231230Z AUTO 05008KT 9999 OVC010/// 15/12 Q1026 BECMG BKN008 KAPG 231158Z AUTO 28004KT 10SM CLR M03/M05 A3019 RMK AO2 SLP227 T10261054 10010 21047 52008 $ NZCI 231230Z 27003KT 15KM BKN012 11/10 Q1027 RMK AUTO NZNR VATSIM USE ONLY CWKG 231200Z AUTO 32008G19KT 02/01 RMK AO1 1044 PK WND 29019/1149 SLP062 T00170008 50015 CWIZ 231200Z AUTO 28005KT M06/M10 RMK AO1 T10621100 CWKH 231200Z AUTO 10/08 RMK AO1 2PAST HR 0003 SLP066 P0001 T00960076 50006 CXBI 231200Z AUTO 20006KT M02/M05 RMK AO1 SLP185 T10181054 57015 CWJR 231200Z AUTO 16010G17KT 12/10 RMK AO1 7PAST HR 6037 PK WND 15017/1156 SLP081 P0003 T01210102 50016 CXCA 231200Z AUTO 26003KT M05/M08 RMK AO1 SOG 04 5009 SLP107 T10491076 KBHB 231256Z AUTO 28010KT 10SM CLR M02/M07 A2994 RMK AO2 SLP142 T10171067 FZRANO PNO $ NZCM 231155Z 28008KT 9999 -SN VCBLSN FEW020 SCT050 BKN100 BKN150 M07/M10 A2860 RMK SLP690 VCBLSN SE-SW CWKK 231200Z AUTO 29019G24KT M03/M05 RMK AO1 1PAST HR SOG 06 5009 PK WND 30024/1151 SLP086 P0000 T10321046 50003 CXAT 231200Z AUTO 04008KT M01/M06 RMK AO1 SLP098 T10071055 58006 CXBK 231200Z AUTO 15004KT M07/M08 RMK AO1 SOG 07 6029 SLP052 T10691078 CWLB 231200Z AUTO 16009KT M08/M10 RMK AO1 SOG 13 6051 SLP966 T10771098 CWJT 231200Z AUTO 00000KT M12/M13 RMK AO1 SLP207 T11221130 53001 KBHC 231255Z AUTO 05006KT 10SM -DZ SCT120 11/11 A3002 RMK AO2 EDTL 231250Z 18013KT CAVOK 15/05 Q1011 CWLC 231200Z AUTO 16009KT 07/05 RMK AO1 T00650054 KBGM 231253Z 33006KT 10SM OVC020 M04/M08 A3007 RMK AO2 SLP203 T10391083 CXCD 231200Z AUTO 10001KT M07/M08 RMK AO1 T10681079 KBFW 231242Z AUTO 00000KT 7SM CLR M08/M08 A2985 RMK AO2 CWJV 231200Z AUTO 10006KT 06/05 RMK AO1 8005 SLP066 T00560053 50031 CWKM 231200Z AUTO 25012KT M13/ A2940 RMK SLP961 KAPN 231254Z AUTO 21006KT 10SM OVC025 M01/M04 A2997 RMK AO2 SLP159 T10111044 DNKN 231000Z 08010KT 2500 HZ NSC 26/M04 Q1018 NOSIG CWLE 231200Z AUTO 22008KT M01/M02 RMK AO1 SOG 06 8034 SLP033 T10071019 CWJW 231200Z AUTO 18005KT 04/04 RMK AO1 6PAST HR SOG 01 8007 SLP968 P0002 T00420040 50032 VCRI 231210Z 24010KT 9999 SCT017 BKN028 29/25 Q1007 NOSIG CXBO 231100Z AUTO 25008KT RMK AO1 CWKO 231200Z AUTO 23014KT 05/03 RMK AO1 SOG 03 6019 PK WND 24021/1130 SLP080 T00500028 CWJX 231200Z AUTO 22013KT 04/00 RMK AO1 SOG 05 6034 PK WND 24024/1117 SLP016 T00410000 UMII 231200Z 22002MPS 9999 OVC009 M03/M06 Q1020 R23/710249 TEMPO 2000 BR BKN005 UNAA 231230Z 35001MPS 2000 1200N BR NSC M05/M06 Q1026 R02/190060 NOSIG RMK QFE747 CWKP 231200Z AUTO ///// M18/ A2944 RMK SLP017 CXCH 231200Z AUTO 07/05 RMK AO1 1PAST HR M P0004 T00680050 50109 KBGR 231253Z 31012G16KT 10SM FEW040 FEW150 M03/M09 A2993 RMK AO2 PK WND 30026/1218 SLP139 T10281089 CXBR 231200Z AUTO 23011KT 08/05 RMK AO1 PK WND 23019/1116 T00820049 CWLI 231200Z AUTO 14009KT ////SM //// FEW031 OVC040 M23/M25 A2939 KARA 231253Z 34004KT 10SM CLR 02/M01 A3017 RMK AO2 SLP215 T00171011 KAPS 231255Z AUTO 35004KT 10SM CLR 04/00 A3014 RMK AO2 T00400002 KBHK 231251Z AUTO 00000KT 10SM CLR 05/03 A2988 RMK AO2 SLP124 T00500028 KARB 231253Z 17003KT 10SM OVC110 M03/M04 A3010 RMK AO2 SLP203 T10281044 CXDB 231200Z AUTO 22021KT 09/05 RMK AO1 PK WND 21032/1101 T00930049 CXCK 231200Z AUTO 36001KT M26/M29 RMK AO1 SOG 16 7014 SLP030 T12641294 NZDN 231230Z 36001KT 7000 BKN004 13/13 Q1026 RMK SWAMPY 04017KT AUTO VATSIM USE KBHM 231253Z 00000KT 10SM CLR M01/M03 A3012 RMK AO2 SLP202 T10111028 KBID 231256Z AUTO 35007KT 10SM CLR 02/M06 A3007 RMK AO2 SLP187 T00171056 FZRANO CWLM 231200Z AUTO 26016G23KT 12/10 RMK AO1 3002 PK WND 27030/1113 SLP084 T01230095 50002 KBIE 231255Z AUTO 00000KT 10SM CLR 00/M04 A3004 RMK AO2 T10051044 EDVE 231250Z 23020KT CAVOK 15/06 Q1003 CXBW 231100Z AUTO 24016KT 12/05 RMK AO1 PK WND 24022/1059 T01200049 CWME 231200Z AUTO 21007KT 07/06 RMK AO1 2PAST HR 1025 PK WND 22019/1104 SLP004 P0020 T00730060 50128 CXDE 231200Z AUTO 12007KT M17/M19 RMK AO1 SOG 09 6025 SLP993 T11651188 CWKW 231200Z AUTO ///// A2961 KBIF 231258Z 00000KT 10SM CLR 03/M04 A3025 RMK AO2A SLP219 T00291044 $ KAQO 231230Z AUTO 00000KT 10SM CLR M01/M03 A3025 RMK AO2 CWKX 231200Z AUTO 10002KT M13/M15 RMK AO1 SOG 14 6009 SLP952 T11261146 KD95 231254Z AUTO 22006KT 10SM OVC048 M01/M06 A3007 RMK AO2 T10071058 KAQP 231255Z AUTO 25005KT 10SM CLR M06/M08 A2997 RMK AO2 KARG 231256Z AUTO 00000KT 10SM M03/M04 A3020 RMK AO2 SLP231 T10331039 FZRANO $ KAPY 231255Z AUTO 00000KT 10SM CLR 03/02 A3023 RMK AO2 T00300019 OPNH 231200Z 13004KT 4000M FU NSC 28/08 Q.1011 NOSIG EDTY 231250Z 21008KT 170V250 CAVOK 14/04 Q1011 CWLP 231200Z AUTO 16015KT 09/07 RMK AO1 8PAST HR 3006 PK WND 15023/1135 SLP029 P0003 T00910072 50008 CXCP 231200Z AUTO 23020KT 12/05 RMK AO1 PK WND 24035/1107 T01230052 KBIH 231256Z AUTO 31007KT 10SM CLR 05/02 A3027 RMK AO2 SLP228 T00500017 TSNO UNBB 231230Z 07003MPS CAVOK M04/M09 Q1030 R06/810556 NOSIG RMK QFE750 KAQR 231255Z AUTO 00000KT M02/M05 A3020 RMK AO2 PWINO CXDI 231200Z AUTO 28004KT M01/M06 RMK AO1 SLP193 T10101061 56018 OPMT 231200Z 18004KT 4000 HZ FEW120 25/02 Q1012 NOSIG KBIJ 231255Z AUTO 01003KT 10SM OVC029 13/06 A3002 RMK AO2 CXCS 231200Z AUTO 22020KT 04/01 RMK AO1 PK WND 24035/1106 T00360007 CXEA 231200Z AUTO 29006KT M09/M10 RMK AO1 SOG 17 3004 SLP125 T10861104 CWLS 231200Z AUTO 22007KT M03/M06 RMK AO1 SOG 00 6013 SLP185 T10281061 CWMJ 231200Z AUTO 19004KT M10/M10 RMK AO1 SOG 00 8011 SLP185 T10971095 EDVK 231250Z 20020G30KT 9999 SCT042 13/06 Q1004 CXDK 231200Z AUTO M19/M23 RMK AO1 SLP964 T11851227 56029 KBIL 231253Z 25015KT 10SM CLR 11/03 A2994 RMK AO2 SLP132 T01110033 KBJC 231246Z 21008KT 20SM SCT120 12/M01 A3022 KE11 231255Z AUTO 00000KT 10SM CLR 02/M02 A3022 RMK AO2 T00191025 CXEC 231200Z AUTO 03002KT M05/M07 RMK AO1 SOG 11 6037 SLP951 T10501068 CWNC 231200Z AUTO 06004KT M02/M08 RMK AO1 SLP192 T10151075 58014 KAQV 231256Z AUTO 00000KT 9SM CLR M01/M02 A3018 RMK AO2 SLP222 T10111022 $ KASD 231253Z AUTO 33005KT 10SM CLR 02/M01 A3011 RMK AO2 SLP197 T00221006 KCAD 231254Z AUTO 22007KT 10SM OVC030 M02/M02 A2995 RMK AO2 T10201030 KARM 231255Z AUTO 36004KT 10SM CLR 03/01 A3021 RMK AO2 T00280005 CWND 232017Z M01/M01 RMK 8005 T10121013 CWMM 231200Z AUTO 23004KT 13/08 RMK AO1 SLP081 T01320077 50002 KAQW 231252Z AUTO 26007KT 10SM OVC028 M03/M08 A3008 RMK AO2 SLP195 T10331083 KASE 231253Z AUTO 22009KT 10SM CLR M01/M03 A3044 RMK AO2 SLP271 T10061028 KCAE 231256Z 02004KT 10SM BKN130 BKN180 08/M01 A3012 RMK AO2 SLP200 T00781006 CWNE 231200Z AUTO 29041G49KT M03/M04 RMK AO1 7PAST HR PRESRR 3045 PK WND 30051/1125 SLP951 P0003 T10251039 50202 KAQX 231255Z AUTO VRB04KT 10SM OVC110 09/02 A3007 RMK AO2 TSNO KASG 231248Z 00000KT 10SM SKC M01/M04 A3017 KCAG 231253Z AUTO 00000KT 1 1/2SM BR FEW002 M03/M05 A3039 RMK AO2 VIS 3/4V3 SLP302 T10331050 CXEG 231200Z AUTO 04/01 RMK AO1 T00370013 CXDP 231200Z AUTO 02001KT M12/M13 RMK AO1 T11171126 KASH 231256Z 32011KT 10SM CLR M01/M07 A3003 RMK AO2 SLP179 T10111072 CWLY 231200Z AUTO 21006G19KT 150V250 9SM -RA BKN060 OVC077 12/10 A2959 RMK PCPN 1.0MM PAST HR SLP024 DENSITY ALT 900FT KE16 231255Z AUTO 02003KT 9SM CLR 13/12 A3013 RMK AO2 PWINO PNO VEAT 231230Z 00000KT 3000 BR NSC 22/20 Q1009 NOSIG UMKK 231230Z 17007MPS 140V200 CAVOK 08/06 Q1009 R24/29//55 NOSIG RMK QFE755/1007 CWNH 231200Z AUTO 32005KT M07/M11 RMK AO1 SOG 00 2004 SLP133 T10721109 CWMQ 231200Z AUTO 19015KT 12/04 RMK AO1 PK WND 19020/1149 SLP049 T01240042 58019 ZSHC 231230Z 00000MPS CAVOK 08/01 Q1027 NOSIG KARR 231252Z 18007KT 10SM CLR M01/M06 A3002 RMK AO2 SLP175 T10061056 KBJI 231252Z AUTO 00000KT 10SM OVC110 M08/M10 A2987 RMK AO2 T10851097 PFWS 231256Z AUTO 22009KT 10SM FEW010 SCT039 BKN110 00/M01 A2913 RMK AO2 UPB09E11RAB11E20 SLP870 P0000 T00001006 FZRANO KBIS 231252Z 00000KT 10SM CLR M03/M06 A2983 RMK AO2 SLP120 T10331056 $ KASJ 231245Z AUTO 00000KT 10SM CLR 00/M03 A3019 RMK AO2 T00011027 KBJJ 231256Z AUTO 22005KT 9SM FEW110 M03/M06 A3014 RMK AO2 SLP220 T10331056 VECC 231230Z 00000KT 3200 HZ NSC 23/11 Q1009 BECMG 3000 HZ KCAK 231251Z 22003KT 10SM BKN120 BKN250 M03/M07 A3013 RMK AO2 SLP218 T10281067 KBKB 231254Z AUTO 00000KT 10SM CLR M01/M01 A3017 RMK AO2 SLP247 T10061011 KART 231256Z AUTO 00000KT 10SM CLR M04/M06 A3012 RMK AO2 SLP205 T10441061 CWNK 231200Z AUTO 31003KT M04/M07 RMK AO1 T10431071 CWMT 231200Z AUTO 11007KT M21/M23 RMK AO1 SLP019 T12061227 56038 VEBN 231230Z 28005KT 2000 HZ NSC 20/13 Q1011 BECMG 1500 HZ CWOB 231200Z AUTO 27011KT ////SM //// NCD M08/M09 A2957 KASL 231255Z AUTO 00000KT 7SM CLR M01/M02 A3023 RMK AO1 T10101019 CWNL 231200Z AUTO 26020KT 02/M02 RMK AO1 PK WND 25024/1104 SLP146 T00161023 56015 CWOC 231200Z AUTO 30016G27KT 01/M02 RMK AO1 3014 PK WND 30027/1151 SLP995 T00071017 50030 KBIV 231253Z AUTO 17006KT 10SM BKN041 BKN048 OVC060 01/M05 A3005 RMK AO2 SLP183 T00061050 KARV 231255Z AUTO 21003KT 10SM CLR M04/M06 A2988 RMK AO2 T10411058 KBKD 231255Z AUTO 18005KT 10SM CLR 03/M04 A3017 RMK AO2 T00311043 CWOD 231200Z AUTO 25007KT M11/M14 RMK AO1 SOG 03 8015 SLP127 T11141139 CWNM 231200Z AUTO 21006KT 07/06 RMK AO1 0PAST HR SOG 00 6034 SLP072 P0004 T00720062 50009 ZSFZ 231200Z 04008MPS 8000 FEW036 15/06 Q1025 NOSIG KBKE 231253Z AUTO 08008KT 10SM BKN080 OVC100 13/07 A3003 RMK AO2 SLP163 T01280072 KCBE 231246Z AUTO 00000KT 10SM CLR M02/M05 A3022 RMK AO1 KARW 231255Z AUTO 04012G15KT 10SM -RA SCT042 SCT050 BKN100 10/05 A3006 RMK AO2 KASN 231255Z AUTO 00000KT 10SM CLR M02/M03 A3010 RMK AO2 T10171028 CXDW 231200Z AUTO 08010KT M04/M06 RMK AO1 SOG 02 8010 SLP127 T10401059 KCBF 231255Z AUTO 00000KT 10SM CLR M00/M03 A2999 RMK AO2 KCAO 231255Z AUTO 33008KT 10SM CLR 10/M01 A3025 RMK AO2 SLP218 T01001006 KBIX 231256Z AUTO 01009KT 10SM CLR 04/00 A3007 RMK AO2 SLP186 T00411005 CHINO RWY21 $ KBKF 231258Z 20008KT 10SM FEW110 SCT220 06/00 A3023 RMK AO2A SLP204 T00590000 KCBG 231255Z AUTO 00000KT 10SM CLR M07/M09 A2994 RMK AO2 CWNP 231200Z AUTO 09002KT 07/06 RMK AO1 9PAST HR 7013 SLP057 P0004 T00720055 50020 VEBS 231230Z 11004KT 3000 HZ NSC 23/17 Q1010 NOSIG CWMZ 231200Z AUTO 24020KT 02/M03 RMK AO1 PK WND 24027/1125 SLP159 T00171031 56016 CWNQ 231200Z AUTO 27006KT M05/M11 RMK AO1 7PAST HR 3005 SLP188 P0007 T10451109 50037 KCAR 231254Z AUTO 31010G20KT 6SM -SN OVC025 M06/M09 A2983 RMK AO2 SNB1157 SLP113 P0000 T10561094 KCCA 231255Z AUTO 00000KT 10SM CLR M04/M05 A3021 RMK AO2 KAST 231255Z AUTO 22011KT 9SM -RA OVC005 13/13 A2988 RMK AO2 SLP118 P0003 T01280128 KCBK 231255Z AUTO 28007KT 10SM CLR 05/04 A3014 RMK AO2 CXET 231200Z AUTO 21005KT M02/M06 RMK AO1 SOG 05 8014 SLP183 T10181064 KBKL 231253Z 19008KT 10SM BKN095 BKN110 M01/M07 A3014 RMK AO2 SLP213 T10061072 KATL 231252Z 08008KT 10SM FEW042 SCT200 SCT250 06/01 A3006 RMK AO2 SLP184 T00560006 EFET 231250Z AUTO 06007KT 360V130 //// BKN097 M14/M16 Q1012 CWPC 231200Z AUTO 34005KT 00/M08 RMK AO1 SLP202 T00001076 56019 KCAV 231255Z AUTO 29004KT 10SM CLR M05/M07 A2995 RMK AO2 PWINO KCBM 231256Z AUTO 32006KT 10SM CLR M02/M04 A3015 RMK AO2 SLP214 T10211037 TSNO $ NZFX 221725Z 35010KT 9999 FEW040 SCT080 SCT130 BKN160 M11/M16 A2868 RMK CCSL GRID S SN DSNT GRID N FATA MORGANA GRID E-SE GRID16010KT SDG/HDG LAST CXFM 231200Z AUTO 20015KT 11/04 RMK AO1 PK WND 22027/1142 T01060043 CWPD 231200Z AUTO 02003KT M12/M14 RMK AO1 SLP135 T11241138 53001 UMMG 231230Z 15004G07MPS 2900 BR OVC008 02/01 Q1016 R17/190065 NOSIG VEDG 230630Z 31006KT 3500 HZ NSC 25/09 Q1012 NOSIG KBKN 231255Z AUTO 00000KT 10SM CLR 00/M04 A3014 RMK AO2 KASW 231255Z AUTO 22003KT 10SM BKN065 OVC075 M01/M04 A3010 RMK AO2 CWPE 231200Z AUTO 30013G22KT 00/M03 RMK AO1 26 SOG 02 3037 SLP082 T00001028 KBLF 231252Z AUTO 00000KT 10SM CLR M04/M06 A3009 RMK AO2 SLP213 I1000 T10441061 KASX 231253Z AUTO 24004KT 10SM CLR M07/M09 A2992 RMK AO2 SLP148 T10671089 KAUG 231253Z AUTO 25007KT 10SM CLR M02/M08 A2997 RMK AO2 PRESRR SLP152 T10221083 CWPF 231245Z AUTO 24013KT 13/10 RMK AO1 PK WND 23023/1203 T01260095 KATP 231255Z AUTO 34023KT 10SM BKN029 19/12 A3001 RMK A01 KBLH 231252Z AUTO 27004KT 10SM CLR 14/M01 A3007 RMK AO2 SLP177 T01441011 PHHI 231256Z AUTO 36006KT 10SM CLR 20/15 A3012 RMK AO2 SLP191 T02020154 FZRANO $ KAUH 231255Z AUTO 28007KT 10SM CLR 03/01 A3004 RMK AO2 T00320006 NZGS 231230Z 32001KT 1400 BCFG NCD 10/10 Q1028 RMK AUTO VATSIM USE ONLY CXGH 231200Z AUTO 01008KT M08/M11 RMK AO1 T10811109 CWNZ 231200Z AUTO 27010G17KT M06/M08 RMK AO1 SOG 15 8007 PK WND 25018/1140 SLP080 T10571075 KBLI 231253Z AUTO 18006KT 10SM -RA FEW050 OVC065 12/11 A2979 RMK AO2 RAB19 SLP094 P0002 T01170106 OPPS 231300Z 09004KT 5000 HZ FEW100 SCT200 20/05 Q1013 NZHK 231230Z 18003KT 20KM SCT009 OVC014 15/13 Q1028 RMK AUTO VATSIM USE ONLY CXFR 231200Z AUTO 14006KT M03/M03 RMK AO1 T10261033 ULWC 231230Z 33002G07MPS 9999 OVC009 M07/M09 Q1020 R03/620150 NOSIG RMK QFE755/1007 KATS 231255Z AUTO 32006KT 10SM CLR 02/M04 A3024 RMK AO2 KBKS 230715Z AUTO 00000KT 10SM CLR 09/05 A3022 RMK AO1 T00930049 KCDA 231255Z AUTO 25006KT 10SM CLR M08/M11 A3005 RMK AO2 T10781113 KE38 231255Z AUTO 20004KT 10SM CLR 04/M06 A3030 RMK AO2 T00381060 KBKT 231255Z AUTO 01005KT 10SM CLR 00/M03 A3018 RMK AO1 T10021029 UMMM 231200Z 14003MPS CAVOK 01/M02 Q1019 RMK QFE744 CXHA 231200Z AUTO 23006KT M00/M04 RMK AO1 SLP203 T10011036 56019 EFHA 231250Z 13014KT 2600 -SN OVC007 M02/M03 Q1006 KATT 231251Z AUTO 00000KT 10SM CLR 04/00 A3022 RMK AO2 SLP238 T00390000 PFYU 231256Z AUTO 00000KT 9SM -SN CLR M27/M29 A2944 RMK AO2 SLP994 P0000 T12671289 FZRANO CWPK 231200Z AUTO 21002KT M13/M15 RMK AO1 SOG 12 6014 SLP160 T11311147 UNEE 231230Z 18003MPS CAVOK M07/M10 Q1028 R23/891032 NOSIG RMK QFE748 KCDC 231253Z AUTO 12003KT 10SM CLR 01/M02 A3034 RMK AO2 SLP258 T00061022 KAVC 231255Z AUTO 01003KT 10SM CLR 00/M03 A3024 RMK AO2 T00001029 KBMC 231235Z AUTO 00000KT 10SM CLR 03/01 A3029 RMK AO1 T00260010 NZHN 231230Z 17003KT 49KM OVC065 16/13 Q1027 RMK AUTO VATSIM USE ONLY KBKV 231253Z 00000KT 8SM -RA SCT009 BKN090 OVC110 20/19 A2990 RMK AO2 SLP122 P0003 T02000189 KCDD 231249Z AUTO 00000KT 10SM OVC055 M09/M10 A2988 RMK AO2 KBLM 231256Z AUTO 28007KT 10SM CLR M01/M06 A3014 RMK AO2 SLP212 T10111061 FZRANO KAUM 231255Z AUTO 00000KT 10SM CLR M06/M08 A2993 RMK AO2 CXHD 231100Z AUTO 16006KT M04/M06 RMK AO1 T10431055 KBKW 231251Z AUTO 15004KT 10SM CLR M06/M07 A3009 RMK AO2 SLP223 I1000 T10561072 TSNO KATW 231245Z 21005KT 10SM BKN050 M02/M07 A2994 KAUN 231255Z AUTO 00000KT 10SM CLR 16/09 A3014 RMK AO1 EDXW 231250Z 22025G36KT 8000 BKN014 11/09 Q0992 KAUO 231256Z AUTO 03007KT 10SM CLR 03/M01 A3005 RMK AO2 SLP201 T00331006 KBKX 231256Z AUTO 00000KT 10SM CLR M04/M06 A2996 RMK AO2 SLP181 T10441061 FZRANO KCCO 231255Z AUTO 07005KT 10SM CLR 06/01 A3005 RMK AO2 T00600005 DNPO 231100Z 35005KT 9999 BKN011 FEW020CB 30/25 Q1011 NOSIG CXHF 231200Z AUTO M10/M11 RMK AO1 T10981106 CWPO 231200Z AUTO 18004KT M04/M06 RMK AO1 SOG 04 8017 SLP128 T10431055 KBMG 231253Z 00000KT 10SM OVC110 M02/M04 A3014 RMK AO2 SLP217 T10171044 KATY 231253Z AUTO 00000KT 10SM CLR M06/M08 A2995 RMK AO2 SLP165 T10611078 CWOY 231200Z AUTO 12007KT M05/M06 RMK AO1 SOG 03 6035 SLP070 T10451055 UMMS 231230Z 16003MPS 130V190 CAVOK 01/M02 Q1019 R13/CLRD// NOSIG KCDH 231255Z AUTO 00000KT 9SM CLR M03/M05 A3022 RMK AO2 NZHS 231230Z 27003KT 15KM BKN012 11/10 Q1027 RMK AUTO NZNR VATSIM USE ONLY CWQH 231200Z AUTO 30006KT M06/M10 RMK AO1 T10641095 KCCR 231253Z AUTO 16005KT 10SM CLR 13/12 A3012 RMK AO2 SLP187 T01330122 KCDI 231253Z AUTO 00000KT 10SM CLR M07/M07 A3018 RMK AO2 T10691075 KBMI 231256Z 19011KT 10SM BKN085 M01/M05 A3006 RMK AO2 SLP207 T10061050 NZHT 231230Z 14006KT 110V170 41KM NCD 15/13 Q1025 RMK AUTO NZQN VATSIM USE ONLY CWPR 231200Z AUTO 25001KT 03/03 RMK AO1 3PAST HR SOG 03 0009 SLP084 P0001 T00330029 50118 KBNA 231253Z 17004KT 8SM BCFG FEW045 FEW200 M03/M05 A3017 RMK AO2 SLP219 BCFG E T10331050 KAUS 231253Z 00000KT 10SM FEW200 M01/M02 A3022 RMK AO2 SLP239 T10061017 $ KCDJ 231252Z AUTO 00000KT M01/M06 A3005 RMK AO1 SLP190 T10061056 CWPS 231200Z AUTO 13001KT 02/M04 RMK AO1 SLP191 T00161041 56022 CWRA 231200Z AUTO 15012G18KT 05/04 RMK AO1 PK WND 16019/1149 SLP114 T00500037 56040 KAVK 231255Z AUTO 28008KT 10SM CLR 04/M03 A3009 RMK AO2 CXIB 231200Z AUTO 21013G21KT 12/09 RMK AO1 5PAST HR 6093 PK WND 21031/1107 SLP820 P0002 T01210090 50338 CWQK 231200Z AUTO 28020KT 13/10 RMK AO1 PK WND 29027/1141 SLP086 T01270098 50000 KBML 231252Z AUTO 29007G15KT 10SM OVC021 M06/M10 A2998 RMK AO2 SLP171 T10611100 KBLU 231252Z AUTO 12004KT 10SM CLR 13/01 A3030 RMK AO2 SLP197 T01330011 TSNO EFHK 231250Z 14021KT 6000 -RASN FEW007 BKN009 01/M00 Q1009 BECMG 8000 KCCU 231252Z AUTO 10SM SCT007 00/M02 A3055 RMK AO2 KAVL 231254Z 00000KT 10SM CLR M02/M03 A3011 RMK AO2 SLP201 I1000 T10171028 KCEC 231256Z AUTO 16011KT 4SM -RA BR OVC009 14/14 A3009 RMK AO2 SLP191 P0006 T01440144 OPRN 231230Z 27004KT 4000 HZ SCT200 20/04 Q1014.4/29.95 EEPU 231250Z 15006KT 090V220 8000 BKN004 OVC005 01/00 Q1010 KBLV 231256Z AUTO 17003KT 10SM CLR M02/M06 A3014 RMK AO2 VIS 2 1/2 RWY14R SLP215 T10201057 $ KAUW 231254Z AUTO 00000KT 10SM CLR M05/M08 A2991 RMK AO2 SLP150 T10501078 PGRO 230950Z 10008KT 7SM SCT012 27/21 A2986 RMK LAST KCDN 231255Z AUTO 03007KT 10SM CLR 05/M02 A3013 RMK AO2 KCEF 231256Z AUTO 35007KT 10SM CLR M01/M08 A3005 RMK AO2 SLP184 T10101076 PHJH 230350Z 02015KT 15SM FEW030 SCT060 22/15 A3004 RMK LAST CWQO 231200Z AUTO 29017G22KT M04/M09 RMK AO1 PK WND 29023/1104 T10441094 CWRF 231200Z AUTO 06013KT M07/ A2936 RMK SLP979 CWPX 231243Z AUTO ///// ////SM //// FEW003 BKN020 OVC055 M17/M19 A2938 KCCY 231255Z AUTO 00000KT 10SM CLR M04/M08 A2994 RMK AO2 KAVP 231254Z 32008KT 10SM OVC027 M02/M08 A3011 RMK AO2 SLP204 T10171078 KAWG 231255Z AUTO 21008KT 10SM CLR M01/M06 A2999 RMK AO2 CWQP 231200Z AUTO 04004KT M04/M08 RMK AO1 2PAST HR SOG 02 8017 SLP201 P0001 T10441078 50002 KBMQ 231253Z AUTO 00000KT 10SM CLR 01/M03 A3022 RMK AO2 SLP234 T00111028 KAVQ 231255Z AUTO 32003KT 10SM CLR 14/M08 A3012 RMK AO2 T01351078 CWPZ 231200Z AUTO 03001KT M00/M00 RMK AO1 SOG 24 5000 SLP955 T10041003 CWRH 231200Z AUTO ///// M07/ A2965 RMK SLP076 KCDR 231253Z AUTO VRB03KT 10SM CLR 01/00 A3006 RMK AO2 SLP191 T00060000 CXHR 231200Z AUTO 19015KT 06/02 RMK AO1 PK WND 19019/1100 T00630017 CWQR 231200Z AUTO 34014KT 02/ RMK AO1 PK WND 36019/1104 T0019 KCDS 231253Z AUTO 33005KT 10SM CLR 03/M03 A3014 RMK AO2 SLP208 T00281033 KAXA 231255Z AUTO 32005KT 10SM CLR M02/M04 A2995 RMK AO2 PWINO OPSK 231200Z 00000KT 4000 HZ NSC 28/13 Q1011 NOSIG CWQS 231200Z AUTO 31015KT 07/03 RMK AO1 3023 PK WND 30022/1105 SLP981 T00740030 50018 CWRJ 231200Z AUTO 04004KT M12/M13 RMK AO1 SOG 04 7040 SLP031 T11191131 CWSA 231256Z AUTO 25033G40KT 4SM HZ OVC023 10/06 A2962 RMK TS/LTNG TEMPO UNAVBL SLP033 EGAA 231250Z 28013KT 9999 FEW022 SCT028 06/03 Q0993 KBMT 231255Z AUTO 00000KT 10SM 03/02 A3020 RMK AO2 T00270016 CYAB 231210Z 06016KT 040V110 15SM FEW017 SCT035 M00/M06 A2981 RMK SC1SC2 WSHFT 1156 SLP099 ORBD 231255Z 32008KT 9999 FEW070 SCT150 BKN200 17/M02 A3002 RMK WND DATA ALSTG ESTMD CWRK 231200Z AUTO 19003KT M07/M09 RMK AO1 SOG 01 8018 SLP183 T10701087 KBNL 231255Z AUTO 04007KT 10SM 09/02 A3009 RMK AO2 UMOO 231200Z 00000MPS 9999 OVC011 M02/M04 Q1020 R13/350133 NOSIG KAWM 231253Z AUTO 00000KT 6SM BR CLR M03/M04 A3020 RMK AO2 SLP228 I1000 T10331039 $ EGAC 231250Z 27011G21KT 9999 FEW020 FEW035TCU 07/04 Q0992 PGSN 231254Z 09009KT 10SM FEW028 BKN100 OVC120 27/24 A2988 RMK AO2 SLP139 T02720239 $ KCFD 231255Z AUTO 00000KT 10SM CLR 03/M02 A3023 RMK AO2 T00281016 CWRM 221700Z AUTO 15004KT M07/M08 RMK AO1 SOG 11 1011 SLP155 T10721079 CWSD 231200Z AUTO 30029G40KT 02/02 RMK AO1 3PAST HR PRESRR SOG 137 3088 PK WND 29040/1153 SLP977 P0001 T00170016 50161 CWQV 231200Z AUTO 27018G23KT M05/M09 RMK AO1 PK WND 27025/1109 T10501087 KCDW 231253Z 31003KT 10SM CLR M01/M07 A3013 RMK AO2 SLP209 T10111072 KCFE 231254Z AUTO 00000KT 10SM CLR M05/M08 A2995 RMK AO2 T10531082 EGAE 231250Z 27015KT 9999 -SHRA SCT010 BKN014 04/03 Q0994 CWRN 231200Z AUTO 25029G39KT 06/03 RMK AO1 PRESRR PK WND 23039/1154 SLP952 T00610031 53059 KBNO 231253Z AUTO 25003KT 10SM CLR 04/03 A3011 RMK AO2 SLP200 T00390033 TSNO KAVX 231251Z AUTO 22003KT 10SM CLR 28/02 A3008 RMK AO2 SLP150 T02830022 $ KAWO 231256Z AUTO 18008KT 10SM OVC014 13/12 A2982 RMK AO2 RAE04 SLP102 P0000 T01330122 CWRO 231200Z AUTO 26010KT 06/06 RMK AO1 1PAST HR 3016 SLP963 P0000 T00600056 50003 CWSF 231200Z AUTO 29022G34KT 00/M02 RMK AO1 SOG 00 5007 PK WND 30036/1147 SLP013 T00001021 50032 NZKI 231230Z 26001KT 17KM NCD 09/09 Q1027 RMK AUTO NZWB VATSIM USE ONLY CWSG 231200Z AUTO 26024KT M03/M04 RMK AO1 PK WND 25028/1135 SLP064 T10271039 53008 PHJR 231253Z AUTO 03007KT 10SM CLR 22/16 A3008 RMK AO2 SLP192 T02170156 TSNO KAXH 231255Z AUTO 00000KT 10SM CLR 04/02 A3021 RMK AO2 T00390021 ORBI 231230Z 31008KT 9999 FEW035 18/M03 Q1016 PGUA 231256Z 07012KT 10SM SCT023 26/22 A2989 RMK AO2A SLP112 T02630221 RVRNO $ CYAH 231233Z AUTO 16009G18KT 1 3/4SM -SN OVC029 M11/M13 A2960 RMK VIS VRB 1 1/4-2 1/2 SLP050 KBOI 231253Z 00000KT 5SM BR CLR 08/07 A3010 RMK AO2 SLP188 T00830072 NZKK 231230Z 31003KT 20KM BKN028 OVC046 12/11 Q1028 RMK AUTO VATSIM USE ONLY OPST 231300Z 00000KT 4000 FU FEW100 18/11 Q1014 NOSIG RH62 KCFJ 231255Z AUTO 10SM BKN090 BKN120 M02/M04 RMK AO2 T10181040 CXKA 231200Z AUTO 24008KT M03/M04 RMK AO1 SOG 10 6012 SLP071 T10301044 50004 KBOK 231256Z AUTO 15007G16KT 130V190 1/4SM -RA FG OVC003 14/14 A3010 RMK AO2 SLP207 P0017 T01440139 CYBB 230000Z 09007KT 040V120 15SM BKN025 M06/M08 A2948 RMK SC6 -1.2/-6.9/0.8/LAST STFD OBS/NXT 231300 SLP986 CWSK 231200Z AUTO 15008KT 12/09 RMK AO1 1PAST HR 3006 PK WND 15018/1108 SLP061 P0000 T01200093 50027 CWRT 231200Z AUTO 14004G16KT 08/07 RMK AO1 6PAST HR M P0002 T00810072 50024 EGBB 231250Z 24016G26KT 210V270 9999 SCT035 10/03 Q0996 KCEU 231254Z AUTO 01003KT 10SM CLR 02/01 A3013 RMK AO2 SLP205 T00220006 KCGC 231255Z AUTO 00000KT 10SM -RA BKN009 BKN012 OVC024 18/18 A2991 RMK AO2 P0005 KBPC 231255Z AUTO 23003KT 10SM CLR 05/M01 A3016 RMK AO2 CWRU 231200Z AUTO 16019G24KT 10/08 RMK AO1 PK WND 18028/1104 SLP033 T00970081 51008 CWSL 231200Z AUTO 14002KT 07/07 RMK AO1 8016 SLP047 T00690068 50006 CYBC 231246Z AUTO 29011G18KT 9SM SCT023 M07/M11 A2980 RMK SLP095 CYBD 230100Z 05003KT 3SM RA BR FEW005 FEW014 BKN030 OVC047 03/03 A2948 RMK SF1SC2SC4SC2 SF TR VIS W 1 IN LO CLD LAST STFD OBS/NEXT 231500UTC/ PRESFR SLP987 VDPP 231230Z 06010KT 9000 SCT015 FEW017CB 29/23 Q1008 CB CYAM 231200Z CCA 26010G16KT 10SM -SHSN FEW017 OVC036 M02/M06 A2991 RMK CF1SC8 CF TR CVCTV CLD EMBD SLP140 KAXN 231253Z AUTO 23003KT 10SM CLR M07/M09 A2992 RMK AO2 SLP155 T10721089 KCGE 231245Z AUTO 33005KT 10SM CLR 01/M05 A3019 RMK A01 EFIV 231250Z AUTO VRB01KT CAVOK M22/M24 Q1020 KCEW 231253Z AUTO 35005KT 10SM BKN044 08/03 A3003 RMK AO2 SLP168 T00830028 PHKO 231253Z AUTO 10005KT 10SM CLR 22/13 A3001 RMK AO2 SLP162 T02220133 TSNO KBNW 231255Z AUTO 28009KT 10SM CLR M00/M05 A2994 RMK AO2 KCGF 231245Z 00000KT 10SM BKN100 M00/M06 A3014 CXKE 231200Z AUTO 16001KT M08/M10 RMK AO1 SOG 01 8006 SLP202 T10761095 EFKE 231250Z 11014KT 070V150 2800 -SN OVC033 M06/M09 Q1011 CWRX 231200Z AUTO 12018G24KT ////SM //// ////// M03/M04 A2962 EFJO 231250Z AUTO 11012KT 9999 OVC011 M07/M08 Q1017 KBPG 231255Z AUTO 00000KT 10SM CLR 00/M04 A3023 RMK AO2 T00011039 KCEY 231035Z AUTO 00000KT 10SM CLR M02/M04 A3019 RMK AO1 CWRY 231200Z AUTO 25031G43KT 13/06 RMK AO1 PRESFR SOG 00 8049 PK WND 25044/1142 SLP017 T01250061 CWSP 231200Z AUTO 29012KT 12/11 RMK AO1 0PAST HR 8005 SLP095 P0004 T01170108 50010 CWTG 231200Z AUTO 29007KT M06/M08 RMK AO1 SLP069 T10561077 53004 CYBG 231200Z 28006KT 15SM SCT018 OVC040 M07/M10 A2994 RMK SC3SC5 SLP149 ZSNB 231200Z VRB01MPS 8000 NSC 07/02 Q1027 NOSIG KCEZ 231253Z AUTO 07005KT 10SM CLR M03/M05 A3037 RMK AO2 SLP270 T10331050 PHLI 231253Z AUTO 03019KT 10SM FEW033 SCT045 21/16 A3012 RMK AO2 PK WND 03026/1239 SLP196 T02110161 TSNO VEGT 231230Z 00000KT 2500 BR FEW018 SCT100 23/21 Q1009 NOSIG CWRZ 231200Z AUTO 34016G36KT 03/M00 RMK AO1 6020 PK WND 33036/1153 SLP934 T00261001 50080 KBPI 231253Z AUTO 08004KT 10SM FEW002 M06/M06 A3034 RMK AO2 SLP285 T10561061 KCGI 231253Z 00000KT 7SM CLR M06/M07 A3019 RMK AO2 SLP225 I1000 T10561067 CXKI 231200Z AUTO M05/M06 RMK AO1 SOG 13 6016 SLP113 T10451062 CWSR 231200Z AUTO 12014KT M08/M09 RMK AO1 PRESFR SOG 12 8040 PK WND 13018/1158 SLP020 T10811093 EFKI 231250Z 12015KT 090V170 9999 BKN010 BKN080 M06/M09 Q1014 KCHA 231253Z 17003KT 10SM CLR M01/M02 A3014 RMK AO2 SLP209 T10061022 KBOS 231254Z 32011KT 10SM FEW250 01/M07 A3003 RMK AO2 SLP170 T00061072 KCFS 231255Z AUTO 20008KT 10SM OVC042 00/M05 A3005 RMK AO2 T10031050 KAXS 231255Z AUTO 00000KT 3SM HZ CLR 03/M06 A3016 RMK AO2 T00251058 NZMC 231230Z 09002KT 1800 BR OVC005 13/13 Q1026 RMK AUTO NZTU VATSIM USE ONLY CYAS 222200Z 22006KT 15SM BKN019 M12/M14 A2964 RMK SC5 LAST STFD OBS/NEXT 231300UTC SN COV/ONE LOOSE SLP051 EGBJ 231250Z 26012KT 9999 VCSH FEW032 11/05 Q0998 CWSS 231200Z AUTO 30010G16KT M00/M03 RMK AO1 SOG 00 1027 PK WND 30017/1116 SLP092 T10021027 KBPK 231253Z AUTO 21003KT 10SM CLR M03/M06 A3013 RMK AO2 SLP209 T10281061 KE80 231255Z AUTO 31005KT 10SM CLR 00/M04 A3034 RMK AO2 T00001040 CXLB 231200Z AUTO 27019G28KT 05/04 RMK AO1 PK WND 27034/1147 SLP037 T00490040 51062 CWST 231200Z AUTO 28005KT M05/M10 RMK AO1 SLP133 T10491103 50006 CYCB 231252Z 28008KT 1 1/2SM -SN SCT007 OVC020 M14/M15 A2949 RMK SC4SC4 VIS VRB 1 * 2 SLP993 CYBK 231242Z 32026G32KT 3/4SM -SN BLSN OVC026 M17/M19 A2942 RMK BLSN3SC5 SLP966 CYAT 231200Z AUTO /////KT 9SM OVC080 M11/M14 A2962 RMK WND MISG SLP033 EFKK 231250Z 11016KT 070V150 0800 SN DRSN VV004 M03/M04 Q1002 PGUM 231254Z 08008KT 10SM CLR 28/23 A2988 RMK AO2 SLP111 T02780228 KAZC 231255Z AUTO 00000KT 10SM CLR 01/M02 A3037 RMK AO2 KCHD 231247Z 00000KT 10SM CLR 12/02 A3009 CYBL 230500Z 15002KT 15SM -RA FEW005 BKN080 OVC140 11/11 A2964 RMK SF1AC4AC3 LAST OBS/NEXT 231400 UTC SLP040 DENSITY ALT 400FT KCFV 231252Z AUTO 11004KT 10SM CLR M01/M04 A3014 RMK AO2 SLP212 T10111039 EGCC 231250Z AUTO 23020G33KT 9999 -RA BKN028/// OVC034/// //////TCU 09/04 Q0992 TEMPO SHRA KAXV 231253Z AUTO 19008KT 7SM SCT110 00/M02 A3013 RMK AO2 NZMF 231230Z 14006KT 110V170 41KM NCD 15/13 Q1025 RMK AUTO NZQN VATSIM USE ONLY CXKM 231200Z AUTO 21012KT 05/01 RMK AO1 PK WND 23019/1118 T00510007 CYCD 230500Z 00000KT 8SM -SHRA VCFG FEW010 FEW020 BKN045TCU OVC070 12/12 A2972 RMK SF1SC1TCU3AC3 LAST OBS/NEXT 231400 UTC SLP066 VEGY 231200Z 27003KT 3000 HZ NSC 21/11 Q1011 KBOW 231215Z AUTO 10004KT 9SM SCT041 BKN048 BKN055 19/ A2990 RMK AO2 KAZE 231255Z AUTO 08006KT 10SM SCT120 12/07 A3001 RMK AO2 T01200069 CWSW 230000Z VRB05G17KT 15SM VCSH FEW010 SCT030 OVC050 08/07 A3007 RMK SF1SC3SC4 LAST STFD OBS/NEXT 231400Z SLP202 DENSITY ALT 3800FT CYAW 231200Z 29023G31KT 15SM BKN018 05/03 A2960 RMK SC7 DA-596FT SLP024 CWTN 231200Z AUTO 32005KT M07/M12 RMK AO1 SLP150 T10661117 51010 CYBN 231200Z AUTO 18005KT 9SM OVC032 M02/M06 A3005 RMK SLP186 EETN 231250Z 16014G25KT 130V200 9999 OVC007 00/M01 Q1009 R08/810295 NOSIG KAXX 231255Z AUTO 00000KT 10SM CLR M05/M06 A3043 RMK AO2 T10541061 ZSNJ 231200Z 26002MPS 8000 NSC 07/M01 Q1027 NOSIG CYCG 230100Z VRB02KT 1 1/2SM BR SCT001 BKN009 OVC013 05/05 A3005 RMK SF3SF3SC2 LAST OBS/NEXT 231400 UTC SLP192 TVSA 231200Z 09005KT 9999 SCT021 28/23 Q1013 NOSIG EFJY 231250Z 13020KT 1500 SN DRSN BKN009 BKN012 M04/M05 Q1008 CYAY 231219Z AUTO 12023G31KT 9SM -RA FEW075 OVC093 02/M00 A2961 RMK SLP032 CYAZ 230100Z 17010G17KT 1SM -RA BR OVC003 12/12 A2972 RMK FG2ST6 VRY LGT RA INTMT LAST STFD OBS/NEXT 231500UTC SLP067 CYBQ 231200Z AUTO 29006KT 9SM CLR M24/M27 A2971 RMK SLP097 CYBR 231222Z 10005KT 15SM OVC005 M07/M09 A2981 RMK ST8 SLP129 KCGS 231246Z AUTO 00000KT 10SM CLR M03/M05 A3020 RMK AO1 T10331050 PHMK 231254Z AUTO 03010G20KT 10SM FEW029 BKN070 22/17 A3008 RMK AO2 SLP188 T02170167 TSNO KAYS 231255Z AUTO 07005KT 10SM RA SCT065 SCT095 OVC120 14/12 A3000 RMK AO2 T01380122 CYDA 230000Z 00000KT 4SM -SN OVC028 M31/M34 A2980 RMK SC8 VIS 1 1/2 W CLIMAT -30.6/-36.0/TR CM/TR MWE LAST STFD OBS/NXT 231500Z SLP150 VEIM 230900Z 18004KT 5000 HZ FEW018 SCT100 26/17 Q1010 NOSIG KBPT 231253Z 01005KT 10SM CLR 04/02 A3019 RMK AO2 SLP222 T00390017 EFKS 231250Z 09008KT 060V130 9000 -SN BKN009 OVC017 M11/M12 Q1018 EFMA 231250Z AUTO 17017KT 9999 BKN008 08/06 Q0998 KBQK 231255Z AUTO 03007KT 10SM RA OVC100 14/11 A3001 RMK AO2 KF00 231255Z AUTO 00000KT 10SM CLR M02/M04 A3020 RMK AO2 T10201038 KCHK 231235Z AUTO 11003KT 10SM CLR 00/M04 A3012 RMK AO2 T10051044 CXKT 231200Z AUTO 27011G18KT 03/01 RMK AO1 1057 PK WND 29027/1125 SLP034 T00290012 50096 CWTT 231200Z AUTO 30005KT M07/M09 RMK AO1 T10671086 CYDB 231200Z AUTO VRB02KT 9SM OVC210 M30/M33 A2926 RMK SLP002 ZSOF 231200Z 26002MPS 190V290 CAVOK 09/M06 Q1027 NOSIG EGCK 231250Z 28022KT 9999 BKN024 09/04 Q0996 EFKT 231250Z AUTO 10010KT 9999 -SN OVC102 M13/M14 Q1015 CYCK 231241Z AUTO 23007KT 9SM SCT070 SCT190 BKN210 M01/M04 A3010 RMK SLP204 KCIC 231235Z AUTO 00000KT 10SM FEW120 14/14 A3013 RMK AO1 CYBU 221900Z AUTO 17005KT 9SM CLR M12/M16 A2991 RMK SLP168 CYDC 230100Z VRB02KT 5SM -RA BR OVC006 03/03 A2989 RMK ST8 VIS S-SW 21/2SM LAST STFD OB NEXT 231500UTC SLP142 CXLL 231200Z AUTO 04001KT M21/M23 RMK AO1 2PAST HR SOG 20 8028 SLP978 P0001 T12091231 50007 CWTU 231200Z AUTO ///// A2957 KBRD 231253Z AUTO 00000KT 8SM CLR M13/M14 A2990 RMK AO2 SLP151 T11281144 EETU 231250Z 13012KT 9999 OVC024 M00/M03 Q1014 KCID 231252Z 19006KT 10SM CLR M03/M07 A2995 RMK AO2 SLP154 T10331072 EFKU 231250Z 13012KT 9999 OVC015 M05/M09 Q1015 CYBV 222200Z 28009KT 15SM FEW015 FEW220 M10/M14 A2989 RMK SC1CS1 SNW CVR/MUCH LOOSE/LAST STFD OBS/NEXT 231300UTC SLP142 CXMD 231200Z AUTO 28005KT M04/M06 RMK AO1 SOG 01 8009 SLP129 T10381062 CWVD 231200Z AUTO ///// M04/ A2967 RMK SLP093 CYBW 231200Z AUTO 21017G22KT 9SM CLR 09/03 A2945 RMK SLP988 DENSITY ALT 4600FT KAZO 231253Z 21008KT 10SM FEW042 OVC060 M01/M08 A3008 RMK AO2 SLP195 T10061078 EGCN 231250Z 22023G33KT 9999 -SHRA SCT031 10/04 Q0993 KCHO 231253Z 00000KT 10SM CLR M02/M05 A3018 RMK AO2 SLP223 T10221050 PHNG 231257Z 04013G21KT 10SM SCT040 24/16 A3006 RMK AO2 SLP174 T02390161 $ CYDF 231200Z 05008G15KT 040V100 12SM -RA BKN017 BKN027 OVC053 07/06 A2948 RMK SC5SC1SC2 PRESFR SLP987 CYBX 231200Z 09020KT 10SM -RA OVC060 01/00 A2959 RMK SC8 PRESFR SLP025 CYCO 231200Z 22012KT 15SM FEW009 M25/M29 A2968 RMK ST1 ST TR SLP055 CWVF 230715Z AUTO 20016KT 15/ RMK AO1 PK WND 21019/0700 T0146 KBQP 231255Z AUTO 00000KT 10SM CLR M02/M02 A3021 RMK AO2 T10171020 KF05 231255Z AUTO 00000KT 10SM CLR 02/M07 A3015 RMK AO1 T00191073 CYCP 230000Z VRB02KT 4SM BR SCT003 BKN028 BKN050 BKN075 00/00 A2985 RMK FG2ST2SC1SC1AC1 VIS SE-SW 11/2 LAST OBS/NEXT 231400Z SLP138 CXMG 231200Z AUTO 28004KT M09/M10 RMK AO1 T10911100 CWTY 231200Z AUTO 24005KT M06/M10 RMK AO1 SLP185 T10601104 53003 CWUP 231200Z AUTO ///// M03/ A2965 RMK SLP072 EFLP 231250Z AUTO 12009KT 050V150 9999 OVC011 M04/M06 Q1015 CYCQ 230000Z 00000KT 35SM FEW009 FEW018 OVC040 M08/M09 A2953 RMK ST1SC1SC8 ST TR SC TR LAST STFD OBS/NEXT 231400Z SLP045 CWVH 231200Z AUTO 15011KT M16/ A2936 RMK SLP975 CWVI 231200Z AUTO 14004KT M04/M06 RMK AO1 SLP964 T10421062 56042 CXMI 231200Z AUTO 30017G28KT 05/03 RMK AO1 PK WND 30030/1133 T00530030 ZSPD 231230Z 24002MPS 210V290 CAVOK 09/M01 Q1027 NOSIG KDAA 231256Z AUTO 00000KT 10SM CLR M03/M05 A3021 RMK AO2 SLP234 T10281048 $ KCHS 231256Z 04008KT 10SM -RA FEW070 BKN100 OVC200 08/05 A3008 RMK AO2 RAB16 SLP183 P0000 T00830050 EFMI 231250Z AUTO 11015KT 070V140 0700 SN OVC008 M04/M05 Q1013 CYCS 222300Z 29030G38KT 1/4SM +BLSN VV007 M18/M20 A2920 RMK BLSN8 -14.7/-17.8/NIL/48 MUCH LOOSE L;AST STFD OBS NXT 231300Z SLP891 CWWA 231200Z AUTO 33002KT 10/08 RMK AO1 SLP081 T00990079 50004 CWUS 231200Z AUTO 33002KT 08/07 RMK AO1 6PAST HR 1006 SLP079 P0002 T00840073 50016 KDAB 231253Z 00000KT 2 1/2SM +RA BR BKN048 BKN070 OVC085 21/19 A2991 RMK AO2 SLP126 P0011 T02060194 PHNL 231253Z 03012KT 10SM FEW013 FEW025 24/14 A3006 RMK AO2 SLP180 T02390144 CWWB 231200Z AUTO 01/M07 RMK AO1 SLP198 T00051066 56017 KBRL 231253Z AUTO 20010KT 10SM CLR M01/M06 A2999 RMK AO2 SLP163 T10111061 EGEC 231250Z 31018KT 9999 FEW021 07/03 Q0990 CYDL 231242Z AUTO 00000KT 9SM OVC010 M13/M14 A2921 RMK SLP937 CXMM 231200Z AUTO 12013G19KT M09/M11 RMK AO1 PRESFR SOG 12 8065 PK WND 12021/1118 SLP961 T10861109 CYED 231200Z AUTO 36003KT 6SM CLR M07/M10 A2929 RMK SLP956 EGDM 231250Z 24018KT 9999 SCT038 10/02 Q1001 BLU NOSIG KCIN 231255Z AUTO 29008KT 10SM CLR 00/M04 A2998 RMK AO2 NZNP 231230Z 21003KT 16KM BKN009 OVC055 15/14 Q1027 RMK AUTO VATSIM USE ONLY CWWE 231200Z AUTO 29014G24KT 04/02 RMK AO1 PK WND 29027/1100 SLP063 T00420018 53049 CWVN 231200Z AUTO 21009KT 06/03 RMK AO1 SOG 00 6022 SLP076 T00630031 CWUW 231200Z AUTO 08028G36KT ////SM //// SCT005 BKN043 OVC070 M04/M05 A2959 KBRO 231253Z 32007KT 10SM CLR 10/07 A3020 RMK AO2 SLP226 T01000072 CYDN 231225Z AUTO 09008KT 9SM BKN018 M08/M10 A2984 RMK SLP128 PHOG 231254Z AUTO 07007KT 5SM -RA BR FEW027 BKN032 OVC044 21/18 A3007 RMK AO2 RAB33 SLP187 P0000 T02060183 TSNO KBQX 231255Z AUTO 03015KT 9SM CLR 15/08 A3017 RMK A01 NZOH 231230Z 07002KT 47KM NCD 11/09 Q1027 RMK AUTO NZPM VATSIM USE ONLY CXMO 231200Z AUTO 19011KT 05/M00 RMK AO1 T00451003 VDSR 231230Z 01002KT 9000 SCT015 FEW017CB SCT040 28/24 Q1009 CB CWWF 231200Z AUTO 18006KT M05/M06 RMK AO1 SLP076 T10511061 56030 CWUX 231200Z AUTO 24004KT M08/M10 RMK AO1 SLP142 T10761101 55007 CYCX 231200Z 30012G18KT 15SM FEW019 M02/M07 A2976 RMK SC2 DA-1701FT SLP081 KDAG 231250Z AUTO 27007KT 10SM CLR 10/01 A3017 RMK AO2 SLP203 T01000006 NZNR 231230Z 27003KT 15KM BKN012 11/10 Q1027 RMK AUTO VATSIM USE ONLY CYDP 231200Z 29011KT 15SM BKN100 OVC210 M05/M08 A2976 RMK AS7CS1 SLP081 ORER 231300Z 26004KT 9999 FEW020 BKN180 12/M02 Q1018 NOSIG VEJS 231200Z 00000KT 3000 HZ NSC 20/14 Q1010 CWVP 231200Z AUTO 23014G20KT 09/03 RMK AO1 PK WND 24020/1151 SLP051 T00860030 58013 CYEG 231200Z 17011KT 15SM BKN240 04/00 A2927 RMK CI6 SLP943 DENSITY ALT 2400FT CYCY 231200Z AUTO 10016KT 9SM OVC009 M04/M04 A2995 RMK SLP148 NZNS 231230Z 00000KT 20KM NCD 14/10 Q1027 RMK AUTO VATSIM USE ONLY CWVQ 231200Z AUTO 27004KT M07/M10 RMK AO1 SLP208 T10741098 52007 CYDQ 231200Z AUTO 22015G23KT 9SM SCT180 BKN200 BKN220 05/02 A2921 RMK SLP924 DENSITY ALT 2200FT KCIR 231255Z AUTO 00000KT 10SM CLR M05/M06 A3019 RMK AO2 T10501058 KF17 231255Z AUTO 00000KT 10SM CLR M01/M01 A3022 RMK AO2 T10091015 UNKL 231230Z 26005MPS 3800 -SHSN BKN020CB M03/M06 Q1022 R29/490132 NOSIG RMK QFE741 ZSQD 231200Z VRB01MPS CAVOK 03/M13 Q1024 NOSIG PGWT 230954Z 08007KT 7SM SCT015 27/23 A2985 RMK LAST EGDR 231250Z 25014G27KT 9999 FEW022 11/03 Q1003 BLU TEMPO 9999 -SHRA SCT020 WHT KBTA 231255Z AUTO 30008KT 10SM CLR 03/M01 A3000 RMK AO2 T00251007 CWXA 231200Z AUTO 29003KT 06/04 RMK AO1 SLP975 T00610043 56035 KCKB 231253Z 00000KT 9SM CLR M04/M07 A3016 RMK AO2 SLP222 I1000 T10441072 NZNV 231230Z 11001KT 22KM OVC013 13/12 Q1026 RMK AUTO VATSIM USE ONLY CWVT 231200Z AUTO 13010G17KT M11/M13 RMK AO1 PRESFR SOG 13 8062 PK WND 11017/1152 SLP037 T11081130 CWWK 231200Z AUTO 24001KT 11/09 RMK AO1 SLP085 T01110090 58001 CYFB 231229Z 12013KT 20SM -SN FEW029 BKN042 M06/M09 A2964 RMK SF1SC7 SF TR SLP042 KDAL 231253Z 00000KT 10SM FEW250 03/00 A3019 RMK AO2 SLP224 T00280000 $ KCIU 231256Z AUTO 28004KT 9SM -SN OVC039 M03/M06 A2991 RMK AO2 SLP157 T10331056 FZRANO PNO $ KCKC 231253Z AUTO 29005KT 10SM CLR M08/M11 A2979 RMK AO2 CYEK 231235Z AUTO 30028KT 5/8SM -SN BLSN VV007 M21/M24 A2948 RMK SLP986 VEKO 231200Z 00000KT 6000 NSC 23/14 Q1012 CWXC 231200Z AUTO 26005KT M09/M10 RMK AO1 SLP122 T10851102 55009 CWWL 231200Z AUTO 22009KT 08/ RMK AO1 3015 SLP969 T0077 50002 CWVU 231200Z AUTO 30031KT 04/01 RMK AO1 PK WND 29037/1142 SLP099 T00370008 53035 CYFC 231200Z AUTO 31014G24KT 270V330 9SM CLR M02/M06 A2977 RMK PRESRR SLP082 CXNM 231200Z AUTO 20017G34KT 07/06 RMK AO1 PK WND 18034/1150 T00670058 50080 KDAN 231253Z AUTO 08003KT 10SM CLR 00/M02 A3019 RMK AO2 SLP220 T00001022 CYEN 231200Z 11006KT 15SM SKC M06/M07 A2970 RMK SLP093 PHNY 231256Z AUTO 04022G26KT 10SM FEW060 19/16 A3008 RMK AO2 PK WND 04031/1246 SLP169 T01890156 KCKF 231255Z AUTO 07003KT 10SM SCT016 SCT060 15/10 A3004 RMK AO2 T01510103 EGEO 231250Z 32013KT 9999 FEW020 06/02 Q0989 EGDX 231250Z 25023G34KT 9999 BKN027 11/06 Q0999 BLU EGFF 231250Z AUTO 26023G33KT 9999 SCT025/// BKN032/// BKN038/// //////TCU 10/06 Q0999 CXMY 231200Z AUTO 03/02 RMK AO1 T00330017 50049 CXNP 231200Z AUTO 28020G29KT 02/M00 RMK AO1 PRESRR SOG 00 1080 PK WND 28034/1136 SLP026 T00181001 50098 EGDY 231250Z 24012KT 9999 FEW025 11/03 Q1001 BLU NOSIG KCKI 231255Z AUTO 00000KT 10SM SCT120 06/01 A3012 RMK AO2 KCJR 231255Z AUTO 00000KT 10SM CLR M05/M07 A3022 RMK AO2 T10531068 CWXI 231200Z AUTO 03/02 RMK AO1 6PAST HR M20 6043 SLP002 P0006 T00310018 50029 CYER 231200Z AUTO 29013G21KT 9SM CLR M15/M18 A2965 RMK SLP045 KDCA 231252Z 33009KT 10SM SCT250 01/M06 A3021 RMK AO2 SLP231 T00111056 CXPA 231200Z AUTO 15008KT 01/M00 RMK AO1 T00081002 50008 CWWS 231200Z AUTO 04007KT M12/M16 RMK AO1 SOG 27 8005 SLP144 T11191156 NZPM 231230Z 07002KT 47KM NCD 11/09 Q1027 RMK AUTO VATSIM USE ONLY CYET 231200Z AUTO 29006KT 9SM FEW090 BKN220 M06/M06 A2933 RMK SLP977 KBTL 231253Z 21007KT 10SM BKN046 OVC060 M01/M07 A3007 RMK AO2 SLP194 T10061067 CWWU 231200Z 15011G23KT 15SM FEW050 SCT070 OVC095 04/02 A2986 RMK SC1AC2AS5 T6037 SLP114 CXOL 231200Z AUTO 23014KT 08/02 RMK AO1 PK WND 23024/1103 T00800019 CXPC 231200Z AUTO 02/M04 RMK AO1 SOG 00 6018 SLP153 T00191036 CWXL 231200Z AUTO 20010KT 06/03 RMK AO1 T00630030 KBTM 231253Z AUTO 33005KT 10SM CLR 00/M02 A3007 RMK AO2 SLP188 T00001017 KCKM 231255Z AUTO 00000KT 9SM M02/M02 A3021 RMK A01 CYEV 231200Z 09005KT 15SM -SN OVC040 M18/M21 A2943 RMK SC8 SLP978 VELP 230900Z 02003KT 4000 HZ FEW018 SCT025 26/20 Q1007 NOSIG EGGD 231250Z 24019KT 9999 FEW035CB SCT037 09/04 Q1000 KDAW 231251Z AUTO 31006KT 10SM CLR M02/M09 A3000 RMK AO2 SLP158 T10221089 KCLE 231251Z 21007KT 10SM BKN100 BKN250 M01/M06 A3017 RMK AO2 SLP223 T10111061 KCKN 231254Z AUTO 18004KT 10SM OVC006 M03/M05 A2990 RMK AO2 KDBN 231255Z AUTO 08007KT 10SM SCT028 SCT034 BKN043 11/03 A3007 RMK AO2 NZPP 231230Z 03003KT 9999 NCD 14/11 Q1027 NOSIG RMK KAUKAU 32009KT AUTO NZWN VAT CYGE 230000Z 31006KT 280V040 10SM -SHRA VCFG SCT008 BKN015 OVC040 03/02 A2998 RMK FG1SC2SC3SC2 FG BANK N-E CVCTV CLD EMBD LAST STFD OBS/NEXT 231400Z SLP181 KBUF 231254Z 18005KT 10SM BKN038 BKN110 M01/M06 A3011 RMK AO2 SLP204 T10111056 $ CYFO 231200Z 11002KT 15SM OVC015 M15/M18 A2981 RMK SC8 VIA CYWG SLP124 CWWX 231200Z AUTO 29014G22KT 02/M03 RMK AO1 PK WND 31022/1153 SLP150 T00201027 56015 VELR 231200Z 32002KT 4000 HZ FEW020 25/20 Q1009 KBTP 231256Z AUTO 00000KT 10SM CLR M03/M05 A3014 RMK AO2 SLP228 T10331050 FZRANO KCKP 231255Z AUTO 00000KT 10SM CLR M02/M03 A2999 RMK AO2 T10161035 KDAY 231256Z 19006KT 10SM FEW110 BKN130 M02/M04 A3014 RMK AO2 SLP219 T10221044 KDBQ 231253Z 21007KT 10SM CLR M04/M07 A2995 RMK AO2 SLP156 T10391072 CYGH 230000Z 06004KT 030V100 20SM SCT057 BKN067 M22/M25 A2968 RMK SC4AC3 -22.2/-26.5/0.0/22 SNW CVR/MUCH LOOSE/LAST STFD OBS/NXT 231400UTC PRESFR SLP063 CWWZ 231200Z AUTO 25004KT 01/M05 RMK AO1 SLP200 T00061053 56016 KBTR 231253Z 00000KT 10SM CLR 01/M01 A3015 RMK AO2 SLP211 T00111011 KCLI 231301Z AUTO 00000KT 10SM CLR M05/M07 A2994 RMK AO2 CYFR 222300Z 17004KT 15SM -SN OVC016 M16/M18 A2993 RMK SC8 /TR/24/ SNW CVR/MUCH LOOSE LAST STFD OBS/NEXT231500Z SLP154 CWXR 231200Z AUTO 21013KT M22/ A2956 RMK SLP024 KCMA 231255Z AUTO 04003KT 10SM CLR 17/04 A2999 RMK AO2 SLP165 T01670039 NZRC 231230Z 11001KT 22KM OVC013 13/12 Q1026 RMK AUTO NZNV VATSIM USE ONLY CYHA 222200Z 17015G21KT 15SM FEW097 M13/M16 A2962 RMK AS1 SN COV/ONE LOOSE LAST STFD OBS/NEXT 231300 UTC SLP033 CWZA 231200Z AUTO 30002KT 13/10 RMK AO1 0006 SLP079 T01340095 50166 CWYJ 231200Z AUTO 25006KT 13/09 RMK AO1 3001 PK WND 26017/1123 SLP085 T01280088 50003 CYFS 231200Z VRB02KT 3SM -SN OVC050 M18/M20 A2940 RMK SN3SC5 SLP980 KCLK 231315Z AUTO 17003KT 10SM CLR 01/M06 A3014 RMK AO2 CYGK 231200Z 36002KT 15SM BKN037 BKN140 M05/M09 A3011 RMK SC6AC1 SLP204 CYFT 231242Z 04003KT 5/8SM -SN OVC003 M02/M02 A2966 RMK ST8 PRESFR SLP051 VEMN 231100Z 11002KT 5000 HZ FEW025 25/19 Q1009 BECMG 3000 BR KDDC 231252Z AUTO 31008KT 10SM CLR 06/01 A3012 RMK AO2 SLP204 T00560006 KCLL 231253Z AUTO 00000KT 10SM CLR 03/M01 A3021 RMK AO2 SLP230 T00331011 NZQN 231230Z 14006KT 110V170 41KM NCD 15/13 Q1025 RMK AUTO VATSIM USE ONLY EGHC 231250Z 27019KT 9999 FEW020 10/03 Q1003 CXPL 231200Z AUTO 18020KT 04/02 RMK AO1 PK WND 18022/1154 T00380019 CWYL 231200Z AUTO 25012G17KT 02/ RMK AO1 9PAST HR SOG 42 6018 PK WND 26023/1116 SLP015 P0007 T0020 50052 CYGL 231247Z 18009KT 1/4SM +SN VV005 M08/M09 A2946 RMK SN8 SLP993 KCKV 231252Z AUTO 00000KT 7SM CLR M04/M06 A3018 RMK AO2 SLP224 T10391061 EFOU 231250Z AUTO 13025KT 2100 -SN OVC018/// M05/M07 Q1010 KDCM 231255Z AUTO 02005KT 10SM CLR 03/M02 A3014 RMK AO2 KCLM 231253Z AUTO 26009KT 10SM FEW060 SCT080 BKN110 12/09 A2979 RMK AO2 RAB1155E39 SLP089 P0000 T01170094 KBTV 231254Z 08005KT 10SM FEW020 FEW200 M06/M10 A3013 RMK AO2 SLP208 T10561100 KCMD 231255Z AUTO 00000KT 10SM CLR M03/M05 A3013 RMK AO2 T10291047 CWYM 231200Z AUTO 05009KT M05/ A2954 RMK SLP049 CYHD 231252Z AUTO 26008KT 9SM BKN012 OVC045 M07/M08 A2981 RMK SLP127 KBVE 231251Z AUTO 36008KT 320V030 9SM CLR 12/06 A3008 RMK AO2 SLP185 T01170061 EGHE 231250Z 27019KT 9999 FEW028 11/03 Q1004 CYHE 231200Z AUTO 22008G17KT 180V270 9SM -RA BKN049 OVC060 13/09 A2974 RMK PCPN 1.0MM PAST HR SLP073 KF44 231255Z AUTO 00000KT 10SM CLR M02/M02 A3020 RMK AO2 VEMR 230600Z 00000KT 4000 HZ SCT020 27/19 Q1010 CXOX 231200Z AUTO 11007KT M13/M15 RMK AO1 SOG 23 6040 SLP087 T11271147 EFPO 231250Z AUTO 14023KT 7000 OVC007/// 01/00 Q1000 CXOY 231200Z AUTO 24023KT 05/02 RMK AO1 PK WND 25030/1100 T00470016 CWZG 231200Z AUTO 22005KT 04/03 RMK AO1 2PAST HR SOG 04 6034 SLP005 P0005 T00360033 50036 CYGP 231200Z 30012G19KT 8SM OVC015 01/M01 A2945 RMK SC8 SLP976 KCMH 231251Z 18003KT 10SM SCT120 BKN250 M04/M06 A3016 RMK AO2 SLP222 T10391056 EGGP 231250Z 27028G38KT 9999 -DZ SCT018 BKN026 08/06 Q0993 KDDH 231254Z AUTO 00000KT 10SM CLR M06/M09 A3007 RMK AO2 SLP193 T10561089 KCKZ 231255Z AUTO 32003KT 10SM CLR M02/M08 A3015 RMK AO2 KF46 231255Z AUTO 00000KT 10SM CLR 02/00 A3020 RMK AO2 T00220000 KBVI 230147Z 30003KT 10SM OVC037 A3021 RMK LAST EGHH 231250Z 25022KT 9999 SCT042 12/04 Q1002 CYGQ 231232Z 25005KT 12SM -SN OVC009 M07/M08 A2973 RMK ST8 CIG RAG SLP094 KBUR 231253Z 00000KT 10SM CLR 17/06 A3004 RMK AO2 SLP159 T01670056 KCMI 231253Z 19008KT 10SM OVC095 00/M04 A3011 RMK AO2 SLP205 T00001044 CYHI 230100Z 29014KT 3SM -SN BLSN VV024 M21/M24 A2971 RMK BLSN8 -21.6/-27.3/S 0.4/LAST OBS/NEXT 231500Z SLP068 CYGR 231237Z 31036G49KT 2SM -RA BR BKN005 OVC015 06/06 A2890 RMK SF6SC2 PRESRR SLP788 DENSITY ALT 200FT EGHI 231250Z 25009KT 220V290 9999 FEW036 11/02 Q1002 KCLS 231255Z AUTO 19004KT 2 1/2SM -RA BKN027 OVC032 14/14 A2988 RMK AO2 KCLT 231252Z 04007KT 10SM SCT200 BKN250 04/M03 A3015 RMK AO2 SLP210 T00391028 KCNB 231254Z AUTO 22004KT 10SM CLR M03/M05 A2998 RMK AO2 T10261055 CYGT 231200Z 10020G26KT 15SM -SN DRSN BKN006 OVC008 M02/M03 A2955 RMK ST5ST3 SLP014 CYHK 231200Z AUTO 03007KT 9SM M09/M10 A2949 RMK CLD MISG SLP993 CXRB 231200Z AUTO 11026G33KT M04/M05 RMK AO1 3PAST HR SOG 04 3002 PK WND 11041/1110 SLP108 P0001 T10351050 50007 KDCU 231253Z AUTO 00000KT 9SM CLR M03/M04 A3014 RMK AO2 SLP212 T10331044 $ KDEC 231254Z 20009KT 10SM OVC100 00/M06 A3011 RMK AO2 SLP203 T00001056 KCNC 231255Z AUTO 23009KT 10SM CLR M00/M06 A2997 RMK AO2 KBUU 231230Z AUTO 21008KT 10SM CLR 00/M03 A2999 RMK AO2 T00041035 CWZL 231200Z AUTO 21004KT 07/06 RMK AO1 SLP976 T00710062 52017 KBWD 231255Z AUTO 00000KT 10SM SCT050 M02/M04 A3021 RMK AO2 KDED 231255Z AUTO 09006KT 10SM -RA SCT039 BKN048 OVC090 19/19 A2989 RMK AO2 P0003 NZRO 231230Z 03003KT 27KM FEW023 BKN045 15/13 Q1028 RMK AUTO VATSIM USE ONLY CYGV 231200Z AUTO 36008KT 9SM -RA OVC033 02/02 A2943 RMK PCPN 0.5MM PAST HR SLP968 CYHM 231200Z 24007KT 12SM SCT034 OVC095 M02/M07 A3008 RMK SC3AC5 SLP198 KCLW 231255Z AUTO 12004KT 10SM -RA SCT095 OVC110 20/20 A2987 RMK AO2 P0001 PHSF 231256Z AUTO 13004KT 10SM CLR 04/M03 A3029 RMK AO2 SLP160 WND DATA ESTMD T00351026 PWINO $ KBVN 231255Z AUTO 00000KT 10SM CLR 00/00 A3002 RMK AO2 T00021004 CYGW 231221Z AUTO 13006KT 5SM -SN OVC030 M08/M10 A2950 RMK SLP993 KBVO 231253Z AUTO 00000KT 10SM CLR M03/M05 A3014 RMK AO2 SLP210 T10281050 EGGW 231250Z AUTO 23020G30KT 9999 FEW040 10/03 Q0998 CYGX 231200Z 31011G16KT 15SM SCT018 M19/M27 A2979 RMK SC4 VIA CYWG SLP106 CWZO 231200Z AUTO 25016KT RMK AO1 PK WND 26021/1113 ZSSS 231230Z 25002MPS CAVOK 09/M04 Q1027 NOSIG KBWG 231253Z AUTO 00000KT 10SM CLR M04/M05 A3019 RMK AO2 SLP227 I1000 T10391050 KBUY 231254Z AUTO 04003KT 10SM CLR 02/M03 A3016 RMK AO2 SLP217 T00171028 KDCY 231255Z AUTO 16003KT 10SM OVC110 M02/M04 A3017 RMK AO2 T10241038 CWYY 231200Z AUTO 16005KT 11/08 RMK AO1 SOG 00 8009 SLP081 T01120081 KDEH 231255Z AUTO 24004KT 10SM CLR M02/M08 A2992 RMK AO2 EGHQ 231250Z 26023KT 9999 FEW039 10/03 Q1003 UNNT 231230Z 20004MPS CAVOK M06/M09 Q1030 R25/820148 R16/820148 NOSIG RMK QFE762/1017 CXRH 231200Z AUTO 13013G26KT 08/ RMK AO1 0PAST HR M26 M P0004 T0081 50037 CWZQ 231240Z AUTO 24043G59KT 06/05 RMK AO1 T00560052 KBWI 231254Z 26003KT 10SM FEW038 FEW250 M02/M06 A3019 RMK AO2 SLP223 T10171056 KCMR 231255Z AUTO 16009KT 10SM CLR M01/M05 A3039 RMK AO2 KCNI 231255Z AUTO 06003KT 10SM SCT026 SCT033 06/00 A3009 RMK AO2 KBVS 231255Z AUTO 00000KT 10SM SCT026 OVC036 12/12 A2981 RMK A01 EGJA 231250Z 24016KT 9999 FEW036 12/// Q1004 CWZS 231200Z AUTO 30013G21KT M06/M09 RMK AO1 PK WND 31022/1149 SLP083 T10641092 53007 EFSA 231250Z AUTO 12012KT 100V170 9999 OVC013 M04/M06 Q1016 KCNK 231255Z AUTO 27009KT CLR 02/M02 A3005 RMK AO2 SLP184 T00221022 CYIK 222200Z 12025G32KT 15SM -SN DRSN FEW025 OVC085 M08/M11 A2929 RMK CF1AS8 CF TR SN CVR HARD PACK LAST STFD OBS/NEXT 231300UTC SLP923 EGJB 231250Z 25018KT 9999 FEW035 12/04 Q1005 KBVU 231255Z AUTO 28003KT 10SM 15/02 A3020 RMK AO2 CXSC 231200Z AUTO 22017KT 07/04 RMK AO1 PK WND 23025/1108 T00670036 UNOO 231230Z 17002MPS CAVOK M07/M11 Q1028 R25/CLRD60 NOSIG RMK QFE763 CXRL 231200Z AUTO 08011KT M09/M10 RMK AO1 PK WND 08017/1126 T10931104 CYHU 231200Z AUTO 28006KT 9SM CLR M07/M12 A3013 RMK SLP206 KCNM 231253Z AUTO 30005KT 10SM CLR 03/M01 A3022 RMK AO2 SLP219 T00331011 KCOD 231256Z AUTO 25009G16KT 10SM CLR 14/02 A3010 RMK AO2 PK WND 25031/1206 SLP168 T01440017 CWZV 231200Z AUTO 27013KT 07/ RMK AO1 SLP982 T0070 51027 KDEN 231253Z 21011KT 10SM FEW130 BKN220 09/M01 A3021 RMK AO2 SLP195 T00891006 KCOE 231256Z AUTO 19009G19KT 10SM SCT036 BKN070 OVC085 14/11 A2984 RMK AO2 RAB16E40 SLP118 P0000 T01440106 NZTG 231230Z 10003KT 34KM BKN014 BKN019 OVC049 18/16 Q1027 RMK AUTO VATSIM USE O NZSP 231250Z 33010KT 3200 IC BR SCT000 SCT010 OVC050 M32/ A2859 RMK BR SCT000 CLN AIR 33011KT ALL WNDS GRID SDG/HDP CXSE 231200Z AUTO 12017KT M06/M07 RMK AO1 SOG 29 2013 PK WND 12024/1114 SLP064 T10641072 CWZW 231200Z AUTO 30005KT M16/M18 RMK AO1 SOG 08 8007 SLP975 T11641181 50005 CYIN 231200Z AUTO 16009G15KT 9SM CLR 07/00 A2953 RMK SLP015 DENSITY ALT 4000FT KCMX 231253Z AUTO 24008KT 10SM OVC014 M02/M06 A2982 RMK AO2 SLP115 T10221061 KCNO 231253Z AUTO 34003KT 8SM CLR 13/07 A3005 RMK AO2 SLP170 T01330072 KBVX 231256Z AUTO 00000KT 10SM CLR M04/M05 A3019 RMK AO2 SLP227 T10391050 FZRANO KCOF 231258Z AUTO 12009KT 10SM CLR 23/22 A2990 RMK AO2 SLP129 T02280222 $ CYJF 222300Z 10005KT 15SM SCT079 BKN088 M21/M24 A2979 RMK AC3AS4 -18.3/-28.6/0/24/SNW CVR/MEDIUM PACK LAST OB/NEXT 231500UTC SLP117 CYIO 231212Z AUTO 06024G31KT 7SM OVC120 M03/M04 A2987 RMK PRESRR SLP122 KBVY 231253Z 32010KT 10SM CLR M01/M07 A3001 RMK AO2 SLP158 T10061072 EFRO 231250Z 07009KT 9999 FEW018 SCT100 OVC140 M11/M13 Q1014 KCMY 231255Z AUTO 00000KT 10SM CLR M06/M08 A2995 RMK AO2 T10631083 CYHY 231200Z 09013G18KT 10SM -SN DRSN FEW057 OVC082 M15/M17 A2938 RMK SC2AC6 PRESFR SLP970 ZUCK 231200Z 17002MPS 140V200 6000 FEW003 09/08 Q1029 NOSIG KDEQ 231253Z AUTO 09003KT 10SM CLR M03/M03 A3019 RMK AO2 SLP223 I1000 T10281028 CXSH 231200Z AUTO 25004KT M08/M12 RMK AO1 SLP179 T10841117 53002 CYHZ 231200Z 30018G31KT 15SM OVC010 03/02 A2958 RMK SC8 PRESRR SLP020 CWZZ 231200Z AUTO 27003KT 210V300 ////SM //// BKN075 OVC090 M09/M10 A2963 KDFI 231253Z AUTO 20004KT 10SM FEW120 M03/M05 A3013 RMK AO2 SLP212 T10281050 $ EFSI 231250Z 14021KT 110V180 2000 -SN FEW012 BKN015 BKN023 M00/M02 Q1000 EGKA 231250Z 25020G30KT 9999 FEW026 12/05 Q1002 CYKA 231200Z 11007KT 30SM FEW100 BKN250 12/07 A2959 RMK AC1CI6 SLP027 DENSITY ALT 1500FT KDET 231253Z 23008KT 10SM OVC065 M01/M06 A3012 RMK AO2 SLP207 T10111056 EGJJ 231250Z 26016KT 9999 FEW032 SCT046 12/07 Q1006 KF70 231255Z AUTO 02005KT 10SM CLR 12/03 A3008 RMK AO1 KBXK 231255Z AUTO 34004KT 10SM CLR 11/M05 A3008 RMK AO1 EGKB 231250Z 23012KT 200V260 9999 FEW040 10/03 Q1001 KCNU 231252Z AUTO 19008KT 10SM CLR 01/M05 A3011 RMK AO2 SLP201 T00111050 KCPC 231245Z AUTO 04003KT 10SM CLR 06/00 A3013 RMK AO2 T00550000 EHAK 231255Z AUTO 24034KT 9999 FEW025/// SCT031/// 09/03 Q0989 CXSL 231200Z AUTO 13006KT M08/M10 RMK AO1 T10821099 KCOM 231255Z AUTO 27004KT 10SM CLR 03/M04 A3020 RMK AO2 T00261040 CYKD 230000Z VRB02KT 15SM SCT180 BKN210 M23/M26 A2961 RMK AC3CI3 0.0/SNW CVR/MUCH LOOSE/LAST STFD OBS/NXT 231400Z SLP028 CXTD 231200Z AUTO 25023G37KT 03/02 RMK AO1 PRESRR 3113 PK WND 25038/1122 SLP957 T00260015 50140 CYIV 231200Z 31007KT 15SM -SN SCT015 M15/M17 A2984 RMK SC3 SLP129 KDEW 231253Z AUTO 20005KT 9SM -RA FEW031 BKN065 OVC100 12/10 A2982 RMK AO2 RAB37 SLP100 P0001 T01170100 KCON 231251Z AUTO 33010G15KT 10SM CLR M02/M09 A3003 RMK AO2 SLP172 T10221089 KCNW 231255Z 00000KT 10SM SKC 00/M03 A3022 KBWW 231255Z AUTO 25007KT 10SM CLR 07/03 A2976 RMK AO2 PHTO 231253Z AUTO 23006KT 10SM FEW023 SCT031 OVC075 19/18 A3004 RMK AO2 RAB00E49 SLP169 P0025 T01890183 TSNO EHAM 231255Z 27024KT 9999 -SHRA FEW008 FEW015CB SCT040 11/10 Q0999 RESHRA BECMG 25016KT CYKF 231200Z AUTO 24008KT 9SM OVC090 M02/M06 A3005 RMK SLP192 KBYG 231253Z AUTO 18003KT 10SM CLR 11/M02 A3004 RMK AO2 SLP145 T01061022 CZBF 231200Z 29014G29KT 15SM FEW020 FEW210 FEW240 M02/M05 A2959 RMK SC2CC1CI1 CC TR CI TR PRESRR SLP026 KCNY 231253Z AUTO 00000KT 10SM CLR M02/M09 A3036 RMK AO2 SLP282 T10171089 CYKG 222200Z 26006KT 15SM FEW020 SCT100 SCT230 M12/M16 A2945 RMK SC1AC2CI1 CI TR LAST STFD/OBS NEXT 231300 UTC SLP989 CXSP 231200Z AUTO 12009KT M10/M11 RMK AO1 T10971111 KCOQ 231255Z AUTO 29005KT 10SM CLR M07/M09 A2989 RMK AO2 CXTH 231200Z AUTO 12010KT M06/M08 RMK AO1 T10631080 VEPT 231230Z 27002KT 2500 HZ NSC 21/14 Q1010 NOSIG KBYI 231253Z AUTO 21008KT 10SM CLR 11/05 A3015 RMK AO2 SLP193 T01110050 CXSR 231200Z AUTO 21014G22KT 02/01 RMK AO1 SOG 29 8003 PK WND 20024/1149 SLP920 T00180008 VERC 231230Z 33003KT 3000 HZ NSC 19/06 Q1014 NOSIG KCOS 231254Z 36008KT 10SM SCT220 BKN250 06/M01 A3029 RMK AO2 SLP234 T00611006 NZTU 231230Z 09002KT 1800 BR OVC005 13/13 Q1026 RMK AUTO VATSIM USE ONLY CYKJ 231200Z AUTO 15009G16KT 9SM FEW011 BKN100 OVC140 M17/M19 A2964 RMK SLP089 KCOT 231253Z AUTO 00000KT 10SM CLR 01/M02 A3023 RMK AO2 SLP235 T00111017 KCPK 231255Z AUTO 32003KT 5SM HZ CLR 02/M01 A3018 RMK AO2 T00181012 KCQB 231230Z AUTO 18004KT 10SM CLR 01/M06 A3015 RMK AO2 T00141057 CYJT 231200Z 11034G45KT 15SM SCT012 BKN030 12/09 A2921 RMK SF4SC3 PRESFR SLP893 DENSITY ALT 600FT KBYL 231235Z AUTO 34004KT 10SM CLR M05/M05 A3016 RMK AO1 EGKK 231250Z 23015KT 9999 FEW040 11/02 Q1001 KCOU 231254Z 20004KT 10SM CLR M01/M07 A3008 RMK AO2 SLP193 T10111067 EHBK 231255Z AUTO 22022G32KT 190V250 9999 FEW032 BKN038 BKN043 15/09 Q1003 NOSIG KCQC 231253Z AUTO 02006KT 10SM CLR 03/M04 A3036 RMK AO2 SLP254 T00281039 CYLC 222100Z 17017G29KT 3SM -SN DRSN OVC015 M04/M06 A2953 RMK SC8 -1.9/-4.0/0.2/1 TRACE LOOSE LAST STFD OBS/NEXT 231300Z SLP006 CYKL 231259Z AUTO VRB02KT 2SM BR CLR M20/M22 A2963 RMK VIS VRB 3/4-3 SLP088 EGLC 231250Z AUTO 24020G34KT 9999 FEW048 12/01 Q1000 CYLD 231200Z 20011KT 15SM OVC017 M04/M06 A2977 RMK SC8 SLP113 KDFW 231253Z 22005KT 10SM FEW250 02/M01 A3017 RMK AO2 SLP216 T00221011 $ CXTN 231200Z AUTO 21018KT M20/M23 RMK AO1 PK WND 22022/1113 SLP011 T11971227 57007 KCQF 231255Z AUTO 35005KT 10SM CLR 03/01 A3004 RMK AO2 CYKO 222000Z 13022KT 1SM -SN DRSN OVC017 M08/M09 A2929 RMK SC8 LAST OB NEXT / 231300 UTC SLP922 EGLF 231250Z 24022KT 9999 FEW024 11/04 Q1001 CXTO 231200Z AUTO M00/M07 RMK AO1 SLP194 T10021074 56014 CXTP 231200Z AUTO 16005KT M00/M01 RMK AO1 0PAST HR 6036 SLP088 P0004 T10041009 50010 CYKP 231237Z AUTO 28010G15KT 9SM -SN OVC042 M10/M13 A2968 RMK SLP070 OSDI 231300Z 32004KT 9999 SCT030 15/00 Q1017 EFTP 231250Z 14014KT 3000 -SN FEW008 BKN014 00/M01 Q1005 CYLH 231200Z AUTO 26007KT 9SM -SN OVC029 M11/M14 A2968 RMK SLP076 KCPR 231253Z 21015KT 10SM CLR 07/02 A3017 RMK AO2 SLP197 T00720022 NZWB 231230Z 26001KT 17KM NCD 09/09 Q1027 RMK AUTO VATSIM USE ONLY KCPS 231253Z 16005KT 10SM CLR M02/M06 A3014 RMK AO2 SLP210 T10221061 KBYS 231255Z AUTO 33001KT 9SM CLR 07/M04 A3019 RMK AO2 SLP220 WND DATA ESTMD T00731041 PWINO $ CYLJ 231200Z 11009KT 15SM FEW011 BKN200 M07/M09 A2947 RMK ST2CI4 VIA CYKY SLP014 CYMA 231200Z 00000KT 15SM SKC M35/M38 A2947 RMK CLIMAT -29.8/-35.0/0.8 CM/0.4 MWE SOG 24 SLP062 EFVA 231250Z AUTO 14016KT 4000 -SN OVC011/// 00/M01 Q0998 KCPT 231255Z AUTO 26003KT 10SM CLR 02/M02 A3020 RMK AO2 CYLK 222300Z 18006KT 25SM -SN BKN029 M17/M19 A2992 RMK SC6 SLP157 ORMM 231300Z 31010KT 9999 FEW040 22/04 Q1015 NOSIG CZDB 231200Z AUTO 28013G19KT 03/01 RMK AO1 6PAST HR 1118 PK WND 27025/1101 SLP007 P0002 T00250010 50155 NZWD 231210Z 23006KT 9999 -SN FEW005 FEW015 OVC050 M07/M09 A2861 RMK GRID04006KT SDF/HDG HDP GRID NW-NE KCPU 231235Z AUTO 00000KT 10SM CLR 14/10 A3014 RMK AO2 T01400097 EGMC 231250Z 23020KT 9999 FEW026 11/02 Q1000 CYLL 231200Z AUTO 14013KT 9SM SCT160 BKN180 BKN200 OVC220 M09/M10 A2939 RMK SLP998 EFTU 231250Z AUTO 14009KT 110V190 2700 DZ OVC003/// 03/02 Q1003 EGLL 231250Z AUTO 24019KT 9999 BKN044 11/02 Q1000 NOSIG KCQM 231256Z AUTO 23003KT 10SM CLR M08/M09 A2985 RMK AO2 CXTV 231200Z AUTO 28001KT M19/M21 RMK AO1 SOG 18 8004 SLP966 T11891208 VERP 231100Z 03005KT 4000 HZ NSC 29/11 Q1011 NOSIG KDHN 231253Z 35006KT 10SM FEW037 OVC055 11/03 A3004 RMK AO2 SLP171 T01060033 $ KDGW 231253Z AUTO 02004KT 10SM CLR 02/01 A3013 RMK AO2 SLP208 T00220011 EGMD 231250Z 25017G27KT 9999 FEW020 12/03 Q1002 KCRE 231253Z 04010KT 10SM CLR 08/02 A3011 RMK AO1 SLP195 T00780022 KCPW 231248Z AUTO 31007KT 10SM CLR 02/M08 A3061 RMK AO2 KBZN 231256Z 15006KT 10SM CLR 02/M01 A3004 RMK AO2 SLP183 T00171011 KCRG 231253Z 02008KT 3SM +RA BR SCT006 SCT037 OVC050 18/17 A2998 RMK AO2 SLP150 P0052 T01830167 $ KBYY 231255Z AUTO 01003KT 10SM CLR 05/02 A3019 RMK AO2 T00540025 ORNI 231100Z 32007KT 9999 FEW040 20/05 Q1016 NOSIG CYKY 231200Z 24012KT 15SM FEW230 04/01 A2946 RMK CI1 SLP007 CZCP 231200Z AUTO 12016KT ////SM //// OVC065 M20/M22 A2949 CYKZ 231200Z 22005KT 180V240 15SM OVC032 M01/M07 A3007 RMK SC8 SLP195 CYMH 231200Z AUTO 12014G20KT 9SM BKN027 OVC120 01/M01 A2971 RMK PRESFR SLP062 NZWK 231230Z 12002KT 14KM FEW013 OVC038 16/15 Q1028 RMK AUTO VATSIM USE ONLY CZCR 231200Z AUTO 27022G31KT M05/M08 RMK AO1 SOG 07 3026 PK WND 28031/1150 SLP053 T10491076 KDIJ 231256Z AUTO 15009KT 10SM FEW050 07/03 A3029 RMK AO2 SLP246 T00670033 CYMJ 231200Z 22014KT 15SM FEW200 05/03 A2960 RMK CI2 SLP050 KDHT 231253Z AUTO 34009KT 10SM CLR 07/M01 A3022 RMK AO2 SLP221 T00671011 CYNA 231250Z AUTO 02014G20KT 6SM -RA BR OVC011 03/03 A2928 RMK SLP918 KCQT 231247Z AUTO 02004KT 10SM CLR 21/04 A3000 RMK AO2 SLP157 T02060039 KDIK 231256Z AUTO 25012KT 10SM CLR 07/04 A2980 RMK AO2 SLP101 T00720039 CYLT 221929Z 24030KT 15SM DRSN BKN160 M05/M10 A3017 RMK AC7 LAST OBS/NEXT 231300 UTC SLP220 CXWB 231200Z AUTO 07018KT M06/M07 RMK AO1 PK WND 07021/1148 SLP938 T10561071 53006 EFUT 231250Z 12014KT 0800 SN PL OVC004 M01/M02 Q1012 CYNC 222100Z 24010G17KT 10SM BKN017 OVC025 M05/M09 A2992 RMK SC7SC1 LAST STFD OBS/NEXT 231400Z SLP137 CYLU 222200Z 08005KT 050V220 15SM FEW075 M08/M12 A2982 RMK AC2 LAST STFD OBS/NEXT 231300UTC SLP105 EGNC 231250Z 25004KT 220V280 8000 -RA SCT008 SCT012 BKN018 05/04 Q0987 NZWN 231230Z AUTO 03003KT 9999 NCD 14/11 Q1027 NOSIG EHDL 231255Z AUTO 21012KT 160V250 9999 -RA FEW022 BKN026 OVC030 14/10 Q0999 RERA REDZ BLU TXKF 231255Z VRB02KT 9999 VCSH SCT010 BKN035 BKN150 BKN300 23/22 Q1010 CYND 231200Z VRB02KT 15SM FEW120 BKN230 M11/M12 A3012 RMK AC2CI3 FROIN SLP206 CXVM 231200Z AUTO 13004KT M07/M09 RMK AO1 T10731091 CYMM 231245Z AUTO 14010G17KT 9SM -SN OVC015 M08/M10 A2933 RMK ICG PAST HR SLP964 KCQW 231255Z AUTO 03005KT 10SM CLR 04/M01 A3015 RMK AO2 NZWP 231000Z 29001KT 30KM FEW035 15/13 Q1028 RMK VATSIM USE ONLY CXVN 231200Z AUTO 20004KT 01/M06 RMK AO1 SLP195 T00051062 56016 CYLW 231259Z AUTO 00000KT 9SM SCT090 BKN120 BKN220 08/07 A2972 RMK SLP073 CYNE 231200Z AUTO 00000KT 9SM CLR M20/M21 A2987 RMK SLP143 KCQX 231252Z AUTO VRB04KT 10SM FEW028 03/M03 A3002 RMK AO2 SLP168 T00331028 CYMO 231238Z AUTO 26011G16KT 9SM SCT025 BKN039 BKN060 OVC091 M07/M09 A2967 RMK SLP049 KCSG 231251Z AUTO 00000KT 10SM FEW017 07/02 A3004 RMK AO2 SLP171 T00720017 KCRP 231251Z 34008KT 10SM FEW250 03/00 A3022 RMK AO2 SLP232 T00330000 NZWR 231230Z 33002KT 20KM FEW040 14/11 Q1027 RMK AUTO VATSIM USE ONLY KCRQ 231253Z AUTO 00000KT 10SM CLR 19/04 A2999 RMK AO2 SLP152 T01940039 NZWS 231230Z 18003KT 20KM SCT009 OVC014 15/13 Q1028 RMK AUTO NZHK VATSIM USE ONL EGNH 231250Z 27028KT 9999 FEW014 SCT028 08/04 Q0991 EHEH 231255Z AUTO 21018KT 190V250 9999 FEW030 BKN034 BKN038 15/10 Q1000 BLU 21018G32KT 9999 FEW018 SCT024 BKN035 TEMPO 23025G40KT 2500 SHRA SCT007 SCT015CB BKN020 KCRS 231253Z AUTO 00000KT 9SM CLR 02/M02 A3021 RMK AO2 SLP232 T00171017 KEBA 231255Z AUTO 00000KT 10SM BKN037 05/M01 A3013 RMK AO2 T00531015 NZWU 231230Z 03007KT 20KM NCD 13/11 Q1027 RMK AUTO VATSIM USE ONLY CYOA 231200Z 00000KT 1SM BR SKC M31/M34 A2957 CZFA 222300Z 00000KT 5SM -SN SCT013 BKN020 OVC030 M25/M28 A2957 RMK ST4ST3SC1 PCPN VRY LGT CLIMAT -25.2/-30.5/TRCM/TRMWE LAST STFD OBS/NXT 231500Z SLP108 EGNJ 231250Z 21025KT 9999 SCT033 10/04 Q0992 KCTB 231256Z AUTO 24034G40KT 10SM CLR 12/05 A2967 RMK AO2 PK WND 25041/1233 SLP039 T01220050 KDKB 231255Z AUTO 19010KT 10SM CLR M02/M05 A3001 RMK AO2 T10201048 CYMT 231234Z AUTO 19010KT 9SM -SN OVC035 M10/M12 A2978 RMK SLP117 CYMU 222200Z 23029G35KT 2SM -SHSN DRSN VV011 M04/M06 A2966 RMK SN8 LAST STFD OBS/NEXT 23 1300Z SLP050 CYOC 230200Z 08005KT 050V110 15SM -SN SCT018 OVC040 M20/M23 A2955 RMK SC4SC4 PCPN LGT CLIMAT -14.1/-20.9/TRCMTRMWE LAST STFD OBS/NXT 231400Z SLP040 CZEL 231200Z AUTO 24009KT M03/M06 RMK AO1 SLP188 T10251062 56014 KCSM 231253Z AUTO 26008KT 10SM CLR 03/M07 A3013 RMK AO2 SLP208 T00281072 CZEM 222100Z 25012KT 210V270 12SM -SN OVC021 M05/M09 A2998 RMK SC8 LAST STFD OBS/NEXT 231400 UTC SLP154 CXWM 231200Z AUTO 23020KT 13/06 RMK AO1 PK WND 24028/1158 T01260055 CYNM 231259Z AUTO 19013KT 4SM -SN BKN039 BKN046 OVC055 M07/M08 A2969 RMK ICG INTMT SLP077 CYOD 231200Z 13009KT 12SM BKN250 M08/M10 A2941 RMK CI6 SLP997 EGNM 231250Z 23017KT 200V270 9999 VCSH SCT015 07/04 Q0989 KCRW 231254Z 00000KT 8SM FEW300 M05/M06 A3017 RMK AO2 SLP225 T10501061 EHDV 231255Z AUTO 24029KT 9999 FEW030/// 10/03 Q0992 EHFD 231255Z AUTO ///37KT 9999 FEW027/// SCT031/// 09/03 Q0991 KEAN 231234Z AUTO 20007KT 10SM CLR 11/03 A3015 RMK AO2 CXVW 231200Z AUTO 26018KT 05/02 RMK AO1 5PAST HR M PK WND 25032/1159 P0010 T00500017 50056 CXWN 231200Z AUTO 34002KT M06/M10 RMK AO1 SLP129 T10551095 55005 KCRX 231255Z AUTO 00000KT 7SM CLR M05/M06 A3018 RMK AO2 EGNO 231250Z 28021KT 9999 FEW013 FEW024CB SCT033 08/04 Q0991 CYMX 231200Z 24003KT 25SM FEW025 FEW140 SCT280 M10/M12 A3013 RMK SC1AC1CI4 SC TR AC TR SLP209 KEBG 231255Z AUTO 34005KT 10SM CLR 07/05 A3023 RMK AO2 T00660045 KCSQ 231255Z AUTO 27009KT 10SM CLR M01/M05 A2999 RMK AO2 UNTT 231230Z 23004MPS CAVOK M06/M09 Q1026 R21/590140 NOSIG RMK QFE754 KEAR 231256Z AUTO 27004KT 10SM CLR 03/01 A3006 RMK AO2 SLP187 T00330006 EGNR 231250Z 28017G28KT 250V310 9999 VCSH FEW030 09/03 Q0994 KCTJ 231235Z AUTO 04003KT 10SM SCT027 03/M01 A3009 RMK AO2 T00321010 CYPA 231241Z 12014KT 15SM SCT010 OVC017 M09/M11 A2962 RMK ST3SC5 PRESFR SLP064 KDKK 231253Z AUTO 20007KT 10SM OVC030 M01/M04 A3011 RMK AO2 SLP205 T10061044 KCUB 231253Z AUTO VRB03KT 10SM CLR 07/M02 A3013 RMK AO2 SLP203 T00671022 EGPA 231250Z 33021KT 9999 VCSH FEW012CB SCT025 SCT045 04/02 Q0983 EGNS 231250Z 29019KT 250V320 9999 SCT022 07/02 Q0992 NOSIG CYOJ 231200Z AUTO 14010G18KT 9SM -SN OVC013 M13/M14 A2920 RMK SLP921 KEAT 231255Z AUTO 00000KT 1/4SM FG OVC003 05/05 A2982 RMK AO2 SLP102 T00500050 EGPB 231250Z 33010KT 9999 VCSH FEW013 FEW016CB 04/01 Q0979 EGNT 231250Z 29010KT 9999 5000NW -SHRA SCT012 BKN020 05/03 Q0987 KEAU 231256Z 00000KT 8SM CLR M08/M11 A2994 RMK AO2 SLP152 T10831106 CYPC 230000Z 15006KT 100V210 15SM BKN120 M23/M27 A2981 RMK AC5 -22.5/-27.2/0/8 MEDIUM PACK LAST STFD OBS/NEXT 231400 UTC SLP097 ZUGY 231200Z 01004MPS 9999 FEW023 OVC046 08/01 Q1026 NOSIG KCSV 231253Z AUTO 10003KT 8SM CLR M04/M06 A3012 RMK AO2 SLP212 T10391056 EGPC 231250Z 27010KT 9999 VCSH FEW010 FEW024CB 03/02 Q0983 CZFM 230000Z 32004KT 35SM SCT210 M21/M24 A2958 RMK CC3 VIA CYWG SLP023 EGNV 231250Z 21018KT 9999 FEW010 BKN030 07/04 Q0987 CZEV 232300Z AUTO 11004KT M21/M23 RMK AO1 SOG 15 SLP032 T12061230 EGOM 231150Z 28012KT 7000 -RA BKN006 OVC020 03/03 Q0984 YLO1 EGPD 231250Z AUTO 30010KT 9999 NCD 02/01 Q0985 NOSIG CYPD 231200Z AUTO /////KT RMK WND MISG CLD MISG WX MISG VIS MISG PCPN MISG PRES MISG T MISG TD MISG ICG MISG DENSITY ALT MISG CZFN 230000Z 03007KT 20SM BKN120 M25/M28 A2975 RMK AC6 -24.7 / -30.3 / 0.1 / SNOW CVR / MUCH LOOSE / LAST STFD OBS/NEXT 231600Z SLP092 CYPE 231200Z 22014KT 15SM OVC100 M03/M04 A2922 RMK AC8 SLP929 EGPE 231250Z 25014KT 9999 FEW018 FEW025CB 04/02 Q0987 KDLF 231155Z 06005KT 10SM CLR 01/M03 A3020 RMK AO2A SLP229 T00121026 10045 20012 56006 CYOO 231200Z AUTO 23003KT 9SM OVC040 M01/M06 A3009 RMK SLP197 EGNX 231250Z 22024G35KT 9999 BKN037 09/03 Q0994 EGPF 231250Z AUTO 28008KT 9999 NCD 04/02 Q0989 KECG 231254Z AUTO 32007KT 3SM HZ CLR 04/01 A3016 RMK AO2 SLP214 T00390011 CYPG 231200Z 25003KT 15SM OVC025 M05/M08 A2986 RMK SC8 FST OBS SLP131 EGOP 231250Z 27023KT 9999 BKN030 11/05 Q0999 BLU EHGG 231255Z AUTO 21017KT 170V250 9999 -RA SCT016 BKN020 OVC024 13/11 Q0996 TEMPO 7000 RA BKN012 KDLH 231255Z 29008KT 5SM BR BKN005 M07/M08 A2988 RMK AO2 CIG 003V007 SLP144 T10721078 KCUH 231255Z AUTO 20004KT 10SM CLR 00/M04 A3013 RMK AO2 T10011045 CXYH 231200Z AUTO M21/M23 RMK AO1 SOG 13 6033 SLP962 T12061229 CYPH 231242Z AUTO 09007KT 6SM -SN OVC034 M08/M09 A2945 RMK SLP977 EGPH 231250Z 26007KT 9999 FEW018 05/02 Q0987 KDKR 231230Z AUTO 00000KT 10SM 00/M02 A3023 RMK AO2 EGPI 231250Z 35016KT 320V020 CAVOK 04/03 Q0991 KEBS 231255Z AUTO 30008KT 10SM CLR M03/M07 A2994 RMK AO2 KDMA 231258Z AUTO 13007KT 10SM CLR 16/M06 A3014 RMK AO2 SLP175 T01601063 $ EGQA 231150Z 27007KT 9999 FEW010 SCT030 03/// Q0985 BLU CZFS 232300Z AUTO 21003KT M26/M29 RMK AO1 SOG 16 5023 SLP131 T12641294 CYQA 231200Z AUTO 19008G15KT 9SM OVC032 M02/M06 A3000 RMK SLP178 EGOS 231250Z 25022KT 9999 FEW030 09/04 Q0994 BLU NOSIG EHFS 231225Z AUTO 26021KT 9999 FEW037/// BKN042/// OVC046/// 10/08 Q1000 KCVB 231255Z AUTO 30004KT 10SM CLR 02/M03 A3024 RMK AO2 T00201031 CYQB 231200Z 25010KT 30SM BKN032 M07/M11 A3000 RMK SC7 SLP165 EGPK 231250Z 32008KT 9999 -RA FEW012 SCT025 06/03 Q0989 KCUL 231255Z AUTO 00000KT 7SM CLR M05/M05 A3018 RMK AO2 T10501055 KCVC 231255Z AUTO 05007KT 10SM SCT026 07/00 A3008 RMK AO2 KDLL 231255Z AUTO 24004KT 10SM CLR M02/M08 A2995 RMK AO2 T10181082 KEDC 231255Z AUTO 00000KT 10SM CLR 03/M04 A3022 RMK AO2 CYPL 231200Z 30009G16KT 270V340 4SM -SN DRSN OVC018 M12/M15 A2973 RMK SC8 SLP101 CXZC 231200Z AUTO 26007KT M07/M09 RMK AO1 SOG 20 8005 SLP049 T10661092 50002 EGPL 231250Z 32009KT 9999 VCSH FEW008CB SCT022 05/M00 Q0990 VGEG 231200Z 36008KT 3500 HZ NSC 25/16 Q1008 NOSIG EGOV 231250Z 28023G33KT 9999 SCT023 SCT029 08/03 Q0995 WHT TEMPO FEW023 BLU CYQD 231200Z 13003KT 15SM BKN090 M14/M17 A2983 RMK AS7 VIA CYWG SLP129 KDLN 231253Z AUTO 21007KT 10SM CLR 06/01 A3008 RMK AO2 SLP173 T00610011 EGPM 231250Z 31015KT 9999 VCSH FEW018CB 04/00 Q0978 NOSIG KEDE 231245Z AUTO 00000KT 10SM CLR 03/00 A3017 RMK AO2 T00301001 EGOW 231250Z 27022G38KT 9999 SCT015 08/05 Q0993 WHT EGPN 231250Z 29009KT 9999 FEW012 05/02 Q0986 CYOW 231200Z 19004KT 15SM FEW020 FEW140 BKN230 M09/M10 A3011 RMK SC1AC1CI5 SC TR AC TR SLP204 KDLO 231255Z AUTO 13005KT 4SM BR CLR 06/04 A3014 RMK AO2 T00550037 KDKX 231255Z AUTO 00000KT 9SM CLR 00/M00 A3017 RMK A01 CYPO 231259Z AUTO 30012G18KT 6SM -SN BKN030 OVC042 M12/M14 A2959 RMK SLP027 CYQF 231200Z 19008KT 15SM BKN220 03/M00 A2936 RMK CI5 PRESFR SLP981 KCVG 231252Z 20003KT 6SM BR SCT120 SCT160 M03/M04 A3015 RMK AO2 SLP217 T10281039 EGPO 231250Z 29009KT 8000 -SHRA FEW008 BKN014CB 03/00 Q0989 KECP 231253Z 34006KT 10SM OVC044 12/05 A2998 RMK AO2 SLP164 T01220050 KCTY 231255Z AUTO 03008G15KT 3SM +RA BR OVC005 16/16 A2997 RMK AO2 P0036 T01570157 KDLP 231255Z AUTO 02019KT 9SM CLR 12/06 A3005 RMK A01 CYQG 231200Z 21007KT 15SM FEW065 BKN180 BKN280 M01/M05 A3009 RMK SC1AC5CC1 SC TR SLP201 CYOY 231200Z AUTO 27006KT 9SM OVC031 OVC086 OVC095 M07/M12 A2997 RMK SLP161 KCTZ 231245Z AUTO 04004KT 10SM CLR 04/00 A3016 RMK AO2 T00431002 KCVH 231250Z AUTO 22003KT 9SM CLR 11/10 A3012 RMK A01 KDMH 231154Z AUTO 01/M06 A3018 RMK AO1 SLP219 T00111056 10033 20006 53007 CYQH 231200Z 31002KT 10SM -SN OVC033 M17/M19 A2927 RMK SC8 CLIMAT -16.6/-17.4/0.4CM/0.4MM MWE SLP972 CYPQ 231200Z AUTO 19006KT 9SM FEW034 SCT044 OVC110 M03/M05 A3007 RMK SLP194 EHFZ 231255Z AUTO 24028KT 9999 FEW025 10/03 Q0993 KCWA 231253Z 00000KT 10SM SCT150 M06/M07 A2992 CYPR 231253Z AUTO 17004KT 120V240 1 3/4SM -RA BR BKN006 OVC009 05/05 A2942 RMK SLP965 CYQI 231200Z 33016G26KT 12SM BKN022 04/00 A2979 RMK SC7 SLP090 KDLS 231253Z AUTO 24003KT 3SM -RA BR FEW007 FEW050 OVC060 10/09 A2991 RMK AO2 SLP129 P0004 T01000094 EHGR 231255Z AUTO 25020G37KT 220V310 6000 RA FEW002 SCT011 FEW015CB BKN021 12/11 Q1001 GRN 21014G24KT 9999 SCT025 BKN030 TEMPO 21025G40KT 2500 SHRA SCT007 SCT015CB BKN025 KDNA 231255Z AUTO 29005KT 10SM CLR 03/M06 A3028 RMK AO2 PWINO KEDJ 231255Z AUTO 19006KT 10SM CLR M03/M05 A3013 RMK AO1 KECS 231255Z AUTO 00000KT 10SM CLR 01/00 A3008 RMK AO2 CYRA 230100Z VRB02KT 15SM FEW070 M31/M34 A2985 RMK AC1 -29.3/-35.7/0/21.0 SNW CVR/MEDIUM PACK LAST STFD OBS/NEXT 231500 UTC SLP147 KCUT 231253Z AUTO 26009KT 10SM CLR 10/01 A3007 RMK AO2 SLP150 T01000006 EGQK 231150Z AUTO 23009KT 9999 SCT042/// SCT070/// 01/01 Q0985 RERA CYQK 231250Z 27003KT 10SM SCT005 OVC038 M07/M08 A2982 RMK SF4SC4 SLP129 KCWC 231255Z AUTO 18004KT 10SM CLR 01/M04 A3019 RMK AO2 T00061043 CYQL 231200Z AUTO 21022G27KT 9SM CLR 12/06 A2958 RMK SLP027 DENSITY ALT 3700FT EGPU 231250Z 32012KT 9999 VCSH FEW018 SCT029CB 05/00 Q0990 EGQL 231250Z 31009KT CAVOK 05/01 Q0986 BLU KEED 231256Z AUTO 32005KT 10SM CLR 18/03 A3010 RMK AO2 SLP171 T01830028 CYQM 231200Z 28021G28KT 15SM BKN016 00/M02 A2957 RMK SC7 SLP019 KDMN 231253Z AUTO 00000KT 10SM CLR 00/M08 A3028 RMK AO2 SLP235 T00001083 KCVN 231256Z AUTO 31007KT 10SM CLR 05/M02 A3023 RMK AO2 SLP243 T00501022 KEDN 231255Z AUTO 35003KT 10SM SCT026 BKN031 OVC045 08/04 A3002 RMK AO2 T00830036 EGQM 231250Z AUTO 20009KT 9999 OVC045/// 05/03 Q0986 RERA CYPW 230300Z 11005KT 060V150 3SM -RA BR FEW002 SCT005 SCT015 BKN022 OVC088 13/12 A2969 RMK SF1CF2SC1SC2AC2 VIS HIER W LAST STFD OBS NEXT OBS 231500 UTC SLP056 DENSITY ALT 600FT KDMO 231253Z AUTO 22015KT 10SM CLR 03/M04 A3007 RMK AO2 SLP189 T00281039 KCVO 231256Z AUTO 18007KT 10SM -RA BKN024 BKN030 OVC044 16/14 A2997 RMK AO2 RAE07B32 SLP148 P0000 T01560144 KCWF 231245Z 36003KT 10SM SKC 02/00 A3019 CYPX 231259Z AUTO 14006KT 9SM CLR M13/M14 A2948 RMK SLP986 CYPY 231200Z AUTO 09013G19KT 3/4SM -SN VV011 M16/M17 A2948 RMK PRESFR SLP009 KDLZ 231258Z AUTO 00000KT 10SM SCT120 M02/M05 A3015 RMK AO2 CYQQ 231200Z 15006KT 20SM FEW030 FEW070 FEW140 SCT170 10/07 A2973 RMK SC1AC1AC1AC2 SLP068 KCWI 231256Z AUTO 20005KT 10SM CLR M03/M06 A3000 RMK AO2 SLP185 T10331061 FZRANO CYQR 231200Z 12010KT 15SM SKC M08/M09 A2963 RMK SLP072 KCVS 231258Z AUTO 33007KT 10SM CLR 06/M02 A3024 RMK AO2 SLP227 T00571022 $ EGQS 231250Z 25013KT 9999 FEW014 03/02 Q0985 BLU TEMPO 7000 -SHRASN SCT020CB WHT CYRJ 231200Z 24009KT 40SM FEW046 SCT120 M09/M12 A2992 RMK SC2AS2 SLP146 EHJA 231255Z AUTO 23033KT 9999 NCD 09/03 Q0994 OTBD 231200Z 33016KT 9000 FEW025 FEW035TCU BKN100 25/16 Q1013 RERA NOSIG CYQT 231200Z 27008KT 15SM OVC019 M04/M07 A2982 RMK SC8 SLP114 CYSB 231208Z 19010KT 15SM -SN OVC022 M03/M06 A2988 RMK SC8 SLP141 KDNL 231253Z AUTO 05009KT 10SM CLR 09/M01 A3010 RMK AO2 SLP191 T00891006 $ KEDU 231255Z AUTO 00000KT 10SM CLR 11/11 A3012 RMK AO1 CYRL 231200Z 32012KT 12SM -SN OVC020 M11/M14 A2982 RMK SC8 SLP129 EGSC 231250Z 23021G33KT 190V250 9999 FEW040 11/03 Q0998 CYQU 231200Z 23014KT 25SM SCT075 BKN220 03/01 A2927 RMK AC3CI2 PRESFR SLP944 CYSC 231200Z AUTO 27009KT 8SM -SN OVC020 M08/M10 A3004 RMK SLP189 KEFD 231250Z 33003KT 10SM FEW250 08/03 A3022 CXZV 231200Z AUTO 32009KT M04/M05 RMK AO1 SOG 12 6012 PK WND 33018/1148 SLP030 T10381049 CYQV 231246Z AUTO 12011KT 1 1/4SM BR OVC002 M07/M07 A2970 RMK ICG SLP091 KDMW 231245Z AUTO 00000KT 10SM SCT034 M03/M06 A3015 RMK AO2 KEEN 231256Z AUTO 35005KT 10SM CLR M04/M08 A3005 RMK AO2 SLP196 T10391083 FZRANO KDNN 231255Z AUTO 34006KT 10SM BKN045 00/M01 A3014 RMK AO2 KCVW 231300Z AUTO 02005KT 10SM CLR 05/01 A3018 RMK A01 KCXE 231235Z AUTO 00000KT 10SM CLR M01/M04 A3018 RMK AO1 T10091038 KCWN 231258Z AUTO 20007KT 10SM CLR 12/M02 A3026 RMK AO2 SLP101 T01171021 $ KEDW 231258Z AUTO 22003KT 10SM CLR 05/M05 A3017 RMK AO2 SLP210 T00461047 CYQW 231200Z AUTO 12018KT 3SM BR BKN004 M09/M11 A2950 RMK PRESFR SLP030 KEEO 231253Z AUTO 00000KT 10SM CLR M01/M02 A3040 RMK AO2 SLP290 T10061022 KCVX 231255Z AUTO 23008KT 5SM -RA OVC017 01/00 A2997 RMK AO2 T00081005 EHHW 231255Z AUTO 27030KT 9999 ///////// 11/05 Q0995 CYQX 231235Z 12013KT 15SM BKN007 BKN012 BKN032 OVC095 01/00 A2965 RMK SF5SC1SC1AC1 PRESFR SLP048 CYSF 231200Z AUTO 08002KT 9SM FEW020 OVC190 M26/M28 A2976 RMK SLP111 OTBH 231256Z 36018KT 9000 HZ FEW050 BKN120 25/16 A2993 RMK AO2A SLP137 T02450157 $ CZHY 231200Z AUTO 10011KT M15/M17 RMK AO1 PRESFR SOG 09 8046 PK WND 09018/1147 SLP963 T11501168 CYQY 231225Z 24030G47KT 10SM -SHRA FEW007 BKN016 OVC035 06/04 A2921 RMK SF1SC5SC2 CU EMBD PRESRR SLP896 CYQZ 231215Z AUTO 17012KT 9SM CLR 06/03 A2943 RMK SLP986 CYRQ 231200Z AUTO 23007KT 9SM OVC036 M08/M10 A3008 RMK SLP190 EGSH 231250Z 23018G30KT 9999 FEW030 10/03 Q0997 NOSIG KDPA 231252Z 18009KT 10SM FEW070 M01/M05 A3001 RMK AO2 SLP173 T10111050 KDNS 231255Z AUTO 00000KT 10SM CLR M03/M05 A3000 RMK AO2 CYSJ 231200Z 31016G24KT 15SM SCT018 M01/M03 A2971 RMK SC3 SLP066 OSKL 231300Z 23010KT CAVOK 11/M05 Q1016 KEET 231253Z AUTO 34003KT 10SM CLR 01/M02 A3009 RMK AO2 SLP189 T00111017 KEFK 231255Z AUTO 25004KT 5SM -SN OVC022 M07/M10 A3007 RMK AO2 T10751105 ORSU 231300Z 25008KT 9999 SCT040 11/M02 Q1018 CYSK 222300Z 22024G29KT 3SM -SN BLSN OVC015 M06/M08 A2965 RMK SC8 -3.2/-5.8/M/M LAST MANNED OB/NEXT 231300UTC SLP045 CYRT 231238Z 34020G27KT 5/8SM -SN BLSN OVC008 M13/M14 A2923 RMK BLSN4SC4 SLP903 EGTC 231250Z 23021G31KT 9999 FEW032 10/05 Q0997 KCWV 231255Z AUTO 02006KT 10SM DZ SCT080 BKN090 11/08 A3005 RMK AO2 T01100080 KDNV 231255Z AUTO 20006KT 10SM BKN080 OVC110 00/M06 A3008 RMK AO2 T10051058 CZKD 230600Z AUTO 33008KT M15/M17 RMK AO1 SOG 26 3009 SLP097 T11461169 CYRV 231217Z AUTO 35004KT 290V100 9SM FEW007 OVC019 05/05 A2965 RMK SLP056 CYSM 231200Z 13006KT 090V160 15SM -SN OVC060 M14/M17 A2951 RMK SC8 SLP017 EHKD 231255Z AUTO 27017KT 9999 SCT046 OVC050 11/07 Q0997 BLU 26020G30KT 9999 BKN030 TEMPO SHRA FEW009 SCT015CB BKN018 KEGE 231259Z AUTO 00000KT 1SM BKN002 M04/M05 A3048 RMK AO2 FZRANO RVRNO CYSN 231200Z 22004KT 15SM BKN045 OVC110 M01/M06 A3011 RMK SC5AC3 SLP201 EGTE 231250Z 24014KT 9999 FEW035 11/03 Q1001 CYTE 231200Z 18014G20KT 8SM -SN DRSN SCT025 OVC035 M05/M06 A2941 RMK SC3SC5 -3.4/-5.0/1.4/16 SNW CVR/ONE LOOSE SLP967 KCXO 231253Z 00000KT 10SM CLR 01/01 A3021 RMK AO2 SLP228 T00110011 KDPG 222250Z 07004KT 40SM FEW070 SCT190 BKN240 17/06 A3037 RMK SLP265 T01660055 LAST KCXP 231255Z AUTO 00000KT 10SM CLR 02/02 A3028 RMK AO2 CYSP 222200Z 25005G18KT 200V300 15SM BKN025 OVC030 M02/M07 A2999 RMK SC6SC2 CIG RAG LAST STFD OBS/NEXT 231300UTC SLP178 CYTH 231200Z 00000KT 15SM SKC M23/M25 A2985 RMK SLP137 KEGI 231256Z AUTO 36006KT 10SM SCT024 BKN043 09/03 A3001 RMK AO2 SLP164 T00900028 $ EHJR 231225Z AUTO 26027G31KT //// ///////// 10/01 Q0996 W12/H26 OSLK 231300Z 14008KT 9999 FEW026 SCT030 BKN100 17/07 Q1017 KEHA 231255Z AUTO 28008KT 10SM CLR 09/03 A3018 RMK AO2 T00930034 EGSS 231250Z AUTO 24020KT 9999 FEW040 10/02 Q0999 CYUA 231200Z AUTO 22017KT ////SM //// FEW041 OVC050 ///// A//// KEFT 231255Z AUTO 20007KT 10SM SCT048 M02/M06 A2996 RMK AO2 EGTK 231250Z 23023G35KT 190V250 9999 SCT036 10/04 Q0998 CYUB 230600Z 15005KT 15SM -SN BKN024 BKN046 M22/M24 A2951 RMK SC6SC1 LASTOBS/NXT 231400Z SLP994 KDPL 231245Z AUTO 02006KT 10SM CLR 03/M01 A3016 RMK AO2 KCXU 231255Z AUTO 00000KT 10SM BKN011 BKN029 OVC043 13/08 A3001 RMK AO1 T01280083 EGUB 231250Z 22016KT 9999 FEW032 11/03 Q0999 BLU NOSIG KEHC 231255Z AUTO 03018G23KT 10SM CLR 15/06 A3011 RMK A01 CYTL 231200Z AUTO 31013G18KT 9SM -SN FEW037 OVC060 M14/M16 A2974 RMK SLP093 KDOV 231256Z AUTO 31006KT 10SM CLR 00/M03 A3017 RMK AO2 SLP220 T00021028 $ KCXY 231256Z 25004KT 10SM CLR M01/M07 A3017 RMK AO2 SLP221 T10111072 CYSY 230000Z VRB02KT 1/2SM -SN FZFG OVC002 M25/M28 A2976 RMK FG4ST4 LAST OBS/NEXT 231400Z SLP095 VGHS 231230Z 30003KT 3500 HZ SCT100 25/16 Q1010 NOSIG KDQH 231255Z AUTO 08008KT 10SM BKN009 OVC110 12/11 A3002 RMK AO2 CYTQ 222200Z 21019KT 15SM FEW040 SCT150 M11/M13 A2971 RMK SC1AC2 LAST STFD OBS/NEXT 231300UTC SLP066 CYTR 231200Z 00000KT 15SM OVC033 M04/M08 A3011 RMK SC8 SLP204 KCYS 231253Z 26005KT 10SM CLR 06/02 A3021 RMK AO2 SLP196 T00610017 KDRA 231255Z AUTO 03003KT 10SM CLR 09/01 A3022 RMK AO2 SLP207 T00890011 CYTS 231200Z 21008G21KT 160V270 15SM -SN BKN018 OVC040 M03/M06 A2974 RMK SF6SC2 SLP093 EGVA 231256Z AUTO 00000KT 9999 FEW047 11/04 A2947 RMK AO2 PK WND 21034/07 RAB16E26DZB26E27 SLP983 P0000 T01050035 $ EHMA 231255Z AUTO 26018KT 9999 -DZ SCT029 BKN032 OVC040 10/08 Q0996 REDZ EICK 231230Z 29012KT 9999 FEW022 BKN160 09/04 Q1000 NOSIG KCZL 231255Z AUTO 36003KT 10SM BKN039 01/M01 A3012 RMK AO2 T00051008 CYUL 231200Z 28005KT 15SM FEW015 FEW020 SCT240 M08/M11 A3014 RMK CF1SC1CI3 CF TR SLP209 CYVC 231250Z 10011KT 2SM -SN OVC045 M13/M15 A2963 RMK SC8 SLP072 EGUL 231256Z AUTO 23019G29KT 9999 SCT045 11/04 A2945 RMK AO2 PK WND 23031/23 SLP976 T01050044 KEGV 231255Z AUTO 24003KT 10SM OVC025 M05/M07 A2987 RMK AO2 T10461075 CZMD 231200Z AUTO 27005KT 9SM -SN BKN020 OVC045 M15/M17 A2978 RMK SLP114 EHKV 231255Z AUTO 26030KT 9999 NCD 10/03 Q0997 EGUN 231256Z AUTO 22017G26KT 9999 SCT045 11/04 A2945 RMK AO2 PK WND 22033/35 SLP976 T01070042 $ KEHO 231245Z AUTO 02003KT 10SM CLR 00/M02 A3015 RMK AO2 T00001025 EHMG 231255Z AUTO 25030KT 9999 FEW026 10/02 Q0995 CYTZ 231200Z AUTO 25009KT 9SM OVC043 00/M07 A3009 RMK SLP195 KEHR 231256Z AUTO 00000KT 10SM CLR M05/M06 A3018 RMK AO2 SLP234 T10501056 FZRANO KDRI 231255Z AUTO 00000KT 10SM CLR 01/00 A3021 RMK AO2 T00050000 CZMJ 231200Z AUTO 23013KT 04/02 RMK AO1 SOG 03 6031 PK WND 23018/1120 SLP054 T00350016 CYWA 231254Z AUTO 13005KT 9SM OVC022 M06/M10 A3004 CYUS 231221Z AUTO 04011KT ////SM //// SCT021 BKN028 OVC042 ///// A//// KEIK 231300Z AUTO 00000KT 10SM CLR 02/00 A3025 RMK AO2 T00180000 KCZT 231255Z AUTO 00000KT 10SM CLR 00/00 A3022 RMK AO2 CYUT 222300Z CCA 11018G25KT 15SM -FZDZ -SG DRSN BKN016 OVC029 M04/M05 A2936 RMK ST6SC2 -2.6/-4.0/0.4/9.0 SNW CVR/TRACE LOOSE LAST STFD OBS/NXT 231300Z SLP945 EIDL 231230Z 34013KT 9999 BKN041 06/02 Q0994 CYVL 231200Z AUTO 34003KT 9SM SCT110 BKN150 BKN200 M20/M22 A2940 RMK SLP991 KDRM 231254Z AUTO 21004KT 10SM -SN BKN018 OVC024 01/M02 A2990 RMK AO2 T00071023 CYVM 231242Z AUTO 14023KT 5SM BR BKN005 BKN009 OVC110 M01/M01 A2974 RMK SLP072 CYWE 231248Z AUTO 06010KT 2 1/2SM BR OVC003 M29/M31 A2954 RMK PRESFR SLP066 EGUW 231250Z 24017KT 9999 FEW035 10/01 Q0998 BLU NOSIG KDRO 231253Z AUTO 07005KT 10SM CLR M05/M07 A3038 RMK AO2 SLP292 T10501067 EHLW 231255Z AUTO 26015KT 9000 DZ FEW015CB BKN027 OVC034 10/08 Q0997 BLU 20020G30KT 9999 FEW010 SCT050 TEMPO 21025G35KT 4000 SHRA FEW008 SCT015CB BKN020 EGVN 231250Z 23011KT 9999 FEW035 11/02 Q0998 BLU NOSIG KFAF 231258Z AUTO 02006KT 10SM CLR 03/M03 A3017 RMK AO2 SLP220 T00281029 $ CYVO 231254Z 19010KT 6SM -FZDZ BKN019 OVC028 M08/M09 A2983 RMK SC7SC1 SLP132 CYUX 231200Z 14019G27KT 15SM DRSN FEW055 SCT095 SCT150 OVC200 M05/M07 A2955 RMK SC2AC1AC1CI4 -1.3/-4.5/2.6/128 SNW CVR/MUCH LOOSE SLP010 EGVO 231250Z 25019KT 9999 FEW040 11/01 Q1001 BLU NOSIG KEHY 231255Z AUTO 24022G29KT 10SM CLR 06/01 A3025 RMK AO2 EGVP 231250Z 24015G25KT 9999 FEW043 11/02 Q1001 BLU NOSIG CYWG 231200Z 00000KT 15SM BKN066 BKN120 M07/M09 A2987 RMK AC5AC1 SLP133 CYUY 231200Z 22008KT 15SM -SN SCT008 OVC011 M06/M07 A2983 RMK SF3SC5 SLP124 CYVP 231200Z 25003KT 220V300 15SM FEW050 SCT200 M13/M14 A2974 RMK SC1CI3 SC TR SLP078 KCZZ 231252Z AUTO 36003KT 09/01 A3010 RMK AO1 SLP170 T00890011 CYWH 230500Z 24012KT 8SM -SHRA FEW008 BKN025TCU OVC040 13/11 A2977 RMK CF2TCU3SC3 LAST STFD OBS/NEXT 231400 UTC SLP083 CYVQ 231200Z 00000KT 30SM -SN BKN040 BKN086 BKN140 M22/M26 A2949 RMK SC5AC1AC1 AC TR SLP997 KEIR 231255Z AUTO 05018KT 10SM CLR 12/06 A3012 RMK A01 CYVR 231251Z 24010KT 15SM -RA BKN046 OVC076 11/08 A2978 RMK SC5AC3 SLP085 KDTA 231255Z AUTO 06004KT 10SM CLR 01/00 A3032 RMK AO1 CYWJ 230000Z 15005KT 40SM FEW004 SCT130 M26/M29 A2974 RMK ST2AC2 -25.3/-31.7/0/11 SNW CVR/MUCH LOOSE LAST STFD OBS/NEXT 231400 UTC SLP104 KDRT 231253Z AUTO 00000KT 10SM CLR 03/M01 A3021 RMK AO2 SLP226 T00281011 CYVT 231200Z 15013G21KT 12SM -FZRA -SN SCT010 OVC050 M11/M13 A2949 RMK ST4SC4 ICG ON INDICATOR SNW CVR/MEDIUM PACK PRESFR SLP024 CZMT 230200Z 15002KT 15SM FEW005 FEW012 BKN040 BKN070 OVC200 06/06 A2934 RMK SF1SC1SC3AS2CS1 LAST STFD OBS/NEXT 231500 UTC SLP936 CYWK 231200Z 15003KT 110V210 15SM FEW030 M23/M26 A2964 RMK SC1 SLP090 CZMU 231200Z AUTO 12005KT M06/M08 RMK AO1 SOG 08 T10611076 CYXC 231200Z 15016KT 20SM -RA OVC054 10/09 A2966 RMK SC8 SLP054 DENSITY ALT 3600FT CYWL 231247Z 14011G17KT 15SM SCT050 OVC120 04/02 A2949 RMK SC4AC4 SLP005 DENSITY ALT 3100FT KDSM 231254Z 26005KT 10SM FEW200 OVC250 M01/M06 A2997 RMK AO2 SLP158 T10111061 KFAM 231256Z AUTO 16005KT 10SM SCT085 M03/M07 A3014 RMK AO2 SLP215 T10281067 FZRANO EGXC 231250Z 22021G31KT 9999 SCT044 10/02 Q0994 BLU NOSIG CYVV 231200Z 24013G20KT 15SM OVC028 01/M04 A3000 RMK SC8 SLP170 EGXE 231250Z 22017KT 9999 FEW020CB BKN030CB BKN050 07/04 Q0989 BLU TEMPO 22021G31KT 6000 SHRA SCT020 WHT CYXE 231216Z 11011KT 3SM BR BCFG OVC003 M08/M09 A2956 RMK ST8 VIS VRB 2-4 SLP047 EIDW 231230Z 28018G28KT 9999 SCT020 SCT040 07/03 Q0996 NOSIG KFBG 231256Z AUTO 03003KT 10SM BKN170 BKN200 04/M02 A3015 RMK AO2 SLP214 T00361016 $ CYXH 231200Z AUTO 20015G22KT 9SM CLR 11/05 A2957 RMK PRESFR SLP029 DENSITY ALT 2800FT KFAR 231253Z 18004KT 10SM OVC009 M02/M06 A2993 RMK AO2 CIG 006V010 SLP147 T10221056 KDUA 231255Z AUTO 00000KT 10SM 00/M03 A3019 RMK AO2 KELA 231255Z AUTO 35004KT 10SM CLR 04/00 A3021 RMK AO2 T00370000 CYXJ 231200Z 22012G17KT 35SM BKN140 OVC200 01/M01 A2916 RMK AC5CI3 SLP913 KFAT 231253Z 00000KT 5SM BR CLR 10/08 A3012 RMK AO2 SLP198 T01000078 KDUB 231255Z AUTO 32015G22KT 10SM CLR 07/00 A3022 RMK AO2 CYYB 231200Z 17007KT 15SM BKN008 OVC031 M06/M06 A2991 RMK ST5SC3 SLP156 KFBL 231254Z AUTO 00000KT 10SM CLR M07/M09 A2994 RMK AO2 KDTL 231253Z AUTO 25004KT 10SM SCT005 M06/M07 A2992 RMK AO2 KDUC 231255Z AUTO 00000KT 7SM CLR 01/M06 A3016 RMK AO2 T00081058 KEKM 230152Z 00000KT 10SM CLR M02/M05 A3023 RMK AO2 LAST CZOL 231200Z AUTO 32001KT M07/M08 RMK AO1 T10651081 CYYC 231200Z 25007KT 210V270 15SM FEW250 10/02 A2946 RMK CI1 CI TR SLP990 DENSITY ALT 4500FT CZPC 231245Z AUTO 21011G17KT 9SM BKN070 OVC094 10/06 A2961 RMK SLP028 DENSITY ALT 4500FT CYXL 231200Z CCA 28007KT 15SM -SN SCT009 BKN017 OVC043 M07/M09 A2979 RMK SC4SC2SC2 SLP119 EGWU 231250Z 25018KT 9999 FEW040 11/02 Q1000 NOSIG KELD 231253Z AUTO 00000KT 10SM CLR M01/M02 A3022 RMK AO2 SLP233 T10061017 KDSV 231254Z AUTO 10004KT 10SM OVC033 M02/M07 A3012 RMK AO2 SLP216 T10171067 EGYD 231250Z 22025G39KT 9999 BKN040 10/02 Q0993 BLU NOSIG KDTN 231253Z 00000KT 10SM CLR 00/M02 A3022 RMK AO2 SLP232 T00001022 CYYD 231226Z AUTO 28003KT 230V030 9SM -FZRA BKN011 OVC055 01/01 A2932 RMK ICG SLP946 KEKN 231251Z AUTO 00000KT 9SM CLR M06/M07 A3013 RMK AO2 SLP231 I1000 T10561072 TSNO EGYE 230950Z 22015KT CAVOK ///// Q0993 BLU CYYE 231200Z 00000KT 5SM -SN BKN024 OVC035 M16/M18 A2929 RMK SC6SC2 /S07/ SLP954 KDTO 231253Z 00000KT 10SM CLR M01/M03 A3019 RMK AO2 SLP223 T10111033 KEKO 231256Z AUTO 14004KT 9SM CLR 02/01 A3029 RMK AO2 SLP255 T00170006 TSNO OTHH 231200Z 35018KT 9000 FEW025 FEW035TCU BKN100 24/15 Q1013 RERA NOSIG CYYF 231242Z 19006KT 10SM -SHRA SCT018 BKN024 BKN061 10/08 A2976 RMK SF3SC3SC1 CVCVT CLD ENBD SLP084 KFAY 231253Z 03005KT 10SM CLR 04/M01 A3015 RMK AO2 SLP206 T00441006 KDUG 231256Z AUTO 00000KT 10SM CLR 01/M11 A3025 RMK AO2 SLP217 T00111106 $ CYXP 231237Z 25010KT 210V270 2 1/2SM -SN OVC015 M00/M02 A2963 RMK SN4SC4 CIG ESTD SLP037 CYWY 222300Z 13005KT 15SM FEW120 SCT250 M27/M30 A2982 RMK AC1CI2 -26.4/-34.1/0/20 LAST OBS/NXT 231500Z SLP125 EGXP 231250Z 22024KT 9999 BKN037 09/03 Q0992 BLU CYYG 231246Z 29021G36KT 8SM -SN FEW007 BKN014 OVC022 01/00 A2945 RMK SC2SC5SC1 PRESRR SLP977 KDUH 231254Z AUTO 21003KT 10SM BKN120 M01/M04 A3013 RMK AO2 T10071042 KEKQ 231256Z AUTO 01007KT 300V080 9SM CLR M07/M08 A3018 RMK AO2 SLP251 T10671078 PNO $ EHPG 231255Z AUTO 25030KT 190V300 9999 FEW036 11/// Q0998 KFCH 231255Z AUTO 28006KT 3SM BR CLR 10/09 A3012 RMK A01 CYXQ 222300Z VRB02KT 3SM -SN OVC040 M28/M31 A2964 RMK SC8 CLIMAT -27.9/-30.4/0.6 CM/0.4 MWE/LAST STFD OBS/NXT 231700Z SLP127 EGYH 231150Z 24024G34KT CAVOK 09/04 Q0995 BLU CYYH 231254Z 05009KT 15SM -SN FEW008 BKN016 OVC041 M05/M06 A2951 RMK ST2SC4SC2 SLP998 KFBR 231255Z AUTO 26005KT 10SM CLR 05/01 A3038 RMK AO2 T00530012 CYXR 231239Z AUTO 20012G17KT 9SM -SN FEW028 SCT035 OVC060 M03/M05 A2984 RMK SLP123 KDTS 231253Z 36010KT 10SM OVC045 13/04 A3000 RMK AO2 SLP158 T01280039 KDUJ 231253Z AUTO 26006KT 10SM OVC024 M03/M08 A3008 RMK AO2 SLP207 T10281078 KEKS 231255Z AUTO 18009KT 10SM CLR 07/03 A3016 RMK AO2 EGXS 231150Z AUTO 20024KT 9999 // NCD 09/03 Q0992 CYYJ 231236Z VRB02KT 30SM -RA FEW038 FEW061 BKN079 OVC110 13/09 A2978 RMK SC1SC1AC3AC3 SLP086 DENSITY ALT 100FT CYXS 231252Z AUTO 17009KT 7SM SCT140 SCT170 SCT200 02/02 A2938 RMK SLP977 KELK 231255Z AUTO 00000KT 10SM CLR 02/M06 A3011 RMK AO2 T00211065 EGXT 231250Z 21022G33KT 9999 SCT035 10/04 Q0995 BLU CYXT 231249Z 34004KT 5SM -RA BR SCT002 BKN007 OVC012 00/M00 A2940 RMK SF3SF3SC2 SLP965 EGXU 231250Z 23022G33KT 9999 -SHRA SCT027CB SCT050 08/03 Q0989 BLU TEMPO 4000 SHRA BKN018CB CYXU 231200Z 24009KT 15SM BKN084 BKN250 M02/M06 A3008 RMK AC7CI1 CI TR SLP199 CYYL 231200Z AUTO VRB02KT 9SM CLR M26/M28 A2978 RMK SLP128 KELM 231253Z 00000KT 10SM BKN032 M03/M07 A3012 RMK AO2 SLP213 T10281067 KFCM 231253Z 00000KT 10SM CLR M05/M08 A2994 RMK AO2 SLP151 T10501078 EGYM 231250Z 23022KT 9999 FEW024 10/03 Q0997 BLU NOSIG EGXV 231250Z AUTO 22021G35KT 9999 FEW036/// SCT043/// 09/03 Q0990 KDTW 231253Z 19006KT 10SM SCT060 BKN110 BKN200 M02/M05 A3012 RMK AO2 SLP208 T10221050 $ KELN 231253Z AUTO 08006KT 2 1/2SM BR BKN004 OVC085 06/04 A2983 RMK AO2 RAB08E28 SLP107 P0000 T00560044 CYZE 231253Z AUTO 23013G19KT 9SM -RA BKN026 BKN030 OVC060 01/M02 A2991 RMK SLP139 CYYN 231200Z AUTO 23020KT 9SM CLR 06/02 A2956 RMK SLP037 KEKX 231255Z AUTO 00000KT 10SM CLR M05/M06 A3016 RMK AO2 T10481056 KELO 231253Z AUTO 00000KT 10SM CLR M09/M09 A2984 RMK AO2 EGXW 231250Z 22022KT 9999 FEW032 BKN038 09/01 Q0993 BLU NOSIG EHQE 231255Z AUTO 22028KT 9999 FEW022 11/04 Q0997 CYZF 231200Z 09011KT 15SM BKN008 OVC120 M18/M20 A2956 RMK SC7AC1 PRESFR SLP038 CYXX 231256Z 21013KT 10SM -RA FEW012 OVC069 12/09 A2978 RMK SF1AC8 SF TR SLP086 KELP 231251Z 03007KT 10SM FEW250 07/M03 A3025 RMK AO2 SLP213 T00671028 KEKY 231256Z AUTO 34006KT 10SM CLR 00/M03 A3010 RMK AO2 SLP216 T00001028 FZRANO CYZG 222200Z 17028KT 7SM -SN DRSN FEW012 BKN060 BKN210 M11/M14 A2931 RMK SF2SC3CI1 SNW CVR/TRACE LOOSE/LAST STFD OBS/NEXT OBS 231300UTC SLP950 CYXY 231200Z 00000KT 4SM -SN SCT055 OVC075 M19/M21 A2930 RMK SC4AC4 SLP993 EGYP 231250Z 21028KT 9999 FEW022 BKN032 BKN050 05/01 Q0995 BLU NOSIG CYXZ 231200Z 24009G19KT 8SM -SN BKN009 OVC016 M00/M02 A2978 RMK ST7SC1 SLP100 CYYQ 231200Z 28017G23KT 15SM IC SKC M21/M24 A2969 RMK SLP058 EGXZ 231250Z 23017KT 9999 RA SCT023 OVC046 07/05 Q0989 WHT CYZH 231224Z AUTO 10004KT 090V220 3SM -SN SCT016 BKN027 OVC033 M05/M06 A2936 RMK ICG SLP977 CYYR 231234Z 04009KT 5/8SM -SN OVC004 M01/M02 A2962 RMK SF8 SLP033 KFCS 231258Z AUTO 33009KT 10SM CLR 06/M01 A3026 RMK AO2 SLP252 T00571006 CZPS 231200Z AUTO 21011KT 06/01 RMK AO1 T00600007 KFDK 231247Z 00000KT 10SM BKN038 M01/M06 A3022 KEMK 231255Z AUTO 04013G19KT 9SM BKN035 17/10 A3014 RMK A01 KDVK 231255Z AUTO 00000KT 10SM CLR M06/M07 A3018 RMK AO2 CYYT 231200Z 18009KT 15SM BKN010 OVC120 03/01 A2988 RMK SC5AC3 SLP128 KDVL 231256Z AUTO 13006KT 9SM CLR M06/M07 A2982 RMK AO2 SLP137 T10611067 FZRANO CYYU 231236Z 27008KT 8SM -SN BKN010 OVC013 M03/M04 A2969 RMK SC7SC1 SLP072 KEND 231256Z AUTO 18004KT M M CLR 01/M05 A3009 RMK AO2 SLP201 T00061048 RVRNO $ KEMM 231255Z AUTO 32003KT 10SM CLR 01/00 A3036 RMK AO2 KDVN 231252Z AUTO 19007KT 10SM CLR M02/M07 A3000 RMK AO2 SLP164 T10171067 EHRD 231255Z AUTO 25017KT 220V280 9999 BKN044 BKN049 11/09 Q1000 NOSIG CYYW 231200Z AUTO 28006KT 9SM -SN OVC014 M07/M09 A2974 RMK SLP100 KDUX 231255Z AUTO 31006KT 10SM CLR 06/M01 A3020 RMK AO2 T00601015 KDVO 231255Z AUTO 00000KT 1SM BR BKN002 10/10 A3013 RMK AO2 KELY 231253Z AUTO 15007KT 10SM CLR 01/M03 A3036 RMK AO2 SLP251 T00111028 KEMP 231253Z AUTO 22004KT 10SM CLR M01/M06 A3007 RMK AO2 SLP196 T10061056 $ KDVP 231240Z AUTO 29006KT 10SM CLR M04/M10 A2996 RMK AO2 T10411096 CYZP 231229Z AUTO 25011KT 7SM -RA FEW018 SCT025 BKN033 OVC040 07/06 A2945 RMK SLP975 CYYY 231200Z 30017G22KT 30SM BKN027 M05/M10 A2984 RMK SC7 SLP110 KDWH 231253Z 00000KT 10SM CLR 03/02 A3021 RMK AO2 SLP229 T00280022 KELZ 231256Z AUTO 23005KT 10SM OVC020 M02/M08 A3006 RMK AO2 SLP204 T10221078 $ CYYZ 231200Z 19004KT 15SM BKN038 OVC095 M01/M08 A3008 RMK SC7AC1 SLP196 KFDR 231253Z AUTO 04004KT 10SM CLR 01/M05 A3012 RMK AO2 SLP202 T00061050 KFFA 231240Z AUTO 01004KT 10SM SCT025 08/02 A3013 RMK AO2 T00770021 CYZR 231200Z AUTO 22008KT 9SM OVC060 M01/M05 A3008 RMK SLP196 KEMT 230245Z VRB04KT 10SM CLR 24/07 A3002 EHSA 231225Z AUTO 24026G31KT 9999 ///////// 11/05 Q1000 W12/H22 CYZS 231200Z CCA 26008KT 12SM -SN SCT014 OVC028 M10/M12 A2930 RMK SC3SC5 /S01/ SLP929 KDVT 231253Z 00000KT 10SM CLR 16/00 A3008 RMK AO2 SLP168 T01560000 CYZT 231200Z 17005KT 10SM -SHRA BKN040 OVC083 08/06 A2964 RMK CU6AC2 SLP040 KFFC 231253Z AUTO 00000KT 10SM CLR 02/01 A3006 RMK AO2 SLP185 T00220011 KENL 231255Z AUTO 18005KT 5SM BR BKN095 M02/M04 A3014 RMK AO2 T10161040 EHSC 231225Z AUTO 27032G37KT 9999 ///////// 12/06 Q0999 W12/H21 CYZU 230500Z 08005KT 15SM BKN130 M05/M07 A2950 RMK AC7 LAST OBS/NEXT 231300Z PRESFR SLP037 KEOD 231258Z AUTO 00000KT 10SM FEW150 M04/M05 A3017 RMK AO2 SLP225 T10401053 KEMV 231255Z AUTO 00000KT 10SM CLR 00/M02 A3021 RMK AO2 CYZV 231200Z 31009G15KT 30SM FEW030 FEW220 M04/M07 A2961 RMK SC1CI1 SC TR SLP033 KFDW 231255Z AUTO 05006KT 10SM CLR 05/M01 A3012 RMK AO1 KEOE 231255Z AUTO 02007KT 10SM CLR 04/00 A3015 RMK AO2 CYZW 230100Z 31004KT 15SM FEW012 SCT030 OVC090 M14/M16 A2943 RMK SC1SC2AC5 CLIMAT -13.6/-14.2/0.4 CM/0.4 MM WE/40013/LAST STFD OBS/NXT 231700 UTC SLP029 CYZX 231230Z 28017KT 15SM BKN019 03/M00 A2973 RMK SC7 WNDY HILL UNAVBL SLP068 KFDY 231253Z AUTO 20007KT 10SM CLR M01/M05 A3012 RMK AO2 SLP206 T10111050 KFEP 231255Z AUTO 20008KT 10SM CLR M02/M06 A2999 RMK AO2 T10201063 CYZY 231200Z AUTO 13015KT 9SM BKN040 BKN085 BKN130 OVC210 04/03 A2928 RMK SLP943 KDYA 231255Z AUTO 00000KT 10SM 00/M02 A3012 RMK AO2 T10031024 CZSJ 231200Z AUTO 29005KT 9SM -SN OVC038 M15/M17 A2982 RMK SLP127 KDYB 231255Z AUTO 02004KT 10SM OVC110 08/04 A3010 RMK AO1 KEOK 231255Z AUTO 20008KT 10SM CLR M00/M06 A3000 RMK AO2 KFET 231255Z AUTO 29005KT 10SM CLR M01/M03 A3002 RMK AO2 T10131028 CZTB 231200Z AUTO 27010KT M04/M07 RMK AO1 SOG 01 6016 PK WND 26024/1109 SLP111 T10391072 KFFL 231255Z AUTO 20007KT 10SM CLR M01/M07 A2997 RMK AO2 PWINO KDWU 231256Z AUTO RMK AO2 SLPNO PWINO FZRANO RVRNO $ KFFM 231254Z AUTO 00000KT 10SM CLR M09/M11 A2997 RMK AO2 KENV 231256Z AUTO 13003KT 10SM CLR 04/01 A3029 RMK AO2 SLP264 T00390006 CZSM 231200Z AUTO 09006KT M14/M16 RMK AO1 SOG 19 6060 SLP010 T11391161 KENW 231253Z 20009KT 10SM OVC070 01/M07 A3000 RMK AO2 SLP167 T00111072 KFEW 231158Z AUTO 28005KT 10SM CLR 05/00 A3025 RMK AO2 SLP212 T00470003 10101 20047 55008 $ KFFO 231256Z AUTO 15004KT 10SM OVC110 M03/M05 A3015 RMK AO2 SLP224 T10291046 KDWX 231255Z AUTO 00000KT 10SM CLR M01/M02 A3039 RMK AO2 T10131021 VHHH 231230Z 03007KT 360V060 9999 FEW040 18/07 Q1022 NOSIG PLCH 231300Z 12006KT 9999 FEW020 24/22 Q1009 CZSP 231200Z AUTO 28033G50KT 02/02 RMK AO1 7PAST HR PRESRR 3104 PK WND 28051/1138 SLP916 P0011 T00230015 50222 KEPH 231253Z AUTO 00000KT 1/4SM FG VV001 06/04 A2981 RMK AO2 SLP100 T00560039 ZUUU 231200Z VRB01MPS CAVOK 08/05 Q1029 NOSIG KDXR 231253Z 36006KT 10SM CLR M01/M08 A3009 RMK AO2 SLP192 T10061078 KH78 231140Z 34020KT 12SM BKN020 19/15 A2996 RMK SEAS 3-5 KEQA 231255Z AUTO 19006KT 10SM CLR 00/M05 A3008 RMK AO2 KFFT 231253Z AUTO 00000KT 9SM CLR M06/M08 A3015 RMK AO2 SLP218 T10561078 KDZB 231255Z AUTO 00000KT 10SM CLR M01/M03 A3021 RMK AO2 T10121030 CZST 230100Z 00000KT 8SM -RA FEW007 BKN055 OVC070 00/00 A2943 RMK SC1SC4AS3 LAST STFD OBS/NEXT 231500Z/ SLP967 KDYL 231254Z AUTO 31004KT 10SM CLR M03/M08 A3014 RMK AO2 SLP213 T10281083 FABL 231243Z 28017G27KT 260V320 CAVOK 30/M03 Q1015 NOSIG FABM 230305Z 09014KT 9999 FEW015 12/09 Q1025 KFGN 231253Z AUTO 00000KT 10SM OVC043 M07/M09 A2984 RMK AO2 EIKN 231230Z 27016KT 9999 FEW015 FEW020CB 05/01 Q0997 NOSIG KDXX 231254Z AUTO 26004KT 10SM CLR M04/M07 A2998 RMK AO2 KFFX 231250Z AUTO 21005KT 10SM OVC040 02/M04 A3000 RMK AO2 T00151037 KFFZ 231250Z 03008KT 20SM SKC 17/M01 A3009 PKMJ 230150Z 11008KT 15SM FEW015 SCT050 BKN300 31/26 A2971 RMK LAST KDYR 231256Z AUTO 00000KT 10SM CLR M04/M06 A3020 RMK AO2 SLP242 T10391061 FZRANO PNO $ KDYS 231256Z AUTO 00000KT 8SM CLR 00/M03 A3017 RMK AO2 SLP229 T10011026 $ KDYT 231253Z AUTO 23006KT 10SM CLR M05/M07 A2993 RMK AO2 CZUM 231201Z AUTO 32004KT 9SM -SN OVC075 M10/M11 A2961 RMK SLP058 KFGX 231235Z AUTO 00000KT 7SM CLR M07/M07 A3018 RMK AO2 T10661071 EIME 231230Z 27016KT 9999 FEW020 BKN023 06/03 Q0996 KFIG 231254Z AUTO 25005KT 10SM OVC024 M01/M06 A3011 RMK AO2 SLP211 T10111061 EIKY 231230Z 29008KT 260V320 9999 BKN043 09/04 Q1000 PKMR 231255Z 09009KT 15SM FEW015 SCT300 29/25 A2973 RMK SLP069 T02870247 KERI 231251Z 21013KT 10SM OVC029 M01/M07 A3013 RMK AO2 SLP210 T10061067 VISNO NE KFHR 231253Z AUTO VRB06KT 10SM -RA OVC070 13/08 A2979 RMK AO2 RAB43 SLP089 P0000 T01280083 FACT 231200Z 23012KT 210V270 9999 BKN040 19/09 Q1020 NOSIG EHVK 231255Z AUTO 21019KT 180V250 9999 SCT028 BKN031 BKN036 15/10 Q1000 BLU 21025G35KT 9999 BKN035 OVC040 TEMPO 22030G40KT SCT020CB BKN025 OVC035 KESC 231256Z AUTO 23006KT 10SM BKN047 OVC075 M02/M06 A2993 RMK AO2 SLP161 T10171061 FZRANO KFHU 231258Z AUTO 27003KT 10SM CLR 09/M07 A3026 RMK AO2 SLP208 T00891074 CZVL 231200Z AUTO 32004KT 4SM BR CLR M08/M09 A2929 RMK SLP959 EHVL 231255Z AUTO 26027KT 9999 FEW034 BKN054 OVC060 10/05 Q0996 BLU KGAD 231256Z AUTO 36006KT 10SM CLR 00/M02 A3013 RMK AO2 SLP209 T00001017 FZRANO FACV 230854Z 30004KT CAVOK 21/M02 Q1019 KFIN 231250Z 08005KT 3SM -RA BKN010 OVC028 19/19 A2992 KESF 231253Z AUTO 00000KT 10SM CLR M03/M03 A3019 RMK AO2 SLP222 T10281033 KGAF 231255Z AUTO 14005KT 9SM OVC016 M04/M04 A2988 RMK AO2 PWINO VIAR 231230Z 00000KT 4500 FU NSC 18/05 Q1013 NOSIG KGAG 231253Z AUTO 24005KT 10SM CLR 02/M02 A3011 RMK AO2 SLP203 T00171022 KEQY 231253Z AUTO 04006KT 10SM CLR 03/M02 A3014 RMK AO2 SLP222 T00281017 KI16 231255Z AUTO 10SM M06/M07 A3019 RMK AO2 T10611073 KGAI 231256Z AUTO 00000KT 10SM CLR M05/M07 A3019 RMK AO2 SLP255 T10501067 FZRANO KFKA 231255Z AUTO 24003KT 10SM CLR M04/M08 A2992 RMK AO2 T10451085 KFIT 231252Z AUTO 32013G17KT 10SM CLR 00/M08 A3002 RMK AO2 SLP169 T00001078 KI19 231250Z AUTO 00000KT 10SM SCT120 00/00 A3017 RMK AO2 T00031002 KETB 231255Z AUTO 22004KT 10SM OVC060 M01/M07 A2997 RMK AO2 FAEL 231200Z 10014KT 070V130 9999 FEW016 21/14 Q1020 KGBD 231256Z AUTO 28007KT 10SM CLR 04/01 A3009 RMK AO2 SLP197 T00390011 KERV 231255Z AUTO 30004KT 10SM CLR M02/M03 A3021 RMK AO2 T10181033 KESN 231250Z 00000KT 10SM FEW100 01/M03 A3022 KI23 231251Z AUTO 00000KT 10SM CLR M04/M05 A3016 RMK AO1 EINN 231230Z 31010KT 9999 FEW020 SCT200 09/02 Q0999 NOSIG KGAO 231255Z AUTO 35007KT 10SM CLR 06/02 A3011 RMK AO2 T00590015 FAEO 231154Z 06013KT 9999 SCT015 18/13 Q1023 EHWO 231255Z AUTO 27017KT 230V310 9999 FEW015CB SCT018 BKN021 OVC026 11/09 Q1001 RERA WHT 22017G27KT 9999 SCT020 BKN024 TEMPO 24020G35KT 4000 SHRA FEW015 SCT018CB BKN020 KERY 231254Z AUTO 23005KT 10SM OVC046 M04/M06 A2989 RMK AO2 T10361060 KGBG 231255Z AUTO 19008KT 10SM CLR M01/M05 A3001 RMK AO2 T10101052 FADY 230849Z 17002KT CAVOK 23/M08 Q1020 KETH 231256Z AUTO 22003KT 10SM CLR M06/M08 A2996 RMK AO2 KEST 231252Z AUTO 32007KT 10SM CLR M04/M06 A2995 RMK AO2 SLP158 T10391056 KGBK 231255Z AUTO VRB05G15KT 10SM SCT032 18/11 A3008 RMK A01 KGCC 231253Z AUTO 22018KT 10SM CLR 11/02 A3002 RMK AO2 SLP154 T01060022 KFKL 231256Z AUTO 22006KT 10SM BKN120 M03/M07 A3011 RMK AO2 SLP216 T10331067 FZRANO KFLD 231253Z AUTO 20006KT 10SM OVC055 00/M07 A2996 RMK AO2 SLP156 T00001072 KGCD 231255Z AUTO 20016G23KT 10SM SCT080 SCT090 BKN110 17/04 A3004 RMK AO2 T01660035 KETN 231255Z AUTO 00000KT 10SM CLR M03/M05 A3018 RMK AO2 T10281045 KFKN 231255Z AUTO 00000KT 10SM CLR 00/M03 A3019 RMK AO2 T10011026 KEUF 231258Z AUTO 00000KT 10SM FEW024 SCT043 BKN050 08/03 A3003 RMK AO2 SLP169 I1000 T00780028 KEUG 231254Z 18006KT 9SM -RA SCT009 BKN018 OVC030 15/15 A2998 RMK AO2 RAE23B44 SLP151 P0003 T01500150 KI35 231255Z AUTO 00000KT 7SM CLR M03/M04 A3014 RMK AO1 KFLG 231257Z AUTO 00000KT 10SM CLR M04/M07 A3043 RMK AO2 SLP272 T10391067 FAGG 231200Z 13006KT 080V190 9999 FEW050 19/08 Q1019 KFKR 231255Z AUTO 22004KT 10SM OVC090 01/M02 A3012 RMK AO2 T00051018 KFKS 231256Z AUTO 25006KT 10SM BKN033 OVC045 03/M04 A2997 RMK AO2 T00281041 KEVB 231247Z 11010KT 7SM SCT025 BKN040 22/18 A2989 KGCK 231254Z AUTO 31006KT 10SM CLR 04/01 A3013 RMK AO2 SLP205 T00390006 KGDB 231250Z AUTO 26005KT 7SM CLR M06/M07 A2998 RMK AO2 T10571071 KFLL 231253Z 16007KT 10SM FEW022 FEW100 BKN250 25/22 A2990 RMK AO2 SLP124 T02500222 KEUL 231256Z AUTO 00000KT 1/4SM FG OVC002 08/08 A3010 RMK AO2 SLP193 T00830083 RVRNO KGCM 231255Z AUTO 00000KT 10SM CLR M01/M03 A3018 RMK AO2 FAGM 221600Z 18006KT CAVOK 17/12 Q1022 VIDP 231230Z 28005KT 3500 HZ NSC 21/03 Q1013 NOSIG KFME 231245Z AUTO 00000KT 10SM CLR M04/M05 A3021 RMK AO1 KGCN 231254Z AUTO 00000KT 10SM CLR M05/M07 A3042 RMK AO2 SLP281 T10501072 KFLO 231253Z 04008KT 10SM CLR 06/00 A3013 RMK AO2 SLP203 T00610000 $ KFLP 231256Z AUTO 00000KT 10SM CLR M03/M05 A3016 RMK AO2 SLP219 T10331050 FZRANO PNO $ KFMH 231255Z AUTO 29007KT 10SM CLR M00/M05 A3004 RMK AO2 KGDJ 231255Z AUTO 00000KT 10SM CLR 00/M02 A3021 RMK AO2 T10011021 CZZJ 231200Z AUTO 28003KT M05/M06 RMK AO1 SOG 18 5008 SLP978 T10511056 KFNB 231253Z AUTO 27003KT 10SM CLR 01/M05 A3002 RMK AO2 SLP172 T00061050 KEWB 231253Z 30005KT 10SM CLR 00/M06 A3003 RMK AO2 SLP170 T00001056 KEVM 231254Z AUTO 00000KT 7SM CLR M08/M10 A2988 RMK AO2 T10811100 KGED 231254Z AUTO VRB03KT 10SM CLR 01/M05 A3018 RMK AO2 SLP220 T00061050 KFMM 231255Z AUTO 25007KT 10SM CLR 03/00 A3018 RMK AO2 T00261005 KFMN 231253Z 09005KT 10SM CLR M03/M07 A3036 RMK AO2 SLP282 T10331067 KGEG 231253Z 22020G27KT 10SM FEW040 BKN075 OVC110 13/11 A2982 RMK AO2 PK WND 21029/1235 RAB34E51 SLP094 P0000 T01330106 KGDP 231251Z AUTO 23004KT 10SM CLR 09/M04 A3028 RMK AO2 SLP220 T00941039 KFLY 231255Z AUTO 28007KT 10SM CLR 05/M01 A3032 RMK AO2 T00531013 KFOA 231255Z AUTO 18004KT 10SM BKN100 M02/M04 A3017 RMK AO2 T10251043 KGFA 231258Z AUTO 22021G26KT 10SM CLR 15/03 A2981 RMK AO2 PK WND 21026/46 SLP091 T01480034 $ FAHS 231200Z AUTO 19010KT //// // ////// 24/17 Q1019 KEWK 231256Z AUTO 21006KT 10SM CLR 01/M06 A3008 RMK AO2 SLP195 T00111056 FZRANO KEVU 231235Z AUTO 23007KT 10SM CLR 00/M09 A3000 RMK AO2 FAJB 231300Z AUTO 01005KT //// // ////// 27/10 Q1018 KFNL 231256Z AUTO 00000KT 10SM CLR 05/02 A3020 RMK AO2 SLP203 T00500017 KEVV 231254Z 00000KT 10SM FEW110 M04/M05 A3018 RMK AO2 SLP226 T10391050 KFOD 231256Z AUTO 32005KT 10SM CLR M02/M05 A2996 RMK AO2 SLP187 T10171050 FZRANO KGDV 231256Z AUTO 24009KT 10SM CLR 08/04 A2982 RMK AO2 SLP109 T00830039 DRRM 231200Z 10014KT 1800 DU NSC 32/M06 Q1015 KFOE 231253Z 21003KT 10SM CLR 01/M05 A3006 RMK AO2 SLP185 T00111050 KEVW 231253Z AUTO 19009KT 10SM CLR 04/02 A3036 RMK AO2 SLP247 T00390017 KEWN 231254Z 01008KT 10SM CLR 04/01 A3016 RMK AO2 SLP213 T00390011 KI63 231255Z AUTO 19009KT 10SM CLR M02/M07 A3003 RMK AO2 T10181070 DRRN 231200Z 13012KT 2500 DU NSC 34/M06 Q1012 NOSIG KFMY 231253Z 14005KT 7SM FEW070 22/21 A2988 RMK AO2 SLP120 T02220211 EISG 231230Z 29019KT 9999 SCT041 08/00 Q0996 EKAH 231250Z AUTO 20012G29KT 150V260 9999NDV DZ BKN025/// BKN037/// 11/08 Q0991 KEWR 231251Z 27006KT 10SM FEW250 01/M07 A3013 RMK AO2 SLP202 T00061072 KI67 231255Z AUTO 00000KT 10SM OVC003 M03/M05 A3018 RMK AO1 FAIR 222109Z 22004KT 9999 -RA BKN035 20/15 Q1022 KI68 231255Z AUTO 00000KT 10SM CLR M02/M03 A3016 RMK AO2 KGFK 231253Z 20006KT 10SM OVC015 M02/M03 A2988 RMK AO2 SLP131 T10171028 KFOK 231253Z 00000KT 10SM CLR M01/M03 A3010 RMK AO2 SLP195 T10061033 KFNT 231253Z 21006KT 10SM OVC050 M01/M06 A3007 RMK AO2 SLP194 T10111061 KI69 231253Z AUTO 00000KT 10SM CLR M04/M05 A3017 RMK AO2 T10381046 KGEU 231249Z 00000KT 10SM SKC 12/03 A3009 RMK FIRST DRRT 231200Z 14014KT 4000 DU NSC 33/M06 Q1013 KGFL 231253Z AUTO 03005KT 10SM CLR M04/M09 A3012 RMK AO2 SLP208 T10441089 KGEV 231245Z AUTO 00000KT 10SM CLR M03/M07 A3007 RMK AO2 T10301067 KGGE 231255Z AUTO 03005KT 10SM BKN110 08/05 A3010 RMK AO2 KEYE 231253Z AUTO 18004KT 10SM OVC085 M01/M05 A3012 RMK AO2 SLP208 T10061050 VIGR 231200Z 00000KT 3000 HZ NSC 20/13 Q1013 KGGG 231253Z 00000KT 10SM CLR 00/00 A3020 RMK AO2 SLP230 T00000000 KGEY 231253Z AUTO 00000KT 10SM CLR M02/M02 A3011 RMK AO2 SLP218 T10171022 KI75 231255Z AUTO 24006KT 10SM CLR 00/M05 A2998 RMK AO2 T10051050 KGEZ 231253Z AUTO 19006KT 10SM BKN120 M01/M04 A3014 RMK AO2 SLP216 T10111044 KGGI 231255Z AUTO 22007KT 10SM CLR M01/M06 A2996 RMK AO2 T10151062 EKBI 231250Z AUTO 19021G36KT 8000NDV DZ OVC008/// 10/09 Q0991 FALA 231200Z 05013KT 9999 SCT035 28/12 Q1019 NOSIG KFPK 231255Z AUTO 20005KT 10SM BKN048 OVC060 M01/M07 A3005 RMK AO2 T10061071 KGHB 231255Z AUTO 02018KT 10SM SCT027 16/10 A3011 RMK A01 KFOT 231255Z AUTO 14006KT 10SM FEW029 BKN036 OVC050 15/13 A3013 RMK AO1 KFQD 231245Z AUTO 00000KT 10SM CLR M01/M01 A3016 RMK AO2 T10151015 FAKM 231200Z AUTO 25013KT //// // ////// 31/M12 Q1016 FALE 231200Z 10005KT 070V130 9999 FEW032 OVC045 21/12 Q1020 NOSIG FAKN 231200Z AUTO 18003KT //// // ////// 17/14 Q1021 KEXX 231245Z AUTO 00000KT 10SM CLR 01/M04 A3016 RMK AO2 T00131036 KEZF 231255Z AUTO 00000KT 10SM CLR M01/M03 A3022 RMK AO2 T10151029 KGHG 231255Z AUTO VRB04KT 10SM CLR 01/M05 A3002 RMK AO2 KGGP 231255Z AUTO 20006KT 10SM SCT075 OVC080 00/M03 A3011 RMK AO2 KFOZ 231252Z AUTO 23003KT 10SM CLR M09/M11 A2986 RMK AO2 WAAA 231300Z 12002KT 8000 FEW019 27/25 Q1008 NOSIG KFPR 231253Z 17003KT 10SM FEW028 BKN050 23/22 A2990 RMK AO2 SLP124 T02280217 EKCH 231250Z 19018KT CAVOK 10/06 Q0996 NOSIG PKWA 231240Z AUTO 07008KT 10SM SCT017 SCT026 SCT060 28/25 A2976 RMK AO2 T02820250 KGIC 231255Z AUTO 21017G22KT 10SM CLR 15/07 A2996 RMK AO1 KEZM 231235Z AUTO 07005KT 10SM OVC023 14/02 A3006 RMK AO2 T01370020 FALM 231200Z 12015KT 9999 BKN045 27/// Q1019 KGGW 231253Z AUTO 18003KT 10SM CLR 06/03 A2973 RMK AO2 SLP082 T00560033 KEYW 231253Z 13003KT 10SM FEW021 A2990 RMK AO2 SLP126 $ KGIF 231253Z AUTO 13007KT 10SM FEW120 21/20 A2990 RMK AO2 SLP124 T02060200 KFRG 231253Z 00000KT 10SM CLR 00/M06 A3011 RMK AO2 SLP197 T00001056 URKA 231230Z 35005MPS 9999 SCT054CB 03/M02 Q1019 R04/010070 TEMPO 1000 SHSNRA BKN003 BKN020CB RMK QFE760/1014 KFRH 231255Z AUTO RMK AO1 WABB 231130Z 33005KT 9999 FEW018 27/25 Q1007 NOSIG KFRI 231258Z AUTO 22003KT 10SM CLR M01/M06 A3006 RMK AO2 SLP185 T10091056 KEZS 231255Z AUTO 00000KT 10SM CLR M02/M05 A2994 RMK AO2 T10221051 EKEB 231250Z AUTO 19014KT 8000NDV -SHRA OVC007/// 10/09 Q0991 KFRM 231256Z AUTO 32010KT 10SM CLR M02/M05 A2996 RMK AO2 SLP163 T10221050 FZRANO KFSD 231256Z 34004KT 10SM BKN250 M02/M04 A2998 RMK AO2 SLP167 T10221044 VIJP 231230Z 00000KT 2500 HZ NSC 22/M03 Q1014 NOSIG FAMM 231200Z 30007KT 9999 BKN040 32/06 Q1017 NOSIG KGHW 231253Z AUTO 00000KT 10SM CLR M06/M08 A2993 RMK AO2 KFSE 231255Z AUTO 23004KT 10SM OVC005 M07/M08 A2991 RMK AO2 KHAE 231255Z AUTO 19009KT 10SM CLR 00/M07 A3004 RMK AO2 FALW 231200Z AUTO 25012KT //// // ////// 21/06 Q1019 PMDY 231256Z AUTO 09015KT 10SM OVC055 22/17 A3027 RMK AO2 SLP251 T02220167 KHAF 231255Z AUTO 00000KT 7SM FEW003 13/12 A3008 RMK AO2 EIWF 231230Z 31010KT 270V340 9999 FEW025 09/03 Q0999 URKK 231230Z 30004MPS 260V320 9999 SCT032CB 03/M04 Q1018 R23L/CLRD70 TEMPO 0400 +SHSN SCT003 BKN020CB RMK QFE760 KHAI 231256Z AUTO 22006KT 10SM OVC065 00/M05 A3009 RMK AO2 T00001052 KFSI 231256Z AUTO 19004KT 10SM CLR 01/M04 A3012 RMK AO2 SLP205 T00051042 $ KFRR 231255Z AUTO 00000KT 10SM CLR M06/M07 A3019 RMK AO1 USCC 231230Z 14002MPS CAVOK M03/M04 Q1017 R09/120055 NOSIG RMK QFE742 FAOB 231200Z AUTO 22011KT //// // ////// 23/09 Q1018 KFSM 231253Z 00000KT 10SM CLR M01/M02 A3020 RMK AO2 SLP230 T10061022 KHBE 231255Z AUTO 00000KT 10SM OVC110 M02/M03 A3016 RMK AO2 KHAO 231253Z AUTO 07003KT 9SM BKN110 M03/M03 A3018 RMK AO2 SLP228 T10281033 KFSO 231235Z AUTO 28005KT 7SM -SN OVC024 M06/M10 A3013 RMK AO2 T10651096 KHBG 231253Z AUTO 34004KT 10SM CLR 01/M01 A3012 RMK AO2 SLP201 T00111011 KFTG 231254Z AUTO 20008G17KT 10SM CLR 06/01 A3022 RMK AO2 T00560010 VILK 231230Z VRB02KT 3000 HZ NSC 19/09 Q1012 NOSIG KHBI 231255Z AUTO 00000KT 10SM CLR 01/M02 A3018 RMK AO2 T00051025 KGKJ 231253Z AUTO 22006KT 10SM OVC028 M03/M07 A3011 RMK AO2 SLP212 T10281067 WADD 231230Z 30009KT 3000 -TSRA FEW010CB BKN015 24/24 Q1007 TEMPO TL1300 2000 TSRA RMK CB IN APCH USCM 231230Z 35004MPS 7000 NSC M03/M04 Q1015 R36/090060 TEMPO 2000 BR VV005 RMK QFE723 KGJT 231253Z AUTO 12004KT 10SM CLR 03/00 A3037 RMK AO2 SLP273 T00280000 KFST 231253Z AUTO 26010KT 10SM CLR 07/M03 A3021 RMK AO2 SLP209 T00721033 KFTK 231256Z AUTO 00000KT 10SM CLR M05/M06 A3015 RMK AO2 SLP221 T10541065 KGLD 231253Z AUTO 28009KT 10SM CLR 04/02 A3015 RMK AO2 SLP212 T00440022 KHCD 231254Z AUTO 00000KT 10SM CLR M06/M08 A2995 RMK AO2 T10641083 URMG 231230Z 01006MPS 9999 OVC033 04/M02 Q1014 R26/000070 NOSIG RMK QFE746/0995 KFSW 231255Z AUTO 20009KT 10SM CLR 01/M06 A3000 RMK AO2 KGLE 231255Z AUTO 00000KT 10SM CLR 00/M04 A3019 RMK AO2 T10041043 KFTN 231255Z AUTO 06004KT 10SM CLR 04/01 A3022 RMK A01 FAPE 231200Z 16010KT 130V190 CAVOK 20/10 Q1019 NOSIG KGLH 231253Z 00000KT 9SM CLR M03/M05 A3020 RMK AO2 SLP238 T10331050 $ KHBR 231253Z AUTO 26006KT 10SM CLR 01/M06 A3014 RMK AO2 SLP212 T00061061 URML 231230Z 12004MPS 9999 SCT035CB 09/01 Q1013 R14/01//70 NOSIG RMK QFE759/1013 WADL 231300Z 13001KT 6000 BKN015 26/25 Q1007 NOSIG FAOR 231300Z 35016KT 320V020 9999 SCT049 25/11 Q1019 NOSIG DRZA 231200Z 08022KT 040V140 2500 BLDU NSC 30/M02 Q1016 KGKT 231255Z AUTO 00000KT 9SM CLR M03/M04 A3016 RMK A01 FBFT 231200Z 09011KT 040V140 CAVOK 32/09 Q1015 KFUL 231253Z AUTO 00000KT 10SM CLR 16/09 A2999 RMK AO2 SLP154 T01610089 KHDC 231255Z AUTO 34005KT 10SM CLR 00/00 A3014 RMK AO2 URMO 231230Z 07005MPS 9999 -SN BKN022 01/M02 Q1013 R09/010070 NOSIG RMK QFE716/0955 KHBV 231255Z AUTO 34005KT 10SM CLR 05/02 A3023 RMK AO2 T00520015 ZWSH 231200Z 09002MPS CAVOK 03/M12 Q1026 NOSIG KFVE 231253Z AUTO 32008KT 9SM OVC022 M08/M11 A2982 RMK AO2 PK WND 31027/1156 SNB08E52 SLP108 P0000 T10781111 KFTW 231253Z 00000KT 8SM CLR 04/M01 A3018 RMK AO2 SLP222 T00391011 KHDE 231255Z AUTO 31003KT 10SM CLR 03/01 A3007 RMK AO2 T00320011 FAPN 231200Z AUTO 34007KT //// // ////// 34/07 Q1015 KHCO 231254Z AUTO 20003KT 10SM OVC021 M06/M06 A2986 RMK AO2 KGKY 231253Z 00000KT 10SM CLR M01/M02 A3019 RMK AO2 SLP226 T10111022 $ KFTY 231253Z AUTO 00000KT 10SM CLR 03/01 A3007 RMK AO2 SLP185 T00280011 FAPP 231200Z 05014KT 9999 BKN030 22/13 Q1020 NOSIG URMT 231230Z 31005MPS 9999 -SN BKN020 M01/M04 Q1014 R25/290155 NOSIG RMK QFE722 KGLR 231253Z AUTO 24013KT 10SM OVC009 M02/M04 A2992 RMK AO2 SLP149 T10221044 KHCR 231255Z AUTO 00000KT 10SM CLR M01/M01 A3037 RMK AO2 FAPR 230555Z 06009KT 9999 FEW030 SCT100 20/14 Q1022 KGLS 231252Z 02009KT 10SM CLR 10/05 A3019 RMK AO2 SLP223 T01000050 KFWA 231254Z 20004KT 10SM FEW075 BKN090 BKN120 M01/M03 A3012 RMK AO2 SLP208 T10111033 $ KGMJ 231255Z AUTO 00000KT 10SM CLR M01/M02 A3016 RMK AO2 KGNA 231156Z AUTO 27007KT M03/M07 A2987 RMK AO1 SLP128 T10331067 11022 21039 56014 KFWB 231235Z AUTO 21004KT 10SM CLR 00/M04 A3013 RMK AO2 KGNB 231310Z AUTO 00000KT 10SM CLR 00/M01 A3043 RMK AO2 T00001006 KFWC 231255Z AUTO 00000KT 10SM CLR M05/M05 A3016 RMK AO1 T10501055 KGNC 231255Z AUTO 31004KT 10SM CLR 02/M03 A3023 RMK AO2 T00151028 KHDN 231256Z AUTO 11009KT 10SM CLR 01/00 A3040 RMK AO2 SLP291 T00060000 FZRANO KGLW 231235Z AUTO 00000KT 10SM CLR M04/M04 A3017 RMK AO2 T10431043 KHDO 231251Z AUTO 00000KT 10SM CLR 02/M06 A3022 RMK AO2 SLP232 T00171056 KHEF 231256Z 00000KT 10SM CLR M07/M08 A3022 RMK AO2 SLP245 T10671078 FZRANO PNO $ KGLY 231255Z AUTO 10SM CLR 00/M05 A3010 RMK AO2 ZYCC 231200Z 29002MPS 8000 NSC M11/M21 Q1018 NOSIG KHEI 231253Z AUTO 29005KT 10SM CLR 05/02 A2988 RMK AO2 SLP129 T00500022 DRZR 231200Z 04012KT 1500 DU NSC 31/M08 Q1015 FASB 230700Z 18003KT CAVOK 19/M09 Q1021 KGMU 231253Z 03007KT 10SM CLR 03/M02 A3013 RMK AO2 SLP205 T00331022 KHFD 231253Z 31004KT 10SM CLR 01/M06 A3008 RMK AO2 SLP187 T00061061 PNO $ KFXE 231253Z 00000KT 10SM CLR 23/23 A2991 RMK AO2 SLP129 T02330228 $ KFWN 231253Z AUTO VRB03KT 10SM CLR M02/M07 A3011 RMK AO2 SLP199 T10221072 KHFF 231256Z AUTO 04005KT 10SM SCT180 03/M01 A3015 RMK AO2 SLP228 T00311014 $ KFVX 231255Z AUTO 00000KT 10SM CLR M02/M02 A3019 RMK AO2 T10231023 KHEQ 231250Z AUTO 27007KT 10SM CLR 06/03 A3013 RMK AO2 KGNR 230156Z AUTO 32018G29KT 00/M01 A2973 RMK AO1 PK WND 32029/0128 SLP082 T00001006 KFWS 231246Z 00000KT 10SM CLR M01/M02 A3020 KHFJ 231230Z AUTO 20005KT 10SM CLR 01/M05 A3012 RMK AO2 DTKA 231200Z 26005KT 230V290 9999 SCT020 19/07 Q1019 NOSIG EKKA 231257Z 20017G30KT 170V230 4000 -RA BKN008 10/09 Q0988 TEMPO 19015G30KT 6000 RA KGOK 231253Z AUTO 17006KT 10SM CLR 01/M06 A3012 RMK AO2 SLP208 T00111056 $ KGNT 231255Z AUTO 31011G16KT 10SM CLR M02/M05 A3041 RMK AO2 T10211050 FCBB 231200Z 06012KT 9999 SCT016 FEW030CB 29/21 Q1012 BECMG TS KGPC 231255Z AUTO 18003KT 10SM SCT090 OVC120 M01/M03 A3013 RMK AO2 KGNV 231253Z 04009KT 3SM +RA BR BKN006 OVC044 16/16 A2996 RMK AO2 SLP145 P0028 T01610161 KGON 231256Z 00000KT 10SM CLR 01/M04 A3007 RMK AO2 SLP184 T00111039 KFYE 231255Z AUTO 00000KT 9SM CLR M05/M06 A3017 RMK A01 FBKE 231200Z VRB02KT CAVOK 31/17 Q1014 USHH 231230Z 17002MPS CAVOK M06/M07 Q1018 R24/320056 TEMPO BKN005 RMK QFE760 KGOO 231300Z AUTO 10005KT 10SM CLR 18/03 A3019 RMK AO1 KFYG 231215Z AUTO 00000KT 10SM FEW065 00/M07 A3012 RMK AO2 KGOP 231255Z AUTO 00000KT 10SM CLR M01/M04 A3022 RMK AO2 KHEY 231258Z AUTO 36003KT 10SM OVC023 10/03 A3000 RMK AO2 SLP161 T01030031 KGPH 231255Z AUTO 00000KT 10SM CLR 00/M05 A3006 RMK AO2 KHEZ 231256Z AUTO 00000KT 10SM CLR M03/M03 A3018 RMK AO2 SLP227 T10281033 FZRANO KFWZ 231255Z AUTO 22007KT 10SM CLR 05/00 A3025 RMK AO2 TSNO KGPI 231255Z AUTO 16012KT 10SM OVC050 12/07 A2980 RMK AO2 SLP093 T01170072 KFYJ 231255Z AUTO 00000KT 10SM CLR 00/M03 A3022 RMK AO2 T10021031 KGOV 231255Z AUTO 23007KT 200V260 7SM OVC011 M01/M04 A2996 RMK AO2 T10151036 KGPM 231255Z AUTO 00000KT 10SM CLR 03/M01 A3021 RMK AO2 T00251015 KFYM 231255Z AUTO 02006KT 10SM CLR M02/M04 A3012 RMK A01 KHHF 231255Z AUTO 22003KT 10SM CLR 01/M01 A3015 RMK AO2 T00111010 KFXY 231255Z AUTO 30006KT 10SM CLR M03/M06 A2994 RMK AO2 KHFY 231255Z AUTO 19004KT 10SM OVC120 01/M02 A3015 RMK AO2 T00051025 KFZG 231255Z AUTO 07006KT 10SM OVC018 14/12 A3004 RMK AO2 T01350123 KHHG 231255Z AUTO 21003KT 10SM OVC095 M02/M04 A3011 RMK AO2 T10171037 TSNO WAHS 231230Z 09001KT 7000 FEW014 28/24 Q1006 NOSIG UTAA 231200Z 30010KT 9999 FEW050CB BKN050 BKN100 14/09 Q1009 R88/CLRD70 NOSIG KHGR 231253Z 20003KT 10SM OVC032 00/M06 A3017 RMK AO2 SLP231 T00001056 KGPT 231253Z 34005KT 10SM CLR 04/00 A3008 RMK AO2 SLP184 T00390000 KGRB 231253Z 19004KT 10SM CLR M02/M06 A2996 RMK AO2 SLP154 T10171056 KHIB 231253Z AUTO 00000KT 7SM CLR M11/M12 A2987 RMK AO2 SLP144 I1000 T11061117 DTMB 231230Z 10008KT 9999 FEW020 BKN040 20/15 Q1019 KFYV 231253Z 00000KT 9SM CLR M03/M04 A3016 RMK AO2 SLP225 T10281039 KGRD 231256Z AUTO 04005KT 10SM CLR 04/M01 A3013 RMK AO2 SLP203 T00441011 KHIE 231252Z AUTO 26005KT 10SM SCT017 M07/M11 A3003 RMK AO2 SLP186 T10671106 KGRF 231258Z AUTO 17006KT 10SM -RA FEW017 SCT042 BKN065 14/14 A2985 RMK AO2 RAB38 SLP111 P0000 T01350135 $ KHIF 231258Z AUTO 11015KT 10SM BKN160 08/03 A3028 RMK AO2 SLP233 T00830029 URRR 231230Z 30003MPS 270V340 9999 -SHSN SCT041 BKN///CB 00/M03 Q1016 R22/CLRD70 TEMPO 1000 SHSN SCT003 SCT020CB RMK QFE754/1005 WAJJ 231200Z 00000KT 9999 FEW014 26/23 Q1007 NOSIG FAUP 231200Z 24007KT 9999 FEW050 28/M10 Q1016 NOSIG KGPZ 231256Z AUTO 17004KT 10SM FEW100 M10/M11 A2988 RMK AO2 SLP148 T11001111 FZRANO UTAK 231200Z 03006KT CAVOK 10/06 Q1013 R34L/CLRD70 NOSIG KGRI 231253Z AUTO 26006KT 10SM CLR 03/01 A3005 RMK AO2 SLP189 T00280011 KHHR 231253Z AUTO 01003KT 10SM CLR 21/05 A3000 RMK AO2 SLP158 T02110050 $ KHII 231255Z AUTO 00000KT 10SM CLR 15/00 A3009 RMK AO2 UTAM 231200Z 00000KT CAVOK 24/04 Q1008 NOSIG ZWWW 231230Z 04001MPS CAVOK M03/M07 Q1028 NOSIG KGSB 231256Z AUTO 04007KT 10SM CLR 03/M03 A3016 RMK AO2 SLP217 T00301027 $ KIAB 231256Z AUTO 00000KT 10SM CLR 01/M06 A3009 RMK AO2 SLP202 T00091064 $ KGRK 231158Z 30004KT 7SM CLR 04/M05 A3019 RMK AO2A SLP227 WND DATA ESTMD T00371052 10056 20014 55007 $ FAWB 231200Z AUTO 01009KT //// // ////// 31/12 Q1017 FAUT 231200Z 12011KT 6000 -DZ SCT006 OVC010 13/12 Q1020 KIAD 231252Z 30003KT 10SM FEW250 M02/M06 A3020 RMK AO2 SLP231 T10221061 KHHV 231255Z AUTO 01011G17KT 10SM BKN036 19/11 A3012 RMK A01 KGRN 231155Z AUTO 25004KT 10SM CLR 06/02 A3005 RMK AO2 T00550023 10072 20001 KHHW 231255Z AUTO 00000KT 10SM CLR 00/M04 A3018 RMK AO2 T00001045 FBMN 231200Z 05003KT 9999 BKN030 FEW035CB 34/12 Q1013 KHIO 231253Z AUTO 16005KT 10SM BKN060 BKN085 OVC110 14/13 A2989 RMK AO2 SLP121 T01390128 KIAG 231253Z 25005KT 10SM OVC041 00/M07 A3010 RMK AO2 SLP208 T00001067 KFZY 231254Z AUTO 20004KT 10SM BKN024 OVC031 M02/M05 A3012 RMK AO2 SLP206 T10171050 URSS 231230Z 29008MPS 9999 SCT030 06/M02 Q1016 WS ALL RWY R02/090070 R06/090070 NOSIG RMK R06/29008G14MPS MT OBSC QFE760 ZYHB 231200Z 35003MPS 300V030 CAVOK M12/M16 Q1016 NOSIG KGSH 231253Z AUTO 21008KT 10SM OVC070 M01/M06 A3009 RMK AO2 SLP199 T10111056 KIAH 231253Z 35003KT 10SM FEW250 04/02 A3021 RMK AO2 SLP230 T00390022 KHJH 231255Z AUTO 00000KT 10SM CLR 03/00 A3005 RMK AO2 T00321001 DTNH 231230Z 18005KT 130V220 9999 NSC 19/13 Q1019 NOSIG UTAT 231200Z 29004KT CAVOK 13/01 Q1008 R26/CLRD70 NOSIG KGRR 231253Z 20008KT 10SM OVC043 00/M04 A3004 RMK AO2 SLP183 T00001044 KHKA 231253Z AUTO 00000KT 10SM CLR M03/M03 A3020 RMK AO2 SLP228 T10281033 UTAV 231200Z 23006KT CAVOK 22/M01 Q1008 NOSIG KGTB 231156Z AUTO 00000KT 10SM OVC140 M06/M09 A3009 RMK AO2 SLP200 70003 T10581095 11055 21060 58008 CHINO RWY03 $ EKOD 231250Z 20015G26KT 9999 -RA BKN020 10/09 Q0993 KHJO 231253Z AUTO 17004KT 1/4SM FG VV014 08/08 A3014 RMK AO2 SLP207 T00830083 TSNO KGTF 231253Z 23025G31KT 10SM CLR 14/02 A2980 RMK AO2 PK WND 22036/1226 SLP078 T01440022 KGSO 231254Z 06004KT 10SM BKN250 01/M03 A3015 RMK AO2 SLP212 T00061028 KGSP 231253Z 01004KT 10SM CLR 02/M02 A3014 RMK AO2 SLP206 T00221022 KGRY 231300Z AUTO 35018G26KT 320V030 10SM BKN027 17/11 A3005 RMK A01 WALL 231200Z 31005KT 9000 FEW018CB BKN020 26/24 Q1007RMK CB TO W NW AND SW UTDD 231230Z VRB02MPS 3700 FU FEW066 SCT120 16/M08 Q1014 R09/CLRD// NOSIG RMK QFE693/0923 KHLB 231255Z AUTO 20003KT 9SM OVC100 M02/M03 A3014 RMK A01 KGUC 231256Z AUTO 00000KT 10SM CLR M06/M06 A3049 RMK AO2 SLP338 T10561061 FZRANO KHLC 231253Z AUTO 27008KT 10SM CLR 04/03 A3010 RMK AO2 SLP195 T00440028 KIBM 231255Z AUTO 26007KT 10SM CLR 04/02 A3015 RMK AO2 T00430016 KHLG 231253Z 13004KT 10SM CLR M06/M07 A3014 RMK AO2 SLP225 T10561072 URWA 231230Z 35003MPS CAVOK 02/M04 Q1016 R27/010070 NOSIG RMK QFE763/1018 UTDK 231230Z 06002MPS 8000 NSC 12/M04 Q1014 R01/09//70 RMK QFE703/0938 KGTR 231256Z 31004KT 10SM CLR M02/M04 A3016 RMK AO2 SLP217 T10221039 UTDL 231230Z 04003MPS 6000 FEW140 OVC200 11/M03 Q1014 88CLRD70 NOSIG RMK QFE722/0962 KHKS 231253Z 32003KT 7SM CLR M02/M03 A3017 RMK AO2 SLP212 T10221028 KIDA 231253Z AUTO 01005KT 5SM BR FEW001 01/01 A3023 RMK AO2 SLP247 T00110011 $ WAMM 231300Z VRB01KT 9000 FEW021 26/25 Q1008 NOSIG KICL 231255Z AUTO 00000KT 10SM M04/M05 A3002 RMK AO2 PWINO KGTU 231256Z 00000KT 10SM CLR 01/M04 A3023 RMK AO2 SLP242 T00111039 KGUL 231255Z AUTO 03008G16KT 10SM 17/10 A3012 RMK A01 KHME 231150Z AUTO 15006KT //// // ////// 15/07 Q1010 KHLN 231253Z 00000KT 10SM CLR 04/03 A2994 RMK AO2 SLP159 T00390028 KGVE 231255Z AUTO 00000KT 10SM CLR M05/M06 A3020 RMK AO1 T10531057 URWI 231230Z 26004MPS 9999 FEW/// 01/M04 Q1015 R27/010065 NOSIG KGUP 231253Z AUTO 00000KT 10SM CLR M04/M07 A3041 RMK AO2 SLP290 T10391067 KHKY 231253Z 00000KT 10SM CLR M01/M03 A3014 RMK AO2 SLP203 T10061028 UTFA 222100Z 00000KT 3000 BR NSC M02/M05 Q1016 R88/09//70 UTDT 231230Z 00000MPS 9000 BKN150 14/01 Q1013 35CLRD70 RMK QFE720/0960 KICR 231253Z AUTO 22008KT 10SM CLR 07/03 A2997 RMK AO2 SLP154 T00670028 KIDI 231255Z AUTO 26004KT 10SM CLR M02/M06 A3017 RMK A01 KHLR 231158Z AUTO 31003KT 6SM HZ CLR 03/M04 A3017 RMK AO2 SLP219 T00251044 10054 20019 56007 $ KGUS 231256Z AUTO 20006KT 10SM BKN075 M01/M03 A3009 RMK AO2 SLP202 T10101029 $ KICT 231253Z 00000KT 10SM FEW250 00/M04 A3008 RMK AO2 SLP195 T00001044 KHNB 231256Z AUTO 00000KT 7SM SCT110 M04/M06 A3018 RMK AO2 SLP225 T10441061 FZRANO KGWB 231255Z AUTO 00000KT 10SM SCT070 SCT120 M02/M04 A3011 RMK AO2 USNN 231230Z VRB01MPS CAVOK M09/M10 Q1022 R03/39//35 NOSIG RMK QFE763 KGVL 231253Z AUTO 09010KT 10SM CLR 05/M02 A3011 RMK AO2 SLP194 T00501022 KHND 231256Z AUTO 18007KT 10SM CLR 12/02 A3021 RMK AO2 SLP221 T01170022 $ UTFF 231230Z VRB02KT 7000 NSC 10/M05 Q1014 R18/CLRD70 KHMN 231158Z AUTO 11004KT 10SM CLR 01/M06 A3029 RMK AO2 SLP235 T00141057 10055 20014 53000 $ KHLX 231255Z AUTO 00000KT 10SM CLR M04/M05 A3009 RMK AO2 T10381050 KGUY 231253Z AUTO 31010G16KT 10SM CLR 11/03 A3016 RMK AO2 SLP198 T01060028 KHMP 231255Z AUTO 07006KT 10SM CLR 07/02 A3007 RMK AO2 T00650015 KIDP 231255Z AUTO 00000KT 10SM CLR 00/M05 A3014 RMK AO2 T10011050 WBGB 231200Z VRB02KT 9999 FEW015CB SCT016 OVC140 27/26 Q1006 RETS KGXA 231255Z AUTO 14005KT 10SM CLR 08/M02 A3019 RMK AO2 SLP193 WND DATA ESTMD T00761017 KIFA 231255Z AUTO 30003KT 10SM CLR M05/M07 A2994 RMK AO2 T10481073 KHOB 231250Z 00000KT 10SM SKC 00/M04 A3021 KGVT 231230Z AUTO 00000KT 10SM CLR 01/00 A3020 RMK AO2 UTFN 231230Z 33004KT 3500 BR NSC 08/M04 Q1014 R28/CLRD70 NOSIG URWW 231230Z 23003MPS 9999 BKN021 00/M03 Q1013 R24/010070 NOSIG EKRK 231250Z AUTO 20017KT 9999NDV FEW085/// BKN110/// BKN140/// 11/05 Q0995 EKSB 231250Z 21018G33KT 180V240 7000 -RADZ SCT008 SCT020 BKN060 11/09 Q0993 WAOO 231230Z 22003KT 9999 FEW018 27/25 Q1007 WBGG 231230Z 26004KT 210V300 9999 -RA FEW015CB SCT020 BKN150 26/24 Q1008 NOSIG KIEN 231252Z AUTO 24006KT 10SM CLR 04/02 A3005 RMK AO2 SLP175 T00440022 KHOE 231255Z AUTO 08003KT 7SM -RA BKN004 BKN019 OVC029 15/15 A2999 RMK AO2 KGXF 222355Z 35005KT 10SM FEW200 30/M06 A3003 RMK SLPNO 5//// WND DATA AND ALSTG ESTMD LAST COR 0021 EKRN 231250Z 18012KT 9999 NSC 09/06 Q1001 KGWO 231253Z AUTO 00000KT 7SM CLR M04/M05 A3019 RMK AO2 SLP224 T10441050 KHMZ 231255Z AUTO 31006KT 10SM CLR M02/M08 A3014 RMK AO2 T10231080 KGWR 231255Z AUTO 22007KT 1/4SM FZFG M04/M04 A2992 RMK A01 KHNR 231255Z AUTO 00000KT 10SM CLR M04/M05 A3002 RMK AO2 KIER 231255Z AUTO 00000KT 10SM CLR M02/M02 A3021 RMK AO2 T10241024 DTTA 231230Z 00000KT 9999 FEW026 19/10 Q1018 NOSIG KGYB 231255Z AUTO 36003KT 10SM CLR 03/M02 A3021 RMK AO2 T00301025 DTTB 231200Z 12004KT 080V140 9999 FEW020 19/11 Q1018 FBSK 231200Z /////KT 9999 SCT030 34/// Q1015 NOSIG WAPP 231230Z 34007KT 9999 FEW018 26/23 Q1007 NOSIG USPP 231230Z 14004MPS CAVOK 02/M03 Q1010 R21/090060 NOSIG RMK QFE747 DTTD 231200Z VRB02KT 9999 FEW023 17/11 Q1018 KGWW 231250Z AUTO 03006KT 10SM CLR 02/M01 A3017 RMK AO2 T00191013 KHON 231255Z AUTO 18005KT 10SM CLR M04/M06 A2997 RMK AO2 SLP162 T10441056 $ EKSN 231250Z 20021KT 7000 -SHRA SCT022CB BKN032 10/08 Q0987 WBGR 231200Z VRB03KT 9999 SCT016 BKN150 26/26 Q1006 DTTF 231200Z 04005KT 360V100 8000 FEW026 SCT033 18/10 Q1018 NOSIG KHOP 231258Z AUTO 00000KT 10SM SCT150 M02/M05 A3017 RMK AO2 SLP224 T10251052 FZRANO KIFP 231255Z AUTO 00000KT 10SM CLR 17/02 A3010 RMK AO2 WBGS 231200Z 00000KT 9999 SCT018 BKN150 26/26 Q1007 DTTG 231200Z 09007KT 060V120 8000 FEW020 SCT030 18/11 Q1018 NOSIG FBSP 231200Z 12009KT CAVOK 30/13 Q1016 EKSP 231250Z 21020G32KT 7000 -RA SCT006 BKN020 BKN030 10/09 Q0992 TEMPO 20022G35KT 5000 BKN010 KHNZ 231245Z AUTO 00000KT 10SM CLR M01/M03 A3018 RMK AO2 T10061034 KGYH 231247Z 04006KT 10SM SKC 03/M02 A3013 KGYI 231255Z AUTO 00000KT 10SM CLR 01/M04 A3019 RMK AO2 T00101037 DTTJ 231230Z 24006KT 8000 FEW016 SCT023 20/14 Q1017 NOSIG KHOT 231253Z AUTO 00000KT 9SM CLR M01/M03 A3021 RMK AO2 SLP231 T10111028 DTTK 231200Z 15006KT 9999 SCT023 20/13 Q1019 KHOU 231253Z 35004KT 10SM FEW250 06/03 A3020 RMK AO2 SLP231 T00610033 KGYL 231254Z AUTO 31004KT 10SM CLR M04/M07 A2995 RMK AO2 T10451075 DTTL 231200Z 16006KT 090V240 8000 FEW020 19/16 Q1019 KIGM 231251Z AUTO 00000KT 10SM CLR 07/M02 A3023 RMK AO2 SLP200 T00671022 WBGY 231200Z VRB02KT 9999 -RA SCT022 BKN150 25/24 Q1006 KHPN 231256Z 34007KT 10SM CLR M01/M07 A3009 RMK AO2 SLP196 T10061067 WAQQ 231200Z 00000KT 8000 FEW015 27/25 Q1007 DTTN 231200Z 00000KT 9999 FEW020 16/10 Q1019 KGXY 231256Z AUTO 21004KT 10SM CLR M01/M02 A3020 RMK AO2 SLP244 T10111022 FZRANO KHQG 231255Z AUTO 31007KT 10SM CLR 07/01 A3017 RMK AO2 T00690008 KGZH 231253Z AUTO 34005KT 10SM CLR 02/M01 A3006 RMK AO2 SLP178 T00221006 KIGQ 231255Z AUTO 21007KT 10SM SCT070 OVC080 00/M04 A3007 RMK AO2 T00001039 KGYR 230347Z 06003KT 10SM SKC 20/00 A3008 RMK LAST KHQI 231255Z AUTO 01014G21KT 10SM FEW032 16/09 A3012 RMK A01 DTTR 231200Z 20004KT 9999 FEW26 17/07 Q1019 KK88 231255Z AUTO 20003KT 10SM CLR 01/M05 A3011 RMK AO1 T00051050 KIIB 231255Z AUTO 20003KT 10SM CLR M05/M07 A2994 RMK AO2 T10461074 KGZL 231255Z AUTO 00000KT 10SM CLR M02/M05 A3019 RMK AO2 KHQM 231253Z AUTO 20009KT 6SM -RA BR OVC006 12/12 A2985 RMK AO2 RAB1159 SLP113 P0002 T01220122 KGZN 231240Z AUTO 21007KT 10SM SCT035 SCT044 05/M06 A3019 RMK AO2 EKVD 231250Z 21023KT 7000 -SHRA BKN007 BKN025 10/09 Q0992 KIGX 231256Z AUTO 06006KT 10SM CLR 02/M03 A3018 RMK AO2 SLP219 T00221028 WARR 231200Z 18003KT 8000 RA SCT020 26/25 Q1005 NOSIG USRR 231230Z 15003MPS 7000 NSC M08/M08 Q1020 R25/39//35 NOSIG RMK QFE759 DTTX 231200Z 06006KT 8000 SCT020 SCT030 19/13 Q1019 NOSIG KGYY 231245Z 22007KT 10SM OVC070 01/M06 A3007 EKVG 231250Z AUTO 32020G37KT 9999NDV BKN024/// 02/M01 Q0984 DTTZ 231200Z 34006KT 300V010 9999 SCT033 18/11 Q1018 NOSIG KHRI 231253Z AUTO 14004KT 5SM BR SCT085 06/06 A2989 RMK AO2 SLP124 T00610061 KHSA 231252Z 33003KT 10SM CLR 02/00 A3010 UUBC 231230Z 34005MPS 310V020 9999 OVC020 M03/M06 Q1017 R31/CLRD60 NOSIG RMK QFE746/0995 KHRJ 231245Z AUTO 00000KT 10SM CLR 03/M03 A3018 RMK AO2 T00321034 KGZS 231255Z AUTO 35004KT 10SM CLR M02/M04 A3016 RMK A01 EKVJ 231250Z 20023KT 7000 -SHRA SCT004 BKN010 10/10 Q0989 KHSB 231255Z AUTO 00000KT 10SM SCT110 M04/M04 A3019 RMK AO2 T10421045 KHRL 231252Z 31006KT 10SM CLR 07/05 A3020 RMK AO2 SLP228 T00670050 KJAC 231256Z AUTO 05006KT 10SM SCT046 M01/M01 A3029 RMK AO2 SLP266 T10061011 FZRANO KHQU 231255Z AUTO 10006KT 10SM CLR 07/02 A3015 RMK AO2 T00750017 KIJD 231252Z AUTO 00000KT 10SM CLR 01/M06 A3007 RMK AO2 SLP184 T00061061 KHSD 231255Z AUTO 21008KT 10SM CLR 04/M07 A3012 RMK A01 KHSE 231251Z AUTO 03005KT 10SM CLR 11/06 A3012 RMK AO2 SLP198 T01060056 TSNO KHRO 231253Z AUTO 00000KT 10SM CLR 00/M04 A3013 RMK AO2 SLP212 T00001044 ELLX 231250Z 22015KT 9999 BKN031 13/08 Q1008 TEMPO 22020G30KT KHSG 231230Z AUTO 20003KT 10SM CLR 02/01 A3012 RMK AO2 T00210006 USSS 231230Z 15003MPS CAVOK M01/M04 Q1015 R08L/290037 NOSIG RMK QFE742/0989 KHQZ 231350Z 00000KT 10SM CLR 00/-02 A3020 WBKK 231230Z 12004KT 080V140 9999 FEW014 SCT140 BKN270 27/24 Q1006 NOSIG KHSI 231253Z AUTO 25004KT 10SM CLR 03/00 A3005 RMK AO2 SLP185 T00330000 WBKL 231200Z 03008KT 320V070 9999 FEW010 BKN290 29/26 Q1006 KL18 231255Z AUTO 04005KT 10SM CLR 21/02 A3003 RMK AO2 KHRT 231156Z AUTO 01012KT 10SM OVC043 10/03 A2998 RMK AO2 SLP154 T00990034 10118 20099 55004 $ UUBP 231230Z 32006MPS 9999 BKN026 M00/M05 Q1017 R34/CLRD70 NOSIG RMK QFE745/0994 KJAN 231254Z 35003KT 10SM CLR 00/M03 A3016 RMK AO2 SLP212 T00001028 KHRX 231255Z AUTO 10SM CLR 03/M01 A3021 RMK AO2 T00321006 USTR 231230Z 18005MPS CAVOK M00/M05 Q1020 R21/CLRD65 NOSIG RMK QFE755/1007 KHSP 231255Z AUTO 28007KT 10SM CLR M05/M07 A3003 RMK AO2 T10471073 KIKG 231255Z AUTO 29003KT 10SM CLR 05/04 A3024 RMK AO2 T00480040 KIIY 231255Z AUTO 04003KT 10SM CLR 06/00 A3010 RMK AO2 TSNO WBKS 231200Z 06005KT 030V090 9999 SCT015 BKN280 28/26 Q1007 KHTH 231255Z AUTO 18004KT 10SM CLR 09/01 A3025 RMK A01 KJAQ 231255Z AUTO 00000KT 10SM CLR 16/09 A3013 RMK AO1 T01570086 WATT 231230Z 23005KT 6000 -RA FEW016CB SCT017 26/24 Q1008 NOSIG RMK CB TO W AND NW WBKT 231200Z 08007KT 030V140 9999 FEW014 SCT140 BKN270 29/26 Q1007 KJAS 231255Z AUTO 00000KT 5SM BR CLR 01/01 A3022 RMK AO2 T00080008 KJCA 231255Z AUTO 04003KT 10SM OVC040 05/00 A3011 RMK AO2 KHUA 231258Z AUTO 00000KT 9SM CLR M01/M03 A3012 RMK AO2 SLP206 T10081035 UUDD 231230Z 35006G11MPS 320V030 9999 BKN017 M03/M07 Q1016 R88/190095 NOSIG KHST 231256Z AUTO 00000KT 6SM BR CLR 24/24 A2990 RMK AO2 SLP128 T02370237 KIKK 231255Z AUTO 20007KT 10SM BKN080 OVC120 00/M05 A3008 RMK AO2 T00011048 UUBW 231230Z 34006MPS 9999 OVC018 M03/M06 Q1017 R30/410149 NOSIG WBKW 231200Z 00000KT 9999 FEW017 BKN300 27/26 Q1008 KHTL 231253Z AUTO 22009KT 10SM SCT019 BKN029 OVC047 M02/M04 A2997 RMK AO2 SLP164 T10171044 KJAU 231255Z AUTO 00000KT 8SM CLR M04/M04 A3018 RMK A01 KHSV 231253Z 00000KT 10SM FEW250 M02/M04 A3013 RMK AO2 SLP206 T10221039 KILE 231256Z AUTO 27003KT 10SM CLR 01/M03 A3021 RMK AO2 SLP251 T00061028 FZRANO KHUF 231253Z 17003KT 10SM OVC110 M02/M04 A3015 RMK AO2 SLP215 T10171044 KHTO 231255Z AUTO 30004KT 10SM CLR 01/M05 A3009 RMK AO2 T00101046 KIJX 231255Z AUTO 18007KT 10SM CLR M01/M06 A3008 RMK AO2 T10071064 KJAX 231256Z 02006KT 2SM RA BR BKN009 BKN040 OVC070 18/17 A2999 RMK AO2 SFC VIS 3 SLP155 P0009 T01780167 KILG 231251Z 28004KT 10SM CLR M01/M05 A3018 RMK AO2 SLP221 T10111050 KL35 231255Z AUTO 00000KT 10SM CLR M02/M07 A3039 RMK AO2 KJBR 231253Z AUTO 00000KT 10SM CLR M03/M04 A3019 RMK AO2 SLP226 T10331044 UUDL 231230Z 34004MPS 9999 OVC012 M05/M08 Q1017 R23/950138 NOSIG RMK QFE755 KHTS 231257Z AUTO 00000KT 2SM BR SCT002 M05/M07 A3017 RMK AO2 VIS 1V5 T10501067 UUEE 231230Z 33006MPS 9999 OVC013 M04/M06 Q1018 WS R24R R24R/190057 R24L/190057 NOSIG KHUL 231253Z AUTO 30012G19KT 10SM OVC019 M04/M07 A2983 RMK AO2 SLP109 T10391072 KILM 231253Z AUTO 04007KT 10SM CLR 06/02 A3013 RMK AO2 SLP202 T00610017 KIKV 231255Z AUTO 00000KT 10SM CLR M01/M06 A2998 RMK AO2 KHUM 231250Z 34006KT 7SM SKC 04/01 A3013 KJDD 231255Z AUTO 00000KT 10SM CLR M01/M02 A3021 RMK AO2 KIKW 231254Z AUTO 21004KT 10SM OVC038 00/M04 A3004 RMK AO2 T00021045 KILN 231254Z AUTO 15004KT 10SM CLR M03/M04 A3014 RMK AO2 SLP237 T10331044 KHVE 231255Z AUTO 00000KT 10SM CLR M01/M07 A3039 RMK AO2 FCPP 231200Z 20010KT 180V250 9999 SCT016 30/24 Q1010 NOSIG KHUT 231252Z 00000KT 10SM CLR 01/M04 A3007 RMK AO2 SLP187 T00111044 KJCT 231251Z AUTO 00000KT 10SM CLR M03/M06 A3022 RMK AO2 SLP224 T10281061 UTNN 231230Z 27006KT CAVOK 12/M02 Q1009 R33/CLRD60 NOSIG EKYT 231300Z AUTO 19019KT 9999NDV RA FEW015/// OVC021/// 10/09 Q0987 KIML 231253Z AUTO 28006KT 10SM CLR 06/03 A3012 RMK AO2 SLP204 T00560033 KHWD 231254Z AUTO 00000KT 9SM CLR 14/11 A3011 RMK AO2 SLP207 T01390111 KIND 231254Z 19006KT 10SM BKN090 BKN120 M01/M04 A3013 RMK AO2 SLP212 VCSH NW-N T10111044 KIMM 231255Z AUTO 11004KT 9SM FEW070 SCT085 SCT120 22/21 A2990 RMK AO2 KJDN 231248Z AUTO 22006KT 08/03 A2981 RMK AO1 SLP106 T00830033 KHVN 231253Z 29004KT 10SM FEW250 01/M06 A3009 RMK AO2 SLP189 T00111056 KJEF 231253Z 09004KT 10SM CLR M01/M08 A3010 RMK AO2 SLP189 T10061078 KINF 231255Z AUTO 00000KT 5SM RA OVC007 19/19 A2991 RMK AO2 P0012 ZYTL 231230Z 31006MPS 270V360 CAVOK 04/M13 Q1021 NOSIG KHVR 231253Z AUTO 24010KT 10SM CLR 12/05 A2972 RMK AO2 SLP070 T01170050 UTNU 231230Z 00000KT 7000 NSC 12/M01 Q1008 R31/CLRD70 NOSIG KIMS 231253Z AUTO 00000KT 7SM CLR M01/M02 A3017 RMK AO1 KINJ 231255Z AUTO 00000KT 10SM CLR 00/M03 A3020 RMK AO2 T00041026 KHVS 231255Z AUTO 03006KT 10SM CLR 04/M02 A3013 RMK AO2 KIMT 231254Z AUTO 21003KT 10SM BKN030 OVC070 M03/M08 A2988 RMK AO2 SLP137 T10281083 KINK 231253Z AUTO 35006KT 10SM CLR 01/M03 A3020 RMK AO2 SLP222 T00111028 KIOB 231255Z AUTO 00000KT 10SM CLR M06/M07 A3018 RMK AO2 KINL 231255Z AUTO 26004KT 10SM OVC050 M07/M09 A2986 RMK AO2 SLP135 T10671089 KHXD 231250Z 36010KT 8SM -RA OVC120 11/06 A3006 KHWO 231253Z 13003KT 10SM CLR 24/21 A2992 RMK AO2 SLP132 T02390211 KJER 231253Z AUTO 03011KT 10SM CLR 06/04 A3017 RMK AO2 SLP209 T00610039 KHYA 231256Z 31006KT 10SM CLR 02/M04 A3001 RMK AO2 SLP164 T00171039 KJES 231301Z AUTO 00000KT 10SM -RA OVC100 12/10 A3003 RMK AO2 KINS 231158Z AUTO 26003KT 10SM CLR 07/M04 A3023 RMK AO2 SLP210 T00661039 10108 20061 58006 $ KJFK 231251Z 33004KT 10SM FEW035 FEW310 01/M06 A3013 RMK AO2 SLP203 T00061061 KINT 231254Z 00000KT 10SM CLR 01/M04 A3016 RMK AO2 SLP216 T00061044 ZYTX 231230Z 05002MPS CAVOK M07/M19 Q1021 NOSIG ENAL 231250Z 24006KT 200V280 9000 -RA SCT005 BKN011 BKN023 06/06 Q0973 KHWV 231256Z AUTO 27004KT 10SM CLR 01/M03 A3011 RMK AO2 SLP194 T00061033 KINW 231256Z AUTO 00000KT 10SM CLR M01/M07 A3038 RMK AO2 SLP283 T10111067 ENAN 231250Z 12036KT CAVOK M00/M07 Q0997 KJGG 231255Z AUTO 00000KT 10SM CLR 02/M02 A3020 RMK AO1 KHYI 231256Z 31005KT 10SM CLR 02/M03 A3022 RMK AO2 SLP234 T00171033 FZRANO $ FDJR 231100Z AUTO 15004KT //// // ////// 15/// Q1023 KIPJ 231255Z AUTO 00000KT 10SM CLR M01/M02 A3015 RMK AO2 T10121024 FDLB 230900Z AUTO 20005KT //// // ////// 20/14 Q1024 ENAT 231250Z 15004KT 070V210 9999 FEW009 SCT014 BKN033 M11/M15 Q1018 RMK WIND 700FT 12012KT KIPL 231253Z AUTO 29005KT 10SM CLR 13/03 A3002 RMK AO2 SLP165 T01330033 TSNO ENBL 231150Z VRB02KT 1500 -DZ BCFG SCT002 VV012 01/00 Q0973 KHZD 231255Z AUTO 00000KT 9SM CLR M04/M05 A3017 RMK A01 KIOW 231252Z AUTO 16003KT 10SM CLR M02/M07 A3000 RMK AO2 SLP165 T10221067 KHZE 231255Z AUTO 00000KT 10SM CLR M05/M05 A2980 RMK AO2 ENBN 231250Z 12029G39KT 9999 FEW030 BKN040 04/M01 Q0976 RMK WIND THR22 11037G47KT KJFX 231255Z AUTO 00000KT 9SM CLR M04/M04 A3012 RMK AO2 PWINO ENBO 231250Z 10042G60KT 9999 -SN FEW008 BKN030 M00/M05 Q0987 TEMPO 10035G45KT UTSA 231230Z 13006KT 9999 SCT037 17/M08 Q1010 R25/CLRD70 NOSIG KJFZ 231255Z AUTO 08003KT 10SM CLR M03/M06 A3010 RMK AO2 T10291056 UTSB 231230Z 14003KT 6000 NSC 18/M03 Q1009 R01/CLRD70 NOSIG WBSB 231230Z 03008KT 9999 SCT015 BKN300 30/26 Q1007 NOSIG KHYR 231253Z AUTO 00000KT 10SM CLR M08/M09 A2991 RMK AO2 SLP151 T10781094 ENBR 231250Z 18004KT 3500 -RA BR VV003 06/05 Q0974 TEMPO 2000 DZ BR RMK WIND 1200FT 22007KT KHYS 231256Z AUTO 29009KT 10SM CLR 04/02 A3008 RMK AO2 SLP194 T00440017 ENBS 231250Z 24005KT CAVOK M11/M13 Q1021 KIPT 231254Z 29004KT 10SM OVC036 M01/M07 A3015 RMK AO2 SLP216 T10061072 KHZL 231255Z AUTO 29006KT 10SM CLR M04/M08 A3011 RMK AO2 ENBV 231150Z 23006KT 9999 FEW007 M08/M12 Q1022 KJHN 231255Z AUTO 29008KT 10SM CLR 06/01 A3017 RMK AO2 T00640008 KHYW 231255Z AUTO 02005KT 5SM HZ CLR 07/02 A3013 RMK AO2 ENCN 231250Z 20020KT 6000 -RA BKN006 10/09 Q0981 KHYX 231255Z AUTO 20009KT 10SM OVC042 00/M04 A3005 RMK AO2 KM04 231255Z AUTO 00000KT 10SM CLR M05/M06 A3020 RMK A01 UTSK 231230Z 22004KT 6000 NSC 21/M05 Q1011 R16/CLRD70 KHZR 231255Z AUTO 00000KT 10SM CLR 01/M01 A3017 RMK AO2 T00091011 KM08 231255Z AUTO 00000KT 9SM CLR M05/M06 A3017 RMK A01 KIRK 231255Z AUTO 23008KT 10SM CLR 00/M06 A3002 RMK AO2 SLP177 T00001056 KJHW 231256Z AUTO 16005KT 10SM FEW014 OVC020 M03/M04 A3007 RMK AO2 SLP209 T10331044 FZRANO KHZX 231255Z AUTO 00000KT 7SM SCT012 M10/M10 A2991 RMK AO2 KHZY 231253Z AUTO 20006KT 10SM CLR M02/M07 A3014 RMK AO2 SLP215 T10171067 UTSS 231230Z 11004KT 080V140 3000 HZ NSC 15/M03 Q1012 R09/CLRD70 NOSIG UTST 231230Z 03002KT CAVOK 17/M02 Q1012 R88/CLRD70 NOSIG VLLB 231200Z 06006KT 9999 SCT010 OVC070 24/20 Q1012 NOSIG RERA KIRS 231255Z AUTO 21006KT 10SM SCT047 OVC070 M01/M05 A3007 RMK AO2 T10121049 KJKA 231255Z AUTO 35005KT 10SM BKN034 05/01 A3004 RMK AO2 T00520007 ENDR 231210Z 15014KT 9999 OVC031 07/02 Q0972 FDMS 231200Z 00000KT 9999 SCT020 BKN030 17/15 Q1021 NOSIG KM19 231256Z AUTO 00000KT 10SM CLR M03/M04 A3021 RMK AO2 SLP236 T10331044 ENFB 231250Z AUTO 28016KT 9999NDV FEW093/// 05/M02 Q0975 W///S5 KM21 231255Z AUTO 00000KT 7SM CLR M04/M04 A3018 RMK AO2 T10421043 ENDU 231250Z 10036G53KT 9999 FEW030 SCT060 BKN100 M05/M12 Q1002 TEMPO 10033G43KT RMK WIND 1100FT 10026G37KT WIND 2200FT 11038G51KT KISM 231256Z 14005KT 10SM SCT022 BKN028 BKN037 21/20 A2990 RMK AO2 SLP127 T02060200 FDMV 231200Z AUTO 05006KT //// // ////// 21/17 Q1026 KISN 231252Z AUTO 21006KT 10SM CLR M02/M03 A2975 RMK AO2 SLP096 T10171028 KISO 231256Z 01007KT 10SM CLR 03/M01 A3017 RMK AO2 FEFF 230800Z VRB03KT 9999 FEW007 27/22 Q1011 NOSIG KM25 231255Z AUTO 00000KT 10SM CLR M04/M05 A3018 RMK AO2 KISP 231256Z 29004KT 10SM FEW040 FEW250 01/M04 A3010 RMK AO2 SLP191 T00061044 LBBG 231230Z 13006KT 9999 FEW022 13/09 Q1020 NOSIG KISQ 231255Z AUTO 24004KT 10SM BKN030 OVC043 M02/M08 A2991 RMK AO2 T10251083 KITH 231256Z 25005KT 10SM OVC027 M03/M07 A3012 RMK AO2 SLP212 T10281067 UTTT 231230Z 07002KT 4000 FU NSC 12/M08 Q1013 R08R/CLRD70 NOSIG KJKJ 231254Z AUTO 00000KT 10SM OVC008 M04/M08 A2994 RMK AO2 KM30 231255Z AUTO 00000KT 10SM CLR M05/M06 A3019 RMK AO2 T10501060 VLLN 231200Z 04002KT 3000 DZ SCT010 OVC100 22/22 Q1014 NOSIG KJKL 231253Z AUTO VRB03KT 10SM CLR M03/M06 A3014 RMK AO2 SLP217 T10331061 ENFL 231250Z 23013KT 180V260 9999 -RA FEW006 SCT007 BKN010 04/03 Q0973 ENGC 231250Z 30024KT 9999 VCSH SCT020TCU BKN045 04/00 Q0975 W07/S5 ENEV 231250Z 12024G38KT 9999 FEW039 BKN072 M04/M09 Q0996 RMK WIND 1400FT 10041G55KT KISW 231254Z AUTO 00000KT 10SM CLR M07/M08 A2994 RMK AO2 SLP155 T10671083 KM33 231255Z AUTO 00000KT 10SM CLR M04/M05 A3020 RMK A01 KITR 231253Z AUTO 27008KT 10SM CLR 04/02 A3019 RMK AO2 SLP219 T00390017 KM40 231255Z AUTO 36004KT 9SM CLR M04/M04 A3018 RMK AO2 FEFT 231000Z 28006KT 9999 BKN020 27/22 Q1009 UUMO 231230Z 35006MPS 9999 OVC018 M03/M06 Q1018 WS R26 R26/090060 NOSIG RMK QFE748/0997 ENGM 231250Z 19021G32KT 9000 -RA BKN007 07/05 Q0982 TEMPO 4000 RADZ BKN012 KJLN 231253Z 20006KT 10SM CLR 00/M04 A3013 RMK AO2 SLP209 T00001044 ENHD 231250Z 16016KT 9999 -SHRA FEW014 SCT023 BKN029 09/08 Q0974 ENHE 231250Z 16016KT 9999 SCT035 BKN120 08/02 Q0971 W///S5 ENHF 231250Z 10017KT 9999 DRSN NSC M07/M11 Q1016 RMK WIND 1254FT 14042KT FDPP 230900Z AUTO 19004KT //// // ////// 13/13 Q1026 UUOB 231230Z 31006MPS 9999 -SHSN BKN026CB M01/M04 Q1015 R29/410555 NOSIG KIWA 231247Z 09005KT 20SM SKC 11/M06 A3010 ENHK 231150Z 14026KT 9999 FEW027 M02/M09 Q1014 KIWD 231256Z AUTO 22006KT 10SM CLR M05/M08 A2988 RMK AO2 SLP138 T10501078 FZRANO